Фактическая погода NOWCAST (расчётный прогноз на ближайшие 2 часа) AUTOTAF (расчётный прогноз на 9 часов) TAF (официальный синоптический прогноз)
Алматы
METAR UAAA 271600Z 13002MPS 1900 R05R/P2000 BR FU FEW100 M10/M13 Q1033 TEMPO 1000


NOWCAST.SU UAAA 271600Z VRB02MPS 0200 FZFG SKC M14/M14 Q1034 NOSIG
AUTOTAF.ME UAAA 271300Z 2714/2723 VRB02MPS 8000 BR NSC TXM12/2714Z TNM15/2720Z
FM271500 VRB02MPS 0200 FZFG NSC
BECMG 2719/2720 FG IC
BECMG 2720/2721 FZFG
FM272200 VRB02MPS 2500 BR OVC002
BECMG 2722/2723 5000
TAF UAAA 271100Z 2712/2812 23003MPS 3100 BR FU SCT020 BKN100 TXM02/2809Z TNM14/2802Z
TEMPO 2713/2716 34003MPS 1500
BECMG 2716/2717 32003MPS 1200 BKN011 OVC020
TEMPO 2716/2804 VRB01MPS 0250 FZFG VV001
BECMG 2804/2805 4000 BKN100
TEMPO 2804/2807 26003MPS 2200 SCT011 BKN020=
Балхаш
METAR UAAH 271230Z 31002MPS CAVOK M11/M14 Q1035 NOSIG RMK QFE739/0985


NOWCAST.SU UAAH 271600Z VRB02MPS 9999 BKN170 M14/M16 Q1037 NOSIG
AUTOTAF.ME UAAH 271300Z 2714/2723 VRB02MPS CAVOK TXM12/2714Z TNM17/2721Z
FM271800 VRB02MPS 0500 FG IC VV004
FM272000 03003MPS 1200 BR OVC004
BECMG 2720/2721 2500
BECMG 2721/2722 1200
TAF UAAH 271101Z 2712/2721 VRB02MPS CAVOK=
Алматы (Боралдай)
SYNAR 36870 Алматы (Алма-Ата) 271200Z 05001MPS CAVOK M05/M10 Q1033 RMK QFE698/0931 CLD:SKC
(160/14KM)


NOWCAST.SU UAAR 271600Z VRB02MPS 0200 FG IC SKC M15/M16 Q1034 NOSIG
AUTOTAF.ME UAAR 271300Z 2714/2723 VRB02MPS 8000 BR NSC TXM13/2714Z TNM16/2717Z
FM271500 VRB02MPS 0200 FZFG NSC
BECMG 2715/2716 FG IC
FM272200 VRB02MPS 2500 BR OVC002
BECMG 2722/2723 5000
 
Талды-Корган
METAR UAAT 271130Z 02003MPS 9999 NSC M06/M13 Q1033 NOSIG RMK QFE722/0963


NOWCAST.SU UAAT 271600Z 11003MPS 9999 SKC M10/M14 Q1034 NOSIG
AUTOTAF.ME UAAT 271300Z 2714/2723 VRB02MPS CAVOK TXM09/2714Z TNM10/2716Z
TAF AMD UAAT 271150Z 2712/2721 CNL=
Аягуз
SYNAR 36622 Аягоз 271200Z 00000MPS CAVOK M11/M14 Q1034 RMK QFE716/0955 CLD:8AC


NOWCAST.SU UAAY 271600Z VRB02MPS 4500 BR BKN023 M18/M19 Q1035 NOSIG
AUTOTAF.ME UAAY 271300Z 2714/2723 VRB02MPS 5000 -SN BR NSC TXM14/2714Z TNM23/2722Z
BECMG 2714/2715 BR
BECMG 2715/2716 BKN025
FM271700 VRB02MPS 0200 FG IC VV002
FM272000 VRB02MPS 5000 BR OVC002
BECMG 2720/2721 BKN025
FM272200 VRB02MPS 5000 BR NSC
FM272300 VRB02MPS 1200 BR NSC
 
Нур-Султан
METAR UACC 271600Z 28003MPS 9999 OVC023 M06/M09 Q1035 NOSIG RMK QFE744/0993


NOWCAST.SU UACC 271600Z VRB02MPS 0900 FZFG BKN005 M07/M08 Q1036 NOSIG
AUTOTAF.ME UACC 271300Z 2714/2723 26003MPS 0500 FZFG VV004 TXM06/2714Z TNM09/2717Z
FM271500 25003MPS 0500 +SN FZFG VV015
FM271600 VRB02MPS 1200 FZFG BKN004
BECMG 2716/2717 BR
BECMG 2718/2719 SN BR
BECMG 2721/2722 BKN015
FM272300 VRB02MPS 2500 BR BKN015
TAF UACC 271101Z 2712/2812 24003MPS 3100 -SN BR BKN007 BKN011 TXM04/2810Z TNM12/2802Z
TEMPO 2712/2716 27005MPS 1000 SN BR BKN005
TEMPO 2716/2803 0200 FZFG VV001
BECMG 2803/2805 9999 NSW SCT015 BKN030=
Кокшетау
METAR UACK 271200Z 28004MPS CAVOK M04/M09 Q1034 NOSIG RMK QFE751/1002


NOWCAST.SU UACK 271600Z 25003MPS 9999 BKN021 M07/M09 Q1035 NOSIG
AUTOTAF.ME UACK 271300Z 2714/2723 26003MPS 9999 OVC025 TXM06/2714Z TNM09/2723Z
BECMG 2714/2715 OVC015
BECMG 2715/2716 BKN025
BECMG 2716/2717 BKN015
FM271800 25003MPS 9999 OVC025
FM272100 25003MPS CAVOK
TAF AMD UACK 271208Z 2712/2721 CNL=
Петропавловск
METAR UACP 271130Z 25006MPS CAVOK M03/M09 Q1033 NOSIG RMK QFE762/1016


NOWCAST.SU UACP 271600Z 25003MPS 3000 BR OVC005 M05/M07 Q1034 NOSIG
RMK TURB: MOD FL90/FL100
AUTOTAF.ME UACP 271300Z 2714/2723 25003MPS 9999 BKN040 TXM05/2714Z TNM10/2723Z
FM271500 25003MPS 2500 BR BKN004
FM271700 26003MPS CAVOK
FM271800 26003MPS 2500 BR BKN004
FM271900 26003MPS CAVOK
TAF AMD UACP 271136Z 2709/2718 CNL=
Тараз (Аулие-Ата)
METAR UADD 271600Z 29003MPS 4400 BR OVC010 M07/M08 Q1030 NOSIG RMK MT OBSC QFE715/0953


NOWCAST.SU UADD 271600Z VRB02MPS 9999 BKN031 M05/M07 Q1030 NOSIG
AUTOTAF.ME UADD 271300Z 2714/2723 07003MPS 9000 BR BKN040 TXM03/2714Z TNM07/2721Z
FM271700 VRB02MPS 1200 BR OVC004
FM272200 VRB02MPS 0500 FZFG BKN004
TAF UADD 271100Z 2712/2812 35004MPS 3100 BR SCT011 BKN100 TXM08/2810Z TNM12/2801Z
TEMPO 2712/2804 24003MPS 0400 FZFG VV002=
Толе-Би
SYNAR 38222 Толе Би 271200Z 20001MPS CAVOK M01/M09 Q1032 RMK QFE733/0977 CLD:SKC


NOWCAST.SU UADO 271600Z VRB02MPS 9999 SKC M05/M09 Q1031 NOSIG
AUTOTAF.ME UADO 271300Z 2714/2723 VRB02MPS CAVOK TXM03/2714Z TNM08/2721Z
 
 


NOSIG
 
Чимкент
METAR UAII 271600Z VRB01MPS 2100 BR NSC M01/M03 Q1028 NOSIG RMK QFE735/0980


NOWCAST.SU UAII 271600Z 08005MPS 9999 FEW170 M01/M04 Q1028 NOSIG
AUTOTAF.ME UAII 271300Z 2714/2723 08003MPS CAVOK TX01/2714Z TNM04/2722Z
BECMG 2720/2721 SCT025
BECMG 2721/2722 NSC
TAF UAII 271106Z 2712/2812 06003MPS 3100 BR FU SCT011 TX05/2810Z TNM07/2801Z
TEMPO 2712/2724 12003G08MPS 0200 FZFG VV002
TEMPO 2800/2806 VRB01MPS 0200 FZFG VV002
FM280600 34003G08MPS 5000 BR FU SCT011 BKN020CB
TEMPO 2806/2812 28003G08MPS 3100 -SHSN BR BKN011 BKN015CB=
Туркестан
METAR UAIT 271600Z 06004MPS CAVOK 00/M13 Q1029 NOSIG RMK QFE747/0996


NOWCAST.SU UAIT 271600Z 03005MPS 9999 SKC M02/M09 Q1029 NOSIG
AUTOTAF.ME UAIT 271300Z 2714/2723 04005MPS CAVOK TXM01/2714Z TNM03/2722Z
TAF UAIT 271101Z 2712/2812 05004G09MPS 9999 SCT040 TX08/2809Z TNM05/2801Z
TEMPO 2712/2718 08009MPS
TEMPO 2800/2806 3100 BR SCT030=
Жезказган
METAR UAKD 271500Z 05003MPS CAVOK M13/M15 Q1037 NOSIG RMK QFE743/0991


NOWCAST.SU UAKD 271600Z 06004MPS 9999 SKC M16/M17 Q1037 NOSIG
AUTOTAF.ME UAKD 271300Z 2714/2723 06003MPS CAVOK TXM12/2714Z TNM17/2720Z
FM272000 05004MPS 7000 BR NSC
FM272100 05004MPS 2500 BR OVC004
BECMG 2721/2722 1200
FM272300 04004MPS 0500 FG IC NSC
TAF AMD UAKD 271500Z 2712/2721 CNL=
Караганда (Сары-Арка)
METAR UAKK 271600Z 23004MPS 9999 -SN BKN009 BKN040 M09/M11 Q1034 NOSIG RMK QFE728/0971


NOWCAST.SU UAKK 271600Z VRB02MPS 3500 -SN BR BKN012 M11/M12 Q1035 NOSIG
AUTOTAF.ME UAKK 271300Z 2714/2723 VRB02MPS 2500 BR BKN015 TXM09/2714Z TNM12/2719Z
BECMG 2714/2715 -SN BR
BECMG 2716/2717 BR
BECMG 2718/2719 5000
FM272100 VRB02MPS 5000 -SN BR BKN015
FM272200 VRB02MPS 2500 -SN BR OVC015
FM272300 VRB02MPS 1200 SN FZFG VV015
TAF UAKK 271101Z 2712/2812 24006MPS 3100 -SN BR BKN011 BKN020 TXM04/2809Z TNM12/2802Z
TEMPO 2712/2715 1000 SN BR BKN005
BECMG 2715/2717 18005MPS
TEMPO 2715/2803 VRB02MPS 0400 FZFG VV002
BECMG 2805/2807 9999 NSW
TEMPO 2805/2812 5000 -SN BKN005=
Байконур (Крайний)
SYNAR 35953 Жосалы (Джусалы) 271200Z 05011MPS CAVOK 02/M11 Q1035 RMK QFE766/1022 CLD:SKC
(100/69KM)


NOWCAST.SU UAOL 271600Z 06007G12MPS 9999 SKC M03/M09 Q1035 NOSIG
AUTOTAF.ME UAOL 271300Z 2714/2723 06008MPS CAVOK TXM02/2714Z TNM06/2723Z
 
Байконур (Юбилейный)
SYNAR 35953 Жосалы (Джусалы) 271200Z 05011MPS CAVOK 02/M11 Q1035 RMK QFE766/1022 CLD:SKC
(130/89KM)


NOWCAST.SU UAON 271600Z 06005MPS 9999 SKC M04/M09 Q1036 NOSIG
AUTOTAF.ME UAON 271300Z 2714/2723 05006MPS CAVOK TXM02/2714Z TNM06/2721Z
 
Кызылорда
METAR UAOO 271600Z 07007MPS CAVOK M02/M10 Q1033 NOSIG RMK QFE763/1017


NOWCAST.SU UAOO 271600Z 06007G13MPS 9999 SKC M03/M09 Q1032 NOSIG
AUTOTAF.ME UAOO 271300Z 2714/2723 06008G13MPS CAVOK TXM02/2714Z TNM05/2722Z
TAF UAOO 271400Z 2715/2724 08010MPS CAVOK=
Уральск (Ак-Жол)
METAR UARR 271600Z 09002MPS CAVOK M14/M17 Q1041 NOSIG RMK QFE777/1037


NOWCAST.SU UARR 271600Z VRB02MPS 0500 FG IC VV002 M17/M18 Q1041 NOSIG
AUTOTAF.ME UARR 271300Z 2714/2723 VRB02MPS 0500 FZFG VV004 TXM13/2714Z TNM18/2718Z
BECMG 2714/2715 FG IC
FM271800 VRB02MPS CAVOK
FM271900 VRB02MPS 0500 FG IC VV004
FM272000 VRB02MPS CAVOK
TAF UARR 271400Z 2715/2724 VRB02MPS 9999 SCT033
TEMPO 2715/2718 06004MPS
TEMPO 2718/2724 3100 BR BKN011=
Семипалатинск-2
SYNAR 36026 Новониколаевка 271200Z 16002MPS 3500 //// M07/M07 Q1037 RMK QFE754/1006 CLD:NO_OBSERVATIONS
(10/54KM)


NOWCAST.SU UASD 271600Z 17003MPS 0500 FZFG BKN003 M08/M09 Q1038 NOSIG
AUTOTAF.ME UASD 271300Z 2714/2723 VRB02MPS 1200 BR BKN004 TXM08/2714Z TNM09/2715Z
FM271600 17003MPS 0500 FZFG BKN004
BECMG 2716/2717 BKN008
BECMG 2717/2718 BKN004
FM271900 19003MPS 1200 BR BKN004
FM272300 19003MPS 0500 FZFG VV004
 
Усть-Каменогорск
METAR UASK 271600Z 09002MPS 5000 BR NSC M22/M25 Q1038 NOSIG RMK QFE753/1004


NOWCAST.SU UASK 271600Z VRB02MPS 0500 FG IC VV002 M18/M19 Q1039 NOSIG
AUTOTAF.ME UASK 271300Z 2714/2723 VRB02MPS 0200 FG IC VV002 TXM15/2714Z TNM22/2722Z
BECMG 2714/2715 BKN004
FM271800 VRB02MPS 8000 BR NSC
TAF UASK 271104Z 2712/2721 29003MPS 5000 BR FEW005 SCT070
TEMPO 2713/2719 VRB01MPS 0200 FZFG VV001=
Павлодар
METAR UASP 271600Z 16003MPS 5000 BR OVC021 M06/M07 Q1036 NOSIG RMK QFE765/1021


NOWCAST.SU UASP 271600Z 16003MPS 1000 BR OVC004 M07/M08 Q1037 NOSIG
AUTOTAF.ME UASP 271300Z 2714/2723 VRB02MPS 1200 BR OVC004 TXM07/2715Z TNM09/2714Z
BECMG 2721/2722 2500
BECMG 2722/2723 5000
TAF UASP 271400Z 2715/2724 18003G08MPS 3100 -SN BR FU BKN007
TEMPO 2715/2721 0200 FZFG VV001=
Семей
METAR UASS 271330Z 10004MPS 4000 BR NSC M15/M16 Q1037 NOSIG RMK QFE757/1009


NOWCAST.SU UASS 271600Z 13003MPS 1000 BR BKN003 M11/M12 Q1038 NOSIG
AUTOTAF.ME UASS 271300Z 2714/2723 15003MPS 1200 BR BKN004 TXM10/2714Z TNM13/2717Z
BECMG 2720/2721 2500
BECMG 2721/2722 1200
TAF AMD UASS 271350Z 2714/2724 CNL=
Урджар
SYNAR 36639 Урджар 271200Z 00000MPS CAVOK M09/M13 Q1036 RMK QFE732/0976 CLD:5AC


NOWCAST.SU UASU 271600Z VRB02MPS 9999 SKC M17/M18 Q1038 NOSIG
AUTOTAF.ME UASU 271300Z 2714/2723 VRB02MPS 9999 BKN040 TXM16/2714Z TNM17/2715Z
BECMG 2714/2715 NSC
BECMG 2717/2718 BKN040
BECMG 2718/2719 NSC
 
Аральск
SYNAR 35746 Аральск 271200Z 06005MPS CAVOK M02/M08 Q1039 RMK QFE773/1031 CLD:SKC


NOWCAST.SU UATA 271600Z 05004MPS 9999 SKC M05/M09 Q1038 NOSIG
AUTOTAF.ME UATA 271300Z 2714/2723 05004MPS CAVOK TXM04/2714Z TNM07/2721Z
 
Актау
METAR UATE 271600Z 06002MPS CAVOK M02/M08 Q1034 NOSIG RMK QFE774/1032


NOWCAST.SU UATE 271600Z 08005MPS 9999 SKC 00/M06 Q1035 NOSIG
RMK TURB: MOD SFC/FL20
AUTOTAF.ME UATE 271300Z 2714/2723 10005MPS CAVOK TX02/2714Z TNM02/2719Z
TAF AMD UATE 271404Z 2714/2812 06005MPS CAVOK TX06/2808Z TNM08/2803Z
TEMPO 2714/2802 VRB02MPS=
Форт-Шевченко
SYNAR 38001 Форт-Шевченко 271200Z 09005MPS CAVOK 05/M15 Q1036 RMK QFE779/1038 CLD:SKC


NOWCAST.SU UATF 271600Z 08005MPS 9999 SKC 00/M09 Q1035 NOSIG
AUTOTAF.ME UATF 271300Z 2714/2723 09005G10MPS CAVOK TX02/2714Z TNM03/2721Z
BECMG 2722/2723 BKN025
 
Атырау
METAR UATG 271600Z 07003MPS CAVOK M03/M08 Q1038 NOSIG RMK QFE780/1041


NOWCAST.SU UATG 271600Z 08004MPS 9999 SKC M02/M07 Q1039 NOSIG
AUTOTAF.ME UATG 271300Z 2714/2723 08004MPS CAVOK TXM01/2714Z TNM04/2721Z
TAF UATG 271100Z 2712/2812 06006MPS CAVOK TX04/2811Z TNM06/2803Z=
Актобе
METAR UATT 271600Z 00000MPS CAVOK M10/M13 Q1041 NOSIG RMK QFE760/1013


NOWCAST.SU UATT 271600Z VRB02MPS 9999 FEW250 M14/M15 Q1040 NOSIG
AUTOTAF.ME UATT 271300Z 2714/2723 VRB02MPS CAVOK TXM09/2714Z TNM15/2718Z
BECMG 2716/2717 OVC008
BECMG 2717/2718 BR
BECMG 2718/2719 OVC002
FM272100 VRB02MPS 9999 OVC008
FM272200 VRB02MPS 9000 BR OVC002
TAF UATT 271100Z 2712/2812 VRB01MPS 9999 SCT033 TXM03/2811Z TNM17/2803Z
TEMPO 2715/2722 3100 BR BKN011
TEMPO 2722/2803 0500 FZFG VV002=
Тенгиз
SYNAR 35715 Кульсары 271200Z 00000MPS CAVOK 03/M10 Q1042 RMK QFE780/1040 CLD:SKC
(30/67KM)


NOWCAST.SU UATZ 271600Z 06004MPS 9999 SKC M02/M07 Q1038 NOSIG
AUTOTAF.ME UATZ 271300Z 2714/2723 06005MPS CAVOK TX00/2714Z TNM04/2723Z
BECMG 2720/2721 BKN040
BECMG 2721/2722 NSC
 
Аркалык (Северный)
SYNAR 35363 Аркалык 271200Z 23003MPS 0500 FZFG VV/// M08/M09 Q1037 RMK QFE746/0995 CLD:OBSC
(220/14KM)


NOWCAST.SU UAUR 271600Z VRB02MPS 7000 BR FEW130 M13/M13 Q1037 NOSIG
AUTOTAF.ME UAUR 271300Z 2714/2723 VRB02MPS CAVOK TXM10/2714Z TNM17/2723Z
BECMG 2714/2715 BR
BECMG 2715/2716 7000
FM271700 VRB02MPS 1200 BR BKN004
FM271800 VRB02MPS 7000 BR NSC
FM271900 VRB02MPS 1200 BR OVC002
BECMG 2720/2721 OVC004
FM272300 VRB02MPS CAVOK
 
Костанай (Наримановка)
METAR UAUU 271600Z 27001MPS CAVOK M13/M15 Q1037 NOSIG RMK QFE761/1015


NOWCAST.SU UAUU 271600Z VRB02MPS 1000 BR OVC003 M11/M13 Q1038 NOSIG
AUTOTAF.ME UAUU 271300Z 2714/2723 VRB02MPS 1200 BR OVC004 TXM07/2714Z TNM13/2718Z
TAF UAUU 271400Z 2715/2724 25002MPS 9999 SCT040
TEMPO 2715/2724 23002MPS 3100 BR BKN003=
Baku Bine Arpt
METAR UBBB 271600Z 06006KT CAVOK 03/M06 Q1033 NOSIG


NOWCAST.SU UBBB 271600Z 08010KT 9999 BKN170 04/M05 Q1033 NOSIG
RMK TURB: MOD SFC/FL30
AUTOTAF.ME UBBB 271300Z 2714/2723 07010KT 9999 BKN040 TX05/2723Z TN04/2714Z
BECMG 2715/2716 NSC
BECMG 2717/2718 BKN040
BECMG 2718/2719 NSC
FM272100 08004KT 9999 SCT040TCU
TAF UBBB 271049Z 2712/2812 04006KT 9999 SCT030 TX06/2712Z TNM02/2802Z
TEMPO 2712/2718 09010KT
BECMG 2718/2720 VRB04KT
TEMPO 2720/2806 32006KT SCT015
BECMG 2806/2808 01014KT=
Gyandzha
METAR UBBG 271600Z 11006KT 9999 FEW100 03/M06 Q1029 NOSIG


NOWCAST.SU UBBG 271600Z 11004KT 9999 SKC 01/M06 Q1028 NOSIG
AUTOTAF.ME UBBG 271300Z 2714/2723 08004KT 9999 SCT040 TX03/2714Z TNM03/2722Z
BECMG 2714/2715 NSC
TAF UBBG 271100Z 2712/2812 VRB04KT 9999 FEW030 BKN060 TX06/2712Z TNM02/2803Z
TEMPO 2712/2716 09008KT
TEMPO 2800/2806 22008KT=
Lenkoran
METAR UBBL 271600Z VRB02KT 8000 SCT045 01/M03 Q1033 NOSIG


NOWCAST.SU UBBL 271600Z 10004KT 9999 SKC 02/M04 Q1031 NOSIG
RMK TURB: MOD SFC/FL40
AUTOTAF.ME UBBL 271300Z 2714/2723 11006KT CAVOK TX03/2714Z TN01/2719Z
BECMG 2716/2717 BKN025
BECMG 2718/2719 VRB02KT
BECMG 2720/2721 NSC
FM272300 35008KT CAVOK
TAF UBBL 271048Z 2712/2812 VRB04KT 9999 SCT030 SCT060 TX06/2712Z TNM03/2802Z
TEMPO 2712/2715 02005KT
TEMPO 2800/2805 SCT015
BECMG 2806/2808 05008KT=
Nakhchivan
METAR UBBN 271600Z 09006KT 9999 NSC M00/M14 Q1023 NOSIG RMK QFE692


NOWCAST.SU UBBN 271600Z 11006KT 9999 SKC M01/M15 Q1025 NOSIG
AUTOTAF.ME UBBN 271300Z 2714/2723 10006KT CAVOK TX01/2714Z TNM07/2723Z
TAF UBBN 271052Z 2712/2812 10008KT 9999 FEW040 SCT100 TX06/2712Z TNM05/2803Z
TEMPO 2712/2715 15014KT=
METAR UCFL 271600Z 01004MPS 9999 FEW030CB M02/M12 Q1024


NOSIG
TAF UCFL 271038Z 2712/2812 13003G08MPS 9999 SCT030CB
BECMG 2716/2717 36003G08MPS
TEMPO 2716/2722 2000 SHSN SCT007 BKN020CB
BECMG 2807/2808 15003G08MPS=
Bishkek Manas
METAR UCFM 271600Z VRB01MPS 1900 BR FU BKN015 M08/M08 Q1029 TEMPO 1500 BR FU


NOWCAST.SU UCFM 271600Z VRB02MPS 7000 HZ SKC M04/M07 Q1030 NOSIG
AUTOTAF.ME UCFM 271300Z 2714/2723 VRB02MPS 8000 HZ NSC TXM03/2714Z TNM08/2723Z
BECMG 2716/2717 BR
TAF UCFM 271040Z 2712/2812 02003G08MPS 3500 BR BKN007 OVC040CB
TEMPO 2712/2724 12003G08MPS 0800 -SHSN FZFG FEW002 OVC030CB
TEMPO 2800/2806 2000 BR FU FEW002
TEMPO 2806/2812 2000 BR FU FEW002=
Osh
METAR UCFO 271600Z 31002MPS 270V330 1800 1400E BR OVC011 02/01 Q1024 NOSIG


NOWCAST.SU UCFO 271600Z VRB02MPS 9999 SCT170 M01/M02 Q1026 NOSIG
AUTOTAF.ME UCFO 271300Z 2714/2723 VRB02MPS CAVOK TX00/2714Z TNM01/2715Z
FM271700 VRB02MPS 9000 BR BKN025
FM271900 VRB02MPS 1200 BR BKN004
TAF AMD UCFO 271519Z 2715/2812 17003G08MPS 1500 BR BKN008 OVC030CB
TEMPO 2715/2721 26003G08MPS 0200 -SHSN FZFG VV001
TEMPO 2721/2803 06003G08MPS 0200 -SHSN FZFG VV001
BECMG 2803/2805 30003G08MPS=
Shirak
METAR UDSG 271600Z VRB04KT 9999 NSC M02/M12 Q1022 NOSIG


NOWCAST.SU UDSG 271600Z 03004KT 9999 BKN016 SCT020TCU M06/M10 Q1026 NOSIG
AUTOTAF.ME UDSG 271300Z 2714/2723 04004KT CAVOK TXM02/2714Z TNM09/2721Z
BECMG 2714/2715 BKN015 SCT020TCU
TAF UDSG 271058Z 2712/2812 VRB06KT 9999 FEW050=
Zvartnots
METAR UDYZ 271600Z 32002KT 9999 NSC 02/M14 Q1023 NOSIG


NOWCAST.SU UDYZ 271600Z 15004KT 9999 SKC 01/M11 Q1024 NOSIG
RMK TURB: MOD FL50/FL60
AUTOTAF.ME UDYZ 271300Z 2714/2723 17004KT CAVOK TX03/2714Z TNM05/2723Z
BECMG 2717/2718 11006KT
TAF UDYZ 271100Z 2712/2812 VRB06KT 9999 NSC=
Батагай
SYNAR 24263 Батагай 271200Z 13003MPS //// NSC M26/M30 Q1026 RMK QFE749/0999 CLD:2CI


NOWCAST.SU UEBB 271600Z VRB02MPS 9999 FEW170 M32/M34 Q1024 NOSIG
AUTOTAF.ME UEBB 271300Z 2714/2723 VRB02MPS CAVOK TXM31/2714Z TNM33/2720Z
 
Саккырыр
SYNAR 24261 Батагай-Алыта 271200Z 33002MPS //// //// M30/M33 Q1018 RMK QFE719/0959 CLD:NO_OBSERVATIONS


NOWCAST.SU UEBS 271600Z 25003MPS 9999 FEW190 M28/M31 Q1016 NOSIG
AUTOTAF.ME UEBS 271300Z 2714/2723 25003MPS CAVOK TXM27/2714Z TNM30/2722Z
 
Талакан
SYNAR 24928 Комака 271200Z 18001MPS CAVOK M26/M28 Q1034 RMK QFE748/0997 CLD:1CI
(40/56KM)


NOWCAST.SU UECT 271600Z VRB02MPS 9000 BR SKC M25/M27 Q1033 NOSIG
AUTOTAF.ME UECT 271300Z 2714/2723 VRB02MPS 1200 BR OVC008 TXM25/2714Z TNM28/2723Z
FM271500 VRB02MPS 5000 BR NSC
BECMG 2715/2716 9000
FM271900 VRB02MPS 1200 BR NSC
FM272000 VRB02MPS 9000 BR BKN015
BECMG 2720/2721 5000
BECMG 2721/2722 NSC
 
Алдан
SYNAR 31004 Алдан 271200Z 00000MPS CAVOK M29/M32 Q1031 RMK QFE712/0950 CLD:8CS


NOWCAST.SU UEEA 271600Z 17003MPS 9999 SKC M28/M30 Q1029 NOSIG
AUTOTAF.ME UEEA 271300Z 2714/2723 17003MPS CAVOK TXM28/2714Z TNM29/2717Z
BECMG 2719/2720 BKN015
BECMG 2722/2723 BR
 
Себян-Кюель
SYNAR 24462 Себян-Кюель 271200Z 28001MPS CAVOK M32/M35 Q1024 RMK QFE699/0932 CLD:8ACCI


NOWCAST.SU UEED 271600Z 25004MPS 0500 FG IC VV012 M30/M32 Q1018 NOSIG
AUTOTAF.ME UEED 271300Z 2714/2723 25004MPS 1200 BR NSC TXM29/2714Z TNM31/2719Z
FM271500 25004MPS 0200 FG IC VV015
 
Якутск
METAR UEEE 271600Z 30003MPS CAVOK M35/M38 Q1038 R23/490150 NOSIG RMK QFE770


NOWCAST.SU UEEE 271600Z VRB02MPS 1700 BR SKC M32/M34 Q1039 NOSIG
AUTOTAF.ME UEEE 271300Z 2714/2723 VRB02MPS 2500 BR NSC TXM32/2714Z TNM34/2720Z
BECMG 2714/2715 1200
BECMG 2716/2717 2500
TAF UEEE 271400Z 2715/2821 32003MPS CAVOK
TEMPO 2721/2802 1000 BR NSC=
Покровск
SYNAR 24856 Покровск 271200Z 26001MPS CAVOK M32/M36 Q1038 RMK QFE767/1023 CLD:SKC


NOWCAST.SU UEEP 271600Z VRB02MPS 0200 FG IC SCT150 M30/M31 Q1038 NOSIG
AUTOTAF.ME UEEP 271300Z 2714/2723 VRB02MPS 2500 BR NSC TXM29/2714Z TNM31/2719Z
FM271600 VRB02MPS 0200 FG IC NSC
FM271800 VRB02MPS 1200 BR NSC
BECMG 2722/2723 2500
 
Чульман
SYNAR 30393 Нерюнгри 271200Z 04001MPS CAVOK M24/M27 Q1028 RMK QFE695/0926 CLD:8ACCI


NOWCAST.SU UELD 271600Z VRB02MPS 6000 BR SCT095 M35/M36 Q1031 NOSIG
AUTOTAF.ME UELD 271300Z 2714/2723 VRB02MPS 8000 BR NSC TXM33/2714Z TNM37/2719Z
BECMG 2715/2716 5000
 
Нерюнгри (Чульман)
SYNAR 30393 Нерюнгри 271200Z 04001MPS CAVOK M24/M27 Q1028 RMK QFE695/0926 CLD:8ACCI


NOWCAST.SU UELL 271600Z VRB02MPS 0400 FG IC SCT095 M35/M37 Q1031 NOSIG
AUTOTAF.ME UELL 271300Z 2714/2723 VRB02MPS 0500 FG IC NSC TXM33/2714Z TNM37/2719Z
 
Оймякон
SYNAR 24688 Оймякон 271200Z 25001MPS CAVOK M44/M48 Q1029 RMK QFE705/0941 CLD:SKC


NOWCAST.SU UEMJ 271600Z VRB02MPS 4000 BR SKC M42/M44 Q1025 NOSIG
AUTOTAF.ME UEMJ 271300Z 2714/2723 VRB02MPS CAVOK TXM40/2723Z TNM43/2719Z
FM271600 VRB02MPS 5000 BR NSC
FM271700 VRB02MPS 0500 FG IC NSC
FM272200 VRB02MPS 5000 BR NSC
FM272300 VRB02MPS CAVOK
 
Маган
SYNAR 24959 Якутск 271200Z 00000MPS CAVOK M31/M34 Q1039 RMK QFE769/1026 CLD:5CI
(170/12KM)


NOWCAST.SU UEMM 271600Z VRB02MPS 2300 BR SKC M32/M34 Q1038 NOSIG
AUTOTAF.ME UEMM 271300Z 2714/2723 VRB02MPS 2500 BR NSC TXM31/2714Z TNM33/2719Z
 
Олёкминск
SYNAR 24944 Олекминск 271200Z 00000MPS CAVOK M25/M28 Q1036 RMK QFE755/1007 CLD:6CI


NOWCAST.SU UEMO 271600Z VRB02MPS 6000 BR SKC M31/M33 Q1037 NOSIG
RMK TURB: MOD FL40/FL50
AUTOTAF.ME UEMO 271300Z 2714/2723 VRB02MPS CAVOK TXM29/2714Z TNM35/2722Z
FM271500 VRB02MPS 7000 BR NSC
BECMG 2715/2716 5000
BECMG 2716/2717 BKN025
BECMG 2717/2718 NSC
 
Усть-Мая
SYNAR 24966 Усть-Мая 271200Z 00000MPS CAVOK M29/M32 Q1037 RMK QFE762/1016 CLD:2CI


NOWCAST.SU UEMU 271600Z VRB02MPS 1600 BR FEW160 M32/M34 Q1038 NOSIG
AUTOTAF.ME UEMU 271300Z 2714/2723 VRB02MPS 1200 BR NSC TXM31/2714Z TNM34/2720Z
BECMG 2714/2715 2500
BECMG 2715/2716 1200
BECMG 2719/2720 2500
 
Верхневилюйск
SYNAR 24644 Верхневилюйск 271200Z 18001MPS //// //// M21/M23 Q1034 RMK QFE764/1019 CLD:NO_OBSERVATIONS


NOWCAST.SU UENI 271600Z VRB02MPS 1000 BR FEW270 M25/M27 Q1034 NOSIG
AUTOTAF.ME UENI 271300Z 2714/2723 VRB02MPS 1200 BR NSC TXM25/2714Z TNM26/2720Z
FM272100 VRB02MPS 0200 FG IC NSC
 
Нюрба
SYNAR 24639 Нюрба 271200Z 19002MPS CAVOK M22/M25 Q1033 RMK QFE763/1018 CLD:SKC


NOWCAST.SU UENN 271600Z 20003MPS 1000 BR FEW290 M25/M27 Q1033 NOSIG
AUTOTAF.ME UENN 271300Z 2714/2723 VRB02MPS 1200 BR NSC TXM25/2714Z TNM27/2723Z
 
Айхал
SYNAR 24322 Полярный 271200Z 22003MPS CAVOK M19/M25 Q1018 RMK QFE719/0958 CLD:8ACCI
(20/94KM)


NOWCAST.SU UERA 271600Z 24004MPS 0500 FG IC BKN110 M20/M22 Q1017 NOSIG
AUTOTAF.ME UERA 271300Z 2714/2723 24005G13MPS 8000 BR NSC TXM19/2718Z TNM21/2714Z
BECMG 2714/2715 1200
FM271600 24004MPS 0500 FG IC NSC
FM272200 23004MPS 1200 BR OVC002
BECMG 2722/2723 2500
 
Ленск
SYNAR 24923 Ленск 271200Z 01001MPS CAVOK M24/M26 Q1034 RMK QFE753/1004 CLD:2CI


NOWCAST.SU UERL 271600Z VRB02MPS 1000 BR FEW280 M25/M27 Q1033 NOSIG
RMK TURB: MOD SFC/FL40
AUTOTAF.ME UERL 271300Z 2714/2723 VRB02MPS 1200 BR OVC004 TXM25/2714Z TNM27/2720Z
BECMG 2715/2716 NSC
FM271800 VRB02MPS 9999 OVC025
BECMG 2718/2719 NSC
 
Полярный
METAR UERP 271600Z 21003MPS 9999 -SN OVC100 M19/M22 Q1016 R17/850340 NOSIG RMK QFE718


NOWCAST.SU UERP 271600Z VRB02MPS 0500 FG IC VV003 M22/M24 Q1018 NOSIG
AUTOTAF.ME UERP 271300Z 2714/2723 21003MPS 8000 BR BKN025 TXM19/2720Z TNM23/2714Z
FM271500 21003MPS 0500 FG IC VV008
BECMG 2715/2716 OVC004
FM272200 VRB02MPS 1200 BR OVC008
BECMG 2722/2723 OVC004
TAF UERP 271400Z 2715/2815 22003G08MPS 9999 SCT023
TEMPO 2718/2724 2500 -SN SCT010=
Мирный
METAR UERR 271600Z 21003MPS CAVOK M24/M27 Q1028 R25/350045 NOSIG RMK QFE740/0986


NOWCAST.SU UERR 271600Z 21003MPS 9999 FEW300 M25/M26 Q1030 NOSIG
AUTOTAF.ME UERR 271300Z 2714/2723 VRB02MPS CAVOK TXM24/2714Z TNM25/2716Z
BECMG 2717/2718 BR
BECMG 2720/2721 DRSN
TAF UERR 271400Z 2715/2815 22003MPS CAVOK
TEMPO 2718/2724 0500 FG BKN003=
Саскылах
SYNAR 21802 Саскылах 271200Z 19003MPS CAVOK M13/M16 Q1008 RMK QFE754/1005 CLD:8AC


NOWCAST.SU UERS 271600Z 25007G14MPS 9999 BKN015 M11/M13 Q1009 NOSIG
RMK TURB: MOD SFC/FL30
AUTOTAF.ME UERS 271300Z 2714/2723 24007G14MPS 9999 BKN015 TXM11/2716Z TNM12/2714Z
BECMG 2716/2717 BKN008
FM271800 25007G14MPS 9999 DRSN BKN004
BECMG 2720/2721 BKN008
BECMG 2721/2722 BKN004
FM272300 25005G13MPS 7000 DRSN BKN004
 
Оленегорск
SYNAR 21946 Чокурдах 271200Z 23006MPS 4000 -SN BKN010 M21/M23 Q1019 RMK QFE758/1011 CLD:8SCAC
(10/91KM)


NOWCAST.SU UESN 271600Z 21004MPS 0500 SN FG IC SKC M18/M19 Q1020 NOSIG
RMK TURB: MOD SFC/FL20
AUTOTAF.ME UESN 271300Z 2714/2723 21004MPS 0500 SN FG IC VV004 TXM18/2714Z TNM20/2721Z
BECMG 2714/2715 OVC008
BECMG 2715/2716 NSC
FM271800 20004MPS 2500 SN BR NSC
FM271900 19004MPS 9000 BR BKN008
FM272000 18004MPS CAVOK
 
Чокурдах
SYNAR 21946 Чокурдах 271200Z 23006MPS 4000 -SN BKN010 M21/M23 Q1019 RMK QFE758/1011 CLD:8SCAC


NOWCAST.SU UESO 271600Z 24009G17MPS 1700 SN BLSN OVC001 M14/M16 Q1018 NOSIG
RMK TURB: MOD FL20/FL30
AUTOTAF.ME UESO 271300Z 2714/2723 24010G17MPS 0500 SN BLSN OVC002 TXM14/2715Z TNM16/2723Z
BECMG 2715/2716 1200
FM271700 23008G15MPS 9999 -SN NSC
BECMG 2718/2719 OVC015
BECMG 2719/2720 OVC040
FM272100 23008G15MPS CAVOK
 
Черский
SYNAR 25123 Черский 271200Z 13006MPS 8000 -SN NSC M29/M32 Q1029 RMK QFE769/1025 CLD:5AS


NOWCAST.SU UESS 271600Z 15006MPS 0500 FZFG SKC M26/M28 Q1029 NOSIG
AUTOTAF.ME UESS 271300Z 2714/2723 15005MPS 0500 FG IC NSC TXM22/2723Z TNM27/2714Z
BECMG 2715/2716 FZFG
BECMG 2718/2719 +SN FZFG
BECMG 2720/2721 OVC002
 
Тикси
SYNAR 21824 Тикси 271200Z 18021G26MPS 00050 BLSN VV/// M18/M20 Q1013 RMK QFE759/1012 CLD:OBSC
(180/13KM)


NOWCAST.SU UEST 271600Z 24015G23MPS 2000 BLSN BKN110 M20/M24 Q1011 NOSIG
RMK TURB: MOD SFC/FL30
AUTOTAF.ME UEST 271300Z 2714/2723 24016G24MPS 2500 BLSN NSC TXM20/2714Z TNM21/2717Z
BECMG 2720/2721 OVC025
 
Kopitnari
METAR UGKO 271600Z 08027G37KT CAVOK 09/M11 Q1021 NOSIG


NOWCAST.SU UGKO 271600Z 12022KT 9999 SKC 07/M05 Q1020 NOSIG
AUTOTAF.ME UGKO 271300Z 2714/2723 09024KT CAVOK TX10/2714Z TN05/2721Z
TAF UGKO 271100Z 2712/2812 08025G39KT CAVOK TX15/2811Z TN03/2803Z
TEMPO 2712/2717 08030G45KT
BECMG 2802/2805 08015KT=
Batumi
METAR UGSB 271600Z 18004KT CAVOK 10/05 Q1019 NOSIG


NOWCAST.SU UGSB 271600Z 18004KT 9999 SKC 11/06 Q1018 NOSIG
AUTOTAF.ME UGSB 271300Z 2714/2723 VRB02KT CAVOK TX12/2714Z TN08/2721Z
BECMG 2717/2718 17006KT
TAF UGSB 271100Z 2712/2812 35010KT CAVOK TX16/2712Z TN07/2802Z
BECMG 2717/2720 12013KT
TEMPO 2800/2806 12023KT
BECMG 2807/2809 VRB02KT=
Tbilisi Novo-al
METAR UGTB 271600Z 10003KT CAVOK 03/M06 Q1029 NOSIG


NOWCAST.SU UGTB 271600Z 16004KT 9999 SKC 01/M05 Q1029 NOSIG
RMK TURB: MOD FL30/FL40
AUTOTAF.ME UGTB 271300Z 2714/2723 16004KT CAVOK TX03/2714Z TNM02/2722Z
BECMG 2718/2719 SCT040
TAF UGTB 271100Z 2712/2812 12006KT 9999 SCT050 TX06/2712Z TNM01/2803Z=
Благовещенск (Игнатьево)
METAR UHBB 271600Z 36001MPS 9999 FEW033 M16/M21 Q1030 R18L/090063 NOSIG RMK QFE758/1010


NOWCAST.SU UHBB 271600Z VRB02MPS 1000 BR BKN003 M14/M16 Q1032 NOSIG
AUTOTAF.ME UHBB 271300Z 2714/2723 VRB02MPS 1200 BR BKN004 TXM14/2714Z TNM15/2719Z
FM271700 VRB02MPS 0500 FZFG BKN004
BECMG 2720/2721 OVC008
TAF UHBB 271359Z 2715/2815 36003G08MPS 9999 SCT030
TEMPO 2715/2806 3100 -SN FEW011 BKN026=
Зея
SYNAR 31300 Зея 271200Z 00000MPS CAVOK M15/M22 Q1034 RMK QFE754/1005 CLD:6CI


NOWCAST.SU UHBE 271600Z VRB02MPS 0500 FG IC BKN003 M19/M20 Q1034 NOSIG
AUTOTAF.ME UHBE 271300Z 2714/2723 VRB02MPS 1200 BR OVC004 TXM18/2714Z TNM21/2720Z
FM271500 VRB02MPS 0500 FG IC VV004
FM272300 VRB02MPS 9999 BKN025
 
Февральск
SYNAR 31388 Норск 271200Z 36001MPS CAVOK M18/M21 Q1033 RMK QFE755/1007 CLD:8ACCS
(260/71KM)


NOWCAST.SU UHBF 271600Z VRB02MPS 1000 BR OVC003 M20/M21 Q1032 NOSIG
AUTOTAF.ME UHBF 271300Z 2714/2723 VRB02MPS 1200 BR OVC004 TXM18/2723Z TNM20/2716Z
FM272200 VRB02MPS 9999 OVC040
 
Свободный
SYNAR 31445 Свободный 271200Z 00000MPS //// //// M14/M20 Q1033 RMK QFE756/1008 CLD:NO_OBSERVATIONS


NOWCAST.SU UHBS 271600Z 04003MPS 9999 OVC140 M16/M18 Q1032 NOSIG
AUTOTAF.ME UHBS 271300Z 2714/2723 05003MPS CAVOK TXM15/2714Z TNM17/2719Z
FM272100 02003MPS 1200 BR OVC004
FM272200 02003MPS 9999 OVC040
BECMG 2722/2723 NSC
 
Тында
SYNAR 30499 Тында 271200Z 00000MPS CAVOK M23/M29 Q1032 RMK QFE726/0968 CLD:5CI
(220/16KM)


NOWCAST.SU UHBW 271600Z VRB02MPS 9999 BKN046 M26/M28 Q1030 NOSIG
AUTOTAF.ME UHBW 271300Z 2714/2723 VRB02MPS 9999 OVC040 TXM25/2723Z TNM27/2718Z
BECMG 2714/2715 NSC
BECMG 2715/2716 BKN040
BECMG 2716/2717 NSC
 
Билибино (Купол-1)
SYNAR 25356 Эньмувеем 271200Z 32003MPS 9999 FEW020 M26/M29 Q1025 RMK QFE762/1016 CLD:3SCAC
(110/173KM)


NOWCAST.SU UHED 271600Z VRB02MPS 0200 FG IC SKC M38/M40 Q1021 NOSIG
AUTOTAF.ME UHED 271300Z 2714/2723 VRB02MPS 5000 BR NSC TXM36/2714Z TNM42/2720Z
FM271600 VRB02MPS 0200 FG IC NSC
BECMG 2720/2721 OVC015
FM272200 VRB02MPS 7000 BR OVC015
 
Купол
SYNAR 25356 Эньмувеем 271200Z 32003MPS 9999 FEW020 M26/M29 Q1025 RMK QFE762/1016 CLD:3SCAC
(110/175KM)


NOWCAST.SU UHEK 271600Z VRB02MPS 0300 FG IC SKC M38/M40 Q1021 NOSIG
AUTOTAF.ME UHEK 271300Z 2714/2723 VRB02MPS 5000 BR BKN040 TXM36/2714Z TNM42/2720Z
BECMG 2714/2715 NSC
FM271600 VRB02MPS 0200 FG IC NSC
BECMG 2720/2721 OVC015
FM272200 VRB02MPS 7000 BR OVC015
 
Новая Кубака
SYNAR 25627 Лабазная 271200Z 20002MPS //// //// M38/M42 Q1024 RMK QFE705/0940 CLD:NO_OBSERVATIONS
(240/86KM)


NOWCAST.SU UHGK 271600Z VRB02MPS 0500 FG IC SKC M38/M40 Q1022 NOSIG
AUTOTAF.ME UHGK 271300Z 2714/2723 VRB02MPS 0500 FG IC NSC TXM32/2723Z TNM38/2715Z
FM272200 VRB02MPS 2500 HZ NSC
BECMG 2722/2723 5000
 
Глухариное
SYNAR 25503 Коркодон 271200Z 07002MPS CAVOK M28/M32 Q1031 RMK QFE764/1019 CLD:5CI
(130/47KM)


NOWCAST.SU UHGL 271600Z VRB02MPS 0200 FG IC FEW095 M33/M35 Q1026 NOSIG
AUTOTAF.ME UHGL 271300Z 2714/2723 VRB02MPS 0200 FG IC NSC TXM30/2723Z TNM34/2719Z
FM272200 VRB02MPS 5000 BR NSC
FM272300 VRB02MPS CAVOK
 
Биробиджан (Желтый Яр)
SYNAR 31713 Биробиджан 271200Z 00000MPS CAVOK M17/M20 Q1034 RMK QFE768/1024 CLD:8CS
(330/20KM)


NOWCAST.SU UHHB 271600Z VRB02MPS 1000 BR BKN003 M18/M19 Q1034 NOSIG
AUTOTAF.ME UHHB 271300Z 2714/2723 VRB02MPS 0500 FG IC BKN004 TXM17/2723Z TNM19/2719Z
FM271600 VRB02MPS 1200 BR BKN004
FM271800 VRB02MPS 9999 BKN015
 
Бриакан
SYNAR 31418 Веселая Горка 271200Z 00000MPS //// //// M15/M21 Q1035 RMK QFE757/1010 CLD:NO_OBSERVATIONS


NOWCAST.SU UHHE 271600Z VRB02MPS 0200 FG IC BKN011 M24/M25 Q1035 NOSIG
AUTOTAF.ME UHHE 271300Z 2714/2723 VRB02MPS 5000 BR OVC008 TXM21/2723Z TNM25/2720Z
BECMG 2714/2715 2500
FM271600 VRB02MPS 0200 FG IC BKN008
FM271700 VRB02MPS 2500 BR BKN008
 
Хабаровск (Новый)
METAR UHHH 271600Z 36002MPS CAVOK M18/M20 Q1033 R23R/090060 NOSIG RMK QFE769/1025


NOWCAST.SU UHHH 271600Z VRB02MPS 9000 BR OVC110 M23/M25 Q1035 NOSIG
AUTOTAF.ME UHHH 271300Z 2714/2723 VRB02MPS CAVOK TXM20/2723Z TNM23/2714Z
BECMG 2714/2715 BKN015
FM271600 VRB02MPS 9000 BR NSC
BECMG 2717/2718 7000
BECMG 2719/2720 5000
FM272100 VRB02MPS 1200 BR OVC004
FM272200 07003MPS CAVOK
TAF UHHH 271346Z 2715/2821 VRB01MPS 5000 BR FEW012
TEMPO 2715/2723 0400 FZFG
FM280000 05003MPS 9999 SCT020
TEMPO 2801/2802 5000 BR=
Чумикан
SYNAR 31286 Чумикан 271200Z 20001MPS CAVOK M15/M21 Q1036 RMK QFE776/1035 CLD:SKC


NOWCAST.SU UHHY 271600Z VRB02MPS 9999 SKC M22/M23 Q1034 NOSIG
AUTOTAF.ME UHHY 271300Z 2714/2723 VRB02MPS 9999 BKN025 TXM20/2714Z TNM24/2720Z
BECMG 2714/2715 NSC
BECMG 2717/2718 BKN025
BECMG 2722/2723 BKN015
 
Комсомольск-н/А (Дземги)
SYNAR 31561 Комсомольск-на-Амуре 271200Z 25001MPS 9999 //// M20/M22 Q1036 RMK QFE774/1033 CLD:NO_OBSERVATIONS


NOWCAST.SU UHKD 271600Z VRB02MPS 0200 FG IC VV008 M24/M25 Q1035 NOSIG
AUTOTAF.ME UHKD 271300Z 2714/2723 VRB02MPS 0200 FG IC BKN008 TXM20/2723Z TNM24/2715Z
FM271900 VRB02MPS 1200 BR OVC008
BECMG 2721/2722 OVC004
 
Комсомольск-на-Амуре (Хурба)
SYNAR 31561 Комсомольск-на-Амуре 271200Z 25001MPS 9999 //// M20/M22 Q1036 RMK QFE774/1033 CLD:NO_OBSERVATIONS
(20/14KM)


NOWCAST.SU UHKK 271600Z VRB02MPS 0200 FG IC VV007 M24/M25 Q1035 NOSIG
AUTOTAF.ME UHKK 271300Z 2714/2723 VRB02MPS 0200 FG IC BKN008 TXM19/2723Z TNM24/2716Z
FM271900 VRB02MPS 1200 BR OVC008
BECMG 2721/2722 OVC004
 
Советская Гавань (Май-Гатка)
SYNAR 31770 Советская Гавань 271200Z 23002MPS CAVOK M13/M13 Q1036 RMK QFE774/1032 CLD:2CI
(70/21KM)


NOWCAST.SU UHKM 271600Z VRB02MPS 0200 FG IC BKN027 M18/M19 Q1032 NOSIG
AUTOTAF.ME UHKM 271300Z 2714/2723 VRB02MPS 0200 FG IC NSC TXM15/2723Z TNM19/2719Z
BECMG 2714/2715 BKN025
BECMG 2716/2717 NSC
BECMG 2717/2718 OVC025
FM272000 VRB02MPS 0200 FG IC NSC
FM272200 VRB02MPS 7000 BR NSC
 
Анадырь (Угольный)
METAR UHMA 271600Z 29009MPS 8000 -SN DRSN FEW005 BKN034 M22/M25 Q1026 R02/////// NOSIG RMK MID 30007G10MPS END R02/30006G09MPS QFE766/1021


NOWCAST.SU UHMA 271600Z 28003MPS 9999 OVC024 M26/M27 Q1027 NOSIG
RMK TURB: MOD FL110/FL120
AUTOTAF.ME UHMA 271300Z 2714/2723 30003MPS 2500 BR BKN015 TXM24/2714Z TNM27/2719Z
FM271500 29003MPS 7000 BR BKN025
BECMG 2716/2717 NSC
FM271800 VRB02MPS 9000 BR BKN025
TAF UHMA 271350Z 2715/2815 29007G12MPS 9999 SCT040
TEMPO 2715/2815 33012G17MPS 1100 -SN BR DRSN SCT003 BKN015=
Бухта Провидения
METAR UHMD 270500Z 04003MPS CAVOK M17/M22 Q1020 RMK QFE764/1019


NOWCAST.SU UHMD 271600Z VRB02MPS 4500 BR BKN017 M23/M24 Q1025 NOSIG
AUTOTAF.ME UHMD 271300Z 2714/2723 VRB02MPS 5000 BR BKN008 TXM18/2723Z TNM24/2714Z
BECMG 2714/2715 BKN015
BECMG 2716/2717 BKN025
BECMG 2719/2720 2500
FM272100 VRB02MPS 5000 BR OVC040
TAF AMD UHMD 270500Z 2703/2709 CNL=
Залив Креста
SYNAR 25378 Эгвекинот 271200Z 00000MPS 4000 -SN NSC M21/M24 Q1024 RMK QFE765/1021 CLD:8AS


NOWCAST.SU UHME 271600Z VRB02MPS 1000 BR OVC003 M21/M23 Q1025 NOSIG
AUTOTAF.ME UHME 271300Z 2714/2723 07003MPS 2500 -SN BR OVC004 TXM21/2714Z TNM22/2717Z
FM271500 VRB02MPS 1200 SN BR OVC004
BECMG 2715/2716 BR
FM271700 VRB02MPS 0500 FG IC VV004
FM272200 VRB02MPS 1200 FG IC VV015
 
Омсукчан
SYNAR 25715 Омсукчан 271200Z 23001MPS CAVOK M38/M43 Q1028 RMK QFE726/0968 CLD:SKC


NOWCAST.SU UHMF 271600Z VRB02MPS 0500 FG IC SKC M32/M35 Q1022 NOSIG
AUTOTAF.ME UHMF 271300Z 2714/2723 VRB02MPS 0500 FG IC NSC TXM26/2723Z TNM33/2714Z
 
Мыс Шмидта
 


NOWCAST.SU UHMI 271600Z VRB02MPS 0600 +SN FZFG VV014 M26/M27 Q1022 NOSIG
AUTOTAF.ME UHMI 271300Z 2714/2723 VRB02MPS 0500 +SN FZFG VV015 TXM25/2714Z TNM26/2716Z
BECMG 2716/2717 FG IC
BECMG 2718/2719 OVC025
FM272100 VRB02MPS 2500 BR OVC025
BECMG 2721/2722 9000
FM272300 VRB02MPS CAVOK
 
Кепервеем
SYNAR 25147 Билибино 271200Z 04001MPS CAVOK M43/M47 Q1027 RMK QFE744/0993 CLD:2ACCI
(30/25KM)


NOWCAST.SU UHMK 271600Z VRB02MPS 0200 FG IC BKN015 M34/M36 Q1026 NOSIG
AUTOTAF.ME UHMK 271300Z 2714/2723 VRB02MPS 0200 FG IC BKN015 TXM28/2723Z TNM35/2714Z
BECMG 2717/2718 BKN008
BECMG 2719/2720 NSC
BECMG 2722/2723 OVC025
 
Залив Лаврентия
SYNAR 25399 Уэлен 271200Z 36002MPS CAVOK M29/M32 Q1024 RMK QFE767/1023 CLD:1CI
(50/111KM)


NOWCAST.SU UHML 271600Z VRB02MPS 7000 BR BKN018 M29/M30 Q1025 NOSIG
RMK TURB: MOD FL150/FL160
AUTOTAF.ME UHML 271300Z 2714/2723 VRB02MPS 7000 BR NSC TXM25/2723Z TNM29/2716Z
BECMG 2714/2715 OVC025
BECMG 2715/2716 BKN015
BECMG 2720/2721 BKN025
FM272300 VRB02MPS 8000 BR OVC015
 
Магадан (Сокол)
METAR UHMM 271600Z 00000MPS 9999 NSC M34/M37 Q1034 RMK QFE760 R28/09004MPS


NOWCAST.SU UHMM 271600Z VRB02MPS 0500 FG IC SKC M28/M30 Q1032 NOSIG
AUTOTAF.ME UHMM 271300Z 2714/2723 VRB02MPS 0500 FG IC NSC TXM24/2723Z TNM29/2719Z
FM272200 VRB02MPS 7000 HZ NSC
TAF UHMM 271350Z 2715/2821 10003MPS 9999 NSC=
Омолон
SYNAR 25428 Омолон 271200Z 00000MPS 7000 NSC M41/M45 Q1030 RMK QFE749/0999 CLD:1CI


NOWCAST.SU UHMN 271600Z VRB02MPS 0200 FG IC VV012 M35/M37 Q1030 NOSIG
AUTOTAF.ME UHMN 271300Z 2714/2723 VRB02MPS 0200 FG IC VV015 TXM33/2723Z TNM36/2719Z
BECMG 2716/2717 NSC
FM272200 VRB02MPS 5000 BR NSC
FM272300 VRB02MPS CAVOK
 
Марково
SYNAR 25551 Марково 271200Z 26002MPS 9999 -SN NSC M26/M29 Q1028 RMK QFE768/1025 CLD:8CS


NOWCAST.SU UHMO 271600Z VRB02MPS 9999 FEW120 M31/M33 Q1030 NOSIG
RMK TURB: MOD FL20/FL30
AUTOTAF.ME UHMO 271300Z 2714/2723 VRB02MPS 9999 BKN015 TXM30/2714Z TNM33/2720Z
BECMG 2714/2715 NSC
BECMG 2719/2720 BKN015
 
Певек
SYNAR 25051 Певек 271200Z 33001MPS CAVOK M35/M38 Q1027 RMK QFE770/1026 CLD:SKC
(240/18KM)


NOWCAST.SU UHMP 271600Z 18005MPS 9999 OVC045 M30/M32 Q1026 NOSIG
AUTOTAF.ME UHMP 271300Z 2714/2723 17005MPS 9999 OVC025 TXM27/2722Z TNM31/2714Z
BECMG 2716/2717 NSC
BECMG 2719/2720 OVC015
BECMG 2720/2721 OVC040
FM272300 18006G12MPS 9999 BR OVC025
 
Беринговский
 


NOWCAST.SU UHMR 271600Z 34004MPS 8000 BR OVC012 M18/M19 Q1027 NOSIG
RMK TURB: MOD FL150/FL160
AUTOTAF.ME UHMR 271300Z 2714/2723 32003MPS 9999 OVC015 TXM17/2715Z TNM18/2714Z
FM271500 33004MPS 7000 BR OVC008
BECMG 2715/2716 OVC015
BECMG 2719/2720 BR
BECMG 2720/2721 5000
FM272200 36004MPS 2500 BR BKN015
FM272300 36005MPS 2500 HZ OVC015
 
Сеймчан
SYNAR 25703 Сеймчан 271200Z 00000MPS 9999 IC SKC M41/M45 Q1031 RMK QFE754/1005 CLD:SKC


NOWCAST.SU UHMS 271600Z VRB02MPS 0200 FG IC FEW220 M37/M39 Q1030 NOSIG
AUTOTAF.ME UHMS 271300Z 2714/2723 VRB02MPS 0200 FG IC NSC TXM36/2723Z TNM39/2720Z
FM272200 VRB02MPS 5000 BR NSC
FM272300 VRB02MPS CAVOK
 
Магадан-13
SYNAR 25913 Магадан 271200Z 00000MPS CAVOK M18/M23 Q1033 RMK QFE764/1019 CLD:SKC
(240/15KM)


NOWCAST.SU UHMT 271600Z 02003MPS 0200 FG IC SKC M23/M25 Q1036 NOSIG
AUTOTAF.ME UHMT 271300Z 2714/2723 02003MPS 0200 FG IC BKN008 TXM22/2723Z TNM24/2719Z
BECMG 2714/2715 NSC
FM272200 02003MPS 8000 BR NSC
 
Усть-Омчуг
SYNAR 24898 Усть-Омчуг 271200Z 27001MPS 9999 IC SKC M37/M41 Q1029 RMK QFE720/0960 CLD:SKC


NOWCAST.SU UHMV 271600Z VRB02MPS 0200 FG IC SKC M34/M35 Q1025 NOSIG
AUTOTAF.ME UHMV 271300Z 2714/2723 VRB02MPS CAVOK TXM30/2723Z TNM35/2719Z
FM271600 VRB02MPS 0200 FG IC NSC
FM272200 VRB02MPS 7000 BR NSC
 
Северо-Эвенск
SYNAR 25820 Эвенск 271200Z 01003MPS CAVOK M30/M33 Q1034 RMK QFE774/1032 CLD:SKC


NOWCAST.SU UHMW 271600Z 34003MPS 9999 FEW130 M29/M31 Q1033 NOSIG
AUTOTAF.ME UHMW 271300Z 2714/2723 34003MPS CAVOK TXM25/2723Z TNM29/2714Z
 
Богородское
SYNAR 31439 Богородское 271200Z 31001MPS CAVOK M18/M21 Q1037 RMK QFE774/1032 CLD:SKC


NOWCAST.SU UHNB 271600Z VRB02MPS 6000 BR SKC M22/M23 Q1033 NOSIG
AUTOTAF.ME UHNB 271300Z 2714/2723 VRB02MPS 0200 FG IC NSC TXM18/2723Z TNM23/2719Z
FM271600 VRB02MPS 5000 BR NSC
FM272100 VRB02MPS 0200 FG IC NSC
FM272200 VRB02MPS 5000 BR BKN025
BECMG 2722/2723 OVC015
 
Херпучи
SYNAR 31423 Удинск 271200Z 00000MPS CAVOK M21/M24 Q1037 RMK QFE776/1035 CLD:3CI


NOWCAST.SU UHNH 271600Z VRB02MPS 0200 FG IC VV008 M23/M24 Q1035 NOSIG
AUTOTAF.ME UHNH 271300Z 2714/2723 VRB02MPS 0200 FG IC BKN002 TXM21/2723Z TNM24/2718Z
BECMG 2715/2716 OVC008
FM272300 VRB02MPS 1200 BR OVC008
 
Николаевск-на-Амуре
SYNAR 31369 Николаевск-на-Амуре 271200Z 07002MPS CAVOK M17/M22 Q1037 RMK QFE773/1031 CLD:SKC


NOWCAST.SU UHNN 271600Z VRB02MPS 9999 BKN013 M22/M24 Q1034 NOSIG
AUTOTAF.ME UHNN 271300Z 2714/2723 VRB02MPS 0200 FG IC NSC TXM20/2723Z TNM24/2720Z
FM271500 VRB02MPS CAVOK
BECMG 2715/2716 BKN015
FM271800 VRB02MPS 5000 BR BKN015
BECMG 2719/2720 NSC
FM272100 VRB02MPS 0200 FG IC BKN008
BECMG 2721/2722 OVC002
FM272300 VRB02MPS 5000 BR BKN008
 
Ургалан
SYNAR 31152 Нелькан 271200Z 00000MPS CAVOK M27/M32 Q1036 RMK QFE747/0997 CLD:SKC
(90/99KM)


NOWCAST.SU UHNU 271600Z VRB02MPS 6000 BR OVC020 M30/M31 Q1031 NOSIG
AUTOTAF.ME UHNU 271300Z 2714/2723 VRB02MPS 5000 BR OVC015 TXM28/2714Z TNM32/2720Z
BECMG 2715/2716 OVC025
BECMG 2717/2718 NSC
BECMG 2718/2719 OVC025
FM272000 VRB02MPS 5000 BR NSC
FM272100 VRB02MPS 5000 BR OVC015
FM272200 VRB02MPS 5000 BR NSC
 
Нелькан
SYNAR 31152 Нелькан 271200Z 00000MPS CAVOK M27/M32 Q1036 RMK QFE747/0997 CLD:SKC


NOWCAST.SU UHNX 271600Z VRB02MPS 3500 BR BKN012 M32/M33 Q1035 NOSIG
AUTOTAF.ME UHNX 271300Z 2714/2723 VRB02MPS 5000 BR BKN015 TXM31/2714Z TNM33/2718Z
FM271500 VRB02MPS 0500 FG IC BKN015
FM271600 VRB02MPS 2500 BR BKN015
FM271800 VRB02MPS 0200 FG IC VV015
FM271900 VRB02MPS 2500 BR OVC015
 
Охотск
SYNAR 31088 Охотск 271200Z 34003MPS CAVOK M24/M29 Q1036 RMK QFE776/1035 CLD:2CI


NOWCAST.SU UHOO 271600Z 36003MPS 9999 SKC M29/M31 Q1036 NOSIG
AUTOTAF.ME UHOO 271300Z 2714/2723 36003MPS CAVOK TXM27/2723Z TNM30/2719Z
 
Оссора
SYNAR 32246 Оссора 271200Z 08001MPS CAVOK M27/M30 Q1034 RMK QFE774/1033 CLD:SKC


NOWCAST.SU UHPD 271600Z VRB02MPS 9999 SKC M27/M30 Q1036 NOSIG
AUTOTAF.ME UHPD 271300Z 2714/2723 VRB02MPS CAVOK TXM23/2723Z TNM27/2714Z
 
Тигиль
SYNAR 32293 Тигиль 271200Z 00000MPS 9999 SCT020 M20/M23 Q1036 RMK QFE775/1034 CLD:4SC


NOWCAST.SU UHPG 271600Z VRB02MPS 0200 FG IC VV010 M23/M24 Q1036 NOSIG
RMK TURB: MOD FL30/FL40
AUTOTAF.ME UHPG 271300Z 2714/2723 VRB02MPS 0200 FG IC VV004 TXM20/2723Z TNM25/2720Z
BECMG 2714/2715 OVC002
BECMG 2715/2716 OVC008
BECMG 2719/2720 NSC
FM272100 VRB02MPS 5000 BR NSC
FM272200 VRB02MPS 8000 BR OVC008
FM272300 VRB02MPS 9999 OVC002
 
Халактырка
SYNAR 32540 Петропавловск-Камч. 2 271200Z 01001MPS CAVOK M16/M23 Q1034 RMK QFE767/1023 CLD:2CI
(290/16KM)


NOWCAST.SU UHPH 271600Z 32003MPS 9999 BKN034 M19/M21 Q1034 NOSIG
AUTOTAF.ME UHPH 271300Z 2714/2723 31004MPS CAVOK TXM12/2723Z TNM19/2715Z
BECMG 2714/2715 BKN040
 
Палана
SYNAR 32227 Палана 271200Z 00000MPS 9999 FEW020 M30/M34 Q1036 RMK QFE775/1034 CLD:5SCCI


NOWCAST.SU UHPL 271600Z VRB02MPS 0500 FG IC SKC M21/M23 Q1035 NOSIG
AUTOTAF.ME UHPL 271300Z 2714/2723 VRB02MPS 0500 FG IC VV004 TXM18/2723Z TNM22/2720Z
BECMG 2714/2715 NSC
FM271800 VRB02MPS 1200 BR NSC
BECMG 2718/2719 2500
FM272100 VRB02MPS 5000 BR BKN025
FM272200 VRB02MPS 9999 OVC002
BECMG 2722/2723 NSC
 
Мильково
SYNAR 32496 Мильково 271200Z 20001MPS CAVOK M28/M32 Q1034 RMK QFE760/1013 CLD:SKC


NOWCAST.SU UHPM 271600Z VRB02MPS 0200 FG IC SKC M25/M27 Q1032 NOSIG
AUTOTAF.ME UHPM 271300Z 2714/2723 VRB02MPS 9999 BKN015 TXM21/2723Z TNM25/2715Z
FM271500 VRB02MPS 0200 FG IC VV015
BECMG 2715/2716 NSC
BECMG 2716/2717 BKN015
BECMG 2720/2721 NSC
FM272200 VRB02MPS 5000 BR OVC008
FM272300 VRB02MPS 5000 HZ BKN008
 
Козыревск
SYNAR 32379 Козыревск 271200Z 00000MPS CAVOK M27/M31 Q1036 RMK QFE773/1031 CLD:SKC


NOWCAST.SU UHPO 271600Z VRB02MPS 9999 SKC M24/M26 Q1034 NOSIG
AUTOTAF.ME UHPO 271300Z 2714/2723 VRB02MPS CAVOK TXM22/2723Z TNM25/2718Z
FM271700 VRB02MPS 0500 FG IC NSC
FM272200 VRB02MPS 8000 BR NSC
 
Петропавловск-Камчатский (Елизово)
METAR UHPP 271600Z 36005MPS CAVOK M20/M26 Q1033 R34L/CLRD60 NOSIG RMK QFE771/1029


NOWCAST.SU UHPP 271600Z 32003MPS 9999 BKN033 M20/M22 Q1034 NOSIG
AUTOTAF.ME UHPP 271300Z 2714/2723 31004MPS CAVOK TXM14/2723Z TNM20/2715Z
BECMG 2714/2715 BKN040
TAF UHPP 271341Z 2715/2821 34003G10MPS 9999 NSC TXM05/2805Z TNM21/2721Z
FM280100 04008G16MPS 9999 SCT007 BKN025CB
TEMPO 2803/2813 32010G23MPS
FM281300 30015G27MPS 4000 -SHSN OVC013CB
TEMPO 2813/2821 0700 +SHSN BLSN VV003=
Соболево
SYNAR 32477 Соболево 271200Z 05003MPS 9999 FEW033 M13/M19 Q1034 RMK QFE773/1031 CLD:8SCAC


NOWCAST.SU UHPS 271600Z 04004MPS 9999 FEW310 M22/M25 Q1032 NOSIG
AUTOTAF.ME UHPS 271300Z 2714/2723 05003MPS CAVOK TXM17/2723Z TNM22/2714Z
 
Тиличики
SYNAR 25950 Тиличики 271200Z 04004MPS CAVOK M22/M27 Q1031 RMK QFE764/1019 CLD:SKC


NOWCAST.SU UHPT 271600Z VRB02MPS 9999 SKC M31/M32 Q1034 NOSIG
RMK TURB: MOD SFC/FL20
AUTOTAF.ME UHPT 271300Z 2714/2723 VRB02MPS CAVOK TXM27/2723Z TNM32/2719Z
 
Усть-Хайрюзово
SYNAR 32287 Усть-Хайрюзово 271200Z 13003MPS 9999 -SHSN BKN044CB M16/M18 Q1036 RMK QFE776/1034 CLD:8CBAC


NOWCAST.SU UHPU 271600Z 15003MPS 2600 BR OVC001 M20/M21 Q1036 NOSIG
AUTOTAF.ME UHPU 271300Z 2714/2723 16003MPS 5000 BR OVC002 TXM17/2723Z TNM22/2720Z
BECMG 2714/2715 2500
BECMG 2717/2718 5000
FM272000 10003MPS 9999 OVC002
BECMG 2720/2721 BKN015
FM272200 04003MPS CAVOK
 
Авачинский
SYNAR 32547 Сосновка 271200Z 27001MPS CAVOK M18/M23 Q1034 RMK QFE771/1029 CLD:SKC
(210/11KM)


NOWCAST.SU UHQA 271600Z 32003MPS 9999 BKN034 M20/M22 Q1034 NOSIG
AUTOTAF.ME UHQA 271300Z 2714/2723 31004MPS CAVOK TXM14/2723Z TNM20/2715Z
BECMG 2714/2715 BKN040
 
Запорожье (Озерная)
SYNAR 32594 Озерная 271200Z 07003MPS 9999 BKN020 M12/M18 Q1031 RMK QFE770/1027 CLD:7SC


NOWCAST.SU UHQO 271600Z 08003MPS 9999 BKN158 M12/M15 Q1027 NOSIG
AUTOTAF.ME UHQO 271300Z 2714/2723 07003MPS 0500 FZFG NSC TXM07/2722Z TNM13/2714Z
FM271600 08003MPS CAVOK
 
Буревестник
 


NOWCAST.SU UHSB 271600Z 01016MPS 0500 SN BLSN OVC012 M04/M06 Q1016 NOSIG
RMK TURB: MOD SFC/FL20
AUTOTAF.ME UHSB 271300Z 2714/2723 02014G19MPS 0500 SN BLSN OVC008 TXM04/2714Z TNM04/2714Z
BECMG 2714/2715 OVC015
BECMG 2719/2720 BKN004 OVC010CB
BECMG 2720/2721 1200
FM272200 36016G21MPS 0500 SN BLSN BKN004 OVC010CB
FM272300 35016G21MPS 0500 SN BLSN OVC015
 
Оха (Новостройка)
SYNAR 32010 Оха 271200Z 12002MPS CAVOK M19/M21 Q1037 RMK QFE774/1032 CLD:2CI


NOWCAST.SU UHSH 271600Z VRB02MPS 0200 FG IC VV001 M22/M23 Q1037 NOSIG
AUTOTAF.ME UHSH 271300Z 2714/2723 VRB02MPS 0500 FG IC BKN004 TXM20/2723Z TNM24/2720Z
BECMG 2714/2715 BKN002
 
Итуруп
 


NOWCAST.SU UHSI 271600Z 02019G24MPS 1000 SN BLSN OVC026 M03/M06 Q1017 NOSIG
RMK TURB: MOD SFC/FL40
AUTOTAF.ME UHSI 271300Z 2714/2723 02019G24MPS 1200 SN BLSN OVC025 TXM03/2714Z TNM03/2714Z
BECMG 2717/2718 0500
BECMG 2718/2719 OVC015
BECMG 2719/2720 OVC015CB
FM272100 01019G24MPS 0200 SN BLSN BKN008 OVC010CB
 
Шахтерск
SYNAR 32098 Поронайск 271200Z 33002MPS 9999 FEW020CB M16/M17 Q1037 RMK QFE776/1035 CLD:3CBCI
(90/74KM)


NOWCAST.SU UHSK 271600Z VRB02MPS 0200 FG IC VV001 M15/M16 Q1033 NOSIG
AUTOTAF.ME UHSK 271300Z 2714/2723 VRB02MPS 0200 FZFG VV002 TXM14/2714Z TNM16/2720Z
BECMG 2715/2716 FG IC
FM271800 VRB02MPS 2500 BR BKN004
BECMG 2718/2719 1200
FM272000 VRB02MPS 0200 FG IC VV002
FM272200 VRB02MPS 1200 BR OVC004
FM272300 VRB02MPS 5000 BR OVC008
 
Южно-Курильск (Менделеево)
SYNAR 32165 Южно-Курильск 271200Z 35007MPS 9999 OVC020CB M03/M06 Q1020 RMK QFE760/1013 CLD:8CB
(50/11KM)


NOWCAST.SU UHSM 271600Z 35017G23MPS 0500 SN BLSN OVC022 M04/M07 Q1019 NOSIG
RMK TURB: MOD SFC/FL40
AUTOTAF.ME UHSM 271300Z 2714/2723 35017G23MPS 2500 SN BLSN OVC015 TXM03/2714Z TNM05/2719Z
BECMG 2714/2715 0200
BECMG 2715/2716 OVC025
BECMG 2716/2717 2500
FM272100 35016G21MPS 2500 BLSN BKN040TCU
 
Ноглики
SYNAR 32053 Ноглики 271200Z 00000MPS CAVOK M16/M17 Q1037 RMK QFE774/1032 CLD:SKC
(350/15KM)


NOWCAST.SU UHSN 271600Z VRB02MPS 0200 FG IC VV001 M20/M21 Q1036 NOSIG
AUTOTAF.ME UHSN 271300Z 2714/2723 VRB02MPS 0200 FG IC BKN002 TXM19/2723Z TNM22/2719Z
FM271700 VRB02MPS 2500 BR NSC
FM271800 VRB02MPS 0200 FG IC NSC
FM272200 VRB02MPS 5000 BR NSC
FM272300 VRB02MPS CAVOK
 
Зональное
SYNAR 32061 Александровск-Сахалинский 271200Z 12003MPS CAVOK M16/M19 Q1036 RMK QFE774/1032 CLD:SKC
(300/53KM)


NOWCAST.SU UHSO 271600Z VRB02MPS 0200 FG IC SKC M20/M22 Q1031 NOSIG
AUTOTAF.ME UHSO 271300Z 2714/2723 VRB02MPS 0200 FG IC NSC TXM19/2714Z TNM23/2720Z
FM272200 VRB02MPS 7000 BR NSC
 
Южно-Сахалинск (Хомутово)
METAR UHSS 271600Z 36009MPS 9999 DRSN NSC M14/M17 Q1031 R01/810365 NOSIG RMK QFE772/1030


NOWCAST.SU UHSS 271600Z 02004MPS 9999 SKC M16/M18 Q1029 NOSIG
AUTOTAF.ME UHSS 271300Z 2714/2723 02004MPS 9999 DRSN OVC008 TXM14/2723Z TNM17/2720Z
BECMG 2714/2715 NSC
BECMG 2718/2719 DRSN
TAF UHSS 271350Z 2715/2821 36008MPS 9999 DRSN BKN030CB=
Одопту
SYNAR 32010 Оха 271200Z 12002MPS CAVOK M19/M21 Q1037 RMK QFE774/1032 CLD:2CI
(330/45KM)


NOWCAST.SU UHSU 271600Z VRB02MPS 6000 BR SKC M19/M20 Q1037 NOSIG
AUTOTAF.ME UHSU 271300Z 2714/2723 VRB02MPS 0200 FG IC VV002 TXM18/2714Z TNM20/2719Z
FM271500 VRB02MPS 5000 BR NSC
FM271700 VRB02MPS 0200 FG IC VV002
BECMG 2720/2721 OVC004
FM272200 VRB02MPS 7000 BR NSC
 
Порт Восточный
SYNAR 31970 Находка 271200Z 00000MPS CAVOK M04/M10 Q1033 RMK QFE769/1026 CLD:SKC
(280/24KM)


NOWCAST.SU UHTK 271600Z VRB02MPS 9999 SCT022 M06/M11 Q1031 NOSIG
AUTOTAF.ME UHTK 271300Z 2714/2723 VRB02MPS CAVOK TXM05/2723Z TNM06/2714Z
BECMG 2715/2716 SCT025
BECMG 2719/2720 BKN015
BECMG 2722/2723 BKN025
 
Самарга
SYNAR 31825 Агзу 271200Z 04001MPS //// //// M09/M13 Q1033 RMK QFE759/1013 CLD:NO_OBSERVATIONS
(320/49KM)


NOWCAST.SU UHTS 271600Z VRB02MPS 0700 FZFG SKC M14/M16 Q1032 NOSIG
AUTOTAF.ME UHTS 271300Z 2714/2723 31003MPS CAVOK TXM12/2723Z TNM16/2719Z
FM271600 VRB02MPS 0500 FZFG NSC
FM271700 VRB02MPS 9999 SCT040
 
Арсеньев
SYNAR 31981 Анучино 271200Z 23001MPS CAVOK M10/M15 Q1032 RMK QFE756/1008 CLD:2CI
(230/29KM)


NOWCAST.SU UHWA 271600Z VRB02MPS 9999 OVC130 M14/M16 Q1028 NOSIG
AUTOTAF.ME UHWA 271300Z 2714/2723 VRB02MPS CAVOK TXM11/2723Z TNM14/2714Z
BECMG 2718/2719 OVC025
BECMG 2719/2720 NSC
 
Остров Русский (Аякс)
SYNAR 31960 Владивосток 271200Z 35003MPS CAVOK M05/M14 Q1031 RMK QFE756/1008 CLD:5ASCI


NOWCAST.SU UHWH 271600Z 20003MPS 9999 SCT029 M04/M09 Q1033 NOSIG
RMK TURB: MOD SFC/FL20
AUTOTAF.ME UHWH 271300Z 2714/2723 VRB02MPS CAVOK TXM03/2723Z TNM04/2714Z
BECMG 2715/2716 SCT025
BECMG 2719/2720 NSC
BECMG 2721/2722 BKN025
FM272300 20003MPS CAVOK
 
Кавалерово
SYNAR 31946 Кавалерово 271200Z 00000MPS //// //// M10/M12 Q1033 RMK QFE755/1007 CLD:NO_OBSERVATIONS


NOWCAST.SU UHWK 271600Z VRB02MPS 9999 BR SKC M15/M16 Q1028 NOSIG
AUTOTAF.ME UHWK 271300Z 2714/2723 VRB02MPS CAVOK TXM10/2723Z TNM15/2714Z
BECMG 2715/2716 BR
FM271800 VRB02MPS 7000 BR OVC015
BECMG 2718/2719 5000
FM272200 VRB02MPS 9999 OVC002
BECMG 2722/2723 BKN015
 
Озерные Ключи
SYNAR 31960 Владивосток 271200Z 35003MPS CAVOK M05/M14 Q1031 RMK QFE756/1008 CLD:5ASCI
(220/34KM)


NOWCAST.SU UHWL 271600Z VRB02MPS 9999 BKN021 M09/M12 Q1032 NOSIG
RMK TURB: MOD FL120/FL130
AUTOTAF.ME UHWL 271300Z 2714/2723 VRB02MPS CAVOK TXM06/2723Z TNM09/2714Z
BECMG 2715/2716 BKN025
BECMG 2717/2718 NSC
BECMG 2718/2719 SCT015
 
Уссурийск (Барановский)
SYNAR 31961 Тимирязевский 271200Z 03001MPS CAVOK M09/M15 Q1033 RMK QFE771/1028 CLD:6CI
(330/17KM)


NOWCAST.SU UHWU 271600Z VRB02MPS 9999 BKN020 M11/M14 Q1032 NOSIG
RMK TURB: MOD FL120/FL130
AUTOTAF.ME UHWU 271300Z 2714/2723 VRB02MPS CAVOK TXM08/2723Z TNM11/2714Z
BECMG 2715/2716 BKN025
BECMG 2717/2718 NSC
BECMG 2718/2719 SCT015
 
Владивосток (Кневичи)
METAR UHWW 271600Z 01001MPS 9999 NSC M10/M15 Q1032 R25L/0///70 NOSIG RMK QFE773


NOWCAST.SU UHWW 271600Z VRB02MPS 9999 BKN021 M09/M12 Q1032 NOSIG
RMK TURB: MOD FL120/FL130
AUTOTAF.ME UHWW 271300Z 2714/2723 VRB02MPS CAVOK TXM06/2723Z TNM09/2714Z
BECMG 2715/2716 BKN025
BECMG 2717/2718 NSC
BECMG 2718/2719 SCT015
TAF UHWW 271400Z 2715/2815 12003MPS 9999 BKN020CB
BECMG 2722/2724 18003G08MPS=
Чита (Кадала)
METAR UIAA 271600Z 23002MPS 9999 FEW050CB M19/M22 Q1027 R29/410160 NOSIG RMK QFE711/0948


NOWCAST.SU UIAA 271600Z VRB02MPS 0200 FG IC BKN012 M24/M25 Q1027 NOSIG
RMK TURB: MOD FL70/FL110
AUTOTAF.ME UIAA 271300Z 2714/2723 VRB02MPS 5000 BR BKN015 TXM21/2714Z TNM26/2719Z
FM271500 VRB02MPS 0200 FG IC BKN002
BECMG 2715/2716 BKN015
TAF UIAA 271400Z 2715/2815 27003G08MPS 9999 BKN030CB
TEMPO 2715/2803 3100 -SHSN FU OVC014CB=
Красный Чикой
SYNAR 30935 Красный Чикой 271200Z 00000MPS 9999 FEW033CB M18/M23 Q1030 RMK QFE703/0938 CLD:5CBCI


NOWCAST.SU UIAD 271600Z VRB02MPS 0500 FG IC VV002 M21/M22 Q1029 NOSIG
RMK TURB: MOD SFC/FL60
AUTOTAF.ME UIAD 271300Z 2714/2723 VRB02MPS 2500 BR NSC TXM20/2714Z TNM21/2715Z
FM271500 VRB02MPS 0500 FG IC BKN004
BECMG 2717/2718 SN FG IC
FM272000 28003MPS 1200 SN BR BKN008
FM272300 28003MPS 0500 FZFG BKN008
 
Краснокаменск
SYNAR 30975 Приаргунск 271200Z 16002MPS CAVOK M20/M22 Q1027 RMK QFE723/0964 CLD:SKC
(60/78KM)


NOWCAST.SU UIAE 271600Z VRB02MPS 9999 SKC M26/M28 Q1028 NOSIG
AUTOTAF.ME UIAE 271300Z 2714/2723 VRB02MPS CAVOK TXM24/2714Z TNM29/2719Z
BECMG 2716/2717 BR
BECMG 2719/2720 BR
FM272300 VRB02MPS 0500 FG IC NSC
 
Кыра
SYNAR 30949 Кыра 271200Z 23001MPS //// FEW033 M13/M23 Q1026 RMK QFE689/0918 CLD:3SCCI


NOWCAST.SU UIAK 271600Z VRB02MPS 9999 BKN056 M22/M23 Q1027 NOSIG
RMK TURB: MOD FL70/FL80
AUTOTAF.ME UIAK 271300Z 2714/2723 VRB02MPS 9999 BKN015 TXM19/2714Z TNM26/2722Z
BECMG 2714/2715 NSC
 
Могоча
SYNAR 30673 Могоча 271200Z 32002MPS CAVOK M18/M26 Q1019 RMK QFE708/0945 CLD:8ACCS


NOWCAST.SU UIAM 271600Z VRB02MPS 1500 BR OVC042 M20/M22 Q1028 NOSIG
AUTOTAF.ME UIAM 271300Z 2714/2723 VRB02MPS 2500 BR OVC040 TXM20/2714Z TNM21/2717Z
BECMG 2714/2715 1200
FM271800 VRB02MPS 1200 FG IC NSC
BECMG 2718/2719 0500
BECMG 2722/2723 OVC025
 
Чара
SYNAR 30372 Чара 271200Z 23001MPS CAVOK M32/M35 Q1031 RMK QFE709/0945 CLD:2CS


NOWCAST.SU UIAR 271600Z VRB02MPS 9999 FEW080 M32/M35 Q1032 NOSIG
AUTOTAF.ME UIAR 271300Z 2714/2723 VRB02MPS CAVOK TXM31/2714Z TNM34/2720Z
 
Газимурский завод
SYNAR 30777 Сретенск 271200Z 22002MPS CAVOK M16/M20 Q1029 RMK QFE724/0965 CLD:5CI
(330/89KM)


NOWCAST.SU UIAS 271600Z VRB02MPS 0200 FG IC VV011 M23/M24 Q1026 NOSIG
AUTOTAF.ME UIAS 271300Z 2714/2723 VRB02MPS 0500 FG IC VV004 TXM21/2714Z TNM27/2722Z
BECMG 2714/2715 OVC002
BECMG 2715/2716 OVC008
FM272200 VRB02MPS 1200 BR OVC008
FM272300 VRB02MPS 0500 FG IC NSC
 
Братск
METAR UIBB 271600Z AUTO 30004MPS 9999 // NCD M20/M26 Q1034 RMK QFE732/0976


NOWCAST.SU UIBB 271600Z VRB02MPS 1000 BR OVC013 M24/M25 Q1036 NOSIG
AUTOTAF.ME UIBB 271300Z 2714/2723 VRB02MPS 1200 BR BKN004 TXM22/2714Z TNM26/2718Z
FM271500 VRB02MPS 2500 BR OVC015
BECMG 2715/2716 1200
FM272000 VRB02MPS 0500 FG IC VV015
FM272100 VRB02MPS 1200 BR OVC015
TAF UIBB 271400Z 2715/2815 29002G08MPS 9999 FEW001 SCT050
BECMG 2803/2805 22005MPS=
Усть-Илимск
SYNAR 30127 Токма 271200Z 00000MPS //// NSC M21/M24 Q1033 RMK QFE734/0979 CLD:6CS
(90/184KM)


NOWCAST.SU UIBS 271600Z VRB02MPS 1000 BR BKN009 M25/M26 Q1035 NOSIG
AUTOTAF.ME UIBS 271300Z 2714/2723 VRB02MPS 1200 BR BKN008 TXM22/2723Z TNM25/2715Z
BECMG 2722/2723 BKN004
 
Железногорск-Илимский
SYNAR 30323 Усть-Кут 271200Z 00000MPS //// -SN NSC M18/M20 Q1036 RMK QFE747/0996 CLD:8CS
(70/109KM)


NOWCAST.SU UIBV 271600Z VRB02MPS 0500 FG IC VV009 M23/M24 Q1034 NOSIG
RMK TURB: MOD FL30/FL40
AUTOTAF.ME UIBV 271300Z 2714/2723 VRB02MPS 1200 BR BKN004 TXM21/2714Z TNM27/2722Z
FM271600 VRB02MPS 0500 FG IC VV008
FM271800 VRB02MPS 1200 BR OVC008
BECMG 2719/2720 NSC
 
Хилок
SYNAR 30844 Хилок 271200Z 27003MPS 9999 RESN NSC M16/M18 Q1028 RMK QFE699/0933 CLD:8AS


NOWCAST.SU UICH 271600Z VRB02MPS 1200 BR BKN009 M20/M22 Q1027 NOSIG
RMK TURB: MOD FL70/FL80
AUTOTAF.ME UICH 271300Z 2714/2723 VRB02MPS 2500 HZ OVC008 TXM19/2714Z TNM21/2718Z
BECMG 2714/2715 1200
BECMG 2715/2716 BR
BECMG 2717/2718 OVC004
FM272000 VRB02MPS 0500 FG IC VV004
FM272300 VRB02MPS 0500 FZFG VV004
 
Белая
SYNAR 30710 Иркутск 271200Z 31002MPS 9999 BKN020CB M14/M18 Q1036 RMK QFE734/0979 CLD:8CBAC
(150/87KM)


NOWCAST.SU UIIB 271600Z 30004MPS 7000 BR OVC008 M16/M18 Q1036 NOSIG
RMK TURB: MOD SFC/FL30
AUTOTAF.ME UIIB 271300Z 2714/2723 29003MPS 0500 FG IC VV004 TXM16/2714Z TNM21/2723Z
FM271500 30004MPS 1200 BLSN OVC004
FM271600 30004MPS 7000 BR OVC008
FM272200 29003MPS 1200 BR BKN002
 
Хужир
SYNAR 30637 Узур 271200Z 30002MPS //// NSC M17/M22 Q1034 RMK QFE733/0978 CLD:8CS
(60/22KM)


NOWCAST.SU UIIH 271600Z 30004MPS 9999 BKN048 M17/M21 Q1034 NOSIG
RMK TURB: MOD FL40/FL50
AUTOTAF.ME UIIH 271300Z 2714/2723 30004MPS 9999 OVC040 TXM16/2714Z TNM19/2723Z
 
Иркутск
METAR UIII 271600Z 28004MPS 9000 -SN SCT048 M15/M18 Q1035 R30/490145 NOSIG RMK QFE731/0974


NOWCAST.SU UIII 271600Z 28003MPS 0500 SN FG IC VV005 M15/M17 Q1036 NOSIG
AUTOTAF.ME UIII 271300Z 2714/2723 VRB02MPS 0500 FG IC VV004 TXM15/2715Z TNM17/2722Z
BECMG 2714/2715 SN FG IC
BECMG 2718/2719 SN BLSN
BECMG 2719/2720 OVC015
FM272100 30004MPS 0500 BLSN OVC008
FM272200 29004MPS 2500 BLSN OVC008
FM272300 29003MPS 2500 BR OVC008
TAF UIII 271400Z 2715/2815 32003MPS 5000 -SN SCT040
TEMPO 2715/2806 2000 SN BR=
Кырен
SYNAR 30806 Кырен 271200Z 22001MPS //// FEW033 M17/M23 Q1032 RMK QFE706/0942 CLD:8SCASCS


NOWCAST.SU UIIN 271600Z VRB02MPS 2300 BR SKC M22/M23 Q1027 NOSIG
AUTOTAF.ME UIIN 271300Z 2714/2723 VRB02MPS 0500 FG IC NSC TXM20/2714Z TNM24/2723Z
FM271500 VRB02MPS 1200 BR OVC040
FM271600 VRB02MPS 2500 BR NSC
BECMG 2716/2717 -SN BR
BECMG 2717/2718 SN BR
BECMG 2718/2719 1200
FM272000 VRB02MPS 1200 BR NSC
FM272100 21003MPS 2500 BR OVC025
FM272200 20003MPS 5000 BR OVC002
 
Иркутск-2 (Восточный)
SYNAR 30710 Иркутск 271200Z 31002MPS 9999 BKN020CB M14/M18 Q1036 RMK QFE734/0979 CLD:8CBAC
(140/13KM)


NOWCAST.SU UIIR 271600Z 29003MPS 1200 SN BR OVC005 M15/M17 Q1037 NOSIG
RMK TURB: MOD SFC/FL50
AUTOTAF.ME UIIR 271300Z 2714/2723 VRB02MPS 0500 SN FG IC VV004 TXM15/2714Z TNM17/2723Z
FM271600 29003MPS 1200 SN BR OVC004
FM271700 30004MPS 2500 -SN BLSN OVC004
BECMG 2717/2718 OVC008
BECMG 2718/2719 OVC004
FM272000 30004MPS 1200 BLSN OVC004
BECMG 2720/2721 0500
FM272200 30004MPS 1200 BLSN OVC004
FM272300 30004MPS 2500 BLSN OVC004
 
Качуг
SYNAR 30622 Качуг 271200Z 33001MPS //// -SN NSC M17/M20 Q1033 RMK QFE728/0970 CLD:8AS


NOWCAST.SU UIIX 271600Z VRB02MPS 1500 BR OVC032 M22/M23 Q1032 NOSIG
RMK TURB: MOD FL40/FL50
AUTOTAF.ME UIIX 271300Z 2714/2723 VRB02MPS 1200 FG IC VV008 TXM21/2714Z TNM24/2722Z
BECMG 2714/2715 BR
BECMG 2715/2716 OVC025
BECMG 2717/2718 OVC008
FM272200 VRB02MPS 1200 BR NSC
FM272300 VRB02MPS 0200 FG IC VV004
 
Бодайбо
SYNAR 30252 Мамакан 271200Z 00000MPS //// SKC M30/M33 Q1039 RMK QFE756/1008 CLD:SKC
(250/15KM)


NOWCAST.SU UIKB 271600Z VRB02MPS 9999 BKN020 M35/M37 Q1033 NOSIG
AUTOTAF.ME UIKB 271300Z 2714/2723 VRB02MPS 9999 OVC015 TXM33/2714Z TNM39/2723Z
BECMG 2714/2715 BKN025
BECMG 2716/2717 BR
BECMG 2717/2718 5000
FM271900 VRB02MPS 5000 BR NSC
 
Таксимо
SYNAR 30455 Уакит 271200Z 27001MPS //// NSC M26/M30 Q//// RMK CLD:3CI
(220/128KM)


NOWCAST.SU UIKG 271600Z VRB02MPS 9999 BR BKN085 M31/M33 Q1031 NOSIG
AUTOTAF.ME UIKG 271300Z 2714/2723 VRB02MPS CAVOK TXM30/2714Z TNM33/2720Z
BECMG 2715/2716 BR
FM271900 VRB02MPS 5000 BR NSC
BECMG 2719/2720 2500
FM272100 VRB02MPS 0500 FG IC NSC
FM272200 VRB02MPS 5000 BR NSC
FM272300 VRB02MPS CAVOK
 
Киренск
SYNAR 30230 Киренск 271200Z 00000MPS //// -SN NSC M23/M26 Q1036 RMK QFE753/1004 CLD:8ACCS


NOWCAST.SU UIKK 271600Z VRB02MPS 1000 BR OVC007 M23/M25 Q1033 NOSIG
AUTOTAF.ME UIKK 271300Z 2714/2723 VRB02MPS 1200 BR BKN004 TXM22/2714Z TNM26/2719Z
BECMG 2715/2716 OVC008
BECMG 2717/2718 NSC
BECMG 2721/2722 FG IC
 
Мама
SYNAR 30157 Мама 271200Z 00000MPS CAVOK M29/M32 Q1037 RMK QFE757/1010 CLD:SKC


NOWCAST.SU UIKM 271600Z VRB02MPS 9999 SKC M32/M33 Q1032 NOSIG
AUTOTAF.ME UIKM 271300Z 2714/2723 VRB02MPS CAVOK TXM31/2714Z TNM34/2722Z
 
Нижнеудинск
SYNAR 29698 Нижнеудинск 271200Z 29001MPS //// SKC M15/M22 Q1038 RMK QFE741/0988 CLD:SKC


NOWCAST.SU UINN 271600Z VRB02MPS 9999 BKN017 M24/M25 Q1039 NOSIG
AUTOTAF.ME UINN 271300Z 2714/2723 VRB02MPS CAVOK TXM22/2714Z TNM24/2716Z
BECMG 2715/2716 BKN015
BECMG 2717/2718 NSC
BECMG 2721/2722 OVC002
 
Казачинск
SYNAR 30337 Казачинск 271200Z 00000MPS //// -SHSN BKN020CB M21/M23 Q1035 RMK QFE743/0991 CLD:8CBCS


NOWCAST.SU UITK 271600Z VRB02MPS 1000 BR OVC003 M22/M23 Q1033 NOSIG
AUTOTAF.ME UITK 271300Z 2714/2723 VRB02MPS 1200 BR OVC004 TXM21/2714Z TNM26/2721Z
FM271800 VRB02MPS 2500 BR NSC
BECMG 2718/2719 5000
FM272100 VRB02MPS CAVOK
FM272200 VRB02MPS 1200 BR NSC
 
Усть-Кут
SYNAR 30323 Усть-Кут 271200Z 00000MPS //// -SN NSC M18/M20 Q1036 RMK QFE747/0996 CLD:8CS


NOWCAST.SU UITT 271600Z VRB02MPS 1000 BR OVC003 M21/M23 Q1033 NOSIG
AUTOTAF.ME UITT 271300Z 2714/2723 VRB02MPS 0500 FG IC VV004 TXM20/2714Z TNM28/2722Z
FM271600 VRB02MPS 1200 BR OVC004
FM271700 VRB02MPS 0500 FG IC VV004
BECMG 2717/2718 BKN015
FM272000 VRB02MPS 1200 BR BKN015
BECMG 2721/2722 2500
 
Бичура
SYNAR 30837 Мухоршибирь 271200Z 27001MPS //// -SN NSC M15/M17 Q1030 RMK QFE707/0943 CLD:8AS
(20/49KM)


NOWCAST.SU UIUA 271600Z VRB02MPS 0500 SN FG IC VV017 M18/M19 Q1031 NOSIG
RMK TURB: MOD SFC/FL110
AUTOTAF.ME UIUA 271300Z 2714/2723 VRB02MPS 0500 SN FG IC NSC TXM17/2715Z TNM19/2721Z
BECMG 2714/2715 OVC015
FM271700 VRB02MPS 0500 FG IC VV004
BECMG 2717/2718 NSC
BECMG 2719/2720 +SN FZFG
FM272200 VRB02MPS 0500 SN FG IC NSC
FM272300 VRB02MPS 0500 FG IC NSC
 
Багдарин (Куликово Поле)
SYNAR 30554 Багдарин 271200Z 36001MPS //// NSC M24/M30 Q1027 RMK QFE690/0921 CLD:7ACCI


NOWCAST.SU UIUB 271600Z VRB02MPS 9000 BR BKN018 M25/M27 Q1024 NOSIG
AUTOTAF.ME UIUB 271300Z 2714/2723 VRB02MPS 5000 BR BKN015 TXM24/2714Z TNM29/2723Z
BECMG 2715/2716 9000
BECMG 2717/2718 OVC040
BECMG 2719/2720 NSC
 
Усть-Баргузин
SYNAR 30635 Усть-Баргузин 271200Z 00000MPS //// FEW033 M21/M23 Q1033 RMK QFE733/0977 CLD:8SCACCI


NOWCAST.SU UIUI 271600Z VRB02MPS 9999 OVC013 M22/M24 Q1033 NOSIG
RMK TURB: MOD FL50/FL90
AUTOTAF.ME UIUI 271300Z 2714/2723 VRB02MPS 9999 OVC025 TXM21/2714Z TNM25/2723Z
BECMG 2714/2715 OVC015
FM271800 VRB02MPS 7000 BR OVC015
BECMG 2722/2723 OVC025
 
Нижнеангарск
SYNAR 30433 Нижнеангарск 271200Z 00000MPS //// NSC M23/M26 Q1033 RMK QFE731/0975 CLD:2CI


NOWCAST.SU UIUN 271600Z 33003MPS 9000 BR SKC M26/M28 Q1025 NOSIG
AUTOTAF.ME UIUN 271300Z 2714/2723 VRB02MPS 2500 BR OVC025 TXM25/2714Z TNM28/2720Z
FM271500 33003MPS 5000 BR NSC
BECMG 2715/2716 9000
 
Улан-Удэ (Байкал)
METAR UIUU 271600Z 28005MPS 9999 SCT034CB M16/M19 Q1032 R26/810555 NOSIG RMK MT OBSC QFE729/0973


NOWCAST.SU UIUU 271600Z 30003MPS 0500 HZ OVC012 M18/M21 Q1031 NOSIG
RMK TURB: MOD SFC/FL50
AUTOTAF.ME UIUU 271300Z 2714/2723 30003MPS 0500 HZ OVC015 TXM17/2714Z TNM20/2722Z
BECMG 2718/2719 FG IC
BECMG 2722/2723 1200
TAF UIUU 271400Z 2715/2815 29003G08MPS 3500 -SHSN SCT030CB
TEMPO 2715/2806 1900 SHSN FU BKN011CB=
Кабанск
SYNAR 30823 Улан-Удэ 271200Z 28003MPS //// -SN BKN033 M14/M18 Q1032 RMK QFE727/0970 CLD:8SCAS
(110/66KM)


NOWCAST.SU UIUX 271600Z 27004MPS 0500 +SN FZFG VV013 M16/M18 Q1034 NOSIG
RMK TURB: MOD SFC/FL40
AUTOTAF.ME UIUX 271300Z 2714/2723 28004MPS 2500 -SN HZ OVC015 TXM15/2714Z TNM17/2723Z
FM271500 27004MPS 1200 SN BR OVC015
FM271600 27004MPS 0500 +SN FZFG VV015
BECMG 2716/2717 NSC
FM272200 28003MPS 2500 -SN BR NSC
BECMG 2722/2723 7000
 
Александрия
SYNAR 33614 Светловодск 271200Z 08004MPS CAVOK 05/M04 Q1026 RMK QFE761/1015 CLD:8CI
(10/41KM)


NOWCAST.SU UKBA 271600Z 12004MPS 9999 FEW210 04/M01 Q1025 NOSIG
RMK TURB: MOD SFC/FL30
AUTOTAF.ME UKBA 271300Z 2714/2723 12004MPS CAVOK TX06/2714Z TN00/2722Z
 
Киев (Борисполь)
SYNAR 33345 Киев 271200Z 15003MPS CAVOK 08/M01 Q1024 RMK QFE753/1004 CLD:7CC
(290/24KM)


NOWCAST.SU UKBB 271600Z 15005G11MPS 9999 BKN310 04/M01 Q1024 NOSIG
AUTOTAF.ME UKBB 271300Z 2714/2723 15005MPS CAVOK TX06/2714Z TN01/2723Z
 
Белая Церковь
SYNAR 33466 Мироновка 271200Z 15003MPS CAVOK 08/M02 Q1025 RMK QFE754/1006 CLD:8CS
(100/72KM)


NOWCAST.SU UKBC 271600Z 14004MPS 9999 BKN250 06/00 Q1023 NOSIG
AUTOTAF.ME UKBC 271300Z 2714/2723 15005MPS CAVOK TX08/2714Z TN03/2720Z
 
Конотоп
SYNAR 33261 Конотоп 271200Z 13004MPS CAVOK 04/M02 Q1027 RMK QFE756/1008 CLD:7CI


NOWCAST.SU UKBF 271600Z 15004MPS 9999 OVC160 03/M02 Q1026 NOSIG
AUTOTAF.ME UKBF 271300Z 2714/2723 15004MPS CAVOK TX04/2714Z TN00/2721Z
 
Кировоград (Фёдоровка)
SYNAR 33711 Кропивницкий 271200Z 10005MPS CAVOK 08/M01 Q1024 RMK QFE752/1003 CLD:8CI
(0/17KM)


NOWCAST.SU UKBK 271600Z 13004MPS 9999 FEW190 04/M01 Q1025 NOSIG
RMK TURB: MOD SFC/FL30
AUTOTAF.ME UKBK 271300Z 2714/2723 13005G10MPS CAVOK TX07/2714Z TN00/2722Z
 
Киев (Наливайковка)
SYNAR 33345 Киев 271200Z 15003MPS CAVOK 08/M01 Q1024 RMK QFE753/1004 CLD:7CC
(100/60KM)


NOWCAST.SU UKBN 271600Z 15004MPS 9999 OVC260 06/00 Q1022 NOSIG
AUTOTAF.ME UKBN 271300Z 2714/2723 15004MPS CAVOK TX07/2714Z TN03/2721Z
 
Донецк
SYNAR 34415 Изюм 271200Z 14004MPS CAVOK 09/M07 Q1029 RMK QFE764/1019 CLD:3CS
(350/127KM)


NOWCAST.SU UKCC 271600Z 11010G17MPS 9999 FEW410 04/M07 Q1028 NOSIG
RMK TURB: MOD SFC/FL20
AUTOTAF.ME UKCC 271300Z 2714/2723 11010G16MPS CAVOK TX06/2714Z TNM01/2722Z
 
Новоайдар
SYNAR 34438 Миллерово 271200Z 10007G10MPS CAVOK 03/M07 Q1033 RMK QFE760/1014 CLD:SKC
(90/93KM)


NOWCAST.SU UKCD 271600Z 11008G16MPS 9999 SCT370 M01/M06 Q1032 NOSIG
AUTOTAF.ME UKCD 271300Z 2714/2723 11009G14MPS CAVOK TX02/2714Z TNM03/2721Z
 
Краматорск
SYNAR 34415 Изюм 271200Z 14004MPS CAVOK 09/M07 Q1029 RMK QFE764/1019 CLD:3CS
(340/58KM)


NOWCAST.SU UKCK 271600Z 12009G15MPS 9999 FEW390 03/M06 Q1029 NOSIG
RMK TURB: MOD SFC/FL20
AUTOTAF.ME UKCK 271300Z 2714/2723 12009G14MPS CAVOK TX05/2714Z TNM02/2723Z
BECMG 2722/2723 11004MPS
 
Мариуполь
SYNAR 34727 Ейск 271200Z 09008G14MPS CAVOK 10/M06 Q1023 RMK QFE767/1022 CLD:SKC
(120/69KM)


NOWCAST.SU UKCM 271600Z 08012MPS 9999 FEW420 05/M03 Q1027 NOSIG
RMK TURB: MOD FL20/FL30
AUTOTAF.ME UKCM 271300Z 2714/2723 08013G18MPS CAVOK TX06/2714Z TN01/2722Z
BECMG 2722/2723 SCT015
 
Северодонецк
SYNAR 34415 Изюм 271200Z 14004MPS CAVOK 09/M07 Q1029 RMK QFE764/1019 CLD:3CS
(290/96KM)


NOWCAST.SU UKCS 271600Z 11008G15MPS 9999 SCT380 01/M06 Q1031 NOSIG
AUTOTAF.ME UKCS 271300Z 2714/2723 11009G15MPS CAVOK TX03/2714Z TNM03/2723Z
 
Луганск
SYNAR 34535 Каменск-Шахтинский 271200Z 10007G11MPS CAVOK 03/M06 Q1033 RMK QFE769/1025 CLD:SKC
(100/70KM)


NOWCAST.SU UKCW 271600Z 10008G15MPS 9999 FEW380 M01/M05 Q1032 NOSIG
AUTOTAF.ME UKCW 271300Z 2714/2723 10009G14MPS CAVOK TX02/2714Z TNM03/2720Z
 
Енакиево
SYNAR 34720 Таганрог 271200Z 09006G11MPS CAVOK 08/M04 Q1028 RMK QFE768/1024 CLD:SKC
(150/121KM)


NOWCAST.SU UKCY 271600Z 11009G16MPS 9999 FEW410 02/M06 Q1029 NOSIG
RMK TURB: MOD SFC/FL20
AUTOTAF.ME UKCY 271300Z 2714/2723 11009G15MPS CAVOK TX05/2714Z TNM02/2723Z
 
Бердянск
SYNAR 34727 Ейск 271200Z 09008G14MPS CAVOK 10/M06 Q1023 RMK QFE767/1022 CLD:SKC
(90/115KM)


NOWCAST.SU UKDB 271600Z 09011G18MPS 9999 FEW420 05/M04 Q1027 NOSIG
RMK TURB: MOD SFC/FL20
AUTOTAF.ME UKDB 271300Z 2714/2723 09012G18MPS CAVOK TX06/2714Z TN01/2723Z
BECMG 2721/2722 SCT015
 
Днепр
SYNAR 34504 Днепропетровск 271200Z 12006MPS CAVOK 08/M04 Q1026 RMK QFE756/1008 CLD:6CI
(340/29KM)


NOWCAST.SU UKDD 271600Z 12005G12MPS 9999 BKN320 04/M04 Q1027 NOSIG
RMK TURB: MOD SFC/FL20
AUTOTAF.ME UKDD 271300Z 2714/2723 12005G12MPS CAVOK TX07/2714Z TN00/2722Z
 
Запорожье (Мокрая)
SYNAR 34504 Днепропетровск 271200Z 12006MPS CAVOK 08/M04 Q1026 RMK QFE756/1008 CLD:6CI
(340/85KM)


NOWCAST.SU UKDE 271600Z 11005G13MPS 9999 FEW390 05/M04 Q1027 NOSIG
RMK TURB: MOD SFC/FL20
AUTOTAF.ME UKDE 271300Z 2714/2723 12009G14MPS CAVOK TX07/2714Z TNM01/2723Z
BECMG 2717/2718 10004MPS
 
Мелитополь
 


NOWCAST.SU UKDM 271600Z 10009G16MPS 9999 FEW410 05/M05 Q1026 NOSIG
RMK TURB: MOD SFC/FL20
AUTOTAF.ME UKDM 271300Z 2714/2723 10010G15MPS CAVOK TX07/2714Z TN01/2723Z
 
Кривой Рог (Лозоватка)
SYNAR 33791 Кривой Рог 271200Z 09006MPS CAVOK 07/M03 Q1027 RMK QFE759/1012 CLD:6CI


NOWCAST.SU UKDR 271600Z 12004MPS 9999 BKN240 05/M02 Q1025 NOSIG
RMK TURB: MOD FL20/FL30
AUTOTAF.ME UKDR 271300Z 2714/2723 12005G10MPS CAVOK TX07/2714Z TN00/2723Z
 
Днепропетровск (Майское)
SYNAR 34504 Днепропетровск 271200Z 12006MPS CAVOK 08/M04 Q1026 RMK QFE756/1008 CLD:6CI
(280/50KM)


NOWCAST.SU UKEM 271600Z 12005G13MPS 9999 SCT340 04/M03 Q1027 NOSIG
AUTOTAF.ME UKEM 271300Z 2714/2723 12008MPS CAVOK TX06/2714Z TNM01/2722Z
 
Бахчисарай
SYNAR 33946 Симферополь 271200Z 06008MPS CAVOK 15/03 Q1020 RMK QFE749/0998 CLD:SKC
(20/34KM)


NOWCAST.SU UKFC 271600Z VRB02MPS 9999 SKC 08/03 Q1021 NOSIG
AUTOTAF.ME UKFC 271300Z 2714/2723 VRB02MPS CAVOK TX12/2714Z TN02/2723Z
 
Simferopol'
SYNAR 33946 Симферополь 271200Z 06008MPS CAVOK 15/03 Q1020 RMK QFE749/0998 CLD:SKC
(180/30KM)


NOWCAST.SU UKFF 271600Z 07005MPS 9999 FEW410 04/M01 Q1023 NOSIG
AUTOTAF.ME UKFF 271300Z 2714/2723 07007MPS CAVOK TX07/2714Z TN01/2721Z
 
 


NOSIG
 
Багерово
SYNAR 33983 Керчь 271200Z 07007G10MPS CAVOK 07/M02 Q1022 RMK QFE762/1016 CLD:SKC
(110/15KM)


NOWCAST.SU UKFR 271600Z 07008G13MPS 9999 SKC 05/02 Q1023 NOSIG
AUTOTAF.ME UKFR 271300Z 2714/2723 07007MPS CAVOK TX05/2714Z TN04/2722Z
 
Севастополь (Бухта Круглая)
SYNAR 33998 Ай-Петри 271200Z 35002MPS CAVOK 08/M09 Q//// RMK CLD:SKC
(110/52KM)


NOWCAST.SU UKFS 271600Z VRB02MPS 9999 SKC 09/06 Q1022 NOSIG
AUTOTAF.ME UKFS 271300Z 2714/2723 VRB02MPS CAVOK TX09/2714Z TN08/2722Z
 
Харьков (Северный)
SYNAR 34300 Харьков 271200Z 13005MPS CAVOK 07/M07 Q1030 RMK QFE758/1011 CLD:6CI
(240/12KM)


NOWCAST.SU UKHD 271600Z 13005G13MPS 9999 FEW200 02/M05 Q1029 NOSIG
AUTOTAF.ME UKHD 271300Z 2714/2723 13004MPS CAVOK TX03/2714Z TNM02/2723Z
 
Харьков (Основа)
SYNAR 34300 Харьков 271200Z 13005MPS CAVOK 07/M07 Q1030 RMK QFE758/1011 CLD:6CI
(290/12KM)


NOWCAST.SU UKHH 271600Z 13005G13MPS 9999 FEW200 01/M04 Q1029 NOSIG
AUTOTAF.ME UKHH 271300Z 2714/2723 13004MPS CAVOK TX03/2714Z TNM02/2722Z
 
Кременчуг (Большая Кахновка)
SYNAR 33614 Светловодск 271200Z 08004MPS CAVOK 05/M04 Q1026 RMK QFE761/1015 CLD:8CI
(240/19KM)


NOWCAST.SU UKHK 271600Z 12003MPS 9999 FEW200 04/M02 Q1026 NOSIG
AUTOTAF.ME UKHK 271300Z 2714/2723 12004MPS CAVOK TX05/2714Z TN00/2722Z
 
Полтава-национальный (Супруновка)
SYNAR 33506 Полтава 271200Z 11005MPS CAVOK 04/M04 Q1027 RMK QFE755/1007 CLD:6CI
(70/12KM)


NOWCAST.SU UKHP 271600Z 13004MPS 9999 BKN183 03/M02 Q1027 NOSIG
RMK TURB: MOD FL20/FL30
AUTOTAF.ME UKHP 271300Z 2714/2723 13004MPS CAVOK TX05/2714Z TNM01/2723Z
 
Сумы
SYNAR 33275 Сумы 271200Z 13005MPS CAVOK 03/M03 Q1028 RMK QFE754/1005 CLD:2CI


NOWCAST.SU UKHS 271600Z 14003MPS 9999 OVC182 01/M03 Q1028 NOSIG
RMK TURB: MOD SFC/FL20
AUTOTAF.ME UKHS 271300Z 2714/2723 14004MPS CAVOK TX02/2714Z TNM01/2719Z
 
Чугуев
SYNAR 34300 Харьков 271200Z 13005MPS CAVOK 07/M07 Q1030 RMK QFE758/1011 CLD:6CI
(290/39KM)


NOWCAST.SU UKHW 271600Z 13005G13MPS 9999 FEW200 01/M04 Q1029 NOSIG
AUTOTAF.ME UKHW 271300Z 2714/2723 13004MPS CAVOK TX03/2714Z TNM02/2722Z
 
Черкассы
SYNAR 33466 Мироновка 271200Z 15003MPS CAVOK 08/M02 Q1025 RMK QFE754/1006 CLD:8CS
(290/77KM)


NOWCAST.SU UKKE 271600Z 11005G10MPS 9999 BKN150 03/M01 Q1025 NOSIG
AUTOTAF.ME UKKE 271300Z 2714/2723 11005MPS CAVOK TX04/2714Z TN01/2722Z
 
Кировоград
SYNAR 33711 Кропивницкий 271200Z 10005MPS CAVOK 08/M01 Q1024 RMK QFE752/1003 CLD:8CI


NOWCAST.SU UKKG 271600Z 13004MPS 9999 FEW210 05/M02 Q1025 NOSIG
RMK TURB: MOD SFC/FL30
AUTOTAF.ME UKKG 271300Z 2714/2723 12005MPS CAVOK TX07/2714Z TN01/2722Z
 
Киев (Жуляны им. И.И.Сикорского)
SYNAR 33345 Киев 271200Z 15003MPS CAVOK 08/M01 Q1024 RMK QFE753/1004 CLD:7CC


NOWCAST.SU UKKK 271600Z 13004MPS 9999 OVC280 05/M01 Q1024 NOSIG
AUTOTAF.ME UKKK 271300Z 2714/2723 14004MPS CAVOK TX07/2714Z TN02/2722Z
 
Киев (Киев/Антонов Международный)
SYNAR 33345 Киев 271200Z 15003MPS CAVOK 08/M01 Q1024 RMK QFE753/1004 CLD:7CC
(130/35KM)


NOWCAST.SU UKKM 271600Z 14004MPS 9999 OVC280 05/00 Q1023 NOSIG
AUTOTAF.ME UKKM 271300Z 2714/2723 15004MPS CAVOK TX07/2714Z TN02/2722Z
 
Житомир (Смаковка)
SYNAR 33325 Житомир 271200Z 13003MPS CAVOK 09/M02 Q1023 RMK QFE746/0995 CLD:8CS


NOWCAST.SU UKKV 271600Z 15005G11MPS 9999 BKN230 06/00 Q1021 NOSIG
RMK TURB: MOD SFC/FL30
AUTOTAF.ME UKKV 271300Z 2714/2723 15005G10MPS CAVOK TX08/2714Z TN03/2722Z
 
Самбор (Калинов)
SYNAR 33393 Львов 271200Z 12002MPS CAVOK 17/05 Q1017 RMK QFE733/0978 CLD:5CI
(60/53KM)


NOWCAST.SU UKLA 271600Z 12004MPS 9999 FEW330 13/07 Q1016 NOSIG
AUTOTAF.ME UKLA 271300Z 2714/2723 11004MPS CAVOK TX15/2714Z TN06/2722Z
 
Ивано-Франковск
SYNAR 33526 Ивано-Франковск 271200Z 11004MPS CAVOK 13/06 Q1018 RMK QFE738/0984 CLD:5CI


NOWCAST.SU UKLI 271600Z 12004MPS 9999 SCT340 11/06 Q1017 NOSIG
AUTOTAF.ME UKLI 271300Z 2714/2723 12004MPS CAVOK TX12/2714Z TN05/2723Z
 
Львов (Международный)
SYNAR 33393 Львов 271200Z 12002MPS CAVOK 17/05 Q1017 RMK QFE733/0978 CLD:5CI


NOWCAST.SU UKLL 271600Z 15004MPS 9999 FEW350 12/06 Q1016 NOSIG
AUTOTAF.ME UKLL 271300Z 2714/2723 15003MPS CAVOK TX14/2714Z TN07/2722Z
 
Черновцы
SYNAR 33658 Черновцы 271200Z 12006MPS CAVOK 14/03 Q1019 RMK QFE742/0989 CLD:6AC
(330/14KM)


NOWCAST.SU UKLN 271600Z 13008G14MPS 9999 SCT340 10/03 Q1018 NOSIG
RMK TURB: MOD SFC/FL30
AUTOTAF.ME UKLN 271300Z 2714/2723 13009G14MPS CAVOK TX11/2714Z TN05/2723Z
BECMG 2721/2722 13004MPS
 
Ровно
SYNAR 33301 Ровно 271200Z 15005MPS CAVOK 11/01 Q1019 RMK QFE743/0991 CLD:4CI


NOWCAST.SU UKLR 271600Z 15005G13MPS 9999 BKN320 09/04 Q1018 NOSIG
AUTOTAF.ME UKLR 271300Z 2714/2723 16008MPS CAVOK TX11/2714Z TN05/2722Z
 
Староконстантинов
SYNAR 33429 Хмельницкий 271200Z 14007MPS 9999 FEW033 12/01 Q1020 RMK QFE733/0978 CLD:6SCCI
(210/41KM)


NOWCAST.SU UKLS 271600Z 15005G11MPS 9999 BKN230 08/01 Q1020 NOSIG
AUTOTAF.ME UKLS 271300Z 2714/2723 15007MPS CAVOK TX10/2714Z TN04/2721Z
 
Ужгород
SYNAR 33631 Ужгород 271200Z 14002MPS CAVOK 18/06 Q1017 RMK QFE751/1002 CLD:3ACCI


NOWCAST.SU UKLU 271600Z VRB02MPS 9999 FEW330 14/08 Q1015 NOSIG
RMK TURB: MOD FL30/FL40
AUTOTAF.ME UKLU 271300Z 2714/2723 VRB02MPS CAVOK TX16/2714Z TN10/2720Z
 
Львовский аэропорт Ягеллон
SYNAR 33393 Львов 271200Z 12002MPS CAVOK 17/05 Q1017 RMK QFE733/0978 CLD:5CI
(60/22KM)


NOWCAST.SU UKMC 271600Z 12004MPS 9999 FEW330 12/07 Q1016 NOSIG
AUTOTAF.ME UKMC 271300Z 2714/2723 11004MPS CAVOK TX14/2714Z TN07/2722Z
 
Киев (Гоголев)
SYNAR 33345 Киев 271200Z 15003MPS CAVOK 08/M01 Q1024 RMK QFE753/1004 CLD:7CC
(250/36KM)


NOWCAST.SU UKNG 271600Z 15005G11MPS 9999 BKN310 04/M01 Q1024 NOSIG
AUTOTAF.ME UKNG 271300Z 2714/2723 15005MPS CAVOK TX06/2714Z TN02/2719Z
 
Арциз (Червоноглинская)
SYNAR 33886 Чадыр-Лунга 271200Z 11003MPS 9999 SCT066 11/00 Q1034 RMK QFE759/1012 CLD:7ACCS
(300/41KM)


NOWCAST.SU UKOA 271600Z 09005MPS 9999 BKN240 07/02 Q1022 NOSIG
AUTOTAF.ME UKOA 271300Z 2714/2723 09005MPS CAVOK TX09/2714Z TN02/2722Z
FM272000 09003MPS 0500 FG VV004
 
Одесса (Гидропорт)
SYNAR 33837 Одесса 271200Z 06002MPS CAVOK 05/01 Q1023 RMK QFE763/1017 CLD:5ACCI
(160/17KM)


NOWCAST.SU UKOE 271600Z 11003MPS 9999 OVC240 06/00 Q1023 NOSIG
AUTOTAF.ME UKOE 271300Z 2714/2723 10004MPS CAVOK TX07/2714Z TN03/2721Z
 
Херсон (Чернобаевка)
SYNAR 33902 Херсон 271200Z 08003MPS CAVOK 10/01 Q1024 RMK QFE763/1017 CLD:5CI


NOWCAST.SU UKOH 271600Z 10009MPS 9999 FEW350 07/M02 Q1024 NOSIG
RMK TURB: MOD SFC/FL20
AUTOTAF.ME UKOH 271300Z 2714/2723 10009G14MPS CAVOK TX09/2714Z TN01/2723Z
BECMG 2721/2722 09004MPS
 
Николаев (Международный)
SYNAR 33902 Херсон 271200Z 08003MPS CAVOK 10/01 Q1024 RMK QFE763/1017 CLD:5CI
(130/69KM)


NOWCAST.SU UKON 271600Z 10005G12MPS 9999 OVC290 07/M01 Q1024 NOSIG
RMK TURB: MOD SFC/FL20
AUTOTAF.ME UKON 271300Z 2714/2723 10005G10MPS CAVOK TX09/2714Z TN01/2723Z
 
Одесса (Центральный)
SYNAR 33837 Одесса 271200Z 06002MPS CAVOK 05/01 Q1023 RMK QFE763/1017 CLD:5ACCI


NOWCAST.SU UKOO 271600Z 11003MPS 9999 OVC240 06/01 Q1023 NOSIG
AUTOTAF.ME UKOO 271300Z 2714/2723 10004MPS CAVOK TX07/2714Z TN03/2722Z
 
Нежин
SYNAR 33135 Чернигов 271200Z 13004MPS CAVOK 08/M01 Q1027 RMK QFE757/1010 CLD:8CS
(310/60KM)


NOWCAST.SU UKRN 271600Z 15004MPS 9999 BKN290 04/M02 Q1025 NOSIG
AUTOTAF.ME UKRN 271300Z 2714/2723 15005MPS CAVOK TX05/2714Z TN01/2721Z
 
Винница (Гавришовка)
SYNAR 33562 Винница 271200Z 15002MPS CAVOK 11/M02 Q1028 RMK QFE744/0992 CLD:6AC


NOWCAST.SU UKWW 271600Z 14005G11MPS 9999 BKN178 06/00 Q1021 NOSIG
RMK TURB: MOD SFC/FL30
AUTOTAF.ME UKWW 271300Z 2714/2723 15005MPS CAVOK TX08/2714Z TN03/2722Z
 
Архангельск (Талаги)
METAR ULAA 271600Z VRB01MPS 9999 -SNRA OVC029 01/01 Q1018 R26/690145 NOSIG RMK QFE762/1016


NOWCAST.SU ULAA 271600Z VRB02MPS 0500 FG VV005 00/00 Q1018 NOSIG
RMK TURB: MOD FL170/FL180
AUTOTAF.ME ULAA 271300Z 2714/2723 VRB02MPS 0500 FG BKN004 TX01/2714Z TNM01/2722Z
BECMG 2720/2721 OVC002
FM272200 VRB02MPS 0500 FZFG VV004
TAF ULAA 271400Z 2715/2815 20003MPS 9999 -SNRA BKN016
TEMPO 2715/2718 22003G08MPS 1000 -SNRA BR BKN004
TEMPO 2718/2803 VRB01MPS 0500 -SN FG BKN002=
Северодвинск
SYNAR 22546 Северодвинск 271200Z 21002MPS 9999 BKN010 02/00 Q1018 RMK QFE762/1016 CLD:7SCAC


NOWCAST.SU ULAD 271600Z VRB02MPS 0200 FG VV001 00/M01 Q1018 NOSIG
RMK TURB: MOD FL170/FL180
AUTOTAF.ME ULAD 271300Z 2714/2723 VRB02MPS 0500 FG VV004 TX01/2714Z TNM01/2722Z
BECMG 2714/2715 OVC002
BECMG 2716/2717 OVC004
FM272200 VRB02MPS 2500 BR BKN004
 
Мезень
SYNAR 22471 Мезень 271200Z 21003MPS 9999 RESHSN OVC032CB 01/M00 Q1016 RMK QFE760/1013 CLD:8CB


NOWCAST.SU ULAE 271600Z 22003MPS 9999 BKN020 00/M02 Q1017 NOSIG
RMK TURB: MOD FL20/FL40
AUTOTAF.ME ULAE 271300Z 2714/2723 23003MPS 9999 BKN015 TX00/2714Z TNM01/2718Z
BECMG 2714/2715 BKN025
BECMG 2717/2718 OVC015
 
Архангельск (Васьково)
SYNAR 22550 Архангельск 271200Z 23001MPS 4000 -SHSN OVC016CB 02/01 Q1017 RMK QFE762/1016 CLD:8CB
(70/16KM)


NOWCAST.SU ULAH 271600Z VRB02MPS 0200 FG VV001 00/00 Q1018 NOSIG
RMK TURB: MOD FL170/FL180
AUTOTAF.ME ULAH 271300Z 2714/2723 VRB02MPS 0500 FG BKN004 TX01/2714Z TNM01/2723Z
BECMG 2715/2716 OVC002
BECMG 2716/2717 OVC004
BECMG 2718/2719 OVC002
FM272100 VRB02MPS 0500 FG VV004
FM272300 VRB02MPS 0500 FZFG VV004
 
Лешуконское
SYNAR 22573 Лешуконское 271200Z 16003MPS 9999 OVC014CB 00/M01 Q1018 RMK QFE756/1009 CLD:8CB


NOWCAST.SU ULAL 271600Z VRB02MPS 8000 BR OVC002 00/M01 Q1018 NOSIG
AUTOTAF.ME ULAL 271300Z 2714/2723 VRB02MPS 5000 BR OVC008 TX00/2714Z TNM02/2720Z
BECMG 2714/2715 OVC004
BECMG 2716/2717 2500
FM271900 VRB02MPS 5000 BR BKN008
BECMG 2719/2720 NSC
FM272200 VRB02MPS 2500 BR NSC
FM272300 VRB02MPS 1200 BR OVC008
 
Нарьян-Мар
SYNAR 23205 Нарьян-Мар 271200Z 23005MPS 9999 OVC020 01/M02 Q1013 RMK QFE758/1011 CLD:8SC


NOWCAST.SU ULAM 271600Z 25008G14MPS 6000 BR OVC009 M02/M03 Q1014 NOSIG
AUTOTAF.ME ULAM 271300Z 2714/2723 25009G15MPS 8000 BR OVC008 TXM01/2714Z TNM04/2722Z
FM271500 25009G15MPS 2500 BLSN OVC004
FM271600 25008G14MPS 5000 BR OVC008
FM271700 25008G13MPS 2500 BLSN OVC004
FM271800 25008G13MPS 9999 OVC015
BECMG 2718/2719 NSC
BECMG 2721/2722 BKN008
BECMG 2722/2723 BKN015
 
Шенкурск
SYNAR 22768 Шенкурск 271200Z 20004MPS 9999 OVC027 00/M01 Q1021 RMK QFE761/1015 CLD:8SC


NOWCAST.SU ULAN 271600Z 20004MPS 4000 -SN BR OVC004 01/00 Q1021 NOSIG
AUTOTAF.ME ULAN 271300Z 2714/2723 20004MPS 2500 BR BKN004 TX01/2714Z TN01/2714Z
FM271500 20004MPS 5000 -SN BR BKN004
FM271800 21004MPS 0500 SN FG VV004
BECMG 2718/2719 RASN FG
FM272000 21003MPS 0500 FG VV002
BECMG 2720/2721 OVC004
BECMG 2722/2723 NSC
 
Онега
SYNAR 22641 Онега 271200Z 19001MPS 9999 -SHSN OVC015CB 01/01 Q1018 RMK QFE762/1016 CLD:8CB


NOWCAST.SU ULAO 271600Z VRB02MPS 0200 FG VV001 01/00 Q1018 NOSIG
AUTOTAF.ME ULAO 271300Z 2714/2723 VRB02MPS 0500 FG VV004 TX01/2714Z TN00/2717Z
BECMG 2715/2716 OVC002
BECMG 2718/2719 OVC008
BECMG 2719/2720 OVC004
FM272100 VRB02MPS 0200 FG VV002
 
Карпогоры
SYNAR 22671 Карпогоры 271200Z 20002MPS //// //// 00/M00 Q1019 RMK QFE758/1010 CLD:NO_OBSERVATIONS


NOWCAST.SU ULAP 271600Z VRB02MPS 0200 SN FG VV002 00/M01 Q1019 NOSIG
AUTOTAF.ME ULAP 271300Z 2714/2723 VRB02MPS 0500 SN FG VV004 TX00/2714Z TN00/2714Z
BECMG 2718/2719 OVC002
FM272000 VRB02MPS 1200 SN BR OVC002
FM272100 VRB02MPS 2500 BR OVC004
 
Каргополь
SYNAR 22845 Каргополь 271200Z 19004MPS 1000 SN BKN003 01/00 Q1020 RMK QFE753/1004 CLD:8STAS


NOWCAST.SU ULAR 271600Z 20003MPS 0500 RASN FG VV005 01/01 Q1020 NOSIG
AUTOTAF.ME ULAR 271300Z 2714/2723 20003MPS 0500 RASN FG VV004 TX01/2714Z TN00/2722Z
BECMG 2714/2715 OVC008
BECMG 2715/2716 OVC004
FM271700 20003MPS 0500 FG VV008
BECMG 2720/2721 OVC004
FM272200 VRB02MPS 0500 SN FG VV004
 
Соловки
SYNAR 22429 Соловки 271200Z 18002MPS 9999 BKN027 00/M01 Q1016 RMK QFE761/1015 CLD:8SCAC


NOWCAST.SU ULAS 271600Z 22003MPS 9999 BKN031 00/M02 Q1017 NOSIG
RMK TURB: MOD FL20/FL30
AUTOTAF.ME ULAS 271300Z 2714/2723 22003MPS 5000 BR OVC002 TX00/2714Z TNM03/2723Z
FM271600 22003MPS 9999 BKN025
FM271700 21003MPS 9000 BR BKN002
FM271800 21003MPS 9999 BKN025
FM271900 21003MPS 9000 BR NSC
FM272000 21003MPS 5000 BR OVC004
BECMG 2720/2721 NSC
FM272200 22003MPS 9000 BR OVC004
FM272300 24003MPS 9999 BKN008
 
Нижняя Пеша
SYNAR 22383 Нижняя Пеша 271200Z 23004MPS 9999 -SHSN OVC008 01/M01 Q1015 RMK QFE759/1013 CLD:8SC


NOWCAST.SU ULAV 271600Z 24004MPS 2700 -SN BLSN BKN010 M01/M02 Q1017 NOSIG
AUTOTAF.ME ULAV 271300Z 2714/2723 24005G13MPS 1200 SN BLSN NSC TX00/2714Z TNM04/2722Z
FM271500 24005G11MPS 1200 SN FZFG BKN008
FM271600 24004MPS 2500 -SN BLSN BKN008
FM271700 24004MPS 5000 BR NSC
FM271800 24004MPS 9999 OVC008
BECMG 2718/2719 NSC
FM272100 25004MPS 9000 BR BKN008
FM272200 25003MPS 9999 BKN040
BECMG 2722/2723 BKN015
 
Долгощелье
SYNAR 22365 Абрамовский маяк 271200Z 22005MPS 9999 OVC020 01/M01 Q1015 RMK QFE759/1012 CLD:8SC
(350/37KM)


NOWCAST.SU ULBD 271600Z VRB02MPS 6000 BR SKC M01/M02 Q1017 NOSIG
RMK TURB: MOD FL20/FL30
AUTOTAF.ME ULBD 271300Z 2714/2723 23003MPS 9999 BKN025 TX00/2714Z TNM01/2716Z
BECMG 2714/2715 NSC
FM271600 VRB02MPS 5000 BR NSC
BECMG 2716/2717 9000
FM271800 VRB02MPS 9999 BKN025
BECMG 2719/2720 NSC
FM272200 VRB02MPS 9999 BKN025
FM272300 VRB02MPS 9999 BKN015
 
Каменка
SYNAR 22471 Мезень 271200Z 21003MPS 9999 RESHSN OVC032CB 01/M00 Q1016 RMK QFE760/1013 CLD:8CB


NOWCAST.SU ULBK 271600Z 22003MPS 9999 BKN020 00/M02 Q1017 NOSIG
RMK TURB: MOD FL20/FL40
AUTOTAF.ME ULBK 271300Z 2714/2723 23003MPS 9999 BKN015 TX00/2714Z TNM01/2718Z
BECMG 2714/2715 BKN025
BECMG 2717/2718 OVC015
BECMG 2720/2721 BKN025
FM272200 VRB02MPS 9999 BKN015
 
Шойна
SYNAR 22271 Шойна 271200Z 26004MPS CAVOK M00/M01 Q1013 RMK QFE758/1011 CLD:8AC


NOWCAST.SU ULBO 271600Z 24004MPS 9999 BKN010 M04/M05 Q1015 NOSIG
AUTOTAF.ME ULBO 271300Z 2714/2723 24004MPS CAVOK TXM03/2714Z TNM06/2719Z
BECMG 2715/2716 BKN008
FM271700 24003MPS 1200 BR BKN004
FM271800 23003MPS 9999 BR NSC
FM271900 22003MPS 1200 BR BKN004
FM272000 22003MPS CAVOK
FM272100 22003MPS 1200 BR BKN004
FM272300 VRB02MPS 9999 BKN008
 
Верхняя Золотица
SYNAR 22446 Зимнегорский Маяк 271200Z 19004MPS 9999 OVC020 M01/M01 Q1016 RMK QFE755/1006 CLD:8SC
(230/38KM)


NOWCAST.SU ULBW 271600Z VRB02MPS 2000 BR BKN005 M01/M02 Q1017 NOSIG
RMK TURB: MOD FL40/FL50
AUTOTAF.ME ULBW 271300Z 2714/2723 VRB02MPS 2500 BR BKN004 TXM01/2714Z TNM01/2714Z
FM271800 VRB02MPS 1200 FZFG VV004
BECMG 2718/2719 0500
 
Рогачёво (Амдерма-2)
SYNAR 20744 Малые Кармакулы 271200Z 22007MPS 9999 OVC007 M01/M01 Q999 RMK QFE748/0997 CLD:8SC
(10/83KM)


NOWCAST.SU ULDA 271600Z 26003MPS 0500 SN FZFG VV001 M01/M02 Q1002 NOSIG
AUTOTAF.ME ULDA 271300Z 2714/2723 23004MPS 0500 +SN FZFG VV004 TXM01/2714Z TNM06/2723Z
FM271500 25003MPS 0200 SN FZFG VV002
FM271900 31005MPS 8000 -SN BR OVC008
FM272000 32008G13MPS 9999 -SN NSC
FM272100 33010G15MPS CAVOK
BECMG 2721/2722 BKN025
BECMG 2722/2723 32005G11MPS
 
Амдерма
SYNAR 23022 Амдерма 271200Z 24010MPS 9999 DRSN OVC033 M01/M02 Q1008 RMK QFE751/1002 CLD:8SC


NOWCAST.SU ULDD 271600Z 23010G15MPS 1800 SN BLSN OVC001 M02/M03 Q1008 NOSIG
AUTOTAF.ME ULDD 271300Z 2714/2723 23010G15MPS 5000 -SN BR NSC TXM01/2714Z TNM02/2716Z
FM271500 23010MPS 2500 SN BLSN OVC002
BECMG 2716/2717 0500
FM271900 23011G17MPS 7000 -SN BR BKN004
FM272000 24011G18MPS 9999 -SN BKN015
BECMG 2720/2721 BKN025
BECMG 2721/2722 BKN015
FM272300 25010MPS 9999 -SN DRSN BKN004
 
МР Титова
SYNAR 23112 Варандей 271200Z 21008MPS 9999 -SHRASN OVC029CB M01/M01 Q1010 RMK QFE757/1009 CLD:8CB
(340/60KM)


NOWCAST.SU ULDI 271600Z 25010G16MPS 3000 BLSN OVC005 M02/M03 Q1011 NOSIG
RMK TURB: MOD SFC/FL20
AUTOTAF.ME ULDI 271300Z 2714/2723 24010G15MPS 2500 BLSN BKN004 TXM02/2714Z TNM03/2720Z
BECMG 2714/2715 0500
BECMG 2715/2716 2500
FM271700 26010G16MPS 9999 DRSN BKN008
FM271800 26010G16MPS 0500 SN BLSN OVC004
FM271900 26010G16MPS 5000 -SN BR BKN008
FM272000 25010G17MPS 9999 DRSN NSC
BECMG 2721/2722 -SN DRSN
FM272300 25011G18MPS 5000 -SN BR OVC008
 
МЛСП Приразломная
SYNAR 23112 Варандей 271200Z 21008MPS 9999 -SHRASN OVC029CB M01/M01 Q1010 RMK QFE757/1009 CLD:8CB
(150/57KM)


NOWCAST.SU ULDP 271600Z 24012G18MPS 2000 BLSN BKN002 M02/M03 Q1008 NOSIG
RMK TURB: MOD SFC/FL20
AUTOTAF.ME ULDP 271300Z 2714/2723 23012G18MPS 2500 BLSN OVC008 TXM01/2714Z TNM02/2715Z
FM271500 24012G18MPS 0500 BLSN OVC004
BECMG 2715/2716 2500
FM271700 25011G17MPS 9999 DRSN BKN015 BKN020TCU
FM272000 25011G17MPS 7000 DRSN BKN015 BKN020TCU
FM272100 25010G17MPS 0500 SN BLSN OVC002
 
МР Требса
SYNAR 23112 Варандей 271200Z 21008MPS 9999 -SHRASN OVC029CB M01/M01 Q1010 RMK QFE757/1009 CLD:8CB
(50/17KM)


NOWCAST.SU ULDR 271600Z 24010G15MPS 7000 -SN DRSN OVC004 M01/M02 Q1011 NOSIG
RMK TURB: MOD SFC/FL20
AUTOTAF.ME ULDR 271300Z 2714/2723 23010G16MPS 1200 SN BLSN OVC004 TXM01/2714Z TNM03/2721Z
BECMG 2714/2715 0500
FM271600 24010G15MPS 7000 -SN DRSN OVC004
FM271700 25010MPS 5000 -SN BLSN BKN002
FM271800 26009G14MPS 9999 -SN BKN015
FM272000 24009G16MPS 9999 DRSN BKN008
BECMG 2720/2721 OVC004
FM272300 25011G18MPS 7000 -SN DRSN BKN004
 
Каратайка
SYNAR 23022 Амдерма 271200Z 24010MPS 9999 DRSN OVC033 M01/M02 Q1008 RMK QFE751/1002 CLD:8SC
(10/112KM)


NOWCAST.SU ULDT 271600Z 22009G15MPS 0500 SN BLSN BKN002 BKN010CB M02/M03 Q1010 NOSIG
AUTOTAF.ME ULDT 271300Z 2714/2723 22008G13MPS 0500 SN BLSN BKN008 BKN010CB TXM02/2714Z TNM02/2714Z
BECMG 2714/2715 BKN004 BKN010CB
BECMG 2716/2717 OVC002
BECMG 2718/2719 OVC004
FM272000 24009G14MPS 1200 SN BLSN OVC008
FM272100 25009G14MPS 2500 SN BLSN OVC015
FM272300 24009G15MPS 0500 SN BLSN OVC004
 
Варандей
SYNAR 23112 Варандей 271200Z 21008MPS 9999 -SHRASN OVC029CB M01/M01 Q1010 RMK QFE757/1009 CLD:8CB


NOWCAST.SU ULDW 271600Z 24010G16MPS 7000 -SN BR BKN001 M01/M02 Q1010 NOSIG
AUTOTAF.ME ULDW 271300Z 2714/2723 23010G17MPS 0500 SN BLSN OVC004 TXM01/2714Z TNM02/2720Z
FM271600 24010G16MPS 7000 -SN BR BKN002
FM271700 26010G16MPS 2500 -SN BLSN OVC002
FM271800 26010G15MPS 9999 -SN BKN015
FM272000 25010G16MPS 8000 -SN BR BKN008
FM272100 24010G16MPS 0500 SN BLSN BKN004
 
Харьягинский
SYNAR 23217 Харьяга 271200Z 26004MPS //// //// 00/M01 Q1014 RMK QFE752/1003 CLD:NO_OBSERVATIONS


NOWCAST.SU ULEG 271600Z 24005G13MPS 9999 DRSN BKN007 M02/M03 Q1014 NOSIG
RMK TURB: MOD SFC/FL20
AUTOTAF.ME ULEG 271300Z 2714/2723 24005G13MPS 9999 DRSN OVC008 TXM01/2718Z TNM03/2721Z
FM271500 24005G13MPS 9000 BR BKN025
FM271600 24005G13MPS 9999 DRSN BKN008
FM271700 25009G15MPS 5000 BR BKN008
FM271800 25009G15MPS 2500 BLSN BKN004
BECMG 2718/2719 1200
BECMG 2719/2720 2500
FM272100 25005G13MPS 5000 BR BKN004
FM272300 26009G15MPS 9999 DRSN BKN008
 
Хорей-Вер
SYNAR 23217 Харьяга 271200Z 26004MPS //// //// 00/M01 Q1014 RMK QFE752/1003 CLD:NO_OBSERVATIONS
(250/60KM)


NOWCAST.SU ULEH 271600Z 25009G14MPS 8000 BR OVC009 M02/M03 Q1013 NOSIG
RMK TURB: MOD SFC/FL20
AUTOTAF.ME ULEH 271300Z 2714/2723 24009G14MPS 7000 BR OVC008 TXM01/2714Z TNM02/2716Z
BECMG 2714/2715 DRSN
BECMG 2715/2716 BR
FM271700 25009G15MPS 2500 BLSN OVC004
BECMG 2717/2718 0500
FM271900 25009G15MPS 0500 SN BLSN BKN004
FM272000 26009G14MPS 2500 -SN BLSN OVC004
FM272100 26009G14MPS 5000 -SN DRSN BKN015
FM272200 25009G15MPS 9000 -SN DRSN BKN008
FM272300 25009G16MPS 9999 DRSN BKN015
 
Индига
SYNAR 22292 Индига 271200Z 24010MPS 9999 OVC010 M01/M02 Q1012 RMK QFE759/1012 CLD:8ST
(280/16KM)


NOWCAST.SU ULEI 271600Z 25009G14MPS 3000 BLSN OVC001 M02/M03 Q1014 NOSIG
AUTOTAF.ME ULEI 271300Z 2714/2723 26009G14MPS 8000 BR OVC004 TXM01/2714Z TNM03/2720Z
FM271500 26009G14MPS 5000 BLSN OVC002
BECMG 2715/2716 2500
FM271700 25008G13MPS 5000 DRSN OVC002
FM271800 25008G13MPS 9999 DRSN NSC
BECMG 2721/2722 DRSN
FM272300 25006MPS 5000 BR OVC008
 
Коткино
SYNAR 23205 Нарьян-Мар 271200Z 23005MPS 9999 OVC020 01/M02 Q1013 RMK QFE758/1011 CLD:8SC
(50/106KM)


NOWCAST.SU ULEK 271600Z 25008G13MPS 9999 SKC M02/M03 Q1015 NOSIG
AUTOTAF.ME ULEK 271300Z 2714/2723 25010G15MPS 9999 BKN015 TXM01/2714Z TNM03/2720Z
BECMG 2714/2715 NSC
FM271700 26005G13MPS 9999 BKN008
BECMG 2717/2718 NSC
BECMG 2718/2719 BKN002
FM272100 25007G12MPS 9999 BKN025
FM272300 26005G11MPS 9999 BKN015
 
Южное Шапкино
SYNAR 23217 Харьяга 271200Z 26004MPS //// //// 00/M01 Q1014 RMK QFE752/1003 CLD:NO_OBSERVATIONS
(90/91KM)


NOWCAST.SU ULEU 271600Z 25009G15MPS 0500 SN BLSN FEW210 M02/M03 Q1014 NOSIG
AUTOTAF.ME ULEU 271300Z 2714/2723 25009G14MPS 1200 SN BLSN BKN004 TXM01/2714Z TNM03/2722Z
FM271500 25009G15MPS 0500 SN BLSN OVC008
BECMG 2715/2716 NSC
BECMG 2716/2717 OVC004
BECMG 2718/2719 1200
FM272000 26009G15MPS 2500 BLSN OVC004
FM272100 27009G15MPS 5000 BR NSC
FM272200 27009G15MPS 9999 DRSN NSC
 
Красноборск
SYNAR 22876 Красноборск 271200Z 21003MPS 4000 -SHSN OVC018CB M01/M03 Q1023 RMK QFE762/1016 CLD:8CB


NOWCAST.SU ULKB 271600Z 21003MPS 9999 BKN005 M02/M03 Q1023 NOSIG
RMK TURB: MOD SFC/FL20
AUTOTAF.ME ULKB 271300Z 2714/2723 22003MPS 9999 BKN008 TXM01/2714Z TNM02/2715Z
BECMG 2714/2715 BKN025
BECMG 2715/2716 BKN004
FM271700 22004MPS 9999 DRSN BKN025
FM271900 22004MPS 8000 BR BKN015
FM272000 22004MPS 7000 BR OVC008
FM272100 22004MPS 1200 SN BLSN OVC004
FM272200 22003MPS 0500 SN FZFG VV004
 
Котлас
SYNAR 22887 Котлас 271200Z 15003MPS 9999 BKN022 M01/M05 Q1024 RMK QFE762/1017 CLD:8SCAC


NOWCAST.SU ULKK 271600Z 21004MPS 9000 BR BKN047 M02/M04 Q1024 NOSIG
AUTOTAF.ME ULKK 271300Z 2714/2723 21004MPS 5000 BR BKN008 TXM02/2714Z TNM02/2714Z
BECMG 2714/2715 BKN040
BECMG 2715/2716 9000
BECMG 2716/2717 DRSN
FM271800 21004MPS 9999 DRSN BKN008
FM271900 21004MPS 9999 BR BKN008
FM272000 21004MPS 5000 -SN BR OVC008
FM272100 21004MPS 2500 -SN BLSN OVC004
FM272200 21003MPS 2500 SN BR OVC002
FM272300 20003MPS 1200 SN FZFG VV004
 
Котлас (Савватия)
SYNAR 22887 Котлас 271200Z 15003MPS 9999 BKN022 M01/M05 Q1024 RMK QFE762/1017 CLD:8SCAC
(340/27KM)


NOWCAST.SU ULKS 271600Z 22004MPS 1500 BLSN OVC005 M03/M04 Q1024 NOSIG
RMK TURB: MOD SFC/FL20
AUTOTAF.ME ULKS 271300Z 2714/2723 22004MPS 1200 SN BLSN OVC004 TXM02/2720Z TNM03/2714Z
BECMG 2715/2716 BLSN
FM272000 21004MPS 2500 BLSN OVC008
FM272200 21003MPS 1200 SN BR OVC008
FM272300 21003MPS 0500 SN FZFG VV004
 
Верхняя Тойма
SYNAR 22778 Верхняя Тойма 271200Z 20003MPS 9999 OVC017 M00/M02 Q1022 RMK QFE761/1015 CLD:8SC


NOWCAST.SU ULKT 271600Z 20003MPS 2000 SN BR BKN003 00/M01 Q1022 NOSIG
AUTOTAF.ME ULKT 271300Z 2714/2723 21003MPS 2500 SN BR OVC008 TX01/2722Z TN00/2714Z
BECMG 2714/2715 OVC004
FM271700 21003MPS 0200 SN FG BKN004
FM271800 21003MPS 1200 SN BR OVC004
 
Вельск
SYNAR 22867 Вельск 271200Z 20003MPS 9999 -SHSN OVC014CB M01/M02 Q1023 RMK QFE758/1011 CLD:8CB


NOWCAST.SU ULKW 271600Z 21004MPS 9000 BR OVC005 01/M01 Q1022 NOSIG
RMK TURB: MOD SFC/FL30
AUTOTAF.ME ULKW 271300Z 2714/2723 21004MPS 9999 OVC025 TX01/2714Z TN00/2719Z
BECMG 2714/2715 OVC015
FM271600 21004MPS 9000 BR OVC004
FM271700 21004MPS 7000 BR OVC025
FM271800 21004MPS 0500 FG NSC
BECMG 2718/2719 SN FG
BECMG 2719/2720 OVC015
FM272100 19003MPS 1200 SN FG VV004
FM272200 VRB02MPS 0200 SN FG VV002
 
Санкт-Петербург (НИИ НМП)
SYNAR 26063 Санкт-Петербург 271200Z 30002MPS 9999 OVC010 02/01 Q1021 RMK QFE765/1020 CLD:8ST
(340/11KM)


NOWCAST.SU ULLE 271600Z VRB02MPS 5000 BR BKN018 01/00 Q1019 NOSIG
AUTOTAF.ME ULLE 271300Z 2714/2723 VRB02MPS 5000 BR BKN015 TX02/2714Z TN01/2715Z
BECMG 2716/2717 BKN004
BECMG 2720/2721 2500
BECMG 2721/2722 7000
FM272300 VRB02MPS 5000 BR OVC004
 
Морской Фасад
SYNAR 26063 Санкт-Петербург 271200Z 30002MPS 9999 OVC010 02/01 Q1021 RMK QFE765/1020 CLD:8ST


NOWCAST.SU ULLF 271600Z VRB02MPS 1000 BR BKN004 00/M01 Q1019 NOSIG
AUTOTAF.ME ULLF 271300Z 2714/2723 VRB02MPS 2500 BR BKN004 TX00/2714Z TN00/2714Z
BECMG 2714/2715 1200
BECMG 2716/2717 BKN008
BECMG 2717/2718 BKN004
FM272000 VRB02MPS 2500 BR OVC004
 
ГПН-5
SYNAR 26063 Санкт-Петербург 271200Z 30002MPS 9999 OVC010 02/01 Q1021 RMK QFE765/1020 CLD:8ST


NOWCAST.SU ULLG 271600Z VRB02MPS 2000 BR BKN004 01/00 Q1019 NOSIG
AUTOTAF.ME ULLG 271300Z 2714/2723 VRB02MPS 2500 BR BKN008 TX01/2714Z TN01/2714Z
BECMG 2714/2715 BKN004
FM272100 VRB02MPS 9999 OVC004
BECMG 2722/2723 BR
 
Санкт-Петербург (Пулково)
METAR ULLI 271600Z 34002MPS 9999 OVC005 01/00 Q1019 R88/290050 NOSIG RMK OBST OBSC


NOWCAST.SU ULLI 271600Z VRB02MPS 5000 BR BKN017 01/01 Q1019 NOSIG
AUTOTAF.ME ULLI 271300Z 2714/2723 VRB02MPS 9999 BKN015 TX02/2714Z TN01/2715Z
FM271500 VRB02MPS 5000 BR BKN015
FM271700 VRB02MPS 9000 BR BKN008
FM271800 VRB02MPS 5000 BR OVC004
FM272000 VRB02MPS 2500 BR OVC002
FM272100 VRB02MPS 0200 FG VV002
BECMG 2721/2722 OVC004
TAF ULLI 271355Z 2715/2815 02003MPS 3000 BR BKN006 OVC010
TEMPO 2715/2718 1000 -DZ BR OVC003
TEMPO 2718/2809 0400 -RASN FG OVC002
BECMG 2809/2811 6000 NSW BKN010=
Великий Новгород (Кречевицы)
SYNAR 26179 Великий Новгород 271200Z 17002MPS 1000 -RA OVC010 02/02 Q1020 RMK QFE762/1017 CLD:8NS
(210/14KM)


NOWCAST.SU ULLK 271600Z VRB02MPS 2000 RA BR OVC003 02/02 Q1019 NOSIG
AUTOTAF.ME ULLK 271300Z 2714/2723 VRB02MPS 1200 RA BR OVC004 TX02/2714Z TN01/2717Z
FM271500 VRB02MPS 2500 -RA BR OVC004
BECMG 2715/2716 RA BR
FM271700 VRB02MPS 0500 RA FG VV004
FM271800 VRB02MPS 2500 RA BR OVC002
BECMG 2718/2719 1200
FM272000 18003MPS 0500 RA FG VV002
BECMG 2722/2723 OVC004
 
Петродворец (Марли)
SYNAR 26064 Ломоносов 271200Z 34002MPS 9999 OVC020 02/00 Q1020 RMK QFE764/1019 CLD:8SC


NOWCAST.SU ULLN 271600Z VRB02MPS 0200 FG BKN002 00/00 Q1019 NOSIG
AUTOTAF.ME ULLN 271300Z 2714/2723 VRB02MPS 5000 BR BKN015 TX01/2714Z TN00/2716Z
FM271500 VRB02MPS 2500 BR BKN004
FM271600 VRB02MPS 0200 FG BKN004
FM271700 VRB02MPS 1200 BR BKN004
BECMG 2718/2719 BKN002
BECMG 2720/2721 BKN004
BECMG 2722/2723 2500
 
Санкт-Петербург (Хелидрайв)
SYNAR 26063 Санкт-Петербург 271200Z 30002MPS 9999 OVC010 02/01 Q1021 RMK QFE765/1020 CLD:8ST
(10/16KM)


NOWCAST.SU ULLO 271600Z VRB02MPS 5000 BR BKN018 01/00 Q1019 NOSIG
AUTOTAF.ME ULLO 271300Z 2714/2723 VRB02MPS 5000 BR BKN015 TX02/2714Z TN01/2715Z
BECMG 2716/2717 BKN004
BECMG 2720/2721 2500
BECMG 2721/2722 7000
FM272300 VRB02MPS 5000 BR OVC004
 
Пушкин
SYNAR 26063 Санкт-Петербург 271200Z 30002MPS 9999 OVC010 02/01 Q1021 RMK QFE765/1020 CLD:8ST
(360/32KM)


NOWCAST.SU ULLP 271600Z VRB02MPS 0500 DZ FG VV006 01/01 Q1018 NOSIG
AUTOTAF.ME ULLP 271300Z 2714/2723 VRB02MPS 0500 DZ FG VV008 TX02/2714Z TN01/2715Z
BECMG 2714/2715 NSC
BECMG 2715/2716 OVC008
BECMG 2716/2717 OVC004
FM272300 VRB02MPS 0200 FG VV004
 
КАД-52
SYNAR 26063 Санкт-Петербург 271200Z 30002MPS 9999 OVC010 02/01 Q1021 RMK QFE765/1020 CLD:8ST
(310/16KM)


NOWCAST.SU ULLR 271600Z VRB02MPS 5000 BR BKN018 01/01 Q1019 NOSIG
AUTOTAF.ME ULLR 271300Z 2714/2723 VRB02MPS 9999 BKN015 TX01/2714Z TN00/2717Z
FM271500 VRB02MPS 5000 BR BKN015
FM271700 VRB02MPS 2500 BR BKN004
BECMG 2717/2718 OVC002
BECMG 2719/2720 OVC004
BECMG 2722/2723 1200
 
Сиверский
SYNAR 26069 Белогорка 271200Z 18001MPS 1000 BR OVC007 03/03 Q1020 RMK QFE756/1008 CLD:8ST


NOWCAST.SU ULLS 271600Z VRB02MPS 0400 RA FG BKN003 01/01 Q1018 NOSIG
AUTOTAF.ME ULLS 271300Z 2714/2723 VRB02MPS 2500 DZ BR BKN004 TX02/2714Z TN01/2716Z
FM271500 VRB02MPS 0500 RA FG BKN004
BECMG 2716/2717 DZ FG
BECMG 2717/2718 RA FG
BECMG 2718/2719 DZ FG
 
Бычье Поле
SYNAR 26064 Ломоносов 271200Z 34002MPS 9999 OVC020 02/00 Q1020 RMK QFE764/1019 CLD:8SC
(160/11KM)


NOWCAST.SU ULLY 271600Z VRB02MPS 1000 BR BKN006 M01/M01 Q1019 NOSIG
AUTOTAF.ME ULLY 271300Z 2714/2723 VRB02MPS 0500 FZFG BKN004 TXM01/2714Z TNM01/2714Z
FM271500 VRB02MPS 1200 BR BKN008
BECMG 2716/2717 BKN002
BECMG 2717/2718 BKN004
BECMG 2719/2720 BKN002
FM272200 VRB02MPS 1200 BR BKN004
 
Яхт-клуб
SYNAR 26063 Санкт-Петербург 271200Z 30002MPS 9999 OVC010 02/01 Q1021 RMK QFE765/1020 CLD:8ST


NOWCAST.SU ULLZ 271600Z VRB02MPS 3000 BR BKN004 01/00 Q1019 NOSIG
AUTOTAF.ME ULLZ 271300Z 2714/2723 VRB02MPS 2500 BR BKN008 TX01/2714Z TN00/2718Z
BECMG 2714/2715 BKN004
 
Ковдор
SYNAR 22217 Кандалакша 271200Z 22002MPS 9999 FEW020 01/M03 Q1013 RMK QFE757/1010 CLD:8SCAC
(120/86KM)


NOWCAST.SU ULMD 271600Z 22004MPS 9999 FEW300 M02/M04 Q1012 NOSIG
RMK TURB: MOD SFC/FL30
AUTOTAF.ME ULMD 271300Z 2714/2723 22004MPS CAVOK TXM02/2714Z TNM07/2722Z
BECMG 2716/2717 BKN015
BECMG 2717/2718 BKN025
BECMG 2718/2719 NSC
FM272000 20003MPS 9999 OVC002
FM272100 VRB02MPS 9999 BKN015
 
Апатиты (Хибины)
SYNAR 22213 Апатиты 271200Z 23001MPS 9999 OVC014 M01/M04 Q1013 RMK QFE747/0996 CLD:8ST
(310/14KM)


NOWCAST.SU ULMK 271600Z VRB02MPS 9999 BKN017 M02/M04 Q1013 NOSIG
RMK TURB: MOD SFC/FL30
AUTOTAF.ME ULMK 271300Z 2714/2723 VRB02MPS 9999 BKN015 TXM02/2714Z TNM05/2723Z
BECMG 2717/2718 BKN025
BECMG 2718/2719 OVC015
 
Ловозеро
SYNAR 22127 Ловозеро 271200Z 06001MPS CAVOK M02/M07 Q1011 RMK QFE743/0991 CLD:2CI


NOWCAST.SU ULML 271600Z VRB02MPS 0200 FZFG VV006 M08/M09 Q1012 NOSIG
AUTOTAF.ME ULML 271300Z 2714/2723 VRB02MPS 0200 FZFG NSC TXM06/2714Z TNM09/2718Z
BECMG 2715/2716 OVC008
FM271800 VRB02MPS 9999 OVC008
FM271900 VRB02MPS 8000 BR OVC002
BECMG 2719/2720 2500
FM272100 VRB02MPS 0200 FZFG VV008
 
Мурманск
METAR ULMM 271600Z 20002MPS 160V230 9999 SCT017 M02/M05 Q1011 R13/690046 NOSIG RMK QFE752


NOWCAST.SU ULMM 271600Z 20003MPS 9999 FEW170 M04/M06 Q1011 NOSIG
RMK TURB: MOD SFC/FL30
AUTOTAF.ME ULMM 271300Z 2714/2723 20003MPS CAVOK TXM03/2717Z TNM04/2714Z
TAF ULMM 271354Z 2715/2815 22003G08MPS 9999 SCT016=
Мурманск (Килпъявр)
SYNAR 22113 Мурманск 271200Z 21007MPS CAVOK 01/M04 Q1010 RMK QFE753/1004 CLD:3CI
(120/29KM)


NOWCAST.SU ULMW 271600Z 21004MPS 9999 FEW180 M04/M06 Q1011 NOSIG
AUTOTAF.ME ULMW 271300Z 2714/2723 21003MPS CAVOK TXM03/2717Z TNM05/2715Z
BECMG 2716/2717 BKN015
BECMG 2718/2719 NSC
BECMG 2720/2721 BKN008
FM272300 20004MPS 9999 BKN015
 
Краснощелье
SYNAR 22235 Краснощелье 271200Z 24003MPS 9999 BKN010 00/M03 Q1012 RMK QFE745/0993 CLD:7SC


NOWCAST.SU ULMX 271600Z 23004MPS 9999 BKN012 M03/M05 Q1014 NOSIG
AUTOTAF.ME ULMX 271300Z 2714/2723 24005MPS 9999 OVC015 TXM01/2714Z TNM06/2718Z
FM271700 VRB02MPS 1200 BR OVC004
FM271800 VRB02MPS 0500 FZFG BKN004
FM271900 VRB02MPS 1200 BR BKN004
BECMG 2719/2720 2500
FM272100 21003MPS 9999 OVC015
BECMG 2721/2722 DRSN
BECMG 2722/2723 NSC
 
Валдай-Авиа
SYNAR 26298 Бологое 271200Z 15002MPS 4000 -RA OVC010 02/01 Q1022 RMK QFE749/0999 CLD:8NS
(100/48KM)


NOWCAST.SU ULNA 271600Z 17003MPS 9999 -RA BKN011 02/01 Q1020 NOSIG
RMK TURB: MOD SFC/FL30
AUTOTAF.ME ULNA 271300Z 2714/2723 16003MPS 2500 -RA BR BKN004 TX02/2714Z TN01/2717Z
FM271500 16003MPS 9999 -RA BKN015
BECMG 2715/2716 BKN008
BECMG 2716/2717 BR
BECMG 2717/2718 -RA
FM272000 19004MPS 1200 RASN BR OVC008
FM272100 20004MPS 0500 +RASN FG VV004
FM272200 20004MPS 2500 RA BR OVC008
FM272300 19003MPS 2500 -RA BR OVC004
 
Боровичи
SYNAR 26291 Боровичи 271200Z 15002MPS 9999 -RA OVC009 03/02 Q1022 RMK QFE758/1011 CLD:8NS


NOWCAST.SU ULNB 271600Z 16003MPS 2700 -RA BR OVC005 02/02 Q1020 NOSIG
RMK TURB: MOD SFC/FL20
AUTOTAF.ME ULNB 271300Z 2714/2723 16003MPS 0500 RA FG VV004 TX02/2714Z TN01/2718Z
BECMG 2714/2715 RA FG
FM271600 16003MPS 2500 -RA BR OVC004
BECMG 2716/2717 5000
FM271800 17004MPS 1200 RASN BR BKN008
FM272000 18004MPS 0500 +RASN FG VV004
BECMG 2720/2721 +SN FG
FM272300 18003MPS 1200 SN BR OVC008
 
Новгород
SYNAR 26179 Великий Новгород 271200Z 17002MPS 1000 -RA OVC010 02/02 Q1020 RMK QFE762/1017 CLD:8NS


NOWCAST.SU ULNN 271600Z VRB02MPS 0600 RA FG VV001 01/01 Q1018 NOSIG
AUTOTAF.ME ULNN 271300Z 2714/2723 15003MPS 0500 RA FG VV004 TX02/2714Z TN00/2723Z
FM271600 VRB02MPS 0500 RA FG VV002
BECMG 2716/2717 OVC004
BECMG 2717/2718 OVC002
FM272200 VRB02MPS 1200 RA BR OVC002
BECMG 2722/2723 SN BR
 
Старая Русса
SYNAR 26275 Старая Русса 271200Z 15002MPS 4000 -RA OVC009 03/03 Q1020 RMK QFE762/1017 CLD:8NS


NOWCAST.SU ULNR 271600Z 15003MPS 0200 RA FG BKN001 03/02 Q1019 NOSIG
RMK TURB: MOD FL20/FL30
AUTOTAF.ME ULNR 271300Z 2714/2723 VRB02MPS 2500 -RA BR OVC004 TX03/2714Z TN03/2714Z
FM271600 15003MPS 0200 RA FG BKN002
FM271800 17004MPS 2500 -RA BR OVC004
FM271900 17004MPS 1200 RA BR OVC004
FM272000 18004MPS 0500 RA FG VV004
BECMG 2721/2722 OVC002
 
Валдай
SYNAR 26298 Бологое 271200Z 15002MPS 4000 -RA OVC010 02/01 Q1022 RMK QFE749/0999 CLD:8NS
(110/45KM)


NOWCAST.SU ULNW 271600Z 18004MPS 9999 -RA BKN019 02/01 Q1020 NOSIG
AUTOTAF.ME ULNW 271300Z 2714/2723 17003MPS 2500 -RA BR OVC004 TX02/2714Z TN01/2717Z
FM271500 17003MPS 9999 -RA BKN015
BECMG 2716/2717 -RA BR
BECMG 2717/2718 -RASN
FM271900 19004MPS 1200 SN BR BKN015
BECMG 2719/2720 BKN025
FM272100 19004MPS 0500 +SN FG VV004
FM272200 19003MPS 1200 SN BR OVC008
FM272300 20003MPS 1200 SN BR OVC004
 
Великие Луки
SYNAR 26477 Великие Луки 271200Z 14002MPS 9999 BKN020 07/02 Q1020 RMK QFE755/1007 CLD:8SCACCI


NOWCAST.SU ULOL 271600Z 18005G13MPS 9999 BKN021 05/02 Q1019 NOSIG
RMK TURB: MOD SFC/FL20
AUTOTAF.ME ULOL 271300Z 2714/2723 18005G13MPS 9999 BKN025 TX06/2714Z TN04/2718Z
BECMG 2722/2723 BKN015
 
Псков (Кресты)
METAR ULOO 271600Z 11002MPS 6000 -RA SCT008 BKN021 OVC040 03/03 Q1018 R19/290050 NOSIG RMK QFE759


NOWCAST.SU ULOO 271600Z VRB02MPS 0200 RA FG VV004 03/03 Q1017 NOSIG
AUTOTAF.ME ULOO 271300Z 2714/2723 VRB02MPS 0500 RA FG VV004 TX03/2714Z TN02/2717Z
BECMG 2716/2717 RA FG
BECMG 2722/2723 DZ FG
TAF ULOO 271354Z 2715/2724 11003MPS 5000 -RA BR BKN005
TEMPO 2716/2718 2100 -SHRA BR BKN004 BKN016CB
BECMG 2718/2721 0300 FG VV002=
Середка
SYNAR 26258 Псков 271200Z 11001MPS 4000 -RA OVC006 04/04 Q1019 RMK QFE760/1013 CLD:8ST
(170/37KM)


NOWCAST.SU ULOR 271600Z VRB02MPS 0500 RA FG VV005 03/03 Q1017 NOSIG
AUTOTAF.ME ULOR 271300Z 2714/2723 VRB02MPS 0500 RA FG VV008 TX03/2714Z TN01/2723Z
BECMG 2714/2715 OVC004
BECMG 2716/2717 RA FG
BECMG 2717/2718 1200
FM271900 VRB02MPS 1200 RA BR OVC004
FM272100 VRB02MPS 1200 DZ BR OVC004
 
Петрозаводск (Бесовец)
METAR ULPB 271600Z AUTO 25002MPS 9999 // ///007/// 02/01 Q1019 RMK QBB230 QFE760/1014


NOWCAST.SU ULPB 271600Z VRB02MPS 0500 FG VV002 01/01 Q1018 NOSIG
AUTOTAF.ME ULPB 271300Z 2714/2723 VRB02MPS 0500 FG VV004 TX02/2714Z TN00/2718Z
BECMG 2714/2715 NSC
BECMG 2715/2716 OVC004
BECMG 2716/2717 NSC
FM271800 VRB02MPS 0500 FG VV004
FM271900 VRB02MPS 0500 FG VV002
FM272200 VRB02MPS 0200 FG VV004
TAF ULPB 271353Z 2715/2724 22003MPS 6000 OVC010
BECMG 2716/2718 3100 BR BKN005
TEMPO 2718/2724 0400 PRFG BKN002=
Кемь
SYNAR 22520 Кемь-Порт 271200Z 20002MPS 9999 BKN020 02/M01 Q1016 RMK QFE761/1014 CLD:7SC


NOWCAST.SU ULPE 271600Z VRB02MPS 9999 BKN032 00/M02 Q1017 NOSIG
RMK TURB: MOD FL20/FL40
AUTOTAF.ME ULPE 271300Z 2714/2723 VRB02MPS CAVOK TX00/2714Z TNM05/2722Z
BECMG 2714/2715 BKN025
BECMG 2717/2718 BR
BECMG 2719/2720 BKN008
FM272100 24003MPS 9999 BKN015
FM272300 24003MPS 9999 BKN008
 
Калевала
SYNAR 22408 Калевала 271200Z 21002MPS 9999 RESHSN OVC013CB 01/M01 Q1015 RMK QFE750/1000 CLD:8CB


NOWCAST.SU ULPK 271600Z VRB02MPS 1000 BR OVC003 M03/M04 Q1016 NOSIG
AUTOTAF.ME ULPK 271300Z 2714/2723 VRB02MPS 9999 BKN015 TXM02/2714Z TNM05/2722Z
FM271500 VRB02MPS 1200 BR OVC004
FM271700 VRB02MPS 9999 BKN015
FM272200 VRB02MPS 7000 BR NSC
BECMG 2722/2723 5000
 
Валаам
SYNAR 22805 Валаам Остров 271200Z 25002MPS 4000 REFG OVC010 01/01 Q1018 RMK QFE762/1016 CLD:8ST


NOWCAST.SU ULPL 271600Z VRB02MPS 6000 BR OVC001 01/M01 Q1019 NOSIG
RMK TURB: MOD SFC/FL20
AUTOTAF.ME ULPL 271300Z 2714/2723 VRB02MPS 5000 BR OVC002 TX01/2714Z TN00/2717Z
FM271500 VRB02MPS 0200 FG VV002
FM271600 VRB02MPS 5000 BR OVC002
BECMG 2716/2717 BKN015
FM271800 VRB02MPS 9000 BR NSC
BECMG 2718/2719 OVC025
BECMG 2720/2721 5000
FM272300 VRB02MPS 5000 BR OVC004
 
Костомукша
SYNAR 22408 Калевала 271200Z 21002MPS 9999 RESHSN OVC013CB 01/M01 Q1015 RMK QFE750/1000 CLD:8CB
(20/70KM)


NOWCAST.SU ULPM 271600Z VRB02MPS 9999 BKN013 M04/M06 Q1016 NOSIG
AUTOTAF.ME ULPM 271300Z 2714/2723 VRB02MPS CAVOK TXM02/2714Z TNM06/2721Z
BECMG 2714/2715 BKN015
FM271900 VRB02MPS 7000 BR BKN015
BECMG 2719/2720 5000
BECMG 2720/2721 2500
FM272200 VRB02MPS 0500 FZFG BKN015
 
Петрозаводск (Пески)
SYNAR 22820 Петрозаводск 271200Z 24002MPS 9999 OVC008 02/01 Q1018 RMK QFE753/1004 CLD:8SC


NOWCAST.SU ULPP 271600Z VRB02MPS 0500 FG FEW190 01/00 Q1019 NOSIG
AUTOTAF.ME ULPP 271300Z 2714/2723 VRB02MPS 0500 +RASN FG NSC TX02/2714Z TN00/2717Z
BECMG 2714/2715 FG
BECMG 2717/2718 OVC008
BECMG 2718/2719 OVC004
FM272300 VRB02MPS 0200 FG VV002
 
Сегежа
SYNAR 22621 Сегежа 271200Z 19002MPS 9999 ///003 01/01 Q1016 RMK QFE752/1003 CLD:


NOWCAST.SU ULPS 271600Z VRB02MPS 9999 OVC009 00/M01 Q1017 NOSIG
RMK TURB: MOD FL30/FL40
AUTOTAF.ME ULPS 271300Z 2714/2723 VRB02MPS 9999 BKN008 TX01/2714Z TNM03/2723Z
BECMG 2716/2717 BKN025
BECMG 2719/2720 BKN015
FM272200 VRB02MPS 9000 BR NSC
FM272300 VRB02MPS 7000 BR BKN008
 
Сортавала
SYNAR 22802 Сортавала 271200Z 28001MPS 9999 OVC010 02/02 Q1019 RMK QFE762/1016 CLD:8ST


NOWCAST.SU ULPW 271600Z VRB02MPS 9999 OVC025 01/M01 Q1019 NOSIG
RMK TURB: MOD SFC/FL30
AUTOTAF.ME ULPW 271300Z 2714/2723 VRB02MPS CAVOK TX01/2714Z TNM01/2720Z
BECMG 2714/2715 OVC025
FM271700 VRB02MPS 5000 BR OVC008
FM271800 VRB02MPS CAVOK
BECMG 2719/2720 BR
FM272100 VRB02MPS 7000 BR OVC025
BECMG 2721/2722 NSC
FM272300 VRB02MPS 5000 BR OVC004
 
Старая Слобода
SYNAR 22913 Лодейное Поле 271200Z 19001MPS 2000 BR OVC005CB 02/02 Q1020 RMK QFE762/1016 CLD:8CB
(120/14KM)


NOWCAST.SU ULSB 271600Z VRB02MPS 0500 FG VV003 01/01 Q1019 NOSIG
AUTOTAF.ME ULSB 271300Z 2714/2723 VRB02MPS 0500 FG VV004 TX01/2714Z TN00/2717Z
BECMG 2717/2718 OVC002
BECMG 2720/2721 OVC004
BECMG 2722/2723 OVC008
 
Сельцо
SYNAR 26061 Шепелево 271200Z 26002MPS //// //// 00/M00 Q1020 RMK QFE764/1019 CLD:NO_OBSERVATIONS
(330/30KM)


NOWCAST.SU ULSC 271600Z VRB02MPS 2800 BR BKN005 01/01 Q1018 NOSIG
AUTOTAF.ME ULSC 271300Z 2714/2723 VRB02MPS 5000 BR BKN015 TX01/2714Z TN00/2721Z
BECMG 2714/2715 BKN004
BECMG 2715/2716 2500
FM271700 VRB02MPS 0200 FG BKN004
BECMG 2718/2719 OVC008
FM272100 VRB02MPS 0200 FG VV015
 
Местаново
SYNAR 26061 Шепелево 271200Z 26002MPS //// //// 00/M00 Q1020 RMK QFE764/1019 CLD:NO_OBSERVATIONS
(0/27KM)


NOWCAST.SU ULSF 271600Z VRB02MPS 6000 BR BKN013 01/01 Q1018 NOSIG
AUTOTAF.ME ULSF 271300Z 2714/2723 VRB02MPS 5000 BR BKN008 TX01/2714Z TN00/2721Z
BECMG 2715/2716 BKN015
BECMG 2716/2717 BKN004
FM271800 VRB02MPS 0200 FG VV004
BECMG 2718/2719 OVC015
FM272100 VRB02MPS 0200 FG VV008
FM272300 VRB02MPS 0200 FG VV015
 
Гостилицы
SYNAR 26064 Ломоносов 271200Z 34002MPS 9999 OVC020 02/00 Q1020 RMK QFE764/1019 CLD:8SC
(20/23KM)


NOWCAST.SU ULSG 271600Z VRB02MPS 6000 BR BKN007 01/01 Q1018 NOSIG
AUTOTAF.ME ULSG 271300Z 2714/2723 VRB02MPS 7000 BR BKN015 TX02/2714Z TN00/2719Z
BECMG 2714/2715 BKN008
BECMG 2715/2716 5000
FM271700 VRB02MPS 0500 FG BKN004
BECMG 2718/2719 OVC008
FM272000 VRB02MPS 0200 FG NSC
 
Санкт-Петербург (Геркулес гидро)
SYNAR 26063 Санкт-Петербург 271200Z 30002MPS 9999 OVC010 02/01 Q1021 RMK QFE765/1020 CLD:8ST


NOWCAST.SU ULSH 271600Z VRB02MPS 1000 BR BKN004 00/M01 Q1019 NOSIG
AUTOTAF.ME ULSH 271300Z 2714/2723 VRB02MPS 2500 BR BKN004 TX00/2714Z TN00/2714Z
BECMG 2714/2715 1200
BECMG 2716/2717 BKN008
BECMG 2717/2718 BKN004
FM272000 VRB02MPS 2500 BR OVC004
 
Кусино
SYNAR 26080 Кириши 271200Z 20002MPS 9999 OVC010 03/03 Q1020 RMK QFE762/1017 CLD:8ST
(70/13KM)


NOWCAST.SU ULSI 271600Z VRB02MPS 0500 RA FG VV005 02/02 Q1019 NOSIG
AUTOTAF.ME ULSI 271300Z 2714/2723 VRB02MPS 0500 RA FG VV004 TX03/2714Z TN00/2721Z
BECMG 2714/2715 RA FG
BECMG 2715/2716 RA FG
BECMG 2717/2718 +RASN FG
FM272000 VRB02MPS 0500 +SN FG VV002
FM272100 VRB02MPS 0200 SN FG VV002
 
Корпикюля
SYNAR 26069 Белогорка 271200Z 18001MPS 1000 BR OVC007 03/03 Q1020 RMK QFE756/1008 CLD:8ST
(200/29KM)


NOWCAST.SU ULSK 271600Z VRB02MPS 0500 DZ FG VV005 02/02 Q1018 NOSIG
AUTOTAF.ME ULSK 271300Z 2714/2723 VRB02MPS 0500 FG VV008 TX02/2714Z TN01/2717Z
BECMG 2714/2715 NSC
FM271600 VRB02MPS 0500 DZ FG VV004
BECMG 2718/2719 OVC002
BECMG 2719/2720 RA FG
FM272100 VRB02MPS 0200 DZ FG VV004
 
Манушкино
SYNAR 26072 Шлиссельбург 271200Z 00000MPS 9999 OVC006 02/02 Q1020 RMK QFE763/1018 CLD:8ST
(60/13KM)


NOWCAST.SU ULSM 271600Z VRB02MPS 5000 BR BKN005 01/01 Q1019 NOSIG
AUTOTAF.ME ULSM 271300Z 2714/2723 VRB02MPS 9999 BKN015 TX02/2714Z TN00/2721Z
FM271500 VRB02MPS 5000 BR OVC004
FM271700 VRB02MPS 2500 BR BKN002
FM271800 VRB02MPS 0200 FG VV002
FM272000 VRB02MPS 1200 BR OVC002
FM272100 VRB02MPS 2500 BR OVC004
FM272300 VRB02MPS 1200 FG VV008
 
Аэродром Тихвин
SYNAR 26094 Тихвин 271200Z 19001MPS 6000 -RA OVC006 03/03 Q1020 RMK QFE759/1013 CLD:8NS


NOWCAST.SU ULST 271600Z VRB02MPS 0500 RA FG VV006 02/02 Q1020 NOSIG
AUTOTAF.ME ULST 271300Z 2714/2723 VRB02MPS 0500 RA FG VV008 TX03/2714Z TN00/2721Z
BECMG 2714/2715 OVC004
FM271600 VRB02MPS 0500 RA FG VV008
BECMG 2716/2717 +RASN FG
FM271800 VRB02MPS 0200 +SN FG VV004
BECMG 2718/2719 OVC002
FM272000 VRB02MPS 0200 +SN FG VV004
FM272100 VRB02MPS 0200 SN FG VV004
 
Куммолово
SYNAR 26061 Шепелево 271200Z 26002MPS //// //// 00/M00 Q1020 RMK QFE764/1019 CLD:NO_OBSERVATIONS
(40/27KM)


NOWCAST.SU ULSU 271600Z VRB02MPS 3000 BR BKN005 01/01 Q1018 NOSIG
AUTOTAF.ME ULSU 271300Z 2714/2723 VRB02MPS 5000 BR BKN008 TX02/2714Z TN01/2715Z
FM271600 VRB02MPS 2500 BR BKN004
FM271700 VRB02MPS 9999 BKN008
FM271800 VRB02MPS 7000 BR OVC008
FM271900 VRB02MPS 2500 BR OVC004
FM272100 VRB02MPS 0200 FG VV002
BECMG 2722/2723 OVC008
 
Северный ветер
SYNAR 26072 Шлиссельбург 271200Z 00000MPS 9999 OVC006 02/02 Q1020 RMK QFE763/1018 CLD:8ST
(290/29KM)


NOWCAST.SU ULSW 271600Z VRB02MPS 0200 FG BKN001 01/01 Q1019 NOSIG
AUTOTAF.ME ULSW 271300Z 2714/2723 VRB02MPS 0500 FG VV004 TX02/2714Z TN01/2716Z
BECMG 2714/2715 BKN002
BECMG 2716/2717 +RASN FG
FM271800 VRB02MPS 0500 FG VV004
BECMG 2718/2719 RASN FG
FM272100 VRB02MPS 0200 RASN FG VV002
 
ТосноСпас
SYNAR 26078 Любань 271200Z 19001MPS //// //// 03/03 Q1020 RMK QFE761/1015 CLD:NO_OBSERVATIONS
(130/29KM)


NOWCAST.SU ULSX 271600Z VRB02MPS 0200 RA FG VV002 02/02 Q1018 NOSIG
AUTOTAF.ME ULSX 271300Z 2714/2723 VRB02MPS 0200 RA FG VV004 TX02/2714Z TN01/2718Z
BECMG 2715/2716 RA FG
BECMG 2720/2721 +RASN FG
BECMG 2721/2722 RASN FG
 
Сиворицы-2
SYNAR 26069 Белогорка 271200Z 18001MPS 1000 BR OVC007 03/03 Q1020 RMK QFE756/1008 CLD:8ST
(150/17KM)


NOWCAST.SU ULSY 271600Z VRB02MPS 0200 FG BKN003 01/01 Q1018 NOSIG
AUTOTAF.ME ULSY 271300Z 2714/2723 VRB02MPS 2500 BR BKN004 TX02/2714Z TN01/2715Z
FM271500 VRB02MPS 0200 FG BKN004
BECMG 2717/2718 DZ FG
BECMG 2721/2722 FG
 
Озеро Красногвардейское
SYNAR 22897 Озерки 271200Z 27002MPS 0300 //// 00/M01 Q1021 RMK QFE764/1019 CLD:NO_OBSERVATIONS
(240/15KM)


NOWCAST.SU ULSZ 271600Z VRB02MPS 7000 BR OVC004 M01/M01 Q1019 NOSIG
RMK TURB: MOD FL20/FL30
AUTOTAF.ME ULSZ 271300Z 2714/2723 VRB02MPS 0200 FG BKN015 TX00/2714Z TNM01/2716Z
FM271500 VRB02MPS 2500 BR BKN004
BECMG 2715/2716 7000
BECMG 2716/2717 5000
BECMG 2717/2718 OVC002
FM272000 VRB02MPS 2500 BR OVC002
FM272100 VRB02MPS 0200 FZFG VV002
 
Череповец
METAR ULWC 271600Z 17005MPS 9999 -FZDZ OVC005 M00/M01 Q1023 R21/590345 NOSIG RMK QFE757/1009


NOWCAST.SU ULWC 271600Z 18004MPS 0500 SN BLSN OVC006 00/00 Q1022 NOSIG
RMK TURB: MOD SFC/FL20
AUTOTAF.ME ULWC 271300Z 2714/2723 19004MPS 0500 FG VV004 TX01/2714Z TN00/2716Z
BECMG 2714/2715 SN FG
FM271600 18004MPS 0500 SN BLSN OVC008
BECMG 2716/2717 OVC004
FM272200 19004MPS 1200 SN BLSN OVC008
BECMG 2722/2723 OVC004
TAF ULWC 271400Z 2715/2724 17003G08MPS 6000 -SN BKN007 OVC013
TEMPO 2715/2724 1000 SHSNRA -FZDZ BR BKN003 BKN013CB=
Великий Устюг
SYNAR 22981 Великий Устюг 271200Z 21004MPS 9999 OVC031 M02/M06 Q1024 RMK QFE758/1011 CLD:8SC


NOWCAST.SU ULWU 271600Z 21004MPS 7000 BR BKN004 M03/M04 Q1024 NOSIG
AUTOTAF.ME ULWU 271300Z 2714/2723 21004MPS 2500 -SN BLSN BKN008 TXM02/2714Z TNM03/2715Z
FM271500 21004MPS 5000 -SN BLSN BKN004
BECMG 2715/2716 BR
BECMG 2717/2718 9000
BECMG 2718/2719 BKN008
FM272000 21004MPS 5000 BR OVC008
FM272100 21004MPS 2500 BLSN OVC008
FM272200 21003MPS 2500 SN BR OVC008
FM272300 20003MPS 1200 SN FZFG VV008
 
Вологда
SYNAR 27037 Вологда 271200Z 18004MPS 9999 BKN040 M01/M05 Q1025 RMK QFE757/1009 CLD:8SCAC


NOWCAST.SU ULWW 271600Z 19004MPS 0500 SN BLSN OVC002 00/M01 Q1024 NOSIG
AUTOTAF.ME ULWW 271300Z 2714/2723 19004MPS 9000 BR BKN008 TX00/2714Z TNM00/2714Z
FM271500 19004MPS 0500 BLSN OVC004
BECMG 2715/2716 SN BLSN
BECMG 2717/2718 1200
BECMG 2720/2721 OVC008
FM272200 18004MPS 2500 SN BLSN BKN008
FM272300 18004MPS 9999 -SN BKN008
 
Брест
METAR UMBB 271300Z 14002MPS 7000 NSC 16/07 Q1015 NOSIG


NOWCAST.SU UMBB 271600Z 15004MPS 9999 BKN070 12/08 Q1016 NOSIG
AUTOTAF.ME UMBB 271300Z 2714/2723 16005MPS CAVOK TX13/2714Z TN08/2722Z
FM272200 16003MPS 5000 BR NSC
FM272300 16003MPS CAVOK
TAF UMBB 271338Z 2712/2721 CNL=
 


NOSIG
 
Лида
SYNAR 26832 Лида 271200Z 18003MPS CAVOK 12/07 Q1016 RMK QFE748/0997 CLD:6AC


NOWCAST.SU UMDD 271600Z 17003MPS 9999 BKN030 09/07 Q1017 NOSIG
AUTOTAF.ME UMDD 271300Z 2714/2723 18003MPS 9999 BKN040TCU TX10/2714Z TN06/2723Z
FM271700 16003MPS 0500 FG BKN004
FM271800 16004MPS 9999 SCT025
BECMG 2719/2720 NSC
 
Гомель
METAR UMGG 271600Z 14006MPS CAVOK 05/M00 Q1024 NOSIG


NOWCAST.SU UMGG 271600Z 16004MPS 9999 BKN320 04/M01 Q1024 NOSIG
AUTOTAF.ME UMGG 271300Z 2714/2723 16005G12MPS CAVOK TX06/2714Z TN01/2722Z
TAF UMGG 271101Z 2712/2812 14007MPS 9999 SCT030
TEMPO 2712/2717 16006G11MPS
TEMPO 2717/2806 17005MPS 3000 BR BKN010
TEMPO 2806/2812 17007MPS SCT012 FEW020CB=
Витебск (Восточный)
METAR UMII 271300Z 17006G09MPS CAVOK 07/00 Q1019 NOSIG


NOWCAST.SU UMII 271600Z 17005G13MPS 9999 BKN059 04/01 Q1021 NOSIG
AUTOTAF.ME UMII 271300Z 2714/2723 17005G13MPS 9999 SCT040TCU TX06/2714Z TN02/2720Z
BECMG 2714/2715 NSC
TAF UMII 271335Z 2712/2721 CNL=
Орша
METAR UMIO 271600Z 18006G09MPS CAVOK 06/M02 Q1020 NOSIG RMK QFE747/0997


NOWCAST.SU UMIO 271600Z 17007G14MPS 9999 BKN059 04/00 Q1021 NOSIG
AUTOTAF.ME UMIO 271300Z 2714/2723 17008G14MPS CAVOK TX06/2714Z TN01/2722Z
TAF UMIO 271402Z 2712/2721 CNL=
Калининград (Храброво)
METAR UMKK 271600Z 02003MPS 0200 R24/0200N FG VV002 06/06 Q1015 R24/290095 NOSIG RMK QBB060 OBST OBSC QFE760/1014


NOWCAST.SU UMKK 271600Z 06004MPS 9999 OVC010 05/05 Q1015 NOSIG
AUTOTAF.ME UMKK 271300Z 2714/2723 06004MPS 9999 -RA OVC008 TX05/2714Z TN04/2718Z
BECMG 2716/2717 BR
FM271800 06004MPS 2500 BR BKN004
FM271900 06004MPS 0200 FG BKN002
BECMG 2720/2721 BKN004
TAF UMKK 271357Z 2715/2815 VRB01MPS 0300 FG VV001
TEMPO 2715/2809 0800 -DZ FG OVC002
BECMG 2806/2808 34003G10MPS
BECMG 2809/2811 2100 -SHRA BR BKN003 OVC013CB=
МЛСП Д-6
SYNAR 26603 Нида 271200Z 01006MPS 3900 -SHRA OVC002CB 06/06 Q1015 RMK QFE761/1014 CLD:8CB
(80/23KM)


NOWCAST.SU UMKM 271600Z 07003MPS 1000 BR OVC003 05/04 Q1015 NOSIG
AUTOTAF.ME UMKM 271300Z 2714/2723 05004MPS 9999 -RA BKN040 TX05/2714Z TN05/2714Z
FM271500 06003MPS 1200 BR BKN004
FM271700 08004MPS 9999 OVC040
BECMG 2717/2718 BKN008
 
Минск (Мачулищи)
SYNAR 26850 Минск 271200Z 17004MPS CAVOK 11/03 Q1018 RMK QFE742/0990 CLD:2CI
(20/22KM)


NOWCAST.SU UMLI 271600Z 17007G14MPS 9999 FEW190 07/03 Q1018 NOSIG
AUTOTAF.ME UMLI 271300Z 2714/2723 17008G13MPS CAVOK TX08/2714Z TN03/2723Z
 
Барановичи
SYNAR 26941 Барановичи 271200Z 15004MPS CAVOK 11/05 Q1017 RMK QFE745/0994 CLD:6CS


NOWCAST.SU UMMA 271600Z 17005G13MPS 9999 FEW190 09/05 Q1017 NOSIG
AUTOTAF.ME UMMA 271300Z 2714/2723 17006G11MPS CAVOK TX10/2714Z TN05/2722Z
BECMG 2721/2722 OVC002
 
Гродно (Обухово)
METAR UMMG 271500Z 15003MPS CAVOK 11/07 Q1015 NOSIG


NOWCAST.SU UMMG 271600Z 16003MPS 9999 BKN030 11/08 Q1015 NOSIG
AUTOTAF.ME UMMG 271300Z 2714/2723 17004MPS 9999 SCT040TCU TX12/2714Z TN08/2722Z
BECMG 2717/2718 NSC
FM272000 16003MPS 0500 FG BKN004
FM272200 17004MPS 9999 BKN025
TAF UMMG 271514Z 2715/2724 CNL=
Минск (Липки)
SYNAR 26850 Минск 271200Z 17004MPS CAVOK 11/03 Q1018 RMK QFE742/0990 CLD:2CI


NOWCAST.SU UMMI 271600Z 17007G14MPS 9999 FEW190 07/03 Q1018 NOSIG
AUTOTAF.ME UMMI 271300Z 2714/2723 17008G13MPS CAVOK TX08/2714Z TN03/2723Z
BECMG 2717/2718 BR
 
Поставы (Озерки)
SYNAR 26645 Лынтупы 271200Z 20002MPS 9999 BKN018 07/05 Q1016 RMK QFE743/0991 CLD:7SC
(250/35KM)


NOWCAST.SU UMMK 271600Z 19005G13MPS 9999 VCSH BKN028CB 08/05 Q1017 NOSIG
AUTOTAF.ME UMMK 271300Z 2714/2723 19005G13MPS 9999 VCSH OVC025CB TX09/2714Z TN06/2720Z
BECMG 2714/2715 -SHRA
BECMG 2715/2716 VCSH
 
Минск-1
SYNAR 26850 Минск 271200Z 17004MPS CAVOK 11/03 Q1018 RMK QFE742/0990 CLD:2CI
(40/15KM)


NOWCAST.SU UMMM 271600Z 17007G14MPS 9999 FEW190 07/03 Q1018 NOSIG
AUTOTAF.ME UMMM 271300Z 2714/2723 17008G13MPS CAVOK TX08/2714Z TN04/2721Z
 
Минск-2
METAR UMMS 271600Z 15005MPS CAVOK 08/02 Q1018 NOSIG


NOWCAST.SU UMMS 271600Z 17007G14MPS 9999 SCT060 06/03 Q1019 NOSIG
RMK TURB: MOD FL70/FL80
AUTOTAF.ME UMMS 271300Z 2714/2723 17008G13MPS CAVOK TX08/2714Z TN03/2722Z
TAF UMMS 271103Z 2712/2812 16005G10MPS CAVOK
TEMPO 2718/2806 3000 BCFG BR FEW002=
Бобруйск (Носовка)
SYNAR 26961 Бобруйск 271200Z 15004MPS CAVOK 09/00 Q1021 RMK QFE751/1002 CLD:SKC
(340/13KM)


NOWCAST.SU UMNB 271600Z 16005G13MPS 9999 BKN320 06/01 Q1021 NOSIG
RMK TURB: MOD SFC/FL20
AUTOTAF.ME UMNB 271300Z 2714/2723 16005G13MPS CAVOK TX07/2714Z TN02/2723Z
 
Гродно (Каролино)
SYNAR 26737 Варена 271200Z 13004G08MPS 9999 BKN013 09/07 Q1016 RMK QFE752/1002 CLD:7SC
(40/87KM)


NOWCAST.SU UMNG 271600Z 16003MPS 9999 BKN025 11/08 Q1015 NOSIG
AUTOTAF.ME UMNG 271300Z 2714/2723 18003MPS 9999 BKN025 TX12/2714Z TN08/2722Z
BECMG 2716/2717 NSC
FM271800 16003MPS 0500 FG BKN004
FM271900 16004MPS CAVOK
BECMG 2721/2722 BKN040
FM272300 17004MPS 9999 VCSH BKN025CB
 
Витебск (Куковячино)
SYNAR 26666 Витебск 271200Z 17004MPS CAVOK 07/01 Q1021 RMK QFE749/0999 CLD:6AC
(80/18KM)


NOWCAST.SU UMNI 271600Z 17005G13MPS 9999 FEW180 05/01 Q1020 NOSIG
RMK TURB: MOD SFC/FL20
AUTOTAF.ME UMNI 271300Z 2714/2723 17005G13MPS CAVOK TX07/2714Z TN02/2722Z
 
Лунинец
SYNAR 33019 Пинск 271200Z 18003MPS CAVOK 13/05 Q1018 RMK QFE750/1001 CLD:5CI
(250/52KM)


NOWCAST.SU UMNL 271600Z 16005G13MPS 9999 FEW290 09/04 Q1019 NOSIG
RMK TURB: MOD SFC/FL20
AUTOTAF.ME UMNL 271300Z 2714/2723 17005G12MPS CAVOK TX10/2714Z TN05/2721Z
 
Могилев
METAR UMOO 271300Z 16005G08MPS CAVOK 09/M00 Q1022 NOSIG


NOWCAST.SU UMOO 271600Z 17007G13MPS 9999 BKN059 04/00 Q1021 NOSIG
AUTOTAF.ME UMOO 271300Z 2714/2723 17007G12MPS CAVOK TX06/2714Z TN01/2722Z
TAF UMOO 271330Z 2712/2721 CNL=
Хожево
SYNAR 26850 Минск 271200Z 17004MPS CAVOK 11/03 Q1018 RMK QFE742/0990 CLD:2CI
(120/63KM)


NOWCAST.SU UMOV 271600Z 18004MPS 9999 BKN042 07/04 Q1018 NOSIG
AUTOTAF.ME UMOV 271300Z 2714/2723 18005G12MPS 9999 BKN025 TX09/2714Z TN05/2721Z
BECMG 2720/2721 NSC
BECMG 2721/2722 BKN002
FM272300 17003MPS 0500 FG BKN002
 
Абакан
METAR UNAA 271600Z 00000MPS 3100 FU BR NSC M21/M23 Q1042 R02/410165 NOSIG RMK QFE758


NOWCAST.SU UNAA 271600Z VRB02MPS 0200 FG IC BKN009 M23/M24 Q1041 NOSIG
AUTOTAF.ME UNAA 271300Z 2714/2723 VRB02MPS 0200 FG IC BKN002 TXM21/2714Z TNM25/2722Z
BECMG 2715/2716 BKN008
FM271800 VRB02MPS 2500 BR NSC
BECMG 2718/2719 1200
BECMG 2722/2723 2500
TAF UNAA 271352Z 2715/2815 35003MPS 3100 BR FU NSC
TEMPO 2715/2803 1400 BR FU
BECMG 2803/2805 6000 NSW
TEMPO 2813/2815 3300 BR FU=
Краснотуранск
SYNAR 29768 Лебяжье 271200Z 00000MPS //// //// M19/M22 Q1042 RMK QFE758/1011 CLD:NO_OBSERVATIONS
(160/13KM)


NOWCAST.SU UNAT 271600Z VRB02MPS 9999 SKC M22/M24 Q1040 NOSIG
AUTOTAF.ME UNAT 271300Z 2714/2723 VRB02MPS CAVOK TXM22/2714Z TNM24/2722Z
BECMG 2717/2718 BR
FM272000 VRB02MPS 7000 BR BKN008
FM272100 VRB02MPS 0500 FG IC BKN008
FM272300 VRB02MPS 2500 BR OVC008
 
Шушенское (Казанцево)
SYNAR 29869 Ермаковское 271200Z 28001MPS //// NSC M11/M15 Q1041 RMK QFE753/1004 CLD:2CI
(110/27KM)


NOWCAST.SU UNAU 271600Z VRB02MPS 0200 FG IC BKN001 M20/M22 Q1041 NOSIG
AUTOTAF.ME UNAU 271300Z 2714/2723 VRB02MPS 0200 FG IC BKN002 TXM19/2714Z TNM23/2723Z
BECMG 2722/2723 OVC008
 
Барнаул (Имени Германа Титова)
METAR UNBB 271600Z 14001MPS CAVOK M13/M15 Q1038 R24/420250 NOSIG RMK QFE756


NOWCAST.SU UNBB 271600Z VRB02MPS 1000 BR BKN003 M16/M17 Q1040 NOSIG
AUTOTAF.ME UNBB 271300Z 2714/2723 VRB02MPS 0500 FZFG VV004 TXM14/2714Z TNM20/2721Z
FM271500 VRB02MPS 1200 BR OVC004
BECMG 2718/2719 BKN002
FM272100 VRB02MPS 5000 BR NSC
FM272300 VRB02MPS 1200 BR BKN004
TAF UNBB 271400Z 2715/2815 18003MPS 8000 BKN040
TEMPO 2718/2803 0150 FZFG BKN001
TEMPO 2806/2815 23005MPS=
Аккем
SYNAR 36443 Ак-Кем 271200Z 00000MPS CAVOK M22/M26 Q//// RMK CLD:3AS


NOWCAST.SU UNBC 271600Z 17004MPS 0500 FG IC SKC M23/M25 Q1029 NOSIG
AUTOTAF.ME UNBC 271300Z 2714/2723 17003MPS 0200 FG IC NSC TXM21/2714Z TNM24/2718Z
FM271900 17005MPS 5000 HZ NSC
FM272000 17004MPS CAVOK
 
Горно-Алтайск
SYNAR 36052 Горно-Алтайск 271200Z 30001MPS CAVOK M10/M14 Q1038 RMK QFE752/1003 CLD:SKC


NOWCAST.SU UNBG 271600Z VRB02MPS 9999 BKN020 M17/M18 Q1038 NOSIG
AUTOTAF.ME UNBG 271300Z 2714/2723 VRB02MPS 0200 FG IC BKN002 TXM16/2714Z TNM19/2722Z
FM271500 VRB02MPS 9999 BKN025
BECMG 2716/2717 NSC
BECMG 2717/2718 BR
 
Бия
SYNAR 29939 Бийск 271200Z 07001MPS CAVOK M13/M17 Q1039 RMK QFE758/1011 CLD:3CI
(310/35KM)


NOWCAST.SU UNBI 271600Z VRB02MPS 0500 FG IC VV002 M21/M22 Q1040 NOSIG
AUTOTAF.ME UNBI 271300Z 2714/2723 VRB02MPS 1200 BR OVC004 TXM18/2714Z TNM24/2721Z
FM271500 VRB02MPS 8000 BR NSC
FM271600 VRB02MPS 0500 FG IC VV004
FM272100 VRB02MPS 1200 BR OVC004
BECMG 2722/2723 BKN008
 
Волчиха
SYNAR 36022 Волчиха 271200Z 20001MPS CAVOK M07/M10 Q1037 RMK QFE758/1011 CLD:8AC


NOWCAST.SU UNBM 271600Z VRB02MPS 1000 BR OVC003 M11/M12 Q1038 NOSIG
AUTOTAF.ME UNBM 271300Z 2714/2723 VRB02MPS 2500 BR BKN004 TXM09/2714Z TNM16/2719Z
BECMG 2714/2715 1200
 
Онгудай
SYNAR 36231 Онгудай 271200Z 00000MPS CAVOK M15/M19 Q1033 RMK QFE700/0933 CLD:SKC


NOWCAST.SU UNBN 271600Z VRB02MPS 9999 SKC M21/M22 Q1029 NOSIG
AUTOTAF.ME UNBN 271300Z 2714/2723 VRB02MPS CAVOK TXM19/2714Z TNM24/2722Z
BECMG 2721/2722 BR
 
Усть-Кокса
SYNAR 36229 Усть-Кокса 271200Z 05001MPS CAVOK M13/M18 Q1032 RMK QFE687/0916 CLD:SKC


NOWCAST.SU UNBU 271600Z VRB02MPS 9999 BKN070 M22/M24 Q1029 NOSIG
AUTOTAF.ME UNBU 271300Z 2714/2723 VRB02MPS CAVOK TXM20/2714Z TNM25/2723Z
 
ТурСиб
SYNAR 36058 Чемал 271200Z 00000MPS CAVOK M10/M15 Q1036 RMK QFE739/0985 CLD:1CI
(160/21KM)


NOWCAST.SU UNBY 271600Z VRB02MPS 3500 BR SKC M19/M20 Q1035 NOSIG
AUTOTAF.ME UNBY 271300Z 2714/2723 VRB02MPS 5000 BR NSC TXM16/2714Z TNM21/2722Z
BECMG 2714/2715 2500
BECMG 2716/2717 5000
FM271900 VRB02MPS CAVOK
 
Новосибирск (Северный)
SYNAR 29637 Учебная 271200Z 22001MPS CAVOK M10/M14 Q1040 RMK QFE767/1023 CLD:8CI
(180/14KM)


NOWCAST.SU UNCC 271600Z VRB02MPS 1000 BR BKN003 M18/M19 Q1039 NOSIG
AUTOTAF.ME UNCC 271300Z 2714/2723 VRB02MPS 1200 BR OVC004 TXM17/2714Z TNM19/2720Z
FM271900 VRB02MPS 5000 BR NSC
BECMG 2720/2721 OVC008
FM272200 16003MPS 2500 BR OVC002
 
Краснозерское
SYNAR 29724 Кочки 271200Z 08001MPS CAVOK M14/M19 Q1038 RMK QFE763/1018 CLD:5CI
(60/84KM)


NOWCAST.SU UNCN 271600Z 15003MPS 9999 OVC007 M12/M13 Q1038 NOSIG
AUTOTAF.ME UNCN 271300Z 2714/2723 14003MPS 9999 BKN008 TXM10/2723Z TNM12/2714Z
FM271800 16003MPS 9000 BR OVC004
BECMG 2719/2720 7000
BECMG 2720/2721 5000
 
Карасук
SYNAR 36058 Чемал 271200Z 00000MPS CAVOK M10/M15 Q1036 RMK QFE739/0985 CLD:1CI
(160/21KM)


NOWCAST.SU UNCX 271600Z VRB02MPS 3500 BR SKC M19/M20 Q1035 NOSIG
AUTOTAF.ME UNCX 271300Z 2714/2723 VRB02MPS 5000 BR NSC TXM16/2714Z TNM21/2722Z
BECMG 2714/2715 2500
BECMG 2716/2717 5000
FM271900 VRB02MPS CAVOK
 
Кемерово (Имени Алексея Леонова)
METAR UNEE 271600Z 13001MPS CAVOK M14/M17 Q1039 R23/////// NOSIG RMK QFE756


NOWCAST.SU UNEE 271600Z VRB02MPS 1000 BR OVC003 M22/M23 Q1040 NOSIG
AUTOTAF.ME UNEE 271300Z 2714/2723 VRB02MPS 1200 BR OVC004 TXM20/2714Z TNM26/2721Z
FM271800 VRB02MPS 7000 BR NSC
BECMG 2718/2719 5000
BECMG 2719/2720 1200
TAF UNEE 271400Z 2715/2815 16003MPS 8000 -SN BKN040
TEMPO 2718/2803 1000 BR FU BKN003=
Тура МВЛ
SYNAR 24507 Тура 271200Z 31002MPS //// OVC020CB M19/M21 Q1085 RMK QFE754/1006 CLD:8CB
(60/11KM)


NOWCAST.SU UNHT 271600Z 22003MPS 9999 BKN026 M22/M24 Q1024 NOSIG
RMK TURB: MOD FL30/FL40
AUTOTAF.ME UNHT 271300Z 2714/2723 24003MPS 9999 BKN025 TXM20/2714Z TNM25/2723Z
FM272300 22003MPS 2500 BR NSC
 
Байкит
SYNAR 23891 Байкит 271200Z 00000MPS 4000 NSC M22/M25 Q1037 RMK QFE754/1006 CLD:6ACCI


NOWCAST.SU UNIB 271600Z VRB02MPS 9999 SCT095 M28/M29 Q1034 NOSIG
RMK TURB: MOD SFC/FL30
AUTOTAF.ME UNIB 271300Z 2714/2723 VRB02MPS 1200 BR NSC TXM26/2714Z TNM29/2718Z
FM271600 VRB02MPS CAVOK
BECMG 2718/2719 BR
FM272300 VRB02MPS 0500 FG IC NSC
 
Эконда
 


NOWCAST.SU UNIH 271600Z VRB02MPS 0500 FG IC BKN002 M22/M23 Q1018 NOSIG
AUTOTAF.ME UNIH 271300Z 2714/2723 25003MPS 1200 BR BKN004 TXM20/2714Z TNM24/2721Z
FM271600 VRB02MPS 0500 FG IC BKN004
BECMG 2718/2719 NSC
BECMG 2722/2723 BKN040
 
Енисейск
SYNAR 29263 Енисейск 271200Z 15001MPS CAVOK M17/M21 Q1042 RMK QFE773/1031 CLD:5CI


NOWCAST.SU UNII 271600Z VRB02MPS 0500 FG IC FEW140 M26/M27 Q1041 NOSIG
AUTOTAF.ME UNII 271300Z 2714/2723 VRB02MPS 0500 FG IC BKN008 TXM23/2714Z TNM29/2719Z
BECMG 2714/2715 NSC
FM271800 VRB02MPS 5000 BR NSC
BECMG 2719/2720 2500
BECMG 2721/2722 1200
 
Мотыгино
SYNAR 29276 Мотыгино 271200Z 17001MPS //// //// M17/M21 Q1042 RMK QFE765/1020 CLD:NO_OBSERVATIONS


NOWCAST.SU UNIM 271600Z VRB02MPS 1000 BR BKN011 M23/M25 Q1041 NOSIG
AUTOTAF.ME UNIM 271300Z 2714/2723 VRB02MPS 1200 BR BKN004 TXM22/2714Z TNM28/2722Z
BECMG 2715/2716 BKN008
 
Подкаменная Тунгуска
SYNAR 23884 Бор 271200Z 17001MPS //// BKN020 M13/M19 Q1039 RMK QFE773/1031 CLD:7SC


NOWCAST.SU UNIP 271600Z 20003MPS 3500 BR OVC012 M16/M18 Q1036 NOSIG
RMK TURB: MOD SFC/FL20
AUTOTAF.ME UNIP 271300Z 2714/2723 20003MPS 1200 BR OVC004 TXM15/2723Z TNM17/2714Z
FM271600 20003MPS 2500 BR OVC015
BECMG 2716/2717 5000
FM272200 19004MPS 9999 DRSN BKN015
FM272300 19004MPS 9999 BKN008
 
Ярцево
SYNAR 23987 Ярцево 271200Z 12002MPS CAVOK M16/M21 Q1041 RMK QFE775/1034 CLD:2CI


NOWCAST.SU UNIQ 271600Z 15003MPS 2300 BR BKN140 M20/M21 Q1039 NOSIG
RMK TURB: MOD FL170/FL180
AUTOTAF.ME UNIQ 271300Z 2714/2723 15003MPS 5000 BR NSC TXM18/2722Z TNM20/2715Z
BECMG 2714/2715 2500
BECMG 2720/2721 5000
BECMG 2721/2722 OVC015
 
Северо-Енисейск
SYNAR 23986 Северо-Енисейский 271200Z 23001MPS //// NSC M17/M22 Q1035 RMK QFE730/0973 CLD:7CI


NOWCAST.SU UNIS 271600Z VRB02MPS 9999 OVC100 M22/M24 Q1035 NOSIG
RMK TURB: MOD SFC/FL30
AUTOTAF.ME UNIS 271300Z 2714/2723 VRB02MPS CAVOK TXM18/2723Z TNM22/2715Z
BECMG 2718/2719 OVC002
BECMG 2720/2721 NSC
 
Тура-Горный
SYNAR 24507 Тура 271200Z 31002MPS //// OVC020CB M19/M21 Q1085 RMK QFE754/1006 CLD:8CB


NOWCAST.SU UNIT 271600Z 21004MPS 9999 BKN027 M22/M24 Q1023 NOSIG
RMK TURB: MOD SFC/FL40
AUTOTAF.ME UNIT 271300Z 2714/2723 23004MPS 2500 BR BKN015 TXM20/2714Z TNM25/2722Z
BECMG 2714/2715 5000
FM271600 21004MPS 9999 BKN025
BECMG 2718/2719 NSC
BECMG 2719/2720 BR
FM272100 21003MPS 7000 BR NSC
 
Ванавара
SYNAR 24908 Ванавара 271200Z 24001MPS CAVOK M23/M26 Q1034 RMK QFE751/1002 CLD:6CI


NOWCAST.SU UNIW 271600Z VRB02MPS 1000 BR BKN003 M20/M21 Q1031 NOSIG
AUTOTAF.ME UNIW 271300Z 2714/2723 VRB02MPS 1200 BR BKN004 TXM18/2720Z TNM21/2714Z
FM272000 25003MPS 7000 BR BKN015
FM272100 25003MPS 0500 FG IC VV015
 
Осиновый Мыс
SYNAR 29282 Богучаны 271200Z 26001MPS //// FU NSC M15/M19 Q1040 RMK QFE767/1023 CLD:1CI
(20/97KM)


NOWCAST.SU UNJS 271600Z VRB02MPS 1000 BR OVC003 M22/M23 Q1039 NOSIG
RMK TURB: MOD SFC/FL20
AUTOTAF.ME UNJS 271300Z 2714/2723 VRB02MPS 1200 BR OVC004 TXM21/2714Z TNM27/2723Z
FM271900 VRB02MPS 9999 OVC002
BECMG 2720/2721 BKN008
FM272200 VRB02MPS 7000 BR BKN008
BECMG 2722/2723 5000
 
Богучаны
SYNAR 29282 Богучаны 271200Z 26001MPS //// FU NSC M15/M19 Q1040 RMK QFE767/1023 CLD:1CI


NOWCAST.SU UNKB 271600Z VRB02MPS 9999 BKN012 M21/M22 Q1038 NOSIG
AUTOTAF.ME UNKB 271300Z 2714/2723 VRB02MPS 9999 BKN015 TXM20/2714Z TNM25/2723Z
BECMG 2714/2715 BR
BECMG 2716/2717 NSC
FM271800 VRB02MPS 1200 BR OVC004
BECMG 2718/2719 OVC002
FM272100 VRB02MPS 1200 BR OVC004
FM272300 VRB02MPS CAVOK
 
Кодинск
SYNAR 29393 Червянка 271200Z 15001MPS //// SKC M19/M26 Q1039 RMK QFE758/1011 CLD:SKC
(160/96KM)


NOWCAST.SU UNKI 271600Z VRB02MPS 1000 BR BKN003 M20/M22 Q1036 NOSIG
AUTOTAF.ME UNKI 271300Z 2714/2723 VRB02MPS 1200 BR OVC004 TXM20/2715Z TNM22/2722Z
FM272100 VRB02MPS 9999 SCT015
FM272200 VRB02MPS 1200 BR BKN002
 
Красноярск (Северный)
SYNAR 29571 Минино 271200Z 31001MPS 4000 BR NSC M17/M21 Q1041 RMK QFE759/1012 CLD:3CI
(220/22KM)


NOWCAST.SU UNKK 271600Z VRB02MPS 9999 SCT210 M23/M25 Q1041 NOSIG
AUTOTAF.ME UNKK 271300Z 2714/2723 VRB02MPS CAVOK TXM22/2714Z TNM26/2723Z
 
Красноярск (Емельяново)
METAR UNKL 271600Z 00000MPS 4200 BR NSC M22/M25 Q1040 R29/CLRD65 NOSIG RMK QFE754


NOWCAST.SU UNKL 271600Z VRB02MPS 8000 BR BKN210 M22/M23 Q1040 NOSIG
AUTOTAF.ME UNKL 271300Z 2714/2723 VRB02MPS 8000 BR NSC TXM21/2714Z TNM24/2722Z
TAF AMD UNKL 271502Z 2715/2815 22003MPS 3500 BR FU NSC
BECMG 2716/2719 6000 NSW=
Красноярск (Черемшанка)
SYNAR 29571 Минино 271200Z 31001MPS 4000 BR NSC M17/M21 Q1041 RMK QFE759/1012 CLD:3CI
(140/16KM)


NOWCAST.SU UNKM 271600Z VRB02MPS 8000 BR BKN210 M23/M25 Q1040 NOSIG
AUTOTAF.ME UNKM 271300Z 2714/2723 VRB02MPS 9000 BR NSC TXM22/2714Z TNM25/2722Z
 
Канск (Восточный)
SYNAR 29581 Канск 271200Z 03001MPS //// SKC M19/M24 Q1042 RMK QFE762/1017 CLD:SKC


NOWCAST.SU UNKN 271600Z 22003MPS 1000 BR FEW220 M27/M29 Q1040 NOSIG
AUTOTAF.ME UNKN 271300Z 2714/2723 VRB02MPS 1200 BR NSC TXM26/2714Z TNM29/2723Z
FM271700 21003MPS CAVOK
 
Шарыпово
SYNAR 29558 Шарыпово 271200Z 00000MPS 4000 FU NSC M16/M21 Q1040 RMK QFE750/1000 CLD:2CI


NOWCAST.SU UNKO 271600Z VRB02MPS 9999 SCT200 M18/M20 Q1039 NOSIG
AUTOTAF.ME UNKO 271300Z 2714/2723 VRB02MPS CAVOK TXM18/2714Z TNM20/2722Z
 
Красноярск (Бобровый Лог)
SYNAR 29570 Красноярск 271200Z 22001MPS 4000 BR SKC M17/M21 Q1041 RMK QFE755/1006 CLD:SKC


NOWCAST.SU UNKP 271600Z VRB02MPS 8000 BR SCT210 M22/M23 Q1041 NOSIG
AUTOTAF.ME UNKP 271300Z 2714/2723 VRB02MPS 8000 BR NSC TXM21/2714Z TNM23/2722Z
BECMG 2718/2719 BR
BECMG 2719/2720 5000
BECMG 2720/2721 1200
FM272200 VRB02MPS 0200 FG IC NSC
 
Ачинск
SYNAR 29467 Ачинск 271200Z 22001MPS 4000 HZ SKC M11/M18 Q1040 RMK QFE756/1008 CLD:SKC


NOWCAST.SU UNKS 271600Z VRB02MPS 9999 FEW160 M22/M24 Q1041 NOSIG
AUTOTAF.ME UNKS 271300Z 2714/2723 VRB02MPS CAVOK TXM21/2714Z TNM25/2722Z
FM271900 VRB02MPS 1200 BR OVC004
BECMG 2720/2721 NSC
BECMG 2722/2723 OVC004
 
Вознесенка
SYNAR 29570 Красноярск 271200Z 22001MPS 4000 BR SKC M17/M21 Q1041 RMK QFE755/1006 CLD:SKC
(270/31KM)


NOWCAST.SU UNKW 271600Z VRB02MPS 9999 SKC M22/M24 Q1040 NOSIG
AUTOTAF.ME UNKW 271300Z 2714/2723 VRB02MPS CAVOK TXM21/2714Z TNM25/2723Z
BECMG 2718/2719 OVC002
BECMG 2720/2721 NSC
 
Кызыл
SYNAR 36096 Кызыл 271200Z 06001MPS CAVOK M20/M25 Q1039 RMK QFE721/0962 CLD:5ACCI


NOWCAST.SU UNKY 271600Z VRB02MPS 9000 BR SKC M29/M31 Q1039 NOSIG
AUTOTAF.ME UNKY 271300Z 2714/2723 VRB02MPS CAVOK TXM27/2714Z TNM32/2723Z
BECMG 2715/2716 BR
BECMG 2716/2717 7000
BECMG 2717/2718 5000
FM272000 VRB02MPS 2500 BR NSC
 
Колпашево
SYNAR 29231 Колпашево 271200Z 15002MPS CAVOK M10/M17 Q1038 RMK QFE771/1029 CLD:2CI


NOWCAST.SU UNLL 271600Z 18004MPS 9999 BKN007 M16/M17 Q1037 NOSIG
AUTOTAF.ME UNLL 271300Z 2714/2723 18003MPS 1200 BR BKN004 TXM15/2720Z TNM16/2714Z
FM271500 18003MPS CAVOK
BECMG 2715/2716 BKN008
FM271700 19004MPS 9999 DRSN NSC
BECMG 2717/2718 BR
BECMG 2718/2719 DRSN
FM272100 19004MPS 9999 DRSN BKN015
FM272200 19004MPS CAVOK
FM272300 19004MPS 9999 BKN015
 
Парабель
SYNAR 29128 Парабель 271200Z 00000MPS CAVOK M10/M16 Q1037 RMK QFE772/1029 CLD:6ACCI


NOWCAST.SU UNLP 271600Z 19004MPS 9999 SCT024 M13/M15 Q1036 NOSIG
AUTOTAF.ME UNLP 271300Z 2714/2723 19004MPS CAVOK TXM13/2714Z TNM13/2714Z
BECMG 2715/2716 SCT025
BECMG 2719/2720 BR
FM272100 19004MPS 5000 BLSN BKN040
BECMG 2722/2723 BR
 
Новосибирск (Ельцовка)
SYNAR 29637 Учебная 271200Z 22001MPS CAVOK M10/M14 Q1040 RMK QFE767/1023 CLD:8CI
(210/15KM)


NOWCAST.SU UNNE 271600Z VRB02MPS 1000 BR BKN003 M18/M19 Q1039 NOSIG
AUTOTAF.ME UNNE 271300Z 2714/2723 VRB02MPS 1200 BR OVC004 TXM17/2714Z TNM19/2720Z
FM271900 VRB02MPS 5000 BR NSC
FM272200 16003MPS 2500 BR OVC002
 
Новосибирск (Городской Аэропорт)
SYNAR 29637 Учебная 271200Z 22001MPS CAVOK M10/M14 Q1040 RMK QFE767/1023 CLD:8CI
(180/14KM)


NOWCAST.SU UNNG 271600Z VRB02MPS 1000 BR BKN003 M18/M19 Q1039 NOSIG
AUTOTAF.ME UNNG 271300Z 2714/2723 VRB02MPS 1200 BR OVC004 TXM17/2714Z TNM19/2720Z
FM271900 VRB02MPS 5000 BR NSC
BECMG 2720/2721 OVC008
FM272200 16003MPS 2500 BR OVC002
 
Мочище
SYNAR 29637 Учебная 271200Z 22001MPS CAVOK M10/M14 Q1040 RMK QFE767/1023 CLD:8CI
(220/27KM)


NOWCAST.SU UNNM 271600Z VRB02MPS 1000 BR BKN003 M18/M19 Q1039 NOSIG
AUTOTAF.ME UNNM 271300Z 2714/2723 VRB02MPS 1200 BR OVC004 TXM16/2714Z TNM19/2719Z
BECMG 2721/2722 OVC002
 
Северное
SYNAR 29418 Северное 271200Z 14003MPS CAVOK M13/M18 Q1036 RMK QFE765/1020 CLD:2ACCI


NOWCAST.SU UNNS 271600Z 18003MPS 7000 BR BKN005 M14/M15 Q1036 NOSIG
AUTOTAF.ME UNNS 271300Z 2714/2723 17003MPS CAVOK TXM11/2722Z TNM14/2714Z
BECMG 2714/2715 BKN008
FM271600 18003MPS 7000 BR BKN004
FM271700 18003MPS 5000 BR BKN008
FM271900 18003MPS 2500 BR OVC002
BECMG 2719/2720 -SN BR
FM272100 18003MPS 1200 SN BR OVC004
FM272200 19004MPS 0500 SN BLSN BKN004
BECMG 2722/2723 BLSN
 
Новосибирск (Толмачёво)
METAR UNNT 271600Z 17002MPS 3300 0550N FZFG NSC M15/M16 Q1040 R25/810250 R16/////// NOSIG RMK QFE770/1026


NOWCAST.SU UNNT 271600Z 17003MPS 1000 BR BKN003 M18/M20 Q1039 NOSIG
AUTOTAF.ME UNNT 271300Z 2714/2723 VRB02MPS 1200 BR OVC004 TXM18/2714Z TNM19/2722Z
BECMG 2718/2719 BKN002
BECMG 2720/2721 OVC004
FM272200 18004MPS 5000 BR OVC008
BECMG 2722/2723 BKN004
TAF AMD UNNT 271542Z 2715/2815 16003MPS 4000 BR FU BKN040
TEMPO 2715/2803 0300 FZFG BKN001
FM280300 19007G14MPS 8000 -SHSN BKN020CB=
Усть-Ишим
SYNAR 28382 Усть-Ишим 271200Z 18002MPS 9999 FEW020 M01/M06 Q1031 RMK QFE768/1024 CLD:8SCAS


NOWCAST.SU UNOI 271600Z 23003MPS 9999 BKN012 M04/M06 Q1030 NOSIG
AUTOTAF.ME UNOI 271300Z 2714/2723 22003MPS 9999 BKN015 TXM02/2714Z TNM07/2720Z
BECMG 2717/2718 OVC025
BECMG 2718/2719 BKN015
FM272000 22003MPS 1200 BR OVC004
FM272200 22003MPS 9999 BKN015
BECMG 2722/2723 BKN040
 
Омск (Калачево)
SYNAR 28698 Омск 271200Z 19002MPS 4100 -SHSN OVC020CB M05/M06 Q1033 RMK QFE763/1018 CLD:8CB
(10/29KM)


NOWCAST.SU UNOL 271600Z VRB02MPS 2000 BR OVC005 M04/M04 Q1034 NOSIG
AUTOTAF.ME UNOL 271300Z 2714/2723 VRB02MPS 0500 FZFG BKN004 TXM04/2714Z TNM06/2723Z
FM271500 VRB02MPS 1200 SN BR OVC004
FM271600 VRB02MPS 2500 BR OVC004
BECMG 2718/2719 1200
FM272000 21003MPS 0500 FZFG BKN004
FM272200 22003MPS 1200 BR BKN002
 
Омск Центральный
METAR UNOO 271600Z 15003MPS 5000 BR BKN006 BKN020CB M06/M07 Q1034 R07/820550 NOSIG RMK OBST OBSC QFE767


NOWCAST.SU UNOO 271600Z VRB02MPS 1000 BR OVC003 M04/M05 Q1034 NOSIG
AUTOTAF.ME UNOO 271300Z 2714/2723 VRB02MPS 0500 SN FZFG BKN004 TXM04/2714Z TNM06/2723Z
FM271500 VRB02MPS 1200 SN BR OVC004
BECMG 2715/2716 BR
BECMG 2716/2717 2500
BECMG 2718/2719 1200
FM272000 21003MPS 0500 FZFG BKN004
FM272200 22003MPS 1200 BR BKN002
TAF UNOO 271355Z 2715/2815 20003MPS 6000 BKN007 BKN020CB
TEMPO 2715/2802 1000 SHSN BR BKN003 BKN020CB
BECMG 2803/2805 23003G09MPS=
Омск (Северный)
SYNAR 28698 Омск 271200Z 19002MPS 4100 -SHSN OVC020CB M05/M06 Q1033 RMK QFE763/1018 CLD:8CB
(300/12KM)


NOWCAST.SU UNOS 271600Z VRB02MPS 1000 BR OVC005 M05/M05 Q1034 NOSIG
AUTOTAF.ME UNOS 271300Z 2714/2723 VRB02MPS 0500 FZFG BKN004 TXM04/2717Z TNM06/2723Z
FM271500 VRB02MPS 1200 BR OVC004
BECMG 2716/2717 OVC008
FM271800 VRB02MPS 2500 BR OVC004
FM272000 21003MPS 0500 FZFG BKN004
FM272200 22003MPS 1200 BR BKN002
 
Тара
SYNAR 28493 Тара 271200Z 15002MPS 9999 -SN OVC020 M07/M10 Q1034 RMK QFE768/1024 CLD:8SC


NOWCAST.SU UNOT 271600Z 17003MPS 0900 FZFG VV006 M08/M09 Q1032 NOSIG
AUTOTAF.ME UNOT 271300Z 2714/2723 17004MPS 0500 FZFG VV004 TXM05/2722Z TNM08/2714Z
FM271600 17003MPS 1200 FZFG VV008
FM271700 17003MPS 1200 BR OVC004
BECMG 2717/2718 SN BR
BECMG 2718/2719 OVC002
FM272000 19004MPS 0500 FZFG VV002
FM272100 19004MPS 1200 BR BKN004
FM272200 20004MPS 5000 BR OVC015
BECMG 2722/2723 9999
 
Омск (Поповка)
SYNAR 28698 Омск 271200Z 19002MPS 4100 -SHSN OVC020CB M05/M06 Q1033 RMK QFE763/1018 CLD:8CB
(50/25KM)


NOWCAST.SU UNOY 271600Z VRB02MPS 7000 BR OVC040 M03/M04 Q1034 NOSIG
AUTOTAF.ME UNOY 271300Z 2714/2723 VRB02MPS 2500 -SN BR BKN004 TXM03/2714Z TNM06/2722Z
BECMG 2714/2715 BR
FM271600 VRB02MPS 7000 BR OVC040
BECMG 2716/2717 NSC
FM271800 22003MPS 1200 BR OVC004
FM271900 22003MPS 9999 OVC008
BECMG 2721/2722 BKN002
 
Красноярск (Кузнецово)
SYNAR 29570 Красноярск 271200Z 22001MPS 4000 BR SKC M17/M21 Q1041 RMK QFE755/1006 CLD:SKC
(300/18KM)


NOWCAST.SU UNQK 271600Z VRB02MPS 9999 SCT210 M22/M23 Q1041 NOSIG
AUTOTAF.ME UNQK 271300Z 2714/2723 VRB02MPS CAVOK TXM21/2714Z TNM23/2722Z
BECMG 2718/2719 OVC002
BECMG 2720/2721 NSC
 
Манский
SYNAR 29578 Шалинское 271200Z 00000MPS CAVOK M14/M23 Q1039 RMK QFE742/0990 CLD:1CI


NOWCAST.SU UNQM 271600Z VRB02MPS 0500 FG IC VV002 M25/M26 Q1040 NOSIG
AUTOTAF.ME UNQM 271300Z 2714/2723 VRB02MPS 0200 FG IC VV002 TXM23/2714Z TNM26/2723Z
BECMG 2715/2716 OVC004
BECMG 2716/2717 NSC
FM271900 VRB02MPS 1200 BR NSC
 
Назарово
SYNAR 29561 Назарово 271200Z 28001MPS //// NSC M13/M19 Q1040 RMK QFE756/1009 CLD:3CS
(300/12KM)


NOWCAST.SU UNQN 271600Z VRB02MPS 9999 BKN200 M24/M25 Q1040 NOSIG
AUTOTAF.ME UNQN 271300Z 2714/2723 VRB02MPS CAVOK TXM22/2714Z TNM27/2721Z
FM271500 VRB02MPS 1200 BR OVC004
FM271600 VRB02MPS CAVOK
FM272000 VRB02MPS 1200 BR NSC
 
Красноярск (Солнечный)
SYNAR 29571 Минино 271200Z 31001MPS 4000 BR NSC M17/M21 Q1041 RMK QFE759/1012 CLD:3CI
(250/13KM)


NOWCAST.SU UNQS 271600Z VRB02MPS 9999 SCT210 M24/M25 Q1041 NOSIG
AUTOTAF.ME UNQS 271300Z 2714/2723 VRB02MPS 0200 FG IC VV002 TXM22/2714Z TNM26/2723Z
FM271500 VRB02MPS CAVOK
 
Тасеево
SYNAR 29379 Тасеево 271200Z 19001MPS CAVOK M20/M24 Q1042 RMK QFE765/1021 CLD:5CI
(280/21KM)


NOWCAST.SU UNQT 271600Z VRB02MPS 9999 BKN200 M24/M25 Q1041 NOSIG
AUTOTAF.ME UNQT 271300Z 2714/2723 VRB02MPS CAVOK TXM22/2714Z TNM27/2722Z
FM271700 VRB02MPS 1200 BR OVC004
BECMG 2718/2719 SCT015
FM272000 VRB02MPS 9999 SCT015
BECMG 2721/2722 BKN008
 
Долгий Мост
SYNAR 29485 Абан 271200Z 21001MPS //// SKC M16/M22 Q1041 RMK QFE758/1011 CLD:SKC
(260/48KM)


NOWCAST.SU UNQX 271600Z VRB02MPS 9999 OVC200 M22/M24 Q1040 NOSIG
AUTOTAF.ME UNQX 271300Z 2714/2723 VRB02MPS CAVOK TXM22/2714Z TNM26/2723Z
FM271800 VRB02MPS 1200 BR OVC004
BECMG 2721/2722 NSC
 
Барабинск
SYNAR 29612 Барабинск 271200Z 12002MPS CAVOK M15/M19 Q1038 RMK QFE767/1022 CLD:SKC


NOWCAST.SU UNRR 271600Z 17003MPS 5000 BR OVC004 M13/M14 Q1037 NOSIG
AUTOTAF.ME UNRR 271300Z 2714/2723 16003MPS 1200 BR OVC004 TXM11/2723Z TNM13/2714Z
BECMG 2714/2715 5000
BECMG 2716/2717 OVC008
BECMG 2718/2719 BKN004
FM272300 18004MPS 2500 BR OVC004
 
Игол (Центральный)
SYNAR 29203 Новый Васюган 271200Z 16003MPS 9999 FEW020 M08/M11 Q1033 RMK QFE767/1022 CLD:8SCAS
(0/93KM)


NOWCAST.SU UNSG 271600Z 18004MPS 0800 BLSN BKN004 M10/M12 Q1033 NOSIG
RMK TURB: MOD SFC/FL20
AUTOTAF.ME UNSG 271300Z 2714/2723 18004MPS 0500 SN BLSN BKN004 TXM09/2714Z TNM10/2715Z
BECMG 2715/2716 BLSN
BECMG 2716/2717 1200
BECMG 2717/2718 BR
FM271900 18004MPS 2500 BLSN OVC002
FM272100 19004MPS 2500 BLSN OVC004
 
Шингинская
SYNAR 29313 Пудино 271200Z 15002MPS CAVOK M12/M17 Q1037 RMK QFE768/1025 CLD:5ACCI
(150/100KM)


NOWCAST.SU UNSI 271600Z 19004MPS 0500 BLSN BKN047 M11/M14 Q1033 NOSIG
RMK TURB: MOD SFC/FL20
AUTOTAF.ME UNSI 271300Z 2714/2723 19004MPS 8000 HZ BKN025 TXM11/2714Z TNM11/2714Z
FM271500 19004MPS 1200 BLSN BKN040
BECMG 2715/2716 0500
FM271800 19004MPS 1200 SN BLSN BKN004
BECMG 2718/2719 2500
BECMG 2719/2720 BLSN
FM272100 19004MPS 2500 BLSN BKN008
FM272200 19004MPS 2500 BLSN BKN015
FM272300 19004MPS 2500 BLSN OVC004
 
Стрежевой
SYNAR 23955 Александровское 271200Z 17003MPS 9999 OVC015CB M09/M12 Q1031 RMK QFE768/1024 CLD:8CB
(160/33KM)


NOWCAST.SU UNSS 271600Z 19005G13MPS 2900 -SN BLSN BKN001 M08/M10 Q1028 NOSIG
AUTOTAF.ME UNSS 271300Z 2714/2723 19005G13MPS 2500 -SN BLSN OVC002 TXM06/2722Z TNM08/2714Z
FM271700 19005G13MPS 1200 SN BLSN BKN002
BECMG 2717/2718 0500
FM271900 20005G13MPS 1200 SN BLSN OVC004
FM272000 20005G13MPS 2500 -SN BLSN OVC004
BECMG 2720/2721 5000
BECMG 2721/2722 2500
 
Бакчар
SYNAR 29328 Бакчар 271200Z 13002MPS CAVOK M12/M19 Q1039 RMK QFE768/1025 CLD:3CI


NOWCAST.SU UNTB 271600Z VRB02MPS 1000 BR OVC003 M18/M19 Q1038 NOSIG
AUTOTAF.ME UNTB 271300Z 2714/2723 VRB02MPS 1200 BR OVC004 TXM15/2721Z TNM18/2716Z
FM271700 VRB02MPS CAVOK
BECMG 2718/2719 OVC002
BECMG 2719/2720 BR
FM272100 19003MPS 2500 BR OVC004
BECMG 2721/2722 OVC002
 
Березкино
SYNAR 29430 Томск 271200Z 00000MPS CAVOK M13/M18 Q1040 RMK QFE766/1022 CLD:6CI
(90/14KM)


NOWCAST.SU UNTR 271600Z VRB02MPS 9999 FEW230 M19/M20 Q1040 NOSIG
AUTOTAF.ME UNTR 271300Z 2714/2723 VRB02MPS CAVOK TXM17/2714Z TNM20/2719Z
FM271900 VRB02MPS 1200 BR OVC004
FM272100 VRB02MPS 0200 FG IC VV002
FM272300 19003MPS 2500 BR BKN004
 
Томск (Богашёво)
METAR UNTT 271600Z 17002MPS 9000 NSC M15/M18 Q1039 R21/410150 NOSIG RMK QFE763


NOWCAST.SU UNTT 271600Z VRB02MPS 1000 BR OVC003 M20/M22 Q1040 NOSIG
AUTOTAF.ME UNTT 271300Z 2714/2723 VRB02MPS 1200 BR OVC004 TXM19/2714Z TNM21/2717Z
TAF UNTT 271400Z 2715/2724 17003G08MPS 8000 SCT040=
Таштагол
SYNAR 29954 Таштагол 271200Z 00000MPS CAVOK M15/M18 Q1038 RMK QFE739/0986 CLD:2CI


NOWCAST.SU UNWI 271600Z VRB02MPS 9999 SKC M19/M20 Q1036 NOSIG
AUTOTAF.ME UNWI 271300Z 2714/2723 VRB02MPS 0200 FG IC VV002 TXM17/2714Z TNM24/2723Z
FM271500 VRB02MPS CAVOK
BECMG 2721/2722 BR
 
Новокузнецк (Спиченково)
METAR UNWW 271600Z 00000MPS 4000 BR FU NSC M16/M18 Q1039 R19/920243 NOSIG RMK QFE751


NOWCAST.SU UNWW 271600Z VRB02MPS 9999 BR SKC M21/M22 Q1040 NOSIG
AUTOTAF.ME UNWW 271300Z 2714/2723 VRB02MPS 0200 FG IC VV002 TXM19/2714Z TNM26/2723Z
FM271600 VRB02MPS 9999 BR NSC
FM271700 VRB02MPS 0200 FG IC VV002
BECMG 2718/2719 OVC004
BECMG 2721/2722 NSC
FM272300 VRB02MPS 1200 BR NSC
TAF UNWW 271400Z 2715/2815 18003MPS 8000 -SN SCT040
TEMPO 2718/2803 0150 FZFG BKN001=
Диксон
SYNAR 20674 Остров Диксон 271200Z 24007MPS 9999 DRSN OVC004 M02/M03 Q1005 RMK QFE748/0998 CLD:8ST


NOWCAST.SU UODD 271600Z 22009MPS 0500 BLSN BKN001 M02/M03 Q1007 NOSIG
RMK TURB: MOD SFC/FL170
AUTOTAF.ME UODD 271300Z 2714/2723 23009MPS 1200 BLSN OVC002 TXM02/2714Z TNM04/2719Z
BECMG 2714/2715 0500
BECMG 2716/2717 SN BLSN
BECMG 2717/2718 1200
FM271900 21008MPS 0500 SN BLSN OVC002
FM272000 20009G14MPS 0500 BLSN OVC002
FM272200 20008G14MPS 0500 BLSN OVC004
 
Нагурское
SYNAR 20046 Остров Хейса 271200Z 32003MPS 9999 FEW020 M21/M23 Q998 RMK QFE746/0994 CLD:2SC
(90/191KM)


NOWCAST.SU UODN 271600Z VRB02MPS 3000 BR OVC005 M17/M18 Q1001 NOSIG
AUTOTAF.ME UODN 271300Z 2714/2723 VRB02MPS 5000 BR BKN025 TXM17/2714Z TNM17/2714Z
FM271600 VRB02MPS 2500 BR OVC004
 
Остров Средний
SYNAR 20087 Остров Голомянный 271200Z 29005MPS CAVOK M19/M21 Q994 RMK QFE744/0993 CLD:1CI


NOWCAST.SU UODS 271600Z 27003MPS 9999 BKN019 M23/M25 Q0999 NOSIG
AUTOTAF.ME UODS 271300Z 2714/2723 28004MPS 9999 OVC025 TXM22/2714Z TNM25/2720Z
BECMG 2715/2716 BKN015
BECMG 2718/2719 BR
BECMG 2719/2720 2500
FM272100 VRB02MPS 0200 FG IC VV015
FM272200 VRB02MPS 0500 FG IC NSC
FM272300 VRB02MPS 2500 BR NSC
 
Хатанга
SYNAR 20891 Хатанга 271200Z 24009MPS 4000 -SHSN BKN010CB M06/M07 Q1008 RMK QFE753/1004 CLD:7CBAC


NOWCAST.SU UOHH 271600Z 25010G16MPS 1200 BLSN BKN001 M07/M08 Q1012 NOSIG
AUTOTAF.ME UOHH 271300Z 2714/2723 25010G16MPS 2500 BLSN BKN002 TXM07/2714Z TNM07/2714Z
BECMG 2714/2715 1200
FM272000 25010G16MPS 0500 SN BLSN BKN002
 
Новая
SYNAR 20891 Хатанга 271200Z 24009MPS 4000 -SHSN BKN010CB M06/M07 Q1008 RMK QFE753/1004 CLD:7CBAC
(60/50KM)


NOWCAST.SU UOHN 271600Z 26010G18MPS 0500 BLSN BKN001 M07/M08 Q1013 NOSIG
RMK TURB: MOD SFC/FL20
AUTOTAF.ME UOHN 271300Z 2714/2723 26010G18MPS 0500 BLSN BKN002 TXM06/2718Z TNM08/2723Z
BECMG 2716/2717 SN BLSN
BECMG 2717/2718 1200
BECMG 2718/2719 0500
FM272200 26010G17MPS 1200 SN BLSN BKN002
FM272300 26010G16MPS 2500 -SN BLSN OVC002
 
Светлогорск
SYNAR 23376 Светлогорск 271200Z 17003MPS //// //// M13/M15 Q1026 RMK QFE760/1013 CLD:NO_OBSERVATIONS
(0/12KM)


NOWCAST.SU UOIG 271600Z VRB02MPS 0500 SN FZFG VV003 M13/M15 Q1025 NOSIG
AUTOTAF.ME UOIG 271300Z 2714/2723 14003MPS 0500 SN FZFG VV004 TXM13/2714Z TNM14/2723Z
 
Хантайское озеро
SYNAR 23176 Исток 271200Z 14003MPS //// -SN OVC020 M14/M16 Q1026 RMK QFE761/1015 CLD:8NS
(310/37KM)


NOWCAST.SU UOIH 271600Z 15004MPS 0500 SN FG IC BKN002 M15/M17 Q1020 NOSIG
AUTOTAF.ME UOIH 271300Z 2714/2723 15004MPS 0500 +SN FZFG VV004 TXM15/2714Z TNM15/2714Z
BECMG 2715/2716 SN FG IC
BECMG 2716/2717 FG IC
BECMG 2717/2718 OVC040
FM271900 14004MPS 0500 FG IC VV004
FM272000 14004MPS 0500 SN FG IC VV004
FM272300 14004MPS 0500 FG IC VV004
 
Игарка
SYNAR 23274 Игарка 271200Z 17006MPS 9999 -SN OVC020 M11/M13 Q1024 RMK QFE765/1020 CLD:8NS


NOWCAST.SU UOII 271600Z 16006G11MPS 0500 SN FZFG VV001 M10/M12 Q1022 NOSIG
RMK TURB: MOD FL20/FL30
AUTOTAF.ME UOII 271300Z 2714/2723 16007G12MPS 0500 SN BLSN OVC002 TXM10/2714Z TNM11/2720Z
BECMG 2714/2715 SN FZFG
BECMG 2716/2717 SN BLSN
 
Снежногорск
SYNAR 23179 Снежногорск 271200Z 19004G10MPS 9999 -SHSN OVC020CB M12/M14 Q1023 RMK QFE759/1012 CLD:8CB


NOWCAST.SU UOIS 271600Z 17009G16MPS 0500 SN BLSN OVC002 M12/M13 Q1022 NOSIG
RMK TURB: MOD SFC/FL20
AUTOTAF.ME UOIS 271300Z 2714/2723 17010G17MPS 0500 SN BLSN OVC004 TXM11/2714Z TNM12/2716Z
BECMG 2719/2720 2500
BECMG 2721/2722 0500
 
Дудинка
SYNAR 23174 Потапово 271200Z 17007MPS 4000 -SN OVC066 M09/M11 Q1021 RMK QFE761/1015 CLD:8NS
(180/78KM)


NOWCAST.SU UOOD 271600Z 17008G14MPS 0500 SN BLSN OVC001 M09/M10 Q1018 NOSIG
RMK TURB: MOD FL20/FL30
AUTOTAF.ME UOOD 271300Z 2714/2723 17008G14MPS 1200 SN BLSN OVC002 TXM08/2714Z TNM10/2719Z
BECMG 2714/2715 0500
 
Ванкор
SYNAR 23363 Советская Речка 271200Z 21005MPS //// -SN OVC066 M10/M12 Q1023 RMK QFE763/1017 CLD:8NS
(180/109KM)


NOWCAST.SU UOOG 271600Z 18005G10MPS 0500 SN FZFG VV001 M06/M07 Q1018 NOSIG
AUTOTAF.ME UOOG 271300Z 2714/2723 18005MPS 1200 SN FZFG VV002 TXM06/2714Z TNM09/2723Z
BECMG 2714/2715 0500
BECMG 2719/2720 +SN FZFG
BECMG 2722/2723 SN BLSN
 
Северо-Соленое
SYNAR 20978 Караул 271200Z 20009G12MPS 9999 DRSN OVC020CB M01/M02 Q1014 RMK QFE757/1010 CLD:8CB
(30/120KM)


NOWCAST.SU UOOI 271600Z 20005MPS 0500 +SN FZFG BKN002 M06/M07 Q1016 NOSIG
RMK TURB: MOD FL170/FL180
AUTOTAF.ME UOOI 271300Z 2714/2723 20005MPS 0500 +SN FZFG BKN004 TXM06/2714Z TNM07/2717Z
BECMG 2718/2719 SN FZFG
 
Южно-Соленое
SYNAR 20978 Караул 271200Z 20009G12MPS 9999 DRSN OVC020CB M01/M02 Q1014 RMK QFE757/1010 CLD:8CB
(30/127KM)


NOWCAST.SU UOOJ 271600Z 20005MPS 0500 +SN FZFG BKN001 M06/M08 Q1016 NOSIG
RMK TURB: MOD FL170/FL180
AUTOTAF.ME UOOJ 271300Z 2714/2723 20005MPS 0500 +SN FZFG BKN002 TXM05/2721Z TNM07/2717Z
BECMG 2718/2719 SN FZFG
 
Факел
SYNAR 20978 Караул 271200Z 20009G12MPS 9999 DRSN OVC020CB M01/M02 Q1014 RMK QFE757/1010 CLD:8CB
(330/98KM)


NOWCAST.SU UOOK 271600Z 19008G14MPS 1800 SN BLSN OVC001 M05/M06 Q1017 NOSIG
AUTOTAF.ME UOOK 271300Z 2714/2723 19008G14MPS 0500 SN BLSN OVC002 TXM04/2714Z TNM07/2722Z
BECMG 2714/2715 1200
BECMG 2715/2716 2500
BECMG 2717/2718 0500
FM272200 17006G11MPS 0500 +SN FZFG VV002
FM272300 17007G13MPS 0500 SN BLSN BKN002
 
Пелятка Норильская
SYNAR 20978 Караул 271200Z 20009G12MPS 9999 DRSN OVC020CB M01/M02 Q1014 RMK QFE757/1010 CLD:8CB
(40/73KM)


NOWCAST.SU UOOL 271600Z 20005G12MPS 0500 SN BLSN OVC001 M05/M06 Q1015 NOSIG
AUTOTAF.ME UOOL 271300Z 2714/2723 21006G11MPS 0500 +SN FZFG BKN002 TXM04/2714Z TNM06/2717Z
BECMG 2715/2716 SN BLSN
BECMG 2716/2717 +SN FZFG
BECMG 2721/2722 SN FZFG
 
Мессояха
SYNAR 20978 Караул 271200Z 20009G12MPS 9999 DRSN OVC020CB M01/M02 Q1014 RMK QFE757/1010 CLD:8CB
(10/109KM)


NOWCAST.SU UOOM 271600Z 20005G11MPS 0500 +SN FZFG VV002 M06/M07 Q1016 NOSIG
RMK TURB: MOD FL170/FL180
AUTOTAF.ME UOOM 271300Z 2714/2723 21006G11MPS 0500 +SN FZFG VV004 TXM05/2721Z TNM06/2714Z
BECMG 2714/2715 SN BLSN
BECMG 2715/2716 +SN FZFG
BECMG 2716/2717 FZFG
FM272000 18004MPS 0500 SN FZFG VV004
FM272200 17005G10MPS 0500 +SN FZFG BKN004
 
Волочанка
SYNAR 20982 Волочанка 271200Z 28012G16MPS 4000 -SN OVC020 M04/M07 Q1012 RMK QFE755/1007 CLD:8SC


NOWCAST.SU UOON 271600Z 26011G19MPS 9999 OVC024 M06/M10 Q1016 NOSIG
RMK TURB: MOD SFC/FL20
AUTOTAF.ME UOON 271300Z 2714/2723 26013G21MPS 2500 BLSN OVC015 TXM06/2714Z TNM09/2721Z
BECMG 2714/2715 OVC025
FM271600 26011G19MPS 9999 OVC025
BECMG 2717/2718 26005G13MPS
 
Норильск (Алыкель)
METAR UOOO 271600Z 18013MPS 0600 0550SE R19/1600N -SN BLSN NSC M11/M12 Q1017 R19/810334 NOSIG RMK QFE746/0995


NOWCAST.SU UOOO 271600Z 16010G16MPS 0500 SN BLSN OVC004 M10/M12 Q1020 NOSIG
RMK TURB: MOD SFC/FL20
AUTOTAF.ME UOOO 271300Z 2714/2723 17010G17MPS 0500 SN BLSN OVC004 TXM10/2714Z TNM11/2719Z
BECMG 2722/2723 OVC015
TAF UOOO 271353Z 2715/2815 18011G20MPS 1400 -SN BLSN OVC016
TEMPO 2715/2718 0600 SN BLSN OVC011
BECMG 2718/2721 2700 -SN BLSN
TEMPO 2721/2804 1000 SN BLSN OVC011
BECMG 2804/2808 18006G15MPS 6000 -SN BLSN=
Усть-Порт
SYNAR 20978 Караул 271200Z 20009G12MPS 9999 DRSN OVC020CB M01/M02 Q1014 RMK QFE757/1010 CLD:8CB
(310/66KM)


NOWCAST.SU UOOP 271600Z 19008G14MPS 0200 SN BLSN OVC001 M05/M06 Q1017 NOSIG
AUTOTAF.ME UOOP 271300Z 2714/2723 19008G14MPS 1200 SN BLSN OVC002 TXM04/2714Z TNM07/2722Z
BECMG 2714/2715 0200
BECMG 2716/2717 1200
BECMG 2719/2720 0500
FM272200 17006G11MPS 0500 +SN FZFG VV002
FM272300 17007G13MPS 0500 SN BLSN BKN002
 
Караул
SYNAR 20978 Караул 271200Z 20009G12MPS 9999 DRSN OVC020CB M01/M02 Q1014 RMK QFE757/1010 CLD:8CB


NOWCAST.SU UOOR 271600Z 21007G12MPS 0500 SN BLSN OVC001 M04/M05 Q1015 NOSIG
AUTOTAF.ME UOOR 271300Z 2714/2723 21007G12MPS 0500 SN BLSN OVC002 TXM03/2714Z TNM06/2720Z
BECMG 2716/2717 +SN FZFG
FM272200 18005MPS 1200 SN BR OVC002
 
Усть-Тарея
 


NOWCAST.SU UOOU 271600Z 24009G15MPS 0500 SN BLSN OVC001 M04/M05 Q1009 NOSIG
RMK TURB: MOD SFC/FL20
AUTOTAF.ME UOOU 271300Z 2714/2723 25009G15MPS 0500 SN BLSN OVC004 TXM03/2714Z TNM05/2720Z
BECMG 2714/2715 1200
FM271600 24009G15MPS 0500 SN BLSN OVC002
BECMG 2716/2717 BLSN
BECMG 2719/2720 SN BLSN
FM272300 21008G14MPS 0500 BLSN BKN002
 
Валек
SYNAR 23078 Норильск 271200Z 13005G10MPS 4000 -SHGS OVC020CB M10/M12 Q1020 RMK QFE759/1012 CLD:8CB


NOWCAST.SU UOOW 271600Z 13005MPS 0700 +SN FZFG VV002 M12/M13 Q1020 NOSIG
RMK TURB: MOD FL40/FL50
AUTOTAF.ME UOOW 271300Z 2714/2723 13005MPS 1200 SN BR OVC004 TXM12/2714Z TNM12/2714Z
BECMG 2714/2715 +SN FZFG
BECMG 2715/2716 0500
BECMG 2717/2718 1200
FM271900 13004MPS 1200 SN BR OVC004
 
Туруханск
SYNAR 23472 Туруханск 271200Z 19004MPS 1000 SHSN OVC010CB M12/M14 Q1028 RMK QFE767/1023 CLD:8CB


NOWCAST.SU UOTT 271600Z 18007G13MPS 0500 SN BLSN OVC001 M12/M14 Q1027 NOSIG
AUTOTAF.ME UOTT 271300Z 2714/2723 18008G14MPS 0500 SN BLSN OVC002 TXM12/2714Z TNM12/2714Z
 
Севастополь (Бельбек)
SYNAR 33998 Ай-Петри 271200Z 35002MPS CAVOK 08/M09 Q//// RMK CLD:SKC
(120/47KM)


NOWCAST.SU URFB 271600Z VRB02MPS 9999 SKC 09/04 Q1022 NOSIG
AUTOTAF.ME URFB 271300Z 2714/2723 VRB02MPS CAVOK TX11/2714Z TN06/2721Z
 
Симферополь
SYNAR 33946 Симферополь 271200Z 06008MPS CAVOK 15/03 Q1020 RMK QFE749/0998 CLD:SKC


NOWCAST.SU URFF 271600Z 05006MPS 9999 FEW410 05/01 Q1021 NOSIG
AUTOTAF.ME URFF 271300Z 2714/2723 05008MPS CAVOK TX09/2714Z TN02/2721Z
BECMG 2718/2719 VRB02MPS
 
Саки
SYNAR 33946 Симферополь 271200Z 06008MPS CAVOK 15/03 Q1020 RMK QFE749/0998 CLD:SKC
(100/29KM)


NOWCAST.SU URFI 271600Z 05006MPS 9999 FEW410 07/02 Q1022 NOSIG
AUTOTAF.ME URFI 271300Z 2714/2723 05007MPS CAVOK TX10/2714Z TN04/2721Z
 
Симферополь (Заводское)
SYNAR 33946 Симферополь 271200Z 06008MPS CAVOK 15/03 Q1020 RMK QFE749/0998 CLD:SKC
(330/14KM)


NOWCAST.SU URFW 271600Z 05004MPS 9999 FEW400 08/03 Q1021 NOSIG
AUTOTAF.ME URFW 271300Z 2714/2723 05005MPS CAVOK TX12/2714Z TN04/2721Z
BECMG 2720/2721 VRB02MPS
 
Анапа (Витязево)
METAR URKA 271600Z 10003MPS CAVOK 04/M02 Q1022 R04/010070 NOSIG RMK QFE762/1017


NOWCAST.SU URKA 271600Z 08011G19MPS 9999 SKC 07/M02 Q1021 NOSIG
RMK TURB: MOD SFC/FL20
AUTOTAF.ME URKA 271300Z 2714/2723 08011G17MPS CAVOK TX09/2714Z TN02/2723Z
TAF URKA 271357Z 2715/2815 08006G11MPS CAVOK
TEMPO 2715/2803 12003G08MPS=
 


NOSIG
 
Геленджик
SYNAR 37004 Геленджик 271200Z 17002MPS CAVOK 12/03 Q1021 RMK QFE764/1019 CLD:SKC


NOWCAST.SU URKG 271600Z 02003MPS 9999 SKC 08/00 Q1020 NOSIG
AUTOTAF.ME URKG 271300Z 2714/2723 02003MPS CAVOK TX10/2714Z TN03/2722Z
 
Краснодар (Пашковский)
METAR URKK 271600Z 08008MPS CAVOK 09/M06 Q1023 R05R/CLRD70 TEMPO 10009G16MPS RMK QFE764


NOWCAST.SU URKK 271600Z 08011G18MPS 9999 SKC 06/M04 Q1022 NOSIG
RMK TURB: MOD SFC/FL20
AUTOTAF.ME URKK 271300Z 2714/2723 08011G16MPS CAVOK TX09/2714Z TN02/2723Z
TAF URKK 271353Z 2715/2815 08007G12MPS CAVOK
TEMPO 2715/2724 10009G16MPS
BECMG 2813/2815 07003G08MPS=
Майкоп
SYNAR 37021 Майкоп 271200Z 07005G10MPS CAVOK 12/M05 Q1021 RMK QFE746/0995 CLD:SKC


NOWCAST.SU URKM 271600Z 08005G13MPS 9999 SKC 05/M05 Q1020 NOSIG
RMK TURB: MOD SFC/FL30
AUTOTAF.ME URKM 271300Z 2714/2723 08009G14MPS CAVOK TX07/2714Z TN00/2723Z
BECMG 2718/2719 08004MPS
 
Геленджик Бухта
SYNAR 37004 Геленджик 271200Z 17002MPS CAVOK 12/03 Q1021 RMK QFE764/1019 CLD:SKC


NOWCAST.SU URKN 271600Z 02003MPS 9999 SKC 08/00 Q1020 NOSIG
AUTOTAF.ME URKN 271300Z 2714/2723 02003MPS CAVOK TX10/2714Z TN02/2723Z
 
Армавир (Центральный)
SYNAR 37031 Армавир 271200Z 09007G13MPS CAVOK 10/M05 Q1024 RMK QFE753/1004 CLD:SKC


NOWCAST.SU URKR 271600Z 10013G21MPS 9999 SKC 04/M04 Q1024 NOSIG
RMK TURB: MOD SFC/FL30
AUTOTAF.ME URKR 271300Z 2714/2723 10013G21MPS CAVOK TX06/2714Z TN00/2723Z
BECMG 2720/2721 10008G16MPS
 
Энем-АС
SYNAR 37014 Горячий Ключ 271200Z 17001MPS CAVOK 12/M04 Q1022 RMK QFE760/1014 CLD:SKC
(160/37KM)


NOWCAST.SU URKS 271600Z 08011G18MPS 9999 SKC 07/M04 Q1022 NOSIG
RMK TURB: MOD SFC/FL20
AUTOTAF.ME URKS 271300Z 2714/2723 08011G16MPS CAVOK TX09/2714Z TN02/2723Z
 
Тихорецк
SYNAR 34838 Тихорецк 271200Z 08006G15MPS CAVOK 11/M10 Q1025 RMK QFE761/1015 CLD:SKC


NOWCAST.SU URKT 271600Z 09012G19MPS 9999 SKC 05/M04 Q1026 NOSIG
RMK TURB: MOD SFC/FL20
AUTOTAF.ME URKT 271300Z 2714/2723 10012G19MPS CAVOK TX07/2714Z TN01/2723Z
 
Краснодар (Белевцы)
SYNAR 37014 Горячий Ключ 271200Z 17001MPS CAVOK 12/M04 Q1022 RMK QFE760/1014 CLD:SKC
(180/69KM)


NOWCAST.SU URKY 271600Z 08011G18MPS 9999 SKC 06/M04 Q1022 NOSIG
RMK TURB: MOD SFC/FL20
AUTOTAF.ME URKY 271300Z 2714/2723 08011G16MPS CAVOK TX09/2714Z TN02/2723Z
 
Новотитаровская (Азимут)
SYNAR 34924 Славянск-на-Кубани 271200Z 09010MPS CAVOK 12/M05 Q1022 RMK QFE765/1021 CLD:SKC
(270/63KM)


NOWCAST.SU URKZ 271600Z 08012G19MPS 9999 SKC 06/M04 Q1024 NOSIG
RMK TURB: MOD SFC/FL20
AUTOTAF.ME URKZ 271300Z 2714/2723 09012G18MPS CAVOK TX09/2714Z TN02/2722Z
 
Ессентуки
SYNAR 37054 Минеральные Воды 271200Z 10005G10MPS CAVOK 06/M04 Q1027 RMK QFE742/0989 CLD:SKC
(50/28KM)


NOWCAST.SU URME 271600Z 12009G16MPS 9999 SKC M02/M06 Q1025 NOSIG
RMK TURB: MOD FL40/FL50
AUTOTAF.ME URME 271300Z 2714/2723 11011G16MPS CAVOK TX00/2714Z TNM03/2719Z
BECMG 2716/2717 FEW025
FM271800 12005G13MPS 9999 SCT015
BECMG 2721/2722 BR
 
Грозный (Северный)
METAR URMG 271600Z 09006MPS CAVOK 01/M03 Q1028 R08/090070 NOSIG RMK QFE756/1009


NOWCAST.SU URMG 271600Z 08010G16MPS 9999 SKC 02/M04 Q1028 NOSIG
RMK TURB: MOD SFC/FL20
AUTOTAF.ME URMG 271300Z 2714/2723 08011G16MPS CAVOK TX04/2714Z TNM03/2723Z
BECMG 2714/2715 BKN040
BECMG 2715/2716 NSC
BECMG 2716/2717 SCT025
FM272000 09005G11MPS CAVOK
FM272300 09004MPS 9000 BR NSC
TAF URMG 271400Z 2715/2724 10006G14MPS 6000 SCT016=
Кисловодск
SYNAR 37126 Шаджатмаз 271200Z 11011MPS CAVOK M01/M20 Q//// RMK CLD:3CI
(170/25KM)


NOWCAST.SU URMK 271600Z 11007MPS 9999 SKC M03/M06 Q1023 NOSIG
AUTOTAF.ME URMK 271300Z 2714/2723 10009G15MPS CAVOK TXM01/2714Z TNM05/2722Z
BECMG 2718/2719 11004MPS
 
Махачкала (Уйташ)
METAR URML 271600Z 18006MPS 9999 NSC 02/M02 Q1032 R14/01//70 NOSIG RMK QFE774/1032


NOWCAST.SU URML 271600Z 13012MPS 9999 DRDU SKC 02/M02 Q1030 NOSIG
RMK TURB: MOD SFC/FL30
AUTOTAF.ME URML 271300Z 2714/2723 13013MPS CAVOK TX03/2714Z TN01/2720Z
BECMG 2715/2716 DRDU
TAF URML 271400Z 2715/2724 16007G14MPS 6000 SCT017
TEMPO 2718/2724 21003G10MPS=
Минеральные Воды
METAR URMM 271600Z 11005MPS 9999 NSC 01/M05 Q1028 R11/090070 NOSIG RMK QFE742/0990


NOWCAST.SU URMM 271600Z 12009G16MPS 9999 SKC 01/M05 Q1025 NOSIG
RMK TURB: MOD FL40/FL50
AUTOTAF.ME URMM 271300Z 2714/2723 11011G16MPS CAVOK TX02/2714Z TNM02/2720Z
BECMG 2716/2717 FEW025
BECMG 2717/2718 12005G13MPS
BECMG 2721/2722 BR
TAF URMM 271400Z 2715/2815 11006G14MPS 6000 BKN016 TX06/2812Z TNM04/2803Z
TEMPO 2718/2809 OVC003
TEMPO 2809/2815 12010G17MPS=
Нальчик
METAR URMN 271600Z 24002MPS 9999 NSC M01/M04 Q1026 R24/110060 NOSIG RMK QFE733


NOWCAST.SU URMN 271600Z VRB02MPS 9999 FEW035 M02/M04 Q1026 NOSIG
AUTOTAF.ME URMN 271300Z 2714/2723 VRB02MPS 9999 FEW040 TX00/2714Z TNM03/2720Z
FM272000 VRB02MPS 0500 FZFG BKN004
TAF URMN 271400Z 2715/2724 24003G08MPS 6000 BKN016
TEMPO 2715/2724 0500 FZFG OVC002=
Владикавказ (Беслан)
METAR URMO 271600Z 31002MPS 4900 BR NSC M04/M05 Q1027 R09/010070 TEMPO 0300 FZFG BKN002 RMK QFE726/0968


NOWCAST.SU URMO 271600Z VRB02MPS 9999 BKN041 00/M04 Q1026 NOSIG
AUTOTAF.ME URMO 271300Z 2714/2723 VRB02MPS 9000 HZ NSC TX02/2714Z TNM04/2722Z
BECMG 2715/2716 BKN040
TAF URMO 271400Z 2715/2724 28003G08MPS 6000 BKN016=
Магас
SYNAR 37218 Назрань 271200Z 02002MPS CAVOK 03/M04 Q1026 RMK QFE710/0947 CLD:2AS
(210/23KM)


NOWCAST.SU URMS 271600Z 08004MPS 7000 BR BKN034 M01/M03 Q1027 NOSIG
RMK TURB: MOD SFC/FL30
AUTOTAF.ME URMS 271300Z 2714/2723 08006MPS CAVOK TX02/2714Z TNM03/2722Z
FM271600 08004MPS 7000 BR BKN040
BECMG 2718/2719 BKN015
FM272100 VRB02MPS 0500 FZFG BKN004
BECMG 2722/2723 VRB02MPS
 
Ставрополь (Шпаковское)
METAR URMT 271600Z 12009MPS CAVOK 02/M07 Q1026 R07/150060 NOSIG RMK QFE729


NOWCAST.SU URMT 271600Z 11015G23MPS 9999 SKC 02/M04 Q1024 NOSIG
RMK TURB: MOD SFC/FL40
AUTOTAF.ME URMT 271300Z 2714/2723 10015G22MPS CAVOK TX03/2714Z TNM02/2722Z
BECMG 2719/2720 BKN025TCU
FM272200 11013G21MPS 9000 BR BKN015 BKN020TCU
BECMG 2722/2723 7000
TAF URMT 271400Z 2715/2724 12009G16MPS 9999 SCT020
TEMPO 2715/2724 12012G20MPS=
Грачевка
SYNAR 34949 Ставрополь 271200Z 11011G15MPS CAVOK 07/M07 Q1027 RMK QFE729/0972 CLD:SKC
(250/29KM)


NOWCAST.SU URMX 271600Z 11012G20MPS 9999 SKC 03/M04 Q1027 NOSIG
RMK TURB: MOD SFC/FL30
AUTOTAF.ME URMX 271300Z 2714/2723 11013G19MPS CAVOK TX04/2714Z TNM01/2722Z
BECMG 2718/2719 BKN025
BECMG 2720/2721 BKN015
 
Казачья
SYNAR 34949 Ставрополь 271200Z 11011G15MPS CAVOK 07/M07 Q1027 RMK QFE729/0972 CLD:SKC
(60/38KM)


NOWCAST.SU URMZ 271600Z 11014G22MPS 9999 SKC 02/M04 Q1024 NOSIG
RMK TURB: MOD SFC/FL30
AUTOTAF.ME URMZ 271300Z 2714/2723 10014G22MPS CAVOK TX04/2714Z TNM01/2722Z
BECMG 2721/2722 11009G17MPS
 
Шахты
SYNAR 34644 Константиновск 271200Z 10006G12MPS CAVOK 07/M09 Q1032 RMK QFE768/1024 CLD:SKC
(100/63KM)


NOWCAST.SU URRH 271600Z 09010G17MPS 9999 SKC 01/M07 Q1031 NOSIG
RMK TURB: MOD SFC/FL20
AUTOTAF.ME URRH 271300Z 2714/2723 10010G15MPS CAVOK TX04/2714Z TNM02/2721Z
 
Миллерово
SYNAR 34438 Миллерово 271200Z 10007G10MPS CAVOK 03/M07 Q1033 RMK QFE760/1014 CLD:SKC


NOWCAST.SU URRI 271600Z 11008G15MPS 9999 FEW370 M02/M07 Q1033 NOSIG
AUTOTAF.ME URRI 271300Z 2714/2723 11009G16MPS CAVOK TX00/2714Z TNM04/2722Z
 
Ростов-на-Дону (Платов)
METAR URRP 271600Z 10007MPS CAVOK 05/M06 Q1030 R05/CLRD70 NOSIG RMK QFE768/1024


NOWCAST.SU URRP 271600Z 09010G17MPS 9999 SKC 02/M07 Q1030 NOSIG
AUTOTAF.ME URRP 271300Z 2714/2723 10010G16MPS CAVOK TX05/2714Z TNM01/2720Z
TAF URRP 271355Z 2715/2815 10009G16MPS 6000 FEW011 SCT020
TEMPO 2715/2815 13012G20MPS FEW003 BKN016=
Волгодонск
SYNAR 34646 Цимлянск 271200Z 08004MPS CAVOK 03/M05 Q1033 RMK QFE768/1025 CLD:SKC


NOWCAST.SU URRQ 271600Z 09009G16MPS 9999 SKC 00/M08 Q1033 NOSIG
AUTOTAF.ME URRQ 271300Z 2714/2723 10010G16MPS CAVOK TX02/2714Z TNM03/2723Z
 
Ростов-на-Дону
SYNAR 34720 Таганрог 271200Z 09006G11MPS CAVOK 08/M04 Q1028 RMK QFE768/1024 CLD:SKC
(260/70KM)


NOWCAST.SU URRR 271600Z 09010G17MPS 9999 SKC 03/M06 Q1030 NOSIG
AUTOTAF.ME URRR 271300Z 2714/2723 10010G16MPS CAVOK TX05/2714Z TNM01/2721Z
 
Таганрог (Южный)
SYNAR 34720 Таганрог 271200Z 09006G11MPS CAVOK 08/M04 Q1028 RMK QFE768/1024 CLD:SKC


NOWCAST.SU URRT 271600Z 09012G17MPS 9999 SKC 04/M03 Q1028 NOSIG
RMK TURB: MOD SFC/FL20
AUTOTAF.ME URRT 271300Z 2714/2723 10012G17MPS CAVOK TX05/2714Z TN01/2721Z
 
Лазаревское
SYNAR 37018 Туапсе 271200Z 23003MPS CAVOK 15/06 Q1021 RMK QFE759/1013 CLD:SKC
(310/30KM)


NOWCAST.SU URSA 271600Z VRB02MPS 9999 SKC 08/04 Q1019 NOSIG
AUTOTAF.ME URSA 271300Z 2714/2723 VRB02MPS CAVOK TX10/2714Z TN05/2721Z
 
Сочи
METAR URSS 271600Z 30002MPS 9999 NSC 09/05 Q1020 WS ALL RWY R02/010070 R06/010070 NOSIG RMK R06/00000MPS QFE764


NOWCAST.SU URSS 271600Z VRB02MPS 9999 SKC 08/05 Q1020 NOSIG
AUTOTAF.ME URSS 271300Z 2714/2723 VRB02MPS CAVOK TX11/2714Z TN05/2723Z
TAF URSS 271356Z 2715/2815 05004G09MPS 9999 SCT013
TEMPO 2716/2806 BKN006
BECMG 2807/2808 18003G08MPS FEW016
BECMG 2810/2812 23004G09MPS FEW030=
Вертолетчик
SYNAR 37099 Сочи 271200Z 24003MPS CAVOK 13/03 Q1020 RMK QFE753/1004 CLD:SKC
(180/12KM)


NOWCAST.SU URSW 271600Z VRB02MPS 9999 SKC 08/05 Q1020 NOSIG
AUTOTAF.ME URSW 271300Z 2714/2723 VRB02MPS CAVOK TX11/2714Z TN05/2723Z
 
Астрахань
METAR URWA 271600Z 11005MPS CAVOK M03/M13 Q1037 R09/010070 NOSIG RMK QFE780/1040


NOWCAST.SU URWA 271600Z 10004MPS 9999 SKC M03/M09 Q1037 NOSIG
AUTOTAF.ME URWA 271300Z 2714/2723 10005G10MPS CAVOK TX00/2714Z TNM04/2718Z
TAF URWA 271357Z 2715/2724 09005G11MPS CAVOK=
Элиста
METAR URWI 271600Z AUTO 12008MPS 9999 // ///////// 01/M10 Q1033


NOWCAST.SU URWI 271600Z 10010G16MPS 9999 SKC 00/M08 Q1034 NOSIG
AUTOTAF.ME URWI 271300Z 2714/2723 11011G16MPS CAVOK TX02/2714Z TNM04/2722Z
BECMG 2722/2723 09005G13MPS
TAF AMD URWI 271355Z 2712/2721 CNL=
Камышин
SYNAR 34363 Камышин 271200Z 06004MPS CAVOK M08/M11 Q1040 RMK QFE768/1025 CLD:SKC


NOWCAST.SU URWK 271600Z 07003MPS 9999 FEW380 M05/M09 Q1039 NOSIG
AUTOTAF.ME URWK 271300Z 2714/2723 08003MPS CAVOK TXM03/2714Z TNM08/2722Z
 
МЛСК им. В.Филановского
SYNAR 34984 Лагань 271200Z 08007MPS CAVOK 03/M11 Q1035 RMK QFE778/1038 CLD:SKC
(300/99KM)


NOWCAST.SU URWO 271600Z 09009MPS 9999 SKC 01/M04 Q1035 NOSIG
AUTOTAF.ME URWO 271300Z 2714/2723 09008MPS CAVOK TX01/2715Z TN00/2714Z
 
Волгоград (Гумрак)
METAR URWW 271600Z 09005MPS CAVOK M06/M09 Q1037 R05/010070 NOSIG


NOWCAST.SU URWW 271600Z 09005G12MPS 9999 FEW380 M03/M09 Q1037 NOSIG
AUTOTAF.ME URWW 271300Z 2714/2723 10005G11MPS CAVOK TXM01/2714Z TNM06/2722Z
TAF URWW 271356Z 2715/2724 08006G13MPS 9999 SCT020
TEMPO 2715/2724 11008G14MPS BKN016=
Челябинск (Баландино)
METAR USCC 271600Z 27004MPS CAVOK M03/M15 Q1035 R27/420550 NOSIG RMK QFE756


NOWCAST.SU USCC 271600Z 28004MPS 9999 BKN050 M05/M10 Q1036 NOSIG
AUTOTAF.ME USCC 271300Z 2714/2723 28003MPS CAVOK TXM04/2714Z TNM06/2718Z
TAF USCC 271400Z 2715/2815 25003G08MPS 9999 SCT040=
Устиново
SYNAR 28647 Миасс 271200Z 33004MPS CAVOK 02/M19 Q1037 RMK QFE746/0995 CLD:5AC
(20/17KM)


NOWCAST.SU USCD 271600Z VRB02MPS 9999 OVC060 M08/M13 Q1036 NOSIG
AUTOTAF.ME USCD 271300Z 2714/2723 VRB02MPS CAVOK TXM06/2714Z TNM09/2720Z
BECMG 2718/2719 BKN040
BECMG 2721/2722 BKN015
 
Челябинск (Шагол)
SYNAR 28645 Челябинск 271200Z 24001MPS 9999 FEW020 03/M19 Q1037 RMK QFE756/1008 CLD:6SCACCI
(180/12KM)


NOWCAST.SU USCG 271600Z 28004MPS 9999 BKN050 M06/M10 Q1036 NOSIG
AUTOTAF.ME USCG 271300Z 2714/2723 28003MPS CAVOK TXM04/2714Z TNM07/2722Z
 
Магнитогорск
METAR USCM 271600Z 25003MPS 9999 NSC M01/M18 Q1037 R18/910157 NOSIG RMK QFE739


NOWCAST.SU USCM 271600Z VRB02MPS 9999 OVC120 M08/M11 Q1037 NOSIG
AUTOTAF.ME USCM 271300Z 2714/2723 VRB02MPS CAVOK TXM06/2714Z TNM11/2717Z
TAF USCM 271400Z 2715/2724 23003G08MPS 9999 SCT040=
Сабетта
METAR USDA 271600Z 22009MPS 9999 SCT040 M02/M02 Q1008 R22/550337 NOSIG RMK QFE755/1006


NOWCAST.SU USDA 271600Z 21005G13MPS 3000 BLSN BKN001 M04/M04 Q1009 NOSIG
AUTOTAF.ME USDA 271300Z 2714/2723 21005G13MPS 5000 BLSN BKN004 TXM03/2714Z TNM04/2716Z
BECMG 2714/2715 1200
FM271600 21005G13MPS 2500 BLSN BKN002
FM271700 21005G12MPS 5000 DRSN BKN004
FM271900 21004MPS 5000 BR BKN002
BECMG 2720/2721 1200
FM272300 21004MPS 2500 BLSN OVC004
TAF AMD USDA 270725Z 2707/2715 24008MPS 6000 BLSN BKN007
TEMPO 2707/2709 25007G12MPS -SHSN BKN005CB
BECMG 2709/2712 23006G11MPS BKN010CB=
Бованенково
SYNAR 20967 Сеяха 271200Z 25007MPS 9999 SCT020 M02/M02 Q1011 RMK QFE756/1008 CLD:6SCAC
(90/158KM)


NOWCAST.SU USDB 271600Z 22005G13MPS 1800 SN BLSN BKN004 M02/M03 Q1009 NOSIG
AUTOTAF.ME USDB 271300Z 2714/2723 22005G13MPS 0500 BLSN BKN002 TXM02/2714Z TNM03/2719Z
BECMG 2714/2715 BKN004
FM271600 22005G13MPS 2500 SN BLSN BKN004
BECMG 2716/2717 -SN BLSN
BECMG 2717/2718 5000
FM271900 22005G13MPS 2500 -SN BLSN BKN004
FM272000 21005G12MPS 2500 SN BLSN OVC004
FM272100 21005G12MPS 0500 BLSN OVC002
FM272300 21005G11MPS 0500 FZFG BKN002
 
Салехард
SYNAR 23330 Салехард 271200Z 20001MPS 1000 BR OVC002 M06/M07 Q1015 RMK QFE759/1013 CLD:8ST


NOWCAST.SU USDD 271600Z VRB02MPS 1000 BR BKN003 M07/M08 Q1014 NOSIG
AUTOTAF.ME USDD 271300Z 2714/2723 VRB02MPS 1200 BR BKN004 TXM07/2714Z TNM09/2723Z
FM271700 VRB02MPS CAVOK
BECMG 2718/2719 BKN040
FM272000 28003MPS 1200 BR BKN004
 
Сеяха-1
SYNAR 20967 Сеяха 271200Z 25007MPS 9999 SCT020 M02/M02 Q1011 RMK QFE756/1008 CLD:6SCAC


NOWCAST.SU USDE 271600Z 21005G11MPS 1500 BR BKN001 M05/M05 Q1012 NOSIG
AUTOTAF.ME USDE 271300Z 2714/2723 22005G11MPS 7000 BR BKN008 TXM04/2717Z TNM05/2714Z
FM271500 22005G11MPS 2500 BR BKN004
FM271600 21005G11MPS 1200 BR BKN002
FM271700 21004MPS 0500 BLSN BKN002
FM271800 21004MPS 2500 BR BKN004
BECMG 2718/2719 8000
FM272000 20004MPS 5000 BR BKN002
BECMG 2720/2721 2500
BECMG 2721/2722 5000
 
Гыда
SYNAR 20871 Сопочная Карга 271200Z 24008MPS 9999 DRSN OVC010 M03/M03 Q1009 RMK QFE756/1008 CLD:8SC
(50/184KM)


NOWCAST.SU USDG 271600Z 21004MPS 4000 BR BKN001 M05/M05 Q1011 NOSIG
RMK TURB: MOD FL170/FL180
AUTOTAF.ME USDG 271300Z 2714/2723 22005G12MPS 1200 BLSN BKN002 TXM04/2714Z TNM05/2716Z
BECMG 2714/2715 2500
FM271600 21004MPS 5000 BR BKN002
FM271700 20004MPS 2500 BR BKN004
BECMG 2717/2718 BKN008
FM271900 20005G10MPS 1200 BR BKN004
FM272100 21005G11MPS 1200 FZFG BKN002
BECMG 2721/2722 0500
FM272300 20005G11MPS 1200 FZFG VV002
 
Харасавей
SYNAR 20864 Тамбей 271200Z 23009MPS //// //// M02/M02 Q1007 RMK QFE754/1006 CLD:NO_OBSERVATIONS
(80/176KM)


NOWCAST.SU USDH 271600Z 22008G14MPS 0500 BLSN BKN001 M02/M03 Q1008 NOSIG
AUTOTAF.ME USDH 271300Z 2714/2723 22009G14MPS 0500 BLSN OVC004 TXM02/2714Z TNM03/2720Z
BECMG 2714/2715 BKN002
BECMG 2716/2717 OVC004
FM271800 21008G13MPS 2500 BLSN OVC002
FM271900 21008G13MPS 5000 BR OVC002
BECMG 2722/2723 -SN BR
 
Антипаюта
SYNAR 23058 Антипаюта 271200Z 18005MPS 9999 OVC033 M03/M04 Q1014 RMK QFE760/1014 CLD:8SC


NOWCAST.SU USDI 271600Z 20003MPS 0900 FZFG BKN001 M07/M07 Q1015 NOSIG
AUTOTAF.ME USDI 271300Z 2714/2723 21004MPS 2500 BR BKN002 TXM05/2719Z TNM07/2715Z
FM271600 20003MPS 1200 FZFG BKN002
BECMG 2716/2717 BR
FM271800 20003MPS 0500 FZFG VV002
BECMG 2719/2720 SN FZFG
FM272200 VRB02MPS 1200 SN BR OVC002
BECMG 2722/2723 BR
 
Мыс Каменный
SYNAR 23242 Новый Порт 271200Z 13005MPS 9999 DRSN OVC013 M08/M09 Q1016 RMK QFE760/1014 CLD:8SC
(200/92KM)


NOWCAST.SU USDK 271600Z 20003MPS 1000 BR OVC003 M10/M10 Q1014 NOSIG
AUTOTAF.ME USDK 271300Z 2714/2723 20004MPS 5000 BR OVC004 TXM08/2714Z TNM10/2716Z
FM271500 20003MPS 1200 BR OVC002
BECMG 2715/2716 OVC004
BECMG 2718/2719 FZFG
BECMG 2719/2720 0500
FM272100 VRB02MPS 0500 FZFG VV002
FM272200 VRB02MPS 2500 BR OVC002
FM272300 VRB02MPS 5000 BR OVC002
 
Лабытнанги
SYNAR 23330 Салехард 271200Z 20001MPS 1000 BR OVC002 M06/M07 Q1015 RMK QFE759/1013 CLD:8ST
(150/19KM)


NOWCAST.SU USDL 271600Z VRB02MPS 1000 BR BKN003 M07/M08 Q1014 NOSIG
AUTOTAF.ME USDL 271300Z 2714/2723 VRB02MPS 1200 BR BKN004 TXM06/2714Z TNM09/2723Z
FM271700 VRB02MPS CAVOK
BECMG 2718/2719 BKN040
FM272000 28003MPS 1200 BR BKN004
 
Утренний
 


NOWCAST.SU USDM 271600Z 21005G13MPS 0500 BLSN OVC001 M04/M04 Q1010 NOSIG
AUTOTAF.ME USDM 271300Z 2714/2723 21005G12MPS 2500 BLSN OVC004 TXM03/2714Z TNM04/2716Z
FM271500 21005G11MPS 0500 FZFG BKN002
BECMG 2715/2716 BLSN
BECMG 2717/2718 OVC004
FM272100 21004MPS 0500 FZFG VV002
 
Толька
SYNAR 23662 Толька 271200Z 18003MPS 9999 OVC014 M10/M14 Q1028 RMK QFE767/1023 CLD:8SC


NOWCAST.SU USDO 271600Z 18005G12MPS 0500 BLSN OVC001 M10/M11 Q1024 NOSIG
RMK TURB: MOD SFC/FL120
AUTOTAF.ME USDO 271300Z 2714/2723 19005G12MPS 0500 BLSN BKN004 TXM09/2718Z TNM10/2714Z
BECMG 2715/2716 OVC002
BECMG 2716/2717 SN BLSN
 
Красноселькуп
SYNAR 23465 Красноселькуп 271200Z 19005MPS 9999 OVC013CB M09/M12 Q1024 RMK QFE765/1020 CLD:8CB


NOWCAST.SU USDP 271600Z 19006G12MPS 1800 SN BLSN BKN003 M09/M10 Q1023 NOSIG
AUTOTAF.ME USDP 271300Z 2714/2723 20006G11MPS 2500 SN BR BKN002 TXM08/2714Z TNM09/2716Z
FM271600 19006G12MPS 2500 SN BLSN BKN004
FM271700 19006G11MPS 1200 SN BR BKN004
FM271800 18006G11MPS 1200 +SN FZFG BKN002
BECMG 2718/2719 0500
 
Яр-Сале
SYNAR 23345 Ныда 271200Z 20005MPS 9999 OVC010 M04/M05 Q1017 RMK QFE762/1016 CLD:8SC
(110/96KM)


NOWCAST.SU USDR 271600Z VRB02MPS 0500 FZFG BKN001 M06/M07 Q1014 NOSIG
AUTOTAF.ME USDR 271300Z 2714/2723 20003MPS 0500 FZFG BKN004 TXM06/2714Z TNM10/2723Z
BECMG 2715/2716 BKN002
BECMG 2722/2723 BKN004
 
Тарко-Сале
SYNAR 23552 Тарко-Сале 271200Z 16002MPS 9999 BKN014 M05/M07 Q1023 RMK QFE764/1019 CLD:8SCAC


NOWCAST.SU USDS 271600Z 18006G11MPS 0200 +SN FZFG BKN001 M05/M06 Q1018 NOSIG
AUTOTAF.ME USDS 271300Z 2714/2723 18006G11MPS 0500 SN FZFG BKN002 TXM03/2723Z TNM05/2714Z
BECMG 2714/2715 +SN FZFG
BECMG 2717/2718 SN FZFG
BECMG 2718/2719 +SN FZFG
FM272000 17005MPS 0500 SN FZFG VV002
FM272300 21005G10MPS 1200 SN BR OVC002
 
Тазовский
SYNAR 23256 Тазовский 271200Z 21006MPS 9999 BKN006 M04/M05 Q1018 RMK QFE761/1014 CLD:8SCAC


NOWCAST.SU USDT 271600Z 18004MPS 1800 BR OVC001 M04/M05 Q1016 NOSIG
AUTOTAF.ME USDT 271300Z 2714/2723 20004MPS 5000 BR BKN004 TXM04/2714Z TNM05/2722Z
FM271500 19004MPS 2500 BR OVC002
BECMG 2716/2717 1200
FM271900 17004MPS 0500 FZFG BKN002
FM272300 16004MPS 1200 BR OVC002
 
Уренгой
SYNAR 23453 Уренгой 271200Z 19003MPS 9999 SCT008 M04/M06 Q1021 RMK QFE763/1017 CLD:8SCAC


NOWCAST.SU USDU 271600Z 18005G10MPS 0500 +SN FZFG BKN001 M04/M05 Q1018 NOSIG
AUTOTAF.ME USDU 271300Z 2714/2723 19007G12MPS 0500 SN BLSN BKN002 TXM03/2714Z TNM06/2720Z
BECMG 2714/2715 +SN FZFG
BECMG 2716/2717 BKN004
BECMG 2717/2718 OVC002
 
Новый Порт
SYNAR 23242 Новый Порт 271200Z 13005MPS 9999 DRSN OVC013 M08/M09 Q1016 RMK QFE760/1014 CLD:8SC


NOWCAST.SU USDW 271600Z 22003MPS 1000 BR OVC001 M06/M07 Q1014 NOSIG
AUTOTAF.ME USDW 271300Z 2714/2723 22003MPS 1200 BR OVC004 TXM05/2714Z TNM08/2721Z
BECMG 2714/2715 OVC002
FM272000 VRB02MPS 0500 FZFG BKN002
BECMG 2721/2722 BKN004
BECMG 2722/2723 BKN002
 
Березово
SYNAR 23631 Березово 271200Z 22005MPS 9999 SCT019CB M02/M05 Q1017 RMK QFE759/1013 CLD:8CBAC


NOWCAST.SU USHB 271600Z 25004MPS 9999 DRSN OVC023 M03/M05 Q1017 NOSIG
AUTOTAF.ME USHB 271300Z 2714/2723 24004MPS 9999 BKN025 TXM03/2714Z TNM07/2722Z
BECMG 2715/2716 DRSN
FM271700 26003MPS 9999 OVC015
BECMG 2719/2720 BKN040
BECMG 2722/2723 NSC
 
Ханты-Мансийск
METAR USHH 271600Z 21004MPS CAVOK M02/M10 Q1021 R24/310060 NOSIG


NOWCAST.SU USHH 271600Z 23007G12MPS 9999 DRSN BKN011 M05/M08 Q1023 NOSIG
AUTOTAF.ME USHH 271300Z 2714/2723 22006MPS 9999 BKN008 TXM04/2717Z TNM07/2721Z
BECMG 2715/2716 DRSN
BECMG 2717/2718 BKN025
BECMG 2721/2722 BKN002
FM272300 24005G10MPS 8000 BR OVC002
TAF USHH 271338Z 2715/2815 24005G12MPS 9999 BKN020
TEMPO 2715/2724 20004G10MPS 5000 -SHSN FEW004 BKN016CB
TEMPO 2800/2812 1700 SHSN SCT004 BKN011CB
BECMG 2803/2805 27003G10MPS=
Игрим
SYNAR 23631 Березово 271200Z 22005MPS 9999 SCT019CB M02/M05 Q1017 RMK QFE759/1013 CLD:8CBAC
(20/85KM)


NOWCAST.SU USHI 271600Z 25005G13MPS 9999 BKN011 M03/M05 Q1019 NOSIG
RMK TURB: MOD FL20/FL30
AUTOTAF.ME USHI 271300Z 2714/2723 24005G13MPS 9999 BKN008 TXM03/2714Z TNM04/2722Z
BECMG 2719/2720 DRSN
FM272100 25003MPS 2500 BR BKN004
 
Междуреченский
SYNAR 28064 Леуши 271200Z 20001MPS CAVOK 02/M11 Q1025 RMK QFE762/1016 CLD:8AC
(300/11KM)


NOWCAST.SU USHM 271600Z 24004MPS 9999 OVC047 M03/M08 Q1026 NOSIG
AUTOTAF.ME USHM 271300Z 2714/2723 24004MPS 9999 BKN040 TXM03/2714Z TNM07/2723Z
BECMG 2720/2721 NSC
BECMG 2722/2723 BKN025
 
Нягань
SYNAR 23823 Вонъеган 271200Z 27003MPS //// //// M00/M07 Q1021 RMK QFE755/1007 CLD:NO_OBSERVATIONS
(240/41KM)


NOWCAST.SU USHN 271600Z 25004MPS 9999 BKN043 M03/M05 Q1021 NOSIG
RMK TURB: MOD SFC/FL20
AUTOTAF.ME USHN 271300Z 2714/2723 25004MPS 9999 BKN015 TXM02/2714Z TNM03/2715Z
BECMG 2714/2715 BKN040
BECMG 2716/2717 BKN015
FM271900 25004MPS 9999 -SN BKN002
BECMG 2720/2721 BKN008
 
Горноправдинск
SYNAR 23939 Алтай 271200Z 22003MPS //// //// M01/M07 Q1025 RMK QFE765/1020 CLD:NO_OBSERVATIONS
(300/59KM)


NOWCAST.SU USHP 271600Z 22004MPS 9999 BKN012 M05/M08 Q1025 NOSIG
RMK TURB: MOD SFC/FL20
AUTOTAF.ME USHP 271300Z 2714/2723 22004MPS 9999 BKN015 TXM03/2714Z TNM06/2720Z
BECMG 2717/2718 BKN008
 
Белоярский
SYNAR 23734 Октябрьское 271200Z 25002MPS CAVOK M00/M03 Q1019 RMK QFE758/1010 CLD:8AC
(190/141KM)


NOWCAST.SU USHQ 271600Z 24004MPS 9999 OVC011 M03/M05 Q1018 NOSIG
RMK TURB: MOD SFC/FL20
AUTOTAF.ME USHQ 271300Z 2714/2723 24004MPS 9999 DRSN OVC008 TXM03/2714Z TNM05/2723Z
BECMG 2716/2717 DRSN
FM271800 25004MPS 7000 BR OVC008
FM271900 25004MPS 5000 BLSN OVC004
BECMG 2719/2720 1200
BECMG 2720/2721 BR
FM272300 VRB02MPS 8000 BR NSC
 
Советский
SYNAR 23823 Вонъеган 271200Z 27003MPS //// //// M00/M07 Q1021 RMK QFE755/1007 CLD:NO_OBSERVATIONS
(40/98KM)


NOWCAST.SU USHS 271600Z 24004MPS 9999 BKN009 M03/M05 Q1022 NOSIG
RMK TURB: MOD SFC/FL20
AUTOTAF.ME USHS 271300Z 2714/2723 24004MPS 9999 OVC040 TXM02/2714Z TNM04/2720Z
BECMG 2715/2716 BKN008
BECMG 2719/2720 NSC
BECMG 2722/2723 OVC040
 
Урай
SYNAR 23929 Шаим 271200Z 22003MPS 9999 FEW020 01/M12 Q1024 RMK QFE762/1017 CLD:8SCACCI
(310/41KM)


NOWCAST.SU USHU 271600Z 25004MPS 9999 BKN035 M03/M09 Q1025 NOSIG
AUTOTAF.ME USHU 271300Z 2714/2723 24004MPS 9999 BKN040 TXM03/2714Z TNM06/2721Z
BECMG 2719/2720 NSC
BECMG 2721/2722 BKN025
 
Няксимволь
SYNAR 23724 Няксимволь 271200Z 25003MPS CAVOK M01/M08 Q1022 RMK QFE761/1015 CLD:8AS


NOWCAST.SU USHW 271600Z 26005G13MPS 9999 OVC018 M02/M05 Q1021 NOSIG
RMK TURB: MOD SFC/FL20
AUTOTAF.ME USHW 271300Z 2714/2723 25005G13MPS CAVOK TXM02/2714Z TNM03/2722Z
BECMG 2714/2715 BKN015
BECMG 2716/2717 BKN040
BECMG 2717/2718 NSC
FM272000 25005G13MPS 9999 BKN025
 
Ижевск
SYNAR 28411 Ижевск 271200Z 20003MPS CAVOK M05/M16 Q1036 RMK QFE762/1016 CLD:8ACCS


NOWCAST.SU USII 271600Z 22004MPS 9999 BKN110 M08/M12 Q1035 NOSIG
RMK TURB: MOD SFC/FL20
AUTOTAF.ME USII 271300Z 2714/2723 22005G13MPS 9999 OVC025 TXM07/2714Z TNM13/2723Z
BECMG 2714/2715 NSC
 
Киров (Победилово)
SYNAR 27199 Киров 271200Z 22003MPS CAVOK M01/M11 Q1029 RMK QFE757/1009 CLD:2CI
(60/20KM)


NOWCAST.SU USKK 271600Z 22005G13MPS 9999 BKN009 M06/M09 Q1031 NOSIG
AUTOTAF.ME USKK 271300Z 2714/2723 22005G13MPS 9999 BKN008 TXM06/2714Z TNM06/2714Z
BECMG 2714/2715 DRSN
BECMG 2716/2717 DRSN
FM271800 22005G13MPS 9999 OVC025
BECMG 2718/2719 BKN008
FM272300 22004MPS CAVOK
 
Котельнич
SYNAR 27283 Котельнич 271200Z 21004MPS CAVOK M01/M11 Q1030 RMK QFE760/1014 CLD:5ACCI


NOWCAST.SU USKO 271600Z 21005G13MPS 9999 DRSN BKN010 M05/M08 Q1030 NOSIG
AUTOTAF.ME USKO 271300Z 2714/2723 22005G13MPS 9999 DRSN BKN008 TXM05/2714Z TNM05/2714Z
BECMG 2715/2716 DRSN
BECMG 2721/2722 OVC040
FM272300 21005MPS 8000 BR OVC004
 
КС Лонг-Юганская
SYNAR 23445 Надым 271200Z 17003MPS 2000 SHSN OVC005CB M02/M02 Q1017 RMK QFE760/1014 CLD:8CB
(40/112KM)


NOWCAST.SU USML 271600Z 25004MPS 0500 SN FZFG VV002 M03/M04 Q1014 NOSIG
AUTOTAF.ME USML 271300Z 2714/2723 23004MPS 1200 SN BR OVC004 TXM02/2714Z TNM04/2719Z
BECMG 2714/2715 2500
FM271600 25004MPS 0500 SN FZFG VV004
BECMG 2719/2720 FZFG
BECMG 2720/2721 OVC008
FM272200 28004MPS 5000 BR OVC008
 
Надым
SYNAR 23445 Надым 271200Z 17003MPS 2000 SHSN OVC005CB M02/M02 Q1017 RMK QFE760/1014 CLD:8CB


NOWCAST.SU USMM 271600Z 21003MPS 0700 SN FZFG VV001 M02/M03 Q1014 NOSIG
AUTOTAF.ME USMM 271300Z 2714/2723 19004MPS 0200 SN FZFG VV002 TXM02/2714Z TNM04/2722Z
FM272200 29003MPS 1200 SN BR OVC002
BECMG 2722/2723 BR
 
Ямбург
SYNAR 23058 Антипаюта 271200Z 18005MPS 9999 OVC033 M03/M04 Q1014 RMK QFE760/1014 CLD:8SC
(30/141KM)


NOWCAST.SU USMQ 271600Z 21003MPS 1000 BR OVC001 M04/M05 Q1014 NOSIG
AUTOTAF.ME USMQ 271300Z 2714/2723 22005MPS 7000 BR NSC TXM04/2714Z TNM05/2723Z
FM271500 21004MPS 9999 OVC004
FM271600 21003MPS 1200 BR OVC002
BECMG 2722/2723 2500
 
Новый Уренгой
SYNAR 23358 Новый Уренгой 271200Z 19005MPS 9999 DRSN SCT020 M03/M04 Q1018 RMK QFE758/1011 CLD:8SCAC
(70/12KM)


NOWCAST.SU USMU 271600Z 18004MPS 0500 SN FZFG VV002 M03/M03 Q1016 NOSIG
AUTOTAF.ME USMU 271300Z 2714/2723 19004MPS 0500 BLSN OVC004 TXM02/2714Z TNM05/2722Z
BECMG 2714/2715 SN FZFG
 
Нижневартовск
METAR USNN 271600Z 18005MPS 4700 -SN OVC010 M07/M08 Q1025 R21/490538 NOSIG RMK QFE764


NOWCAST.SU USNN 271600Z 19008G15MPS 8000 -SN BR BKN002 M06/M07 Q1025 NOSIG
RMK TURB: MOD FL20/FL30
AUTOTAF.ME USNN 271300Z 2714/2723 19008G14MPS 7000 BR BKN008 TXM03/2723Z TNM06/2714Z
FM271600 19008G15MPS 8000 -SN BR BKN004
FM271700 20008G15MPS 5000 -SN BLSN BKN002
FM271800 20008G15MPS 1200 SN BLSN BKN002
BECMG 2718/2719 2500
FM272000 22008G15MPS 5000 -SN BLSN BKN002
FM272100 22008G14MPS 2500 BLSN BKN004
BECMG 2721/2722 SN BLSN
FM272300 23010G15MPS 1200 SN BLSN OVC008
TAF USNN 271344Z 2715/2815 18005G11MPS 6000 -SN OVC010
TEMPO 2715/2809 2100 -SHSN SCT004 BKN016CB
BECMG 2721/2723 23005G11MPS
BECMG 2809/2810 27005G11MPS=
Радужный
SYNAR 23758 Радужный 271200Z 16004MPS CAVOK M09/M12 Q1027 RMK QFE763/1018 CLD:8AS


NOWCAST.SU USNR 271600Z 19005G13MPS 1300 SN BLSN OVC002 M06/M07 Q1023 NOSIG
RMK TURB: MOD FL20/FL30
AUTOTAF.ME USNR 271300Z 2714/2723 18005G13MPS 1200 BLSN BKN004 TXM04/2720Z TNM06/2714Z
BECMG 2714/2715 SN BLSN
BECMG 2716/2717 0200
BECMG 2719/2720 2500
FM272100 20005G13MPS 0500 SN BLSN OVC004
FM272300 22005G13MPS 1200 SN BLSN OVC004
 
Пермь (Бахаревка)
SYNAR 28224 Пермь 271200Z 21005MPS 9999 FEW033 00/M17 Q1033 RMK QFE759/1012 CLD:7SCACCC
(80/29KM)


NOWCAST.SU USPB 271600Z 23004MPS 9999 BKN135 M07/M12 Q1033 NOSIG
RMK TURB: MOD FL20/FL30
AUTOTAF.ME USPB 271300Z 2714/2723 22005G13MPS 9999 BKN015 TXM05/2714Z TNM10/2721Z
BECMG 2714/2715 NSC
BECMG 2722/2723 BKN040
 
Пермь (Большое Савино)
METAR USPP 271600Z 22007MPS CAVOK M04/M15 Q1031 R21/090060 NOSIG RMK QFE762


NOWCAST.SU USPP 271600Z 23004MPS 9999 BKN137 M06/M11 Q1033 NOSIG
RMK TURB: MOD FL20/FL30
AUTOTAF.ME USPP 271300Z 2714/2723 22005G13MPS 9999 BKN015 TXM05/2714Z TNM09/2720Z
BECMG 2714/2715 NSC
BECMG 2722/2723 BKN040
TAF USPP 271358Z 2715/2815 23004G15MPS 9999 BKN040
BECMG 2722/2724 8000 -SN BKN016=
Березники
SYNAR 28134 Губаха 271200Z 21002MPS 9999 FEW066 M01/M17 Q1030 RMK QFE746/0995 CLD:8ACCC
(150/84KM)


NOWCAST.SU USPT 271600Z 21005G13MPS 9999 SCT014 M06/M09 Q1029 NOSIG
RMK TURB: MOD SFC/FL20
AUTOTAF.ME USPT 271300Z 2714/2723 21005G13MPS 9999 SCT015 TXM05/2714Z TNM07/2717Z
BECMG 2717/2718 BKN008
BECMG 2718/2719 BKN015
FM272000 21004MPS 7000 HZ BKN015
FM272100 21004MPS 0500 SN BLSN OVC008
BECMG 2722/2723 OVC002
 
Когалым
SYNAR 23748 Когалым 271200Z 18007G10MPS 8000 -SN OVC004 M04/M04 Q1024 RMK QFE761/1015 CLD:8SC


NOWCAST.SU USRK 271600Z 22011G17MPS 0800 SN BLSN OVC002 M02/M03 Q1021 NOSIG
AUTOTAF.ME USRK 271300Z 2714/2723 21010G16MPS 0200 SN BLSN BKN004 TXM01/2714Z TNM04/2720Z
BECMG 2714/2715 1200
BECMG 2715/2716 0500
FM271700 23011G17MPS 8000 -SN BR OVC008
BECMG 2717/2718 -SN DRSN
FM272000 23010G15MPS 2500 -SN BLSN BKN004
FM272100 23009G14MPS 0500 SN BLSN OVC004
 
Нефтеюганск
SYNAR 23849 Сургут 271200Z 19004MPS 9999 OVC006 M01/M01 Q1024 RMK QFE762/1016 CLD:8ST
(60/48KM)


NOWCAST.SU USRN 271600Z 22010G16MPS 9999 BKN013 BKN020TCU M01/M04 Q1023 NOSIG
RMK TURB: MOD SFC/FL20
AUTOTAF.ME USRN 271300Z 2714/2723 21010G16MPS 9999 DRSN BKN015 BKN020TCU TX00/2714Z TNM04/2719Z
FM272000 23008G13MPS 9000 BR OVC040
FM272100 23008G13MPS 2500 SN BLSN OVC015
FM272200 23008G13MPS 1200 SN BLSN OVC008
BECMG 2722/2723 OVC002
 
Ноябрьск
SYNAR 23657 Ноябрьск 271200Z 15004MPS 1800 SHSN OVC003 M06/M06 Q1022 RMK QFE754/1006 CLD:8ST


NOWCAST.SU USRO 271600Z 22012G17MPS 0200 SN BLSN OVC004 M02/M03 Q1019 NOSIG
RMK TURB: MOD SFC/FL20
AUTOTAF.ME USRO 271300Z 2714/2723 20010G16MPS 0200 SN BLSN OVC004 TXM02/2715Z TNM05/2722Z
BECMG 2717/2718 1200
BECMG 2720/2721 0500
 
Сургут
METAR USRR 271600Z 21005MPS 9999 SCT012 BKN021CB M01/M03 Q1022 R25/450236 NOSIG RMK QFE761


NOWCAST.SU USRR 271600Z 22010G16MPS 9999 -SN BKN010 M02/M03 Q1022 NOSIG
RMK TURB: MOD SFC/FL20
AUTOTAF.ME USRR 271300Z 2714/2723 22010G16MPS 2500 SN BLSN OVC004 TXM01/2714Z TNM04/2720Z
FM271500 22010G16MPS 9999 -SN DRSN BKN008
BECMG 2715/2716 -SN
FM272000 23010G16MPS 7000 -SN BR BKN008
FM272100 23009G16MPS 0500 SN BLSN OVC004
BECMG 2721/2722 OVC002
BECMG 2722/2723 BKN004
TAF USRR 271345Z 2715/2815 22006G13MPS 3100 -SHSN BKN011 BKN020CB
TEMPO 2715/2803 0800 +SHSN VV004
FM280300 27006G13MPS 6000 -SHSN FEW011 SCT020CB
TEMPO 2803/2812 1000 SHSN FEW005 BKN016CB=
Североуральск
SYNAR 23919 Североуральск 271200Z 21002MPS 9999 BKN020CB 02/M13 Q1024 RMK QFE748/0997 CLD:7CBAC


NOWCAST.SU USSE 271600Z 23003MPS 9999 OVC014 M03/M11 Q1024 NOSIG
AUTOTAF.ME USSE 271300Z 2714/2723 VRB02MPS 9999 OVC015 TXM02/2714Z TNM07/2723Z
BECMG 2720/2721 BKN040
BECMG 2722/2723 BKN015
 
Грань
SYNAR 28240 Нижний Тагил 271200Z 24005MPS CAVOK 01/M20 Q1031 RMK QFE749/0999 CLD:5AC
(350/17KM)


NOWCAST.SU USSG 271600Z 26009G17MPS 9999 BKN100 M04/M13 Q1032 NOSIG
AUTOTAF.ME USSG 271300Z 2714/2723 26009G17MPS CAVOK TXM04/2714Z TNM07/2723Z
 
Ивдель
SYNAR 23921 Ивдель 271200Z 29003MPS 9999 BKN033 01/M07 Q1024 RMK QFE759/1012 CLD:7SCAC


NOWCAST.SU USSI 271600Z 23003MPS 9999 OVC040 M03/M09 Q1025 NOSIG
AUTOTAF.ME USSI 271300Z 2714/2723 VRB02MPS 9999 OVC040 TXM02/2714Z TNM06/2723Z
 
Екатеринбург (Арамиль)
SYNAR 28440 Екатеринбург 271200Z 27005G10MPS 9999 BKN020 01/M17 Q1034 RMK QFE749/0999 CLD:7SCCS
(330/17KM)


NOWCAST.SU USSK 271600Z 26005G13MPS 9999 BKN120 M05/M12 Q1034 NOSIG
RMK TURB: MOD SFC/FL20
AUTOTAF.ME USSK 271300Z 2714/2723 26005G13MPS CAVOK TXM05/2714Z TNM06/2722Z
 
Алапаевск
SYNAR 28346 Артемовский 271200Z 23002MPS CAVOK 01/M19 Q1032 RMK QFE759/1013 CLD:8ACCC
(170/56KM)


NOWCAST.SU USSQ 271600Z 26005G13MPS 9999 BKN120 M04/M11 Q1031 NOSIG
RMK TURB: MOD FL20/FL30
AUTOTAF.ME USSQ 271300Z 2714/2723 26005G13MPS CAVOK TXM03/2714Z TNM05/2722Z
 
Екатеринбург (Кольцово)
METAR USSS 271600Z 28005MPS CAVOK M02/M17 Q1034 R26L/81//50 NOSIG RMK QFE754/1006


NOWCAST.SU USSS 271600Z 26005G13MPS 9999 BKN120 M06/M12 Q1034 NOSIG
RMK TURB: MOD SFC/FL20
AUTOTAF.ME USSS 271300Z 2714/2723 26005G13MPS CAVOK TXM05/2714Z TNM06/2716Z
TAF USSS 271349Z 2715/2815 26005G15MPS 9999 SCT040=
Тавда
SYNAR 28264 Тавда 271200Z 24004MPS CAVOK 03/M18 Q1029 RMK QFE766/1021 CLD:8ACCI


NOWCAST.SU USSW 271600Z 24004MPS 9999 BKN024 M03/M10 Q1030 NOSIG
RMK TURB: MOD SFC/FL20
AUTOTAF.ME USSW 271300Z 2714/2723 24004MPS 9999 BKN015 TXM02/2714Z TNM06/2723Z
BECMG 2714/2715 NSC
BECMG 2715/2716 BKN025
BECMG 2716/2717 NSC
FM272000 25004MPS 9999 BKN025
FM272100 25004MPS CAVOK
 
Сосьва
SYNAR 28049 Гари 271200Z 19007MPS CAVOK 01/M14 Q1026 RMK QFE757/1010 CLD:6AC
(50/39KM)


NOWCAST.SU USSX 271600Z 25005G13MPS 9999 BKN080 M02/M09 Q1028 NOSIG
RMK TURB: MOD SFC/FL110
AUTOTAF.ME USSX 271300Z 2714/2723 24005G13MPS CAVOK TXM01/2714Z TNM06/2722Z
 
Уват
SYNAR 28076 Демьянское 271200Z 22001MPS CAVOK M01/M06 Q1026 RMK QFE764/1019 CLD:6CI
(20/54KM)


NOWCAST.SU USTA 271600Z 23004MPS 9999 SCT013 M05/M09 Q1027 NOSIG
AUTOTAF.ME USTA 271300Z 2714/2723 22004MPS 9999 SCT015 TXM04/2714Z TNM06/2722Z
 
Тобольск (Ремезов)
SYNAR 28275 Тобольск 271200Z 20003MPS 9999 SCT020 00/M10 Q1029 RMK QFE767/1023 CLD:8SCAC
(330/12KM)


NOWCAST.SU USTJ 271600Z 24004MPS 9999 OVC055 M05/M08 Q1029 NOSIG
RMK TURB: MOD SFC/FL20
AUTOTAF.ME USTJ 271300Z 2714/2723 23004MPS CAVOK TXM04/2714Z TNM06/2718Z
BECMG 2716/2717 OVC040
BECMG 2719/2720 NSC
 
Тюмень (Плеханово)
SYNAR 28367 Тюмень 271200Z 24003MPS CAVOK 01/M15 Q1031 RMK QFE764/1018 CLD:6ACCI


NOWCAST.SU USTL 271600Z 26004MPS 9999 BKN110 M04/M09 Q1032 NOSIG
RMK TURB: MOD SFC/FL20
AUTOTAF.ME USTL 271300Z 2714/2723 25004MPS CAVOK TXM03/2714Z TNM06/2720Z
BECMG 2714/2715 BKN040
BECMG 2715/2716 NSC
BECMG 2717/2718 BKN025
FM271900 26005G13MPS CAVOK
 
Тобольск
SYNAR 28275 Тобольск 271200Z 20003MPS 9999 SCT020 00/M10 Q1029 RMK QFE767/1023 CLD:8SCAC


NOWCAST.SU USTO 271600Z 24004MPS 9999 BKN110 M05/M08 Q1029 NOSIG
RMK TURB: MOD SFC/FL20
AUTOTAF.ME USTO 271300Z 2714/2723 23004MPS 9999 OVC025 TXM04/2714Z TNM07/2723Z
BECMG 2714/2715 BKN015
BECMG 2715/2716 NSC
BECMG 2718/2719 OVC025
FM272000 25003MPS CAVOK
 
Тюмень (Рощино)
METAR USTR 271600Z 24007MPS CAVOK M03/M14 Q1030 R21/090065 R30/090065 NOSIG


NOWCAST.SU USTR 271600Z 26004MPS 9999 BKN110 M04/M09 Q1032 NOSIG
RMK TURB: MOD SFC/FL20
AUTOTAF.ME USTR 271300Z 2714/2723 25004MPS CAVOK TXM03/2714Z TNM06/2720Z
BECMG 2714/2715 BKN040
BECMG 2715/2716 NSC
BECMG 2717/2718 BKN025
FM271900 26005G13MPS CAVOK
TAF USTR 271331Z 2715/2815 25005G14MPS 9999 BKN020=
Курган
SYNAR 28661 Курган 271200Z 24003MPS CAVOK 02/M14 Q1035 RMK QFE769/1025 CLD:8ACCS


NOWCAST.SU USUU 271600Z 23003MPS 9999 SCT150 M07/M11 Q1035 NOSIG
AUTOTAF.ME USUU 271300Z 2714/2723 24003MPS CAVOK TXM05/2714Z TNM08/2717Z
BECMG 2718/2719 BKN040
BECMG 2720/2721 NSC
 
Ashgabat
METAR UTAA 271600Z 35002KT 9999 SCT033 BKN083 02/M07 Q1030 R88/CLRD70 NOSIG


NOWCAST.SU UTAA 271600Z 04004KT 9999 FEW240 01/M08 Q1030 NOSIG
RMK TURB: MOD SFC/FL50
AUTOTAF.ME UTAA 271300Z 2714/2723 02004KT CAVOK TX02/2714Z TNM02/2722Z
TAF UTAA 271045Z 2712/2812 36012KT 6000 BKN020 SCT030CB
TEMPO 2712/2716 30012KT
TEMPO 2721/2805 VRB04KT 3000 BR SCT007
TEMPO 2806/2812 06014KT=
Turkmenbashi
METAR UTAK 271600Z 06010KT CAVOK 00/M13 Q1031 R16R/CLRD70 NOSIG


NOWCAST.SU UTAK 271600Z 10006KT 9999 OVC150 01/M13 Q1032 NOSIG
RMK TURB: MOD SFC/FL40
AUTOTAF.ME UTAK 271300Z 2714/2723 10008KT CAVOK TX03/2714Z TNM05/2723Z
TAF UTAK 271030Z 2712/2812 10014KT 9999 SCT033 SCT100
TEMPO 2718/2803 06010KT 6000 SCT014 SCT100=
Mary
METAR UTAM 271600Z 27002KT 6000 BKN066 OVC100 03/M06 Q1032 R88/CLRD70 NOSIG


NOWCAST.SU UTAM 271600Z 34004KT 9999 FEW210 01/M10 Q1030 NOSIG
RMK TURB: MOD SFC/FL50
AUTOTAF.ME UTAM 271300Z 2714/2723 34004KT CAVOK TX03/2714Z TNM03/2721Z
TAF UTAM 271035Z 2712/2812 VRB04KT 5000 BKN020 SCT030CB
TEMPO 2712/2718 30012KT=
Dashoguz
METAR UTAT 271600Z 03006KT CAVOK 01/M13 Q1031 R08/CLRD70 NOSIG


NOWCAST.SU UTAT 271600Z 04008KT 9999 OVC110 01/M12 Q1032 NOSIG
AUTOTAF.ME UTAT 271300Z 2714/2723 05010KT CAVOK TX02/2714Z TNM03/2721Z
BECMG 2718/2719 HZ
TAF UTAT 271038Z 2712/2812 01012KT CAVOK
TEMPO 2712/2715 06014KT=
Dushanbe
METAR UTDD 271600Z 28004MPS 250V310 5000 BR FU OVC016 00/M02 Q1025 R09/19//60 TEMPO 27008G13MPS 2000 SN RMK QFE700/0933


NOWCAST.SU UTDD 271600Z VRB02MPS 1000 SN BR OVC003 M01/M02 Q1026 NOSIG
AUTOTAF.ME UTDD 271300Z 2714/2723 VRB02MPS 2500 BR OVC004 TX01/2714Z TNM02/2718Z
FM271500 VRB02MPS 1200 SN BR OVC004
FM271700 VRB02MPS 0500 SN FZFG VV004
TAF AMD UTDD 271204Z 2712/2812 28005MPS 3100 BR SCT011 BKN030
TEMPO 2713/2718 26006MPS 1700 -SN BR SCT007 BKN020
TEMPO 2718/2805 0800 SN FZFG BKN005=
METAR UTDK 271600Z VRB01MPS 9000 OVC012 01/M01 Q1026 R01/19//60 RMK QFE711/0949


NOSIG
TAF UTDK 271501Z 2716/2804 VRB02MPS 3100 -SN BR FU SCT003 BKN020
TEMPO 2716/2804 1000 BR FU=
Khudzhand
METAR UTDL 271600Z 24005MPS 3800 BR OVC021 03/01 Q1027 R26/CLRD70 NOSIG RMK QFE732/0976


NOWCAST.SU UTDL 271600Z VRB02MPS 0100 FG VV005 00/M01 Q1026 NOSIG
AUTOTAF.ME UTDL 271300Z 2714/2723 VRB02MPS 0500 FG VV004 TX01/2714Z TNM01/2720Z
FM272000 VRB02MPS 0200 +SN FZFG VV015
TAF UTDL 271100Z 2712/2812 24006MPS 3100 BR BKN011 OVC030
TEMPO 2712/2806 1100 -SNRA BR BKN005
PROB40 TEMPO 2716/2806 0500 FG BKN002=
Namangan
METAR UTFN 271600Z VRB02KT 2600 BR SCT048 04/02 Q1026 R28/CLRD70 NOSIG


NOWCAST.SU UTFN 271600Z VRB02KT 0500 FG BKN002 02/01 Q1026 NOSIG
AUTOTAF.ME UTFN 271300Z 2714/2723 22004KT 1200 BR BKN004 TX03/2714Z TN01/2720Z
FM271500 VRB02KT 0500 FG BKN004
FM271700 VRB02KT 9999 BKN015
FM271800 VRB02KT 0500 FG BKN004
FM271900 VRB02KT 1200 BR BKN004
TAF UTFN 271100Z 2712/2812 34010KT 3500 BR SCT040 BKN100
TEMPO 2714/2724 VRB02KT 0500 FG VV002=
Nukus Karakalpak
METAR UTNN 271600Z 34004KT CAVOK M02/M13 Q1032 R33/CLRD60 NOSIG


NOWCAST.SU UTNN 271600Z 03008KT 9999 FEW210 M02/M09 Q1032 NOSIG
AUTOTAF.ME UTNN 271300Z 2714/2723 03010G20KT CAVOK TX01/2714Z TNM06/2721Z
BECMG 2721/2722 HZ
TAF UTNN 271100Z 2712/2812 01008G18KT CAVOK
TEMPO 2806/2812 05012G22KT=
Urgench
METAR UTNU 271600Z 35004KT 6000 NSC 01/M13 Q1030 R31/CLRD70 NOSIG


NOWCAST.SU UTNU 271600Z 03008KT 9999 OVC095 01/M11 Q1031 NOSIG
AUTOTAF.ME UTNU 271300Z 2714/2723 04008KT CAVOK TX02/2714Z TNM02/2722Z
BECMG 2721/2722 OVC040
TAF UTNU 271100Z 2712/2812 02010G20KT 7000 NSC
TEMPO 2712/2720 06006KT 3000 BR=
Navoi
METAR UTSA 271600Z 13002KT 1100 R07/P2000N -SN BR OVC011 00/M01 Q1029 R07/29//60 NOSIG


NOWCAST.SU UTSA 271600Z 20006KT 2000 SN BR OVC005 00/00 Q1029 NOSIG
AUTOTAF.ME UTSA 271300Z 2714/2723 19006KT 2500 SN BR OVC008 TX01/2714Z TN00/2715Z
BECMG 2714/2715 OVC004
FM272200 VRB02KT 0200 SN FG VV004
TAF UTSA 271101Z 2712/2812 VRB03KT 6000 FEW010 BKN030
TEMPO 2712/2723 19012KT 2500 -SHRASN BR BKN006 OVC020CB=
Bukhara
METAR UTSB 271600Z 24004KT 210V270 1500 R19/P2000 -SHSN BR SCT004 OVC020CB 00/M01 Q1030 R19/290055 NOSIG RMK BASE430


NOWCAST.SU UTSB 271600Z VRB02KT 6000 BR SKC 01/M01 Q1030 NOSIG
RMK TURB: MOD SFC/FL20
AUTOTAF.ME UTSB 271300Z 2714/2723 VRB02KT 5000 BR BKN008 TX01/2714Z TN00/2718Z
FM271500 VRB02KT 1200 BR NSC
BECMG 2715/2716 5000
FM271700 VRB02KT 9999 -SN NSC
FM272100 VRB02KT 2500 BR BKN004
TAF AMD UTSB 271557Z 2716/2812 VRB05KT 4500 BR FEW008 BKN033CB
TEMPO 2716/2724 20012KT 0500 SHSN FG BKN002 OVC020CB=
Karshi Khanabad
METAR UTSK 271600Z 21004KT 1500 R16/1800N -SHSN BR FEW003 OVC023CB M00/M01 Q1029 R16/290050 RMK BASE360


NOWCAST.SU UTSK 271600Z 28004KT 0100 +SN FG VV021 00/00 Q1029 NOSIG
AUTOTAF.ME UTSK 271300Z 2714/2723 28004KT 0200 SN FG VV025 TX01/2714Z TN00/2715Z
BECMG 2714/2715 +SN FG
BECMG 2716/2717 SN FG
BECMG 2720/2721 +SN FG
FM272200 VRB02KT 0200 SN FG VV025
TAF UTSK 271452Z 2716/2801 24006KT 3500 -SN BR OVC007
TEMPO 2716/2801 34006KT 0500 -SHSN FZFG BKN002 OVC020CB=
Samarkand
METAR UTSS 271600Z VRB02KT 3000 -SN OVC008 M00/M01 Q1026 R09/29//50 NOSIG


NOWCAST.SU UTSS 271600Z VRB02KT 0200 SN FZFG VV013 M01/M02 Q1027 NOSIG
AUTOTAF.ME UTSS 271300Z 2714/2723 VRB02KT 0200 SN FZFG VV015 TXM01/2714Z TNM02/2717Z
BECMG 2718/2719 OVC008
TAF UTSS 271101Z 2712/2812 34010G20KT 5000 BR BKN004 BKN026CB
TEMPO 2712/2718 12010KT 0800 -SHSN FZFG BKN003 OVC017CB
TEMPO 2718/2804 07010KT 0500 -SN FZFG BKN002 OVC014=
Termez
METAR UTST 271600Z 24008KT 2600 -SN BR BKN005 OVC026 M01/M01 Q1029 R25/290257 TEMPO 2000 SN BR BKN002 OVC020 RMK BASE500


NOWCAST.SU UTST 271600Z 25008KT 0100 SN FG VV001 00/M01 Q1029 NOSIG
AUTOTAF.ME UTST 271300Z 2714/2723 26008KT 1200 SN BR BKN008 TX00/2714Z TNM01/2720Z
FM271500 25008KT 0200 SN FG BKN002
BECMG 2717/2718 OVC004
FM272000 25006KT 1200 SN BR OVC004
TAF UTST 271100Z 2712/2812 28010G20KT 3000 -SN BR BKN006 OVC030
TEMPO 2712/2720 23014G24KT 0300 SN FZFG BKN002 OVC020=
Tashkent-vostoch
SYNAR 38457 Ташкент 271200Z 04001MPS 4000 BR BKN020 05/M01 Q1024 RMK QFE726/0968 CLD:8SCAC
(240/11KM)


NOWCAST.SU UTTP 271600Z 06004KT 9999 BKN038 02/M01 Q1027 NOSIG
AUTOTAF.ME UTTP 271300Z 2714/2723 04004KT 9000 HZ NSC TX03/2714Z TN01/2718Z
BECMG 2714/2715 BKN040
BECMG 2716/2717 NSC
BECMG 2717/2718 BKN040
FM272100 VRB02KT 9000 BR BKN025
 
Taskent Yuzni
METAR UTTT 271600Z 30006KT 270V330 9999 OVC026 03/M01 Q1028 R08R/CLRD70 NOSIG


NOWCAST.SU UTTT 271600Z 06004KT 9999 BKN042 02/M02 Q1027 NOSIG
AUTOTAF.ME UTTT 271300Z 2714/2723 04004KT 9999 BKN040 TX04/2714Z TN00/2720Z
BECMG 2714/2715 HZ
BECMG 2716/2717 NSC
BECMG 2719/2720 BKN015
FM272200 VRB02KT 9000 BR BKN015
FM272300 09004KT 9000 BR BKN040
TAF UTTT 271100Z 2712/2812 07010KT 4000 BR SCT010 BKN040CB
TEMPO 2712/2718 2000 BR BKN006 OVC030CB
TEMPO 2718/2804 VRB04KT 0800 FG BKN003=
Ржев (Компрессорная)
SYNAR 26499 Старица 271200Z 17004MPS CAVOK 04/M01 Q1024 RMK QFE751/1001 CLD:7CI
(60/50KM)


NOWCAST.SU UUAK 271600Z 17004MPS 9999 DRSN BKN033 00/M02 Q1023 NOSIG
RMK TURB: MOD SFC/FL30
AUTOTAF.ME UUAK 271300Z 2714/2723 17004MPS 9999 BKN040 TX01/2714Z TNM02/2719Z
BECMG 2715/2716 DRSN
BECMG 2719/2720 SCT015
BECMG 2721/2722 BKN002
 
Охотактив
SYNAR 27333 Кострома 271200Z 17004MPS 9999 RESHRA SCT020 M02/M07 Q1028 RMK QFE759/1012 CLD:8SCAC
(270/11KM)


NOWCAST.SU UUAO 271600Z 19005G12MPS 9999 OVC047 M02/M04 Q1029 NOSIG
AUTOTAF.ME UUAO 271300Z 2714/2723 19005G12MPS 7000 -SN BR BKN040 TXM02/2714Z TNM05/2723Z
BECMG 2714/2715 DRSN
BECMG 2718/2719 BKN015
BECMG 2719/2720 BKN040
FM272100 19005G13MPS CAVOK
 
Кострома (Сокеркино)
SYNAR 27333 Кострома 271200Z 17004MPS 9999 RESHRA SCT020 M02/M07 Q1028 RMK QFE759/1012 CLD:8SCAC
(240/16KM)


NOWCAST.SU UUBA 271600Z 19004MPS 9999 BKN009 M02/M04 Q1028 NOSIG
AUTOTAF.ME UUBA 271300Z 2714/2723 19004MPS 7000 -SN BR BKN008 TXM02/2714Z TNM05/2723Z
BECMG 2714/2715 DRSN
BECMG 2718/2719 DRSN
BECMG 2720/2721 SCT015
FM272200 19005G13MPS 9999 DRSN NSC
 
Москва (Быково)
SYNAR 27613 Домодедово 271200Z 17005MPS CAVOK 02/M06 Q1031 RMK QFE754/1005 CLD:5AC
(200/26KM)


NOWCAST.SU UUBB 271600Z 16004MPS 9999 BKN087 M04/M06 Q1029 NOSIG
RMK TURB: MOD SFC/FL20
AUTOTAF.ME UUBB 271300Z 2714/2723 16004MPS CAVOK TXM03/2714Z TNM07/2718Z
BECMG 2716/2717 DRSN
BECMG 2717/2718 OVC008
BECMG 2718/2719 OVC002
FM272000 18005G13MPS 9999 DRSN OVC004
FM272100 18005G13MPS 9999 DRSN BKN008
FM272200 18005G13MPS 9999 DRSN BKN015
 
Калуга (Грабцево)
METAR UUBC 271600Z 15005MPS CAVOK M02/M08 Q1028 R13/810155 NOSIG RMK QFE752/1003


NOWCAST.SU UUBC 271600Z 16004MPS 9999 DRSN BKN330 M04/M06 Q1028 NOSIG
RMK TURB: MOD SFC/FL20
AUTOTAF.ME UUBC 271300Z 2714/2723 16004MPS CAVOK TXM03/2714Z TNM05/2717Z
BECMG 2715/2716 DRSN
BECMG 2721/2722 OVC002
TAF UUBC 271355Z 2715/2724 16005MPS 9999 SCT020=
Рязань (Дягилево)
SYNAR 27730 Рязань 271200Z 15003MPS CAVOK M02/M09 Q1032 RMK QFE759/1013 CLD:1CI


NOWCAST.SU UUBD 271600Z 17005G13MPS 9999 FEW340 M07/M09 Q1032 NOSIG
RMK TURB: MOD SFC/FL20
AUTOTAF.ME UUBD 271300Z 2714/2723 17005G12MPS CAVOK TXM05/2714Z TNM07/2716Z
 
Сасово
SYNAR 27745 Сасово 271200Z 19004MPS CAVOK M03/M10 Q1035 RMK QFE765/1020 CLD:5ACCI


NOWCAST.SU UUBG 271600Z 17003MPS 9999 SCT340 M08/M10 Q1034 NOSIG
AUTOTAF.ME UUBG 271300Z 2714/2723 18003MPS CAVOK TXM06/2714Z TNM09/2717Z
 
Иваново (Южный)
SYNAR 27347 Иваново 271200Z 18002MPS 9999 BKN033 M01/M07 Q1030 RMK QFE760/1014 CLD:6SC


NOWCAST.SU UUBI 271600Z 19005G13MPS 9999 FEW130 M02/M04 Q1029 NOSIG
AUTOTAF.ME UUBI 271300Z 2714/2723 19005G12MPS CAVOK TXM02/2714Z TNM07/2723Z
BECMG 2714/2715 DRSN
BECMG 2716/2717 OVC040
BECMG 2718/2719 NSC
FM272300 20004MPS 9999 BKN040
 
Рыбинск (Староселье)
SYNAR 27225 Рыбинск 271200Z 17002MPS CAVOK M00/M03 Q1026 RMK QFE759/1013 CLD:8AS
(270/15KM)


NOWCAST.SU UUBK 271600Z 19004MPS 9999 -SN BKN030 00/M01 Q1026 NOSIG
AUTOTAF.ME UUBK 271300Z 2714/2723 19004MPS 5000 -SN BR BKN008 TX00/2714Z TNM03/2723Z
FM271500 19004MPS 2500 SN BLSN BKN004
FM271600 19004MPS 9999 -SN BKN025
BECMG 2716/2717 -SN DRSN
BECMG 2717/2718 -SN
FM272000 19005G13MPS CAVOK
BECMG 2721/2722 SCT025
 
Владимир (Семязино)
SYNAR 27532 Владимир 271200Z 19003MPS CAVOK 02/M08 Q1029 RMK QFE756/1008 CLD:6AC


NOWCAST.SU UUBL 271600Z 19004MPS 9999 BKN096 M04/M06 Q1031 NOSIG
RMK TURB: MOD SFC/FL20
AUTOTAF.ME UUBL 271300Z 2714/2723 19004MPS 9999 DRSN NSC TXM02/2714Z TNM07/2720Z
BECMG 2720/2721 DRSN
 
Мячково
SYNAR 27613 Домодедово 271200Z 17005MPS CAVOK 02/M06 Q1031 RMK QFE754/1005 CLD:5AC
(200/19KM)


NOWCAST.SU UUBM 271600Z 16004MPS 9999 BKN087 M05/M06 Q1029 NOSIG
RMK TURB: MOD SFC/FL20
AUTOTAF.ME UUBM 271300Z 2714/2723 16004MPS CAVOK TXM03/2714Z TNM07/2719Z
BECMG 2716/2717 DRSN
BECMG 2718/2719 OVC002
BECMG 2720/2721 OVC008
FM272200 18005G13MPS 9999 DRSN NSC
 
Тверь (Змеево)
SYNAR 27402 Тверь 271200Z 15004MPS 9999 BKN020 02/M02 Q1025 RMK QFE755/1007 CLD:7SC


NOWCAST.SU UUBN 271600Z 18004MPS 9999 SCT018 00/M01 Q1024 NOSIG
RMK TURB: MOD SFC/FL90
AUTOTAF.ME UUBN 271300Z 2714/2723 18004MPS 9999 BKN015 TX01/2714Z TNM03/2721Z
BECMG 2716/2717 SCT025
BECMG 2717/2718 DRSN
BECMG 2718/2719 NSC
FM272000 18004MPS 9999 DRSN BKN025
FM272200 19004MPS 9999 DRSN BKN002
 
Брянск
METAR UUBP 200930Z 33003MPS 280V020 CAVOK 25/10 Q1015 R34/////// NOSIG RMK QFE743/0991


NOWCAST.SU UUBP 271600Z 14004MPS 9999 BKN290 M01/M03 Q1027 NOSIG
AUTOTAF.ME UUBP 271300Z 2714/2723 15004MPS CAVOK TX01/2714Z TNM02/2719Z
BECMG 2716/2717 BKN025
BECMG 2717/2718 DRSN
BECMG 2718/2719 NSC
FM272200 17004MPS 9999 DRSN OVC002
TAF UUBP 121357Z 1215/1224 CNL=
Шарья
SYNAR 27271 Шарья 271200Z 20003MPS CAVOK M01/M10 Q1029 RMK QFE760/1014 CLD:8AC


NOWCAST.SU UUBQ 271600Z 21004MPS 9000 BR BKN010 M03/M06 Q1029 NOSIG
RMK TURB: MOD SFC/FL20
AUTOTAF.ME UUBQ 271300Z 2714/2723 22004MPS 9000 HZ OVC015 TXM02/2714Z TNM04/2721Z
FM271500 21004MPS 5000 BLSN OVC015
FM271600 21004MPS 9000 BR BKN008
BECMG 2716/2717 DRSN
FM271800 21004MPS CAVOK
BECMG 2720/2721 BKN040
BECMG 2721/2722 NSC
FM272300 20004MPS 9999 OVC015
 
Рязань (Турлатово)
SYNAR 27730 Рязань 271200Z 15003MPS CAVOK M02/M09 Q1032 RMK QFE759/1013 CLD:1CI
(310/13KM)


NOWCAST.SU UUBR 271600Z 17004MPS 9999 FEW340 M07/M09 Q1032 NOSIG
AUTOTAF.ME UUBR 271300Z 2714/2723 16004MPS CAVOK TXM05/2714Z TNM08/2718Z
 
Смоленск (Южный)
SYNAR 26781 Смоленск 271200Z 16001MPS CAVOK 07/M02 Q1024 RMK QFE746/0994 CLD:3CI


NOWCAST.SU UUBS 271600Z 17005G12MPS 9999 BKN179 01/M01 Q1023 NOSIG
AUTOTAF.ME UUBS 271300Z 2714/2723 17005G12MPS CAVOK TX03/2714Z TN00/2718Z
 
 


NOSIG
 
Раменское (Жуковский)
METAR UUBW 271600Z 14004MPS CAVOK M02/M08 Q1029 R30/810250 NOSIG RMK QFE761


NOWCAST.SU UUBW 271600Z 16004MPS 9999 SCT370 M05/M06 Q1029 NOSIG
RMK TURB: MOD SFC/FL20
AUTOTAF.ME UUBW 271300Z 2714/2723 16004MPS CAVOK TXM03/2714Z TNM08/2723Z
BECMG 2716/2717 DRSN
BECMG 2718/2719 OVC002
BECMG 2720/2721 BKN008
FM272200 18005G13MPS 9999 DRSN NSC
TAF UUBW 271352Z 2715/2815 14003G08MPS 9999 SCT016 TX02/2812Z TNM07/2804Z=
Ярославль (Левцово)
SYNAR 27229 Тутаев 271200Z 17003MPS 9999 OVC020 M02/M05 Q1027 RMK QFE758/1011 CLD:8SC
(300/36KM)


NOWCAST.SU UUBX 271600Z 19005G13MPS 9999 OVC050 M01/M03 Q1028 NOSIG
AUTOTAF.ME UUBX 271300Z 2714/2723 19005G13MPS 9999 DRSN BKN040 TXM01/2714Z TNM05/2723Z
FM271600 19005G13MPS CAVOK
BECMG 2718/2719 BKN002
BECMG 2720/2721 NSC
 
Листвянка
SYNAR 27730 Рязань 271200Z 15003MPS CAVOK M02/M09 Q1032 RMK QFE759/1013 CLD:1CI
(310/21KM)


NOWCAST.SU UUBZ 271600Z 17004MPS 9999 FEW340 M07/M09 Q1032 NOSIG
AUTOTAF.ME UUBZ 271300Z 2714/2723 16004MPS CAVOK TXM06/2714Z TNM08/2717Z
 
Белоомут
SYNAR 27625 Коломна 271200Z 15003MPS CAVOK 01/M07 Q1030 RMK QFE762/1016 CLD:2AC
(300/41KM)


NOWCAST.SU UUCB 271600Z 17004MPS 9999 DRSN SCT360 M07/M08 Q1032 NOSIG
RMK TURB: MOD SFC/FL20
AUTOTAF.ME UUCB 271300Z 2714/2723 17004MPS CAVOK TXM05/2714Z TNM08/2718Z
BECMG 2715/2716 DRSN
BECMG 2719/2720 DRSN
 
Дорожный
SYNAR 27417 Клин 271200Z 15002MPS 9999 BKN066 02/M03 Q1026 RMK QFE754/1005 CLD:7AC


NOWCAST.SU UUCD 271600Z 18004MPS 9999 BKN080 M01/M03 Q1026 NOSIG
AUTOTAF.ME UUCD 271300Z 2714/2723 18004MPS 8000 DRSN NSC TX00/2714Z TNM05/2721Z
BECMG 2717/2718 DRSN
BECMG 2721/2722 OVC002
 
Хоругвино
SYNAR 27514 Шереметьево 271200Z 17004MPS CAVOK 02/M04 Q1020 RMK QFE751/1001 CLD:7AC
(140/22KM)


NOWCAST.SU UUCH 271600Z 17004MPS 9999 DRSN BKN090 M02/M04 Q1027 NOSIG
RMK TURB: MOD SFC/FL20
AUTOTAF.ME UUCH 271300Z 2714/2723 17004MPS 9999 DRSN NSC TXM01/2714Z TNM06/2720Z
FM271500 17004MPS 9999 BKN040
FM271600 17004MPS 9999 DRSN NSC
BECMG 2719/2720 BR
BECMG 2720/2721 7000
BECMG 2721/2722 OVC002
FM272300 19004MPS 9999 DRSN OVC002
 
Ильясово
SYNAR 27625 Коломна 271200Z 15003MPS CAVOK 01/M07 Q1030 RMK QFE762/1016 CLD:2AC
(350/23KM)


NOWCAST.SU UUCI 271600Z 16004MPS 9999 DRSN FEW350 M06/M08 Q1031 NOSIG
RMK TURB: MOD SFC/FL20
AUTOTAF.ME UUCI 271300Z 2714/2723 17004MPS CAVOK TXM05/2714Z TNM07/2717Z
BECMG 2714/2715 BKN008
FM271600 16004MPS 9999 DRSN NSC
BECMG 2717/2718 DRSN
 
Кузнечково
SYNAR 27417 Клин 271200Z 15002MPS 9999 BKN066 02/M03 Q1026 RMK QFE754/1005 CLD:7AC
(40/19KM)


NOWCAST.SU UUCJ 271600Z 17004MPS 9999 BKN040 M01/M03 Q1026 NOSIG
RMK TURB: MOD SFC/FL30
AUTOTAF.ME UUCJ 271300Z 2714/2723 17004MPS 9999 BKN040 TX00/2714Z TNM05/2721Z
BECMG 2716/2717 NSC
BECMG 2717/2718 DRSN
BECMG 2721/2722 OVC002
 
Горка
SYNAR 27518 Подмосковная 271200Z 14002MPS 9999 BKN033 02/M04 Q1028 RMK QFE755/1007 CLD:5SC
(100/13KM)


NOWCAST.SU UUCK 271600Z 17004MPS 9999 DRSN SCT350 M02/M04 Q1027 NOSIG
RMK TURB: MOD SFC/FL20
AUTOTAF.ME UUCK 271300Z 2714/2723 17004MPS CAVOK TX00/2714Z TNM05/2718Z
BECMG 2715/2716 DRSN
BECMG 2718/2719 OVC004
BECMG 2720/2721 OVC008
FM272200 19004MPS 9999 DRSN NSC
 
Нудоль
SYNAR 27511 Ново-Йерусалим 271200Z 15003MPS 9999 FEW020 03/M04 Q1027 RMK QFE755/1007 CLD:6SCACCC
(140/27KM)


NOWCAST.SU UUCN 271600Z 17004MPS 9999 BKN040 M02/M04 Q1026 NOSIG
RMK TURB: MOD SFC/FL30
AUTOTAF.ME UUCN 271300Z 2714/2723 17004MPS 9999 BKN040 TX00/2714Z TNM05/2720Z
FM271700 18004MPS 9999 DRSN NSC
BECMG 2721/2722 OVC002
 
Павлово
SYNAR 27518 Подмосковная 271200Z 14002MPS 9999 BKN033 02/M04 Q1028 RMK QFE755/1007 CLD:5SC
(160/12KM)


NOWCAST.SU UUCO 271600Z 17004MPS 9999 DRSN BKN360 M02/M04 Q1027 NOSIG
RMK TURB: MOD SFC/FL20
AUTOTAF.ME UUCO 271300Z 2714/2723 17004MPS CAVOK TXM01/2714Z TNM06/2719Z
BECMG 2714/2715 BKN040
FM271600 17004MPS 9999 DRSN NSC
BECMG 2717/2718 BKN008
BECMG 2718/2719 OVC004
FM272000 18004MPS 9000 BR BKN004
FM272100 19004MPS 8000 BR BKN015
FM272300 19004MPS 9999 DRSN BKN015
 
Янино
SYNAR 27625 Коломна 271200Z 15003MPS CAVOK 01/M07 Q1030 RMK QFE762/1016 CLD:2AC
(260/45KM)


NOWCAST.SU UUCQ 271600Z 17004MPS 9999 SCT360 M06/M08 Q1032 NOSIG
RMK TURB: MOD SFC/FL20
AUTOTAF.ME UUCQ 271300Z 2714/2723 17004MPS CAVOK TXM04/2714Z TNM08/2720Z
BECMG 2716/2717 DRSN
BECMG 2719/2720 DRSN
 
Торбеево
SYNAR 27618 Серпухов 271200Z 16003MPS CAVOK 02/M06 Q1029 RMK QFE756/1008 CLD:2CI
(240/30KM)


NOWCAST.SU UUCT 271600Z 17004MPS 9999 DRSN BKN012 M06/M07 Q1029 NOSIG
RMK TURB: MOD SFC/FL20
AUTOTAF.ME UUCT 271300Z 2714/2723 17004MPS CAVOK TXM03/2714Z TNM07/2723Z
BECMG 2714/2715 DRSN
BECMG 2715/2716 BKN015
BECMG 2716/2717 BKN008
FM271800 18004MPS 9999 DRSN NSC
FM271900 18004MPS 9999 DRSN OVC002
FM272100 19004MPS 9999 DRSN NSC
 
Гринвуд
SYNAR 27619 Москва (Тушино) 271200Z 09001MPS 9999 BKN020 02/M05 Q1028 RMK QFE755/1007 CLD:7SC


NOWCAST.SU UUCU 271600Z 17004MPS 9999 DRSN BKN370 M03/M05 Q1028 NOSIG
RMK TURB: MOD SFC/FL20
AUTOTAF.ME UUCU 271300Z 2714/2723 17004MPS 9000 BR NSC TXM01/2714Z TNM06/2719Z
BECMG 2715/2716 DRSN
BECMG 2717/2718 BKN008
BECMG 2718/2719 OVC004
FM272000 17004MPS 9000 BR OVC008
FM272100 17004MPS 8000 BR NSC
FM272300 18004MPS 9999 DRSN NSC
 
Вихрево
SYNAR 27419 Дмитров 271200Z 17002MPS 9999 BKN020 02/M04 Q1027 RMK QFE753/1005 CLD:7SCAC
(290/38KM)


NOWCAST.SU UUCW 271600Z 17004MPS 9999 BKN065 M03/M05 Q1028 NOSIG
RMK TURB: MOD SFC/FL20
AUTOTAF.ME UUCW 271300Z 2714/2723 17004MPS 9999 BKN015 TXM01/2714Z TNM07/2721Z
BECMG 2714/2715 NSC
BECMG 2717/2718 DRSN
FM272300 18004MPS 9000 BR OVC008
 
Университет Сбербанка
SYNAR 27511 Ново-Йерусалим 271200Z 15003MPS 9999 FEW020 03/M04 Q1027 RMK QFE755/1007 CLD:6SCACCC
(300/13KM)


NOWCAST.SU UUCX 271600Z 17004MPS 9999 DRSN BKN360 M02/M04 Q1027 NOSIG
RMK TURB: MOD SFC/FL20
AUTOTAF.ME UUCX 271300Z 2714/2723 17004MPS 9999 DRSN NSC TX00/2714Z TNM06/2719Z
BECMG 2714/2715 BKN040
BECMG 2715/2716 NSC
BECMG 2717/2718 BKN008
FM271900 17004MPS 9999 DRSN OVC004
FM272100 19004MPS 9999 DRSN BKN015
 
Дубна
SYNAR 27417 Клин 271200Z 15002MPS 9999 BKN066 02/M03 Q1026 RMK QFE754/1005 CLD:7AC
(210/44KM)


NOWCAST.SU UUDB 271600Z 18004MPS 9999 BKN063 00/M02 Q1026 NOSIG
AUTOTAF.ME UUDB 271300Z 2714/2723 18004MPS CAVOK TX01/2714Z TNM05/2722Z
BECMG 2714/2715 DRSN
BECMG 2719/2720 DRSN
BECMG 2721/2722 OVC002
 
Сонино
SYNAR 27710 Алексин 271200Z 12001MPS CAVOK 02/M07 Q1029 RMK QFE753/1005 CLD:2CI
(230/24KM)


NOWCAST.SU UUDC 271600Z 17005G13MPS 9999 DRSN SCT340 M06/M07 Q1029 NOSIG
RMK TURB: MOD SFC/FL20
AUTOTAF.ME UUDC 271300Z 2714/2723 17005G11MPS CAVOK TXM04/2714Z TNM06/2716Z
BECMG 2714/2715 DRSN
 
Москва (Домодедово)
METAR UUDD 271600Z 17006MPS CAVOK M03/M09 Q1028 R14R/CLRD60 NOSIG


NOWCAST.SU UUDD 271600Z 16004MPS 9999 SCT360 M04/M06 Q1029 NOSIG
RMK TURB: MOD SFC/FL20
AUTOTAF.ME UUDD 271400Z 2715/2724 16004MPS CAVOK TXM03/2715Z TNM07/2718Z
BECMG 2716/2717 DRSN
BECMG 2718/2719 OVC002
BECMG 2720/2721 NSC
TAF UUDD 271350Z 2715/2821 18006G12MPS 9999 SCT016 TX01/2812Z TNM06/2803Z
PROB40 TEMPO 2800/2808 -FZDZ OVC005=
Большое Грызлово
SYNAR 27618 Серпухов 271200Z 16003MPS CAVOK 02/M06 Q1029 RMK QFE756/1008 CLD:2CI
(320/20KM)


NOWCAST.SU UUDG 271600Z 17004MPS 9999 DRSN OVC008 M06/M07 Q1029 NOSIG
RMK TURB: MOD SFC/FL20
AUTOTAF.ME UUDG 271300Z 2714/2723 17004MPS 9999 DRSN NSC TXM04/2714Z TNM06/2716Z
FM271500 17003MPS 2500 BR OVC004
FM271600 17004MPS 9999 DRSN OVC008
BECMG 2716/2717 NSC
FM272300 19003MPS 2500 BR OVC004
 
Ярославль (Туношна)
METAR UUDL 271600Z 17002MPS CAVOK M00/M06 Q1027 R23/850340 NOSIG RMK QFE762


NOWCAST.SU UUDL 271600Z 19005G13MPS 9999 DRSN OVC050 M01/M03 Q1028 NOSIG
AUTOTAF.ME UUDL 271300Z 2714/2723 19005G13MPS 9999 BKN040 TXM01/2714Z TNM05/2723Z
BECMG 2714/2715 NSC
BECMG 2715/2716 DRSN
TAF UUDL 271400Z 2715/2815 19005MPS 8000 BKN020 TX00/2812Z TNM07/2802Z
TEMPO 2715/2718 -FZRA BKN010
PROB40 TEMPO 2718/2812 -FZRA=
Новинки
SYNAR 27618 Серпухов 271200Z 16003MPS CAVOK 02/M06 Q1029 RMK QFE756/1008 CLD:2CI
(250/13KM)


NOWCAST.SU UUDN 271600Z 17004MPS 9999 DRSN BKN010 M05/M07 Q1029 NOSIG
RMK TURB: MOD SFC/FL20
AUTOTAF.ME UUDN 271300Z 2714/2723 17004MPS CAVOK TXM02/2714Z TNM06/2717Z
BECMG 2714/2715 BKN015
FM271600 17004MPS 9999 DRSN BKN008
BECMG 2716/2717 NSC
FM272300 19003MPS 2500 BR OVC004
 
Пахомово
SYNAR 27618 Серпухов 271200Z 16003MPS CAVOK 02/M06 Q1029 RMK QFE756/1008 CLD:2CI
(350/35KM)


NOWCAST.SU UUDP 271600Z 17005G13MPS 9999 DRSN BKN011 M06/M07 Q1029 NOSIG
RMK TURB: MOD SFC/FL20
AUTOTAF.ME UUDP 271300Z 2714/2723 17005G10MPS CAVOK TXM05/2714Z TNM06/2716Z
BECMG 2714/2715 DRSN
BECMG 2715/2716 BKN008
BECMG 2717/2718 BKN015
FM271900 18005G13MPS 9999 DRSN NSC
 
Хелипорт Реутов
SYNAR 27605 Москва (Балчуг) 271200Z 12001MPS 9999 OVC020 03/M04 Q1028 RMK QFE759/1013 CLD:8SC
(260/14KM)


NOWCAST.SU UUDR 271600Z 17004MPS 9999 DRSN SCT370 M03/M05 Q1028 NOSIG
RMK TURB: MOD SFC/FL20
AUTOTAF.ME UUDR 271300Z 2714/2723 17004MPS 9999 SCT008 TXM02/2714Z TNM06/2718Z
FM271500 17004MPS 9999 DRSN NSC
BECMG 2717/2718 BKN015
BECMG 2718/2719 OVC008
BECMG 2720/2721 SCT015
 
Чулпаново
SYNAR 27613 Домодедово 271200Z 17005MPS CAVOK 02/M06 Q1031 RMK QFE754/1005 CLD:5AC
(90/17KM)


NOWCAST.SU UUDU 271600Z 17004MPS 9999 BKN360 M04/M06 Q1028 NOSIG
RMK TURB: MOD SFC/FL20
AUTOTAF.ME UUDU 271300Z 2714/2723 17004MPS CAVOK TXM02/2714Z TNM06/2717Z
FM271700 17004MPS 9999 DRSN OVC008
FM271900 18005G13MPS 9999 DRSN OVC002
BECMG 2720/2721 NSC
 
Взлетная
SYNAR 27613 Домодедово 271200Z 17005MPS CAVOK 02/M06 Q1031 RMK QFE754/1005 CLD:5AC


NOWCAST.SU UUDW 271600Z 17004MPS 9999 BKN360 M04/M06 Q1028 NOSIG
RMK TURB: MOD SFC/FL20
AUTOTAF.ME UUDW 271300Z 2714/2723 17004MPS CAVOK TXM02/2714Z TNM06/2717Z
BECMG 2716/2717 DRSN
BECMG 2718/2719 OVC002
BECMG 2720/2721 OVC008
FM272200 19005G13MPS 9999 DRSN NSC
 
Киверичи (Запад)
SYNAR 27217 Бежецк 271200Z 16003MPS 9999 BKN020 01/M02 Q1025 RMK QFE755/1007 CLD:7SC
(10/45KM)


NOWCAST.SU UUEC 271600Z 18005G13MPS 9999 DRSN OVC055 00/M01 Q1024 NOSIG
RMK TURB: MOD SFC/FL20
AUTOTAF.ME UUEC 271300Z 2714/2723 18004MPS 9999 BKN040 TX01/2714Z TNM03/2722Z
BECMG 2714/2715 NSC
BECMG 2715/2716 DRSN
FM271800 18005G13MPS 9999 BKN025
BECMG 2719/2720 NSC
FM272100 19005G13MPS 9999 DRSN NSC
FM272200 19004MPS 9999 DRSN BKN040
 
Москва (Шереметьево)
METAR UUEE 271600Z 18005MPS CAVOK 02/M06 Q1026 R24L/510140 R24C/510140 NOSIG


NOWCAST.SU UUEE 271600Z 17004MPS 9999 DRSN SCT012 M03/M05 Q1028 NOSIG
RMK TURB: MOD SFC/FL20
AUTOTAF.ME UUEE 271300Z 2714/2723 17004MPS 7000 BR NSC TXM01/2714Z TNM07/2720Z
FM271600 17004MPS 9999 DRSN SCT015
BECMG 2716/2717 NSC
FM272000 17004MPS 5000 BLSN OVC004
FM272100 17004MPS 1200 BLSN OVC008
FM272200 17004MPS 5000 BLSN OVC002
FM272300 18004MPS 9000 BR OVC002
TAF UUEE 271353Z 2715/2815 17005G11MPS 9999 SCT016 TX03/2812Z TNM06/2804Z=
 


NOSIG
 
Кимры (Борки)
SYNAR 27419 Дмитров 271200Z 17002MPS 9999 BKN020 02/M04 Q1027 RMK QFE753/1005 CLD:7SCAC
(160/52KM)


NOWCAST.SU UUEI 271600Z 18005G13MPS 9999 DRSN BKN056 00/M02 Q1026 NOSIG
AUTOTAF.ME UUEI 271300Z 2714/2723 18005G13MPS CAVOK TX01/2714Z TNM05/2722Z
BECMG 2715/2716 DRSN
BECMG 2718/2719 DRSN
BECMG 2721/2722 OVC002
 
Волен (Хелипорт)
SYNAR 27419 Дмитров 271200Z 17002MPS 9999 BKN020 02/M04 Q1027 RMK QFE753/1005 CLD:7SCAC


NOWCAST.SU UUEJ 271600Z 18005G13MPS 9999 BKN080 M02/M04 Q1027 NOSIG
AUTOTAF.ME UUEJ 271300Z 2714/2723 18005G13MPS 8000 BR NSC TXM01/2714Z TNM06/2720Z
BECMG 2718/2719 DRSN
BECMG 2719/2720 BR
BECMG 2720/2721 5000
FM272200 19005G13MPS 7000 BR OVC002
FM272300 19005G13MPS 9999 DRSN OVC002
 
Конаково
SYNAR 27417 Клин 271200Z 15002MPS 9999 BKN066 02/M03 Q1026 RMK QFE754/1005 CLD:7AC
(190/33KM)


NOWCAST.SU UUEL 271600Z 18004MPS 9999 DRSN BKN079 00/M02 Q1026 NOSIG
AUTOTAF.ME UUEL 271300Z 2714/2723 18004MPS CAVOK TX01/2714Z TNM05/2722Z
BECMG 2715/2716 DRSN
BECMG 2719/2720 DRSN
BECMG 2721/2722 OVC002
 
Тверь (Мигалово)
SYNAR 27402 Тверь 271200Z 15004MPS 9999 BKN020 02/M02 Q1025 RMK QFE755/1007 CLD:7SC


NOWCAST.SU UUEM 271600Z 18004MPS 9999 SCT016 00/M02 Q1024 NOSIG
RMK TURB: MOD SFC/FL90
AUTOTAF.ME UUEM 271300Z 2714/2723 18004MPS 9999 BKN015 TX01/2714Z TNM03/2721Z
BECMG 2716/2717 SCT025
BECMG 2717/2718 DRSN
BECMG 2718/2719 NSC
FM272000 18004MPS 9999 DRSN BKN025
FM272200 19004MPS 9999 DRSN BKN002
 
Завидово (Русь)
SYNAR 27417 Клин 271200Z 15002MPS 9999 BKN066 02/M03 Q1026 RMK QFE754/1005 CLD:7AC
(120/36KM)


NOWCAST.SU UUEP 271600Z 18005G13MPS 9999 BKN055 00/M02 Q1025 NOSIG
RMK TURB: MOD SFC/FL20
AUTOTAF.ME UUEP 271300Z 2714/2723 18005G13MPS CAVOK TX01/2714Z TNM04/2721Z
BECMG 2714/2715 DRSN
BECMG 2718/2719 BKN040
BECMG 2719/2720 BKN015
FM272100 19005G13MPS 9999 DRSN NSC
FM272200 19005G13MPS 9999 DRSN OVC002
 
Гурбан
SYNAR 27419 Дмитров 271200Z 17002MPS 9999 BKN020 02/M04 Q1027 RMK QFE753/1005 CLD:7SCAC
(0/21KM)


NOWCAST.SU UUEQ 271600Z 17004MPS 9999 SCT015 M03/M04 Q1028 NOSIG
RMK TURB: MOD SFC/FL20
AUTOTAF.ME UUEQ 271300Z 2714/2723 17004MPS 8000 BR SCT008 TXM01/2714Z TNM07/2721Z
FM271600 17004MPS 9999 SCT015
FM271700 17004MPS 9999 DRSN NSC
FM272000 17004MPS 5000 BR NSC
FM272100 17004MPS 2500 BLSN OVC004
FM272200 17004MPS 5000 BR OVC002
BECMG 2722/2723 9000
 
Талдом (Юркино)
SYNAR 27419 Дмитров 271200Z 17002MPS 9999 BKN020 02/M04 Q1027 RMK QFE753/1005 CLD:7SCAC
(180/43KM)


NOWCAST.SU UUET 271600Z 18005G13MPS 9999 SCT360 M01/M03 Q1027 NOSIG
AUTOTAF.ME UUET 271300Z 2714/2723 18005G13MPS 9999 DRSN NSC TX00/2714Z TNM06/2722Z
BECMG 2720/2721 DRSN
BECMG 2721/2722 OVC002
BECMG 2722/2723 BR
 
Залесье
SYNAR 27401 Торжок 271200Z 17003MPS CAVOK 03/M00 Q1024 RMK QFE752/1002 CLD:7ACCI
(350/29KM)


NOWCAST.SU UUEX 271600Z 18004MPS 9999 BKN050 01/M01 Q1023 NOSIG
RMK TURB: MOD SFC/FL20
AUTOTAF.ME UUEX 271300Z 2714/2723 18004MPS 9000 BR OVC040 TX02/2714Z TNM02/2720Z
BECMG 2715/2716 NSC
BECMG 2717/2718 DRSN
FM271900 18004MPS 9999 BKN015
BECMG 2719/2720 DRSN
FM272200 19004MPS 9999 DRSN BKN002
 
Юрьевское (Волжанка)
SYNAR 27402 Тверь 271200Z 15004MPS 9999 BKN020 02/M02 Q1025 RMK QFE755/1007 CLD:7SC
(290/27KM)


NOWCAST.SU UUEY 271600Z 18005G13MPS 9999 SCT016 00/M02 Q1025 NOSIG
RMK TURB: MOD FL70/FL80
AUTOTAF.ME UUEY 271300Z 2714/2723 18005G13MPS 9999 BKN015 TX01/2714Z TNM04/2722Z
BECMG 2716/2717 SCT025
FM271800 18004MPS 9999 DRSN SCT015
BECMG 2718/2719 BKN040
BECMG 2720/2721 BKN015
FM272200 19004MPS 9999 DRSN BKN002
 
Хатенки
SYNAR 27707 Сухиничи 271200Z 16002MPS CAVOK 03/M07 Q1027 RMK QFE748/0998 CLD:2CI
(270/25KM)


NOWCAST.SU UUFH 271600Z 16004MPS 9999 SCT330 M04/M05 Q1027 NOSIG
RMK TURB: MOD SFC/FL20
AUTOTAF.ME UUFH 271300Z 2714/2723 16004MPS CAVOK TXM02/2714Z TNM05/2718Z
BECMG 2716/2717 DRSN
FM272100 17004MPS 9999 BKN025
BECMG 2721/2722 OVC002
FM272300 17003MPS 1200 BR OVC002
 
Михеево
SYNAR 27606 Малоярославец 271200Z 16003MPS CAVOK 05/M05 Q1027 RMK QFE752/1003 CLD:1CI
(70/40KM)


NOWCAST.SU UUFM 271600Z 17004MPS 9999 DRSN SCT010 M04/M05 Q1027 NOSIG
RMK TURB: MOD SFC/FL20
AUTOTAF.ME UUFM 271300Z 2714/2723 17004MPS 9999 DRSN SCT015 TXM02/2714Z TNM05/2720Z
BECMG 2715/2716 SCT008
BECMG 2716/2717 SCT015
BECMG 2718/2719 BKN002
FM272100 18004MPS 9999 DRSN BKN015
FM272300 18004MPS 9999 DRSN NSC
 
Недельное
SYNAR 27606 Малоярославец 271200Z 16003MPS CAVOK 05/M05 Q1027 RMK QFE752/1003 CLD:1CI
(330/24KM)


NOWCAST.SU UUFN 271600Z 17003MPS 3000 BR OVC005 M05/M06 Q1028 NOSIG
RMK TURB: MOD SFC/FL20
AUTOTAF.ME UUFN 271300Z 2714/2723 17003MPS 2500 BR OVC004 TXM03/2714Z TNM05/2716Z
FM271700 17004MPS 9999 DRSN NSC
FM271800 18004MPS 7000 BR NSC
BECMG 2718/2719 OVC002
BECMG 2719/2720 DRSN
BECMG 2720/2721 NSC
 
Калуга (Орешково)
SYNAR 27705 Калуга 271200Z 12003MPS CAVOK 04/M06 Q1028 RMK QFE750/1001 CLD:SKC
(70/33KM)


NOWCAST.SU UUFO 271600Z 16004MPS 9999 DRSN BKN320 M04/M05 Q1028 NOSIG
RMK TURB: MOD SFC/FL20
AUTOTAF.ME UUFO 271300Z 2714/2723 16004MPS 9999 DRSN BKN015 TXM03/2714Z TNM05/2718Z
BECMG 2714/2715 NSC
BECMG 2718/2719 BKN015
BECMG 2721/2722 OVC002
 
Стародуб
SYNAR 26985 Унеча 271200Z 15004MPS CAVOK 05/M03 Q1026 RMK QFE752/1003 CLD:8CS
(340/30KM)


NOWCAST.SU UUFS 271600Z 16004MPS 9999 OVC280 02/M02 Q1026 NOSIG
AUTOTAF.ME UUFS 271300Z 2714/2723 16004MPS CAVOK TX03/2714Z TNM01/2722Z
 
Иваньково
SYNAR 27627 Кашира 271200Z 14004MPS CAVOK M01/M07 Q1030 RMK QFE752/1003 CLD:SKC
(50/18KM)


NOWCAST.SU UUGI 271600Z 17005G13MPS 9999 DRSN BKN013 M06/M08 Q1030 NOSIG
RMK TURB: MOD SFC/FL20
AUTOTAF.ME UUGI 271300Z 2714/2723 17005G12MPS 9999 DRSN NSC TXM04/2714Z TNM07/2718Z
BECMG 2715/2716 BKN015
BECMG 2716/2717 NSC
 
Макариха ДНС
SYNAR 23410 Усинск 271200Z 18004MPS //// //// M01/M03 Q1016 RMK QFE755/1006 CLD:NO_OBSERVATIONS
(210/91KM)


NOWCAST.SU UUHH 271600Z 24005G12MPS 3000 -SN BLSN OVC005 M02/M03 Q1015 NOSIG
AUTOTAF.ME UUHH 271300Z 2714/2723 24005G13MPS 0500 SN BLSN BKN004 TXM01/2718Z TNM02/2714Z
BECMG 2714/2715 1200
FM271600 24005G12MPS 2500 -SN BLSN OVC004
FM271700 24005G13MPS 1200 SN BLSN OVC004
FM271800 24005G13MPS 2500 BLSN BKN025
FM272000 24008G13MPS 2500 SN BLSN BKN008
FM272100 24008G13MPS 0500 SN BLSN BKN004
 
Уса-38
SYNAR 23410 Усинск 271200Z 18004MPS //// //// M01/M03 Q1016 RMK QFE755/1006 CLD:NO_OBSERVATIONS


NOWCAST.SU UUHM 271600Z 24004MPS 5000 -SN BR BKN005 M02/M03 Q1017 NOSIG
AUTOTAF.ME UUHM 271300Z 2714/2723 23005G10MPS 0500 SN FZFG BKN004 TXM01/2718Z TNM02/2714Z
FM271500 24005MPS 1200 SN BR BKN004
FM271600 24004MPS 5000 -SN BR BKN004
BECMG 2716/2717 BR
BECMG 2717/2718 1200
FM271900 23004MPS 0500 FZFG BKN004
BECMG 2719/2720 1200
FM272100 23005G10MPS 2500 BR OVC004
FM272200 23005G10MPS 5000 BR OVC004
FM272300 24005MPS 2500 BR BKN004
 
Дарьино
SYNAR 27428 Александров 271200Z 18003MPS 9999 BKN020 M01/M06 Q1028 RMK QFE754/1005 CLD:8SCAC


NOWCAST.SU UUID 271600Z 18005G13MPS 9999 SCT045 M03/M05 Q1028 NOSIG
RMK TURB: MOD SFC/FL20
AUTOTAF.ME UUID 271300Z 2714/2723 18004MPS 9999 BKN040 TXM01/2714Z TNM07/2721Z
BECMG 2716/2717 NSC
BECMG 2718/2719 DRSN
BECMG 2719/2720 BKN025
FM272100 18005G13MPS 9999 DRSN OVC008
FM272200 18005G13MPS 9999 DRSN OVC002
FM272300 19005G13MPS 9999 DRSN OVC004
 
Плес (Спасское)
SYNAR 27344 Приволжск 271200Z 18003MPS 9999 OVC020 M01/M07 Q1029 RMK QFE761/1014 CLD:8SC
(240/14KM)


NOWCAST.SU UUIE 271600Z 19005G11MPS 9999 OVC046 M02/M04 Q1029 NOSIG
RMK TURB: MOD FL90/FL100
AUTOTAF.ME UUIE 271300Z 2714/2723 19005G12MPS 9999 DRSN BKN025 TXM02/2714Z TNM06/2723Z
BECMG 2714/2715 BR
BECMG 2716/2717 DRSN
BECMG 2718/2719 NSC
FM272000 19005G13MPS 9999 DRSN BKN040
FM272100 19005G13MPS CAVOK
 
Аэродром Доброград
SYNAR 27532 Владимир 271200Z 19003MPS CAVOK 02/M08 Q1029 RMK QFE756/1008 CLD:6AC
(260/56KM)


NOWCAST.SU UUIG 271600Z 19004MPS 9999 FEW350 M03/M06 Q1031 NOSIG
RMK TURB: MOD SFC/FL20
AUTOTAF.ME UUIG 271300Z 2714/2723 19004MPS CAVOK TXM02/2714Z TNM07/2720Z
BECMG 2722/2723 DRSN
 
Палех
SYNAR 27441 Шуя 271200Z 19003MPS 9999 OVC020CB M01/M08 Q1030 RMK QFE763/1018 CLD:8CB
(280/28KM)


NOWCAST.SU UUIH 271600Z 19005G13MPS 9999 OVC035 M02/M05 Q1030 NOSIG
AUTOTAF.ME UUIH 271300Z 2714/2723 20005G13MPS 9999 OVC008 TXM02/2714Z TNM07/2723Z
BECMG 2715/2716 OVC040
BECMG 2717/2718 NSC
BECMG 2719/2720 BKN040
FM272100 19004MPS CAVOK
 
Мордыш
SYNAR 27532 Владимир 271200Z 19003MPS CAVOK 02/M08 Q1029 RMK QFE756/1008 CLD:6AC
(220/26KM)


NOWCAST.SU UUIM 271600Z 19005G13MPS 9999 BKN050 M03/M05 Q1030 NOSIG
AUTOTAF.ME UUIM 271300Z 2714/2723 19005G12MPS 9999 BKN040 TXM02/2714Z TNM07/2721Z
BECMG 2714/2715 DRSN
FM271600 19005G13MPS CAVOK
BECMG 2716/2717 DRSN
BECMG 2722/2723 DRSN
 
Небылое
SYNAR 27437 Юрьев-Польский 271200Z 18002MPS 9999 BKN020 01/M06 Q1029 RMK QFE757/1009 CLD:7SC
(300/19KM)


NOWCAST.SU UUIN 271600Z 19005G13MPS 9000 DRSN BKN065 M03/M05 Q1029 NOSIG
AUTOTAF.ME UUIN 271300Z 2714/2723 19005G13MPS 9999 OVC040 TXM02/2714Z TNM07/2721Z
BECMG 2714/2715 DRSN
BECMG 2715/2716 NSC
BECMG 2721/2722 DRSN
 
Павловское
SYNAR 27532 Владимир 271200Z 19003MPS CAVOK 02/M08 Q1029 RMK QFE756/1008 CLD:6AC
(200/23KM)


NOWCAST.SU UUIP 271600Z 19005G13MPS 9999 BKN050 M04/M06 Q1030 NOSIG
AUTOTAF.ME UUIP 271300Z 2714/2723 19005G12MPS 9000 BR BKN040 TXM02/2714Z TNM07/2720Z
BECMG 2714/2715 DRSN
FM271600 19005G13MPS CAVOK
BECMG 2722/2723 DRSN
 
Сновицы
SYNAR 27532 Владимир 271200Z 19003MPS CAVOK 02/M08 Q1029 RMK QFE756/1008 CLD:6AC


NOWCAST.SU UUIS 271600Z 19004MPS 9999 BKN072 M04/M06 Q1031 NOSIG
RMK TURB: MOD SFC/FL20
AUTOTAF.ME UUIS 271300Z 2714/2723 19004MPS 9000 DRSN NSC TXM03/2714Z TNM07/2720Z
BECMG 2720/2721 DRSN
 
Почаевский проезд
SYNAR 27532 Владимир 271200Z 19003MPS CAVOK 02/M08 Q1029 RMK QFE756/1008 CLD:6AC


NOWCAST.SU UUIX 271600Z 19004MPS 9999 BKN096 M04/M06 Q1031 NOSIG
RMK TURB: MOD SFC/FL20
AUTOTAF.ME UUIX 271300Z 2714/2723 19004MPS 9000 DRSN NSC TXM02/2714Z TNM07/2720Z
BECMG 2721/2722 DRSN
 
Шилово (Крутицы)
SYNAR 27736 Шилово 271200Z 18004MPS CAVOK M03/M12 Q1035 RMK QFE766/1022 CLD:6CI


NOWCAST.SU UUJK 271600Z 17004MPS 9999 FEW340 M07/M09 Q1034 NOSIG
AUTOTAF.ME UUJK 271300Z 2714/2723 17004MPS CAVOK TXM06/2714Z TNM08/2717Z
 
Кубинка
SYNAR 27611 Наро-Фоминск 271200Z 18003MPS CAVOK 05/M04 Q1027 RMK QFE752/1003 CLD:3ACCI
(170/26KM)


NOWCAST.SU UUMB 271600Z 17004MPS 9999 DRSN SCT013 M03/M05 Q1027 NOSIG
RMK TURB: MOD SFC/FL20
AUTOTAF.ME UUMB 271300Z 2714/2723 17004MPS 9999 SCT015 TXM01/2714Z TNM05/2718Z
BECMG 2714/2715 DRSN
BECMG 2716/2717 NSC
BECMG 2718/2719 OVC002
FM272100 19004MPS 9999 DRSN BKN015
 
Черноголовка
SYNAR 27523 Павловский Посад 271200Z 17003MPS 9999 SCT020 01/M06 Q1029 RMK QFE759/1012 CLD:7SCAC
(140/36KM)


NOWCAST.SU UUMC 271600Z 17004MPS 9999 DRSN BKN088 M04/M05 Q1029 NOSIG
RMK TURB: MOD SFC/FL20
AUTOTAF.ME UUMC 271300Z 2714/2723 17004MPS 9999 SCT008 TXM02/2714Z TNM07/2720Z
FM271500 17004MPS 9999 DRSN NSC
BECMG 2718/2719 OVC004
BECMG 2720/2721 BKN008
BECMG 2722/2723 BKN015
 
Сельниково
SYNAR 27625 Коломна 271200Z 15003MPS CAVOK 01/M07 Q1030 RMK QFE762/1016 CLD:2AC
(270/26KM)


NOWCAST.SU UUMD 271600Z 16004MPS 9999 DRSN FEW360 M06/M08 Q1031 NOSIG
RMK TURB: MOD SFC/FL20
AUTOTAF.ME UUMD 271300Z 2714/2723 17004MPS CAVOK TXM05/2714Z TNM08/2719Z
BECMG 2714/2715 DRSN
 
Северка
SYNAR 27625 Коломна 271200Z 15003MPS CAVOK 01/M07 Q1030 RMK QFE762/1016 CLD:2AC


NOWCAST.SU UUML 271600Z 17005G13MPS 9999 DRSN SCT360 M06/M08 Q1030 NOSIG
RMK TURB: MOD SFC/FL20
AUTOTAF.ME UUML 271300Z 2714/2723 17005G11MPS CAVOK TXM04/2714Z TNM07/2717Z
BECMG 2715/2716 DRSN
BECMG 2721/2722 OVC002
 
КС-18 Мышкин
SYNAR 27225 Рыбинск 271200Z 17002MPS CAVOK M00/M03 Q1026 RMK QFE759/1013 CLD:8AS
(30/34KM)


NOWCAST.SU UUMN 271600Z 19005G13MPS 9999 -SN BKN035 00/M02 Q1025 NOSIG
AUTOTAF.ME UUMN 271300Z 2714/2723 19004MPS 5000 -SN BLSN OVC004 TX00/2714Z TNM04/2723Z
FM271500 19005G13MPS 2500 SN BLSN BKN040
FM271600 19005G13MPS 9999 -SN BKN040
BECMG 2716/2717 -SN DRSN
BECMG 2719/2720 NSC
 
Москва (Остафьево)
METAR UUMO 271600Z 18004MPS CAVOK 00/M08 Q1027 R25/590530 NOSIG RMK QFE755/1007


NOWCAST.SU UUMO 271600Z 17004MPS 9999 BKN360 M04/M06 Q1028 NOSIG
RMK TURB: MOD SFC/FL20
AUTOTAF.ME UUMO 271300Z 2714/2723 17004MPS CAVOK TXM02/2714Z TNM06/2718Z
BECMG 2716/2717 DRSN
FM271900 18005G13MPS 9999 DRSN OVC002
BECMG 2719/2720 OVC004
BECMG 2720/2721 NSC
TAF UUMO 271350Z 2715/2724 18005MPS CAVOK=
Буньково
SYNAR 27511 Ново-Йерусалим 271200Z 15003MPS 9999 FEW020 03/M04 Q1027 RMK QFE755/1007 CLD:6SCACCC


NOWCAST.SU UUMR 271600Z 17004MPS 9999 BKN360 M02/M04 Q1027 NOSIG
RMK TURB: MOD SFC/FL20
AUTOTAF.ME UUMR 271300Z 2714/2723 17004MPS 9999 DRSN NSC TX00/2714Z TNM05/2719Z
FM271500 17004MPS 9999 BKN040
BECMG 2715/2716 NSC
BECMG 2716/2717 DRSN
BECMG 2718/2719 OVC004
FM272000 18004MPS 9999 DRSN NSC
FM272200 19004MPS 9999 DRSN BKN015
FM272300 19004MPS 9999 DRSN BKN025
 
Чкаловский
SYNAR 27612 Москва (ВДНХ) 271200Z 15002MPS 9999 FEW040 02/M05 Q1029 RMK QFE757/1009 CLD:7SCAC
(260/28KM)


NOWCAST.SU UUMU 271600Z 17004MPS 9999 DRSN SCT370 M04/M05 Q1028 NOSIG
RMK TURB: MOD SFC/FL20
AUTOTAF.ME UUMU 271300Z 2714/2723 17004MPS CAVOK TXM02/2714Z TNM07/2721Z
BECMG 2714/2715 DRSN
BECMG 2718/2719 OVC002
BECMG 2720/2721 SCT015
 
Воскресенск
SYNAR 27625 Коломна 271200Z 15003MPS CAVOK 01/M07 Q1030 RMK QFE762/1016 CLD:2AC
(160/22KM)


NOWCAST.SU UUMV 271600Z 16004MPS 9999 DRSN OVC079 M06/M07 Q1030 NOSIG
RMK TURB: MOD SFC/FL20
AUTOTAF.ME UUMV 271300Z 2714/2723 17004MPS CAVOK TXM04/2714Z TNM08/2723Z
BECMG 2715/2716 DRSN
BECMG 2721/2722 OVC002
 
Аэродром Ватулино
SYNAR 27509 Можайск 271200Z 17004MPS CAVOK 05/M03 Q1026 RMK QFE752/1003 CLD:3CI
(210/18KM)


NOWCAST.SU UUMW 271600Z 17004MPS 9999 DRSN BKN340 M03/M04 Q1027 NOSIG
RMK TURB: MOD SFC/FL20
AUTOTAF.ME UUMW 271300Z 2714/2723 17004MPS CAVOK TXM01/2714Z TNM05/2719Z
BECMG 2714/2715 DRSN
BECMG 2718/2719 OVC002
BECMG 2720/2721 BKN015
FM272300 19004MPS 9999 DRSN NSC
 
Благовещенье
SYNAR 27419 Дмитров 271200Z 17002MPS 9999 BKN020 02/M04 Q1027 RMK QFE753/1005 CLD:7SCAC
(270/33KM)


NOWCAST.SU UUMX 271600Z 18005G12MPS 9000 BR BKN050 M02/M04 Q1027 NOSIG
RMK TURB: MOD SFC/FL20
AUTOTAF.ME UUMX 271300Z 2714/2723 18005G13MPS 9999 -SN BKN040 TXM01/2714Z TNM07/2722Z
BECMG 2714/2715 BR
BECMG 2715/2716 NSC
BECMG 2717/2718 DRSN
FM272000 18005G13MPS 9999 DRSN NSC
FM272200 19005G13MPS 9999 DRSN OVC002
FM272300 19005G13MPS 8000 BR OVC002
 
Озеры
SYNAR 27627 Кашира 271200Z 14004MPS CAVOK M01/M07 Q1030 RMK QFE752/1003 CLD:SKC
(270/31KM)


NOWCAST.SU UUMY 271600Z 17005G12MPS 9999 DRSN SCT360 M06/M08 Q1030 NOSIG
RMK TURB: MOD SFC/FL20
AUTOTAF.ME UUMY 271300Z 2714/2723 17005G10MPS 9999 BKN008 TXM05/2714Z TNM07/2717Z
BECMG 2714/2715 NSC
BECMG 2715/2716 DRSN
BECMG 2717/2718 DRSN
 
Белгород
METAR UUOB 271600Z 12005MPS CAVOK 03/M07 Q1028 R11/010070 NOSIG


NOWCAST.SU UUOB 271600Z 13004MPS 9999 FEW190 M01/M05 Q1029 NOSIG
RMK TURB: MOD SFC/FL20
AUTOTAF.ME UUOB 271300Z 2714/2723 13004MPS 9999 DRSN NSC TX00/2714Z TNM03/2722Z
BECMG 2717/2718 DRSN
BECMG 2722/2723 DRSN
TAF UUOB 271355Z 2715/2724 13005MPS 9999 BKN020=
Воронеж (Придача)
SYNAR 34123 Воронеж 271200Z 14005MPS CAVOK 02/M09 Q1033 RMK QFE761/1015 CLD:5CI


NOWCAST.SU UUOD 271600Z 14004MPS 9999 BKN230 M02/M06 Q1033 NOSIG
AUTOTAF.ME UUOD 271300Z 2714/2723 14005G13MPS CAVOK TX00/2714Z TNM05/2723Z
 
Курск (Восточный)
METAR UUOK 271600Z 13004MPS CAVOK M01/M07 Q1029 R12/090050 NOSIG RMK QFE753/1005


NOWCAST.SU UUOK 271600Z 15004MPS 9999 DRSN BKN280 M03/M05 Q1029 NOSIG
RMK TURB: MOD SFC/FL20
AUTOTAF.ME UUOK 271300Z 2714/2723 15004MPS CAVOK TXM01/2714Z TNM04/2723Z
BECMG 2714/2715 DRSN
TAF UUOK 271355Z 2715/2724 14005MPS 9999 SCT020=
Липецк
METAR UUOL 271600Z 14006MPS CAVOK M04/M09 Q1032 R15/////// NOSIG


NOWCAST.SU UUOL 271600Z 14003MPS 9999 FEW280 M05/M07 Q1033 NOSIG
RMK TURB: MOD SFC/FL20
AUTOTAF.ME UUOL 271300Z 2714/2723 15004MPS CAVOK TXM04/2714Z TNM07/2723Z
TAF UUOL 271400Z 2715/2724 16003G08MPS CAVOK=
Воронеж (Чертовицкое)
METAR UUOO 271600Z 14006MPS CAVOK M02/M08 Q1032 R12/410550 NOSIG RMK QFE760


NOWCAST.SU UUOO 271600Z 14004MPS 9999 FEW260 M03/M06 Q1032 NOSIG
RMK TURB: MOD SFC/FL20
AUTOTAF.ME UUOO 271300Z 2714/2723 14004MPS CAVOK TXM01/2714Z TNM05/2721Z
TAF UUOO 271400Z 2715/2724 13005G10MPS CAVOK=
Орел (Южный)
SYNAR 27906 Орел 271200Z 14005MPS CAVOK M02/M08 Q1029 RMK QFE754/1005 CLD:3CI


NOWCAST.SU UUOR 271600Z 16004MPS 9999 DRSN OVC310 M03/M05 Q1029 NOSIG
RMK TURB: MOD SFC/FL20
AUTOTAF.ME UUOR 271300Z 2714/2723 15005G13MPS 9999 SCT015 TXM02/2714Z TNM04/2717Z
FM271600 16004MPS 9999 DRSN NSC
 
Старый Оскол
SYNAR 34110 Богородицкое 271200Z 15003MPS CAVOK 04/M08 Q1030 RMK QFE751/1002 CLD:8CI
(240/34KM)


NOWCAST.SU UUOS 271600Z 14004MPS 9999 BKN240 M01/M05 Q1031 NOSIG
RMK TURB: MOD SFC/FL20
AUTOTAF.ME UUOS 271300Z 2714/2723 14004MPS CAVOK TX00/2714Z TNM04/2722Z
 
Тамбов (Донское)
SYNAR 27947 Тамбов 271200Z 15005MPS CAVOK M00/M14 Q1036 RMK QFE765/1020 CLD:5CI


NOWCAST.SU UUOT 271600Z 16003MPS 9999 BKN300 M06/M09 Q1035 NOSIG
AUTOTAF.ME UUOT 271300Z 2714/2723 16003MPS CAVOK TXM05/2714Z TNM08/2722Z
 
Усмань (Чистоозерская)
SYNAR 34026 Конь-Колодезь 271200Z 17004MPS CAVOK 02/M10 Q1033 RMK QFE762/1016 CLD:5CI
(290/39KM)


NOWCAST.SU UUOU 271600Z 15004MPS 9999 BKN250 M03/M06 Q1033 NOSIG
RMK TURB: MOD SFC/FL20
AUTOTAF.ME UUOU 271300Z 2714/2723 15004MPS CAVOK TXM02/2714Z TNM06/2723Z
 
Валуйки
SYNAR 34321 Валуйки 271200Z 13004MPS CAVOK 06/M09 Q1031 RMK QFE762/1017 CLD:2CI


NOWCAST.SU UUOW 271600Z 13005G13MPS 9999 BKN260 M01/M06 Q1031 NOSIG
AUTOTAF.ME UUOW 271300Z 2714/2723 13005G13MPS CAVOK TX02/2714Z TNM03/2721Z
 
Воронеж (Солнечная)
SYNAR 34123 Воронеж 271200Z 14005MPS CAVOK 02/M09 Q1033 RMK QFE761/1015 CLD:5CI


NOWCAST.SU UUOZ 271600Z 14004MPS 9999 FEW260 M03/M06 Q1032 NOSIG
RMK TURB: MOD SFC/FL20
AUTOTAF.ME UUOZ 271300Z 2714/2723 14004MPS CAVOK TXM01/2714Z TNM05/2721Z
 
Гаврилов Ям (Агат)
SYNAR 27329 Ростов Великий 271200Z 19003MPS CAVOK 00/M05 Q1028 RMK QFE761/1015 CLD:8CI
(240/28KM)


NOWCAST.SU UUQA 271600Z 19005G13MPS 9999 OVC050 M01/M03 Q1028 NOSIG
AUTOTAF.ME UUQA 271300Z 2714/2723 19005G13MPS 9999 BKN040 TXM01/2714Z TNM06/2723Z
FM271500 19005G13MPS 9000 BR NSC
 
Ярославль (Любим)
SYNAR 27229 Тутаев 271200Z 17003MPS 9999 OVC020 M02/M05 Q1027 RMK QFE758/1011 CLD:8SC
(330/38KM)


NOWCAST.SU UUQL 271600Z 19005G13MPS 9999 OVC050 M01/M03 Q1028 NOSIG
AUTOTAF.ME UUQL 271300Z 2714/2723 19005G13MPS 9999 BKN040 TXM01/2714Z TNM05/2723Z
BECMG 2714/2715 NSC
BECMG 2716/2717 DRSN
 
Попов Луг
SYNAR 27425 Переславль-Залесский 271200Z 18002MPS 9999 BKN010CB 00/M05 Q1027 RMK QFE754/1006 CLD:7CB


NOWCAST.SU UUQP 271600Z 18005G13MPS 9999 SCT050 M02/M04 Q1028 NOSIG
RMK TURB: MOD SFC/FL20
AUTOTAF.ME UUQP 271300Z 2714/2723 18004MPS 9999 BKN040 TX00/2714Z TNM07/2721Z
BECMG 2715/2716 NSC
BECMG 2717/2718 DRSN
BECMG 2718/2719 OVC002
FM272100 18005G13MPS 9999 DRSN NSC
 
Рыбинск-Аксон
SYNAR 27225 Рыбинск 271200Z 17002MPS CAVOK M00/M03 Q1026 RMK QFE759/1013 CLD:8AS


NOWCAST.SU UUQR 271600Z 19004MPS 9999 -SN BKN030 00/M01 Q1026 NOSIG
AUTOTAF.ME UUQR 271300Z 2714/2723 19004MPS 5000 -SN BR BKN008 TX00/2714Z TNM03/2723Z
FM271500 19004MPS 1200 SN BLSN BKN004
FM271600 19004MPS 9999 -SN BKN025
BECMG 2717/2718 -SN DRSN
FM272000 19005G13MPS 9999 DRSN NSC
BECMG 2721/2722 SCT025
 
Лось
SYNAR 27425 Переславль-Залесский 271200Z 18002MPS 9999 BKN010CB 00/M05 Q1027 RMK QFE754/1006 CLD:7CB
(110/33KM)


NOWCAST.SU UUQX 271600Z 18004MPS 9999 BKN055 M01/M03 Q1027 NOSIG
AUTOTAF.ME UUQX 271300Z 2714/2723 19004MPS CAVOK TX00/2714Z TNM06/2722Z
BECMG 2714/2715 DRSN
BECMG 2721/2722 DRSN
 
Строгановка
SYNAR 23217 Харьяга 271200Z 26004MPS //// //// 00/M01 Q1014 RMK QFE752/1003 CLD:NO_OBSERVATIONS
(10/33KM)


NOWCAST.SU UURA 271600Z 24008G14MPS 4500 BLSN OVC005 M02/M03 Q1014 NOSIG
RMK TURB: MOD SFC/FL20
AUTOTAF.ME UURA 271300Z 2714/2723 24005G13MPS 2500 BLSN OVC004 TXM01/2714Z TNM02/2715Z
FM271500 24005G13MPS 5000 BR OVC008
FM271600 24008G14MPS 5000 BLSN OVC004
BECMG 2716/2717 2500
BECMG 2717/2718 0500
BECMG 2718/2719 2500
FM272000 26009G14MPS 5000 BLSN BKN004
FM272100 26009G14MPS 9000 BR OVC008
FM272200 26009G15MPS 9999 DRSN BKN040
FM272300 26010G16MPS CAVOK
 
Сандивей ДНС
SYNAR 23217 Харьяга 271200Z 26004MPS //// //// 00/M01 Q1014 RMK QFE752/1003 CLD:NO_OBSERVATIONS
(290/69KM)


NOWCAST.SU UURD 271600Z 25008G13MPS 1700 SN BLSN OVC003 M02/M03 Q1014 NOSIG
RMK TURB: MOD SFC/FL20
AUTOTAF.ME UURD 271300Z 2714/2723 25008G13MPS 5000 -SN BR OVC008 TXM01/2714Z TNM02/2716Z
BECMG 2714/2715 OVC004
FM271600 25008G13MPS 1200 SN BLSN OVC004
FM271700 25009G14MPS 2500 BLSN NSC
BECMG 2717/2718 0500
FM272000 25009G15MPS 1200 BLSN OVC004
BECMG 2720/2721 5000
FM272200 26010G15MPS 9999 DRSN OVC008
FM272300 25009G14MPS 9999 -SN OVC008
 
Кипиево
SYNAR 23503 Ижма 271200Z 21002MPS 9999 BKN014 M00/M02 Q1018 RMK QFE760/1013 CLD:8SCAC
(200/80KM)


NOWCAST.SU UURK 271600Z 24003MPS 1000 BR BKN003 M01/M02 Q1018 NOSIG
RMK TURB: MOD SFC/FL40
AUTOTAF.ME UURK 271300Z 2714/2723 24003MPS 1200 BR BKN004 TXM01/2714Z TNM02/2722Z
BECMG 2718/2719 2500
 
Приуральское
SYNAR 23418 Печора 271200Z 20003MPS 2800 SN BKN020 M01/M03 Q1018 RMK QFE758/1010 CLD:8SCAS
(320/56KM)


NOWCAST.SU UURP 271600Z VRB02MPS 0500 +SN FZFG BKN005 M03/M04 Q1019 NOSIG
AUTOTAF.ME UURP 271300Z 2714/2723 22003MPS 0500 +SN FZFG VV008 TXM02/2714Z TNM04/2722Z
BECMG 2714/2715 OVC004
 
Аржаники
SYNAR 27507 Гагарин 271200Z 16003MPS CAVOK 06/M02 Q1025 RMK QFE751/1001 CLD:2CI
(180/44KM)


NOWCAST.SU UUSA 271600Z 18005G13MPS 9999 BKN024 M01/M03 Q1025 NOSIG
AUTOTAF.ME UUSA 271300Z 2714/2723 18005G13MPS 9999 BKN040 TX01/2714Z TNM03/2718Z
FM271700 18005G13MPS 9999 DRSN NSC
BECMG 2718/2719 OVC002
BECMG 2720/2721 NSC
BECMG 2721/2722 OVC002
 
Горовидка
SYNAR 26695 Вязьма 271200Z 15005MPS CAVOK 06/M02 Q1025 RMK QFE746/0995 CLD:2ACCC
(200/14KM)


NOWCAST.SU UUSG 271600Z 17005G12MPS 9999 DRSN FEW160 M01/M03 Q1025 NOSIG
AUTOTAF.ME UUSG 271300Z 2714/2723 17005G13MPS CAVOK TX00/2714Z TNM03/2718Z
BECMG 2714/2715 DRSN
BECMG 2721/2722 OVC002
 
Кирилловка
SYNAR 27402 Тверь 271200Z 15004MPS 9999 BKN020 02/M02 Q1025 RMK QFE755/1007 CLD:7SC
(350/34KM)


NOWCAST.SU UUTA 271600Z 18005G13MPS 9999 BKN055 00/M02 Q1025 NOSIG
RMK TURB: MOD SFC/FL20
AUTOTAF.ME UUTA 271300Z 2714/2723 18005G13MPS CAVOK TX01/2714Z TNM03/2719Z
BECMG 2716/2717 DRSN
BECMG 2718/2719 BKN040
BECMG 2719/2720 BKN015
FM272100 19005G13MPS 9999 DRSN NSC
FM272200 19005G13MPS 9999 DRSN OVC002
 
Адмиральская Бухта
SYNAR 27402 Тверь 271200Z 15004MPS 9999 BKN020 02/M02 Q1025 RMK QFE755/1007 CLD:7SC
(290/22KM)


NOWCAST.SU UUTB 271600Z 18004MPS 9999 SCT015 00/M02 Q1024 NOSIG
RMK TURB: MOD SFC/FL90
AUTOTAF.ME UUTB 271300Z 2714/2723 18004MPS 9999 BKN015 TX01/2714Z TNM03/2720Z
BECMG 2716/2717 SCT025
FM271800 18004MPS 9999 DRSN SCT015
BECMG 2718/2719 NSC
BECMG 2719/2720 BKN025
FM272200 19004MPS 9999 DRSN BKN002
 
Серебряный Бор
SYNAR 27417 Клин 271200Z 15002MPS 9999 BKN066 02/M03 Q1026 RMK QFE754/1005 CLD:7AC
(30/28KM)


NOWCAST.SU UUTF 271600Z 17004MPS 9999 BKN040 M02/M04 Q1026 NOSIG
RMK TURB: MOD SFC/FL30
AUTOTAF.ME UUTF 271300Z 2714/2723 17004MPS 9999 BKN040 TX00/2714Z TNM05/2720Z
FM271700 18004MPS 9999 DRSN NSC
BECMG 2721/2722 OVC002
 
Большая Волга
SYNAR 27417 Клин 271200Z 15002MPS 9999 BKN066 02/M03 Q1026 RMK QFE754/1005 CLD:7AC
(210/47KM)


NOWCAST.SU UUTG 271600Z 18004MPS 9000 BR BKN056 M01/M03 Q1026 NOSIG
AUTOTAF.ME UUTG 271300Z 2714/2723 18004MPS CAVOK TX01/2714Z TNM05/2722Z
BECMG 2715/2716 BR
BECMG 2719/2720 DRSN
BECMG 2721/2722 OVC002
 
Вараксино
SYNAR 26499 Старица 271200Z 17004MPS CAVOK 04/M01 Q1024 RMK QFE751/1001 CLD:7CI
(40/66KM)


NOWCAST.SU UUTH 271600Z 17005G12MPS 9999 DRSN BKN045 00/M02 Q1023 NOSIG
AUTOTAF.ME UUTH 271300Z 2714/2723 17004MPS 9999 BKN040 TX01/2714Z TNM02/2719Z
BECMG 2714/2715 DRSN
BECMG 2720/2721 NSC
BECMG 2721/2722 BKN002
 
Завидово (Треуголка)
SYNAR 27417 Клин 271200Z 15002MPS 9999 BKN066 02/M03 Q1026 RMK QFE754/1005 CLD:7AC
(150/29KM)


NOWCAST.SU UUTJ 271600Z 18004MPS 9999 DRSN BKN050 00/M03 Q1026 NOSIG
AUTOTAF.ME UUTJ 271300Z 2714/2723 18004MPS CAVOK TX01/2714Z TNM04/2720Z
BECMG 2715/2716 DRSN
BECMG 2717/2718 BKN040
FM271900 19004MPS 9999 DRSN NSC
BECMG 2721/2722 OVC002
 
Калязин
SYNAR 27316 Кашин 271200Z 18002MPS CAVOK 00/M03 Q1026 RMK QFE756/1009 CLD:7AC
(300/21KM)


NOWCAST.SU UUTK 271600Z 18005G13MPS 9000 BR BKN055 00/M02 Q1026 NOSIG
RMK TURB: MOD FL70/FL80
AUTOTAF.ME UUTK 271300Z 2714/2723 19005G13MPS CAVOK TX01/2714Z TNM05/2722Z
BECMG 2714/2715 DRSN
BECMG 2715/2716 BR
BECMG 2717/2718 BR
FM271900 18005G13MPS 9999 DRSN NSC
FM272200 19005G13MPS 9999 DRSN NSC
FM272300 19005G13MPS 9999 DRSN BKN025
 
Александровская Слобода
SYNAR 27402 Тверь 271200Z 15004MPS 9999 BKN020 02/M02 Q1025 RMK QFE755/1007 CLD:7SC
(280/48KM)


NOWCAST.SU UUTL 271600Z 18005G13MPS 9999 SCT016 00/M02 Q1025 NOSIG
RMK TURB: MOD FL70/FL80
AUTOTAF.ME UUTL 271300Z 2714/2723 18005G13MPS 9999 BKN015 TX01/2714Z TNM04/2721Z
BECMG 2717/2718 SCT025
BECMG 2719/2720 DRSN
BECMG 2720/2721 BKN015
FM272200 19004MPS 9999 DRSN BKN002
 
Орловка
SYNAR 26499 Старица 271200Z 17004MPS CAVOK 04/M01 Q1024 RMK QFE751/1001 CLD:7CI
(350/38KM)


NOWCAST.SU UUTO 271600Z 18005G13MPS 9999 BKN024 M01/M03 Q1025 NOSIG
AUTOTAF.ME UUTO 271300Z 2714/2723 18005G13MPS 9999 BKN040 TX01/2714Z TNM03/2720Z
FM271700 18005G13MPS 9999 DRSN NSC
BECMG 2718/2719 OVC002
BECMG 2720/2721 NSC
BECMG 2721/2722 OVC002
 
Поповка
SYNAR 27316 Кашин 271200Z 18002MPS CAVOK 00/M03 Q1026 RMK QFE756/1009 CLD:7AC
(290/19KM)


NOWCAST.SU UUTP 271600Z 19007G14MPS 9999 DRSN BKN079 00/M02 Q1026 NOSIG
AUTOTAF.ME UUTP 271300Z 2714/2723 19005G13MPS CAVOK TX01/2714Z TNM05/2723Z
BECMG 2714/2715 BKN040
FM271600 19007G14MPS 9999 DRSN NSC
BECMG 2717/2718 DRSN
BECMG 2718/2719 BKN040
FM272000 19007G15MPS 9999 DRSN NSC
FM272100 19007G15MPS 9999 DRSN SCT025
FM272300 19005G13MPS 9999 DRSN BKN015
 
Свердловка
SYNAR 27417 Клин 271200Z 15002MPS 9999 BKN066 02/M03 Q1026 RMK QFE754/1005 CLD:7AC
(160/32KM)


NOWCAST.SU UUTQ 271600Z 18004MPS 9999 DRSN BKN055 00/M02 Q1026 NOSIG
AUTOTAF.ME UUTQ 271300Z 2714/2723 18004MPS CAVOK TX01/2714Z TNM04/2721Z
BECMG 2715/2716 DRSN
BECMG 2720/2721 DRSN
BECMG 2721/2722 OVC002
 
Старица
SYNAR 26499 Старица 271200Z 17004MPS CAVOK 04/M01 Q1024 RMK QFE751/1001 CLD:7CI


NOWCAST.SU UUTS 271600Z 18005G13MPS 9999 BKN060 00/M02 Q1024 NOSIG
RMK TURB: MOD SFC/FL20
AUTOTAF.ME UUTS 271300Z 2714/2723 18005G13MPS CAVOK TX01/2714Z TNM02/2719Z
BECMG 2716/2717 DRSN
BECMG 2718/2719 BKN040
BECMG 2719/2720 BKN015
FM272200 19004MPS 9999 DRSN BKN002
 
Волжская 7
SYNAR 27417 Клин 271200Z 15002MPS 9999 BKN066 02/M03 Q1026 RMK QFE754/1005 CLD:7AC
(160/32KM)


NOWCAST.SU UUTV 271600Z 18004MPS 9999 DRSN BKN055 00/M03 Q1026 NOSIG
AUTOTAF.ME UUTV 271300Z 2714/2723 18004MPS CAVOK TX01/2714Z TNM04/2720Z
BECMG 2715/2716 DRSN
BECMG 2718/2719 DRSN
BECMG 2721/2722 OVC002
 
Волга Кантри Клаб
SYNAR 26499 Старица 271200Z 17004MPS CAVOK 04/M01 Q1024 RMK QFE751/1001 CLD:7CI
(30/34KM)


NOWCAST.SU UUTW 271600Z 17005G13MPS 9999 DRSN BKN045 00/M02 Q1024 NOSIG
AUTOTAF.ME UUTW 271300Z 2714/2723 17005G13MPS 9999 BKN040 TX01/2714Z TNM03/2722Z
BECMG 2715/2716 DRSN
BECMG 2719/2720 SCT008
BECMG 2720/2721 NSC
FM272200 18005G13MPS 9999 DRSN OVC002
 
Завидово (Большое)
SYNAR 27417 Клин 271200Z 15002MPS 9999 BKN066 02/M03 Q1026 RMK QFE754/1005 CLD:7AC
(150/25KM)


NOWCAST.SU UUTZ 271600Z 18004MPS 9999 DRSN BKN050 00/M03 Q1026 NOSIG
AUTOTAF.ME UUTZ 271300Z 2714/2723 18004MPS CAVOK TX01/2714Z TNM04/2720Z
BECMG 2715/2716 DRSN
BECMG 2717/2718 BKN040
FM271900 19004MPS 9999 DRSN NSC
BECMG 2721/2722 OVC002
 
Москва (Кремль)
SYNAR 27605 Москва (Балчуг) 271200Z 12001MPS 9999 OVC020 03/M04 Q1028 RMK QFE759/1013 CLD:8SC


NOWCAST.SU UUUC 271600Z 17004MPS 9999 BKN360 M03/M05 Q1028 NOSIG
RMK TURB: MOD SFC/FL20
AUTOTAF.ME UUUC 271300Z 2714/2723 17004MPS CAVOK TXM02/2714Z TNM06/2718Z
FM271900 18005G13MPS 9999 DRSN OVC004
BECMG 2720/2721 OVC008
BECMG 2721/2722 NSC
 
ГКБ №15
SYNAR 27605 Москва (Балчуг) 271200Z 12001MPS 9999 OVC020 03/M04 Q1028 RMK QFE759/1013 CLD:8SC
(280/13KM)


NOWCAST.SU UUUN 271600Z 16004MPS 9999 BKN087 M04/M05 Q1029 NOSIG
RMK TURB: MOD SFC/FL20
AUTOTAF.ME UUUN 271300Z 2714/2723 16004MPS CAVOK TXM02/2714Z TNM06/2718Z
BECMG 2716/2717 DRSN
BECMG 2718/2719 OVC008
BECMG 2720/2721 NSC
 
 


NOSIG
 
Хелипорт-Москва
SYNAR 27619 Москва (Тушино) 271200Z 09001MPS 9999 BKN020 02/M05 Q1028 RMK QFE755/1007 CLD:7SC


NOWCAST.SU UUUZ 271600Z 17004MPS 9999 DRSN BKN370 M03/M05 Q1028 NOSIG
RMK TURB: MOD SFC/FL20
AUTOTAF.ME UUUZ 271300Z 2714/2723 17004MPS 9000 BR NSC TXM01/2714Z TNM06/2719Z
BECMG 2715/2716 DRSN
BECMG 2717/2718 BKN008
BECMG 2718/2719 OVC004
FM272000 17004MPS 9000 BR OVC008
FM272100 17004MPS 8000 BR NSC
FM272300 18004MPS 9999 DRSN NSC
 
Ермолино
SYNAR 27611 Наро-Фоминск 271200Z 18003MPS CAVOK 05/M04 Q1027 RMK QFE752/1003 CLD:3ACCI
(20/18KM)


NOWCAST.SU UUWE 271600Z 17003MPS 3000 BR OVC005 M04/M06 Q1028 NOSIG
RMK TURB: MOD SFC/FL20
AUTOTAF.ME UUWE 271300Z 2714/2723 17003MPS CAVOK TXM02/2714Z TNM05/2717Z
FM271600 17003MPS 2500 BR OVC004
FM271700 17004MPS 9999 DRSN NSC
BECMG 2718/2719 OVC002
BECMG 2720/2721 NSC
 
Аэроград Можайский
SYNAR 27509 Можайск 271200Z 17004MPS CAVOK 05/M03 Q1026 RMK QFE752/1003 CLD:3CI
(280/13KM)


NOWCAST.SU UUWH 271600Z 17004MPS 9999 DRSN BKN015 M03/M05 Q1027 NOSIG
RMK TURB: MOD SFC/FL20
AUTOTAF.ME UUWH 271300Z 2714/2723 17004MPS CAVOK TXM01/2714Z TNM04/2717Z
BECMG 2714/2715 DRSN
BECMG 2715/2716 BKN015
BECMG 2717/2718 NSC
FM271900 18005G13MPS 9999 DRSN OVC002
FM272100 19004MPS 9999 DRSN BKN015
FM272300 19004MPS 9999 DRSN NSC
 
Кудиново
SYNAR 27606 Малоярославец 271200Z 16003MPS CAVOK 05/M05 Q1027 RMK QFE752/1003 CLD:1CI
(90/15KM)


NOWCAST.SU UUWK 271600Z 17004MPS 9999 DRSN SCT010 M04/M05 Q1027 NOSIG
RMK TURB: MOD SFC/FL20
AUTOTAF.ME UUWK 271300Z 2714/2723 17004MPS 9999 DRSN SCT015 TXM02/2714Z TNM05/2719Z
BECMG 2715/2716 SCT008
BECMG 2716/2717 SCT015
BECMG 2717/2718 BR
FM272000 18004MPS 9999 DRSN BKN015
FM272300 18004MPS 9999 DRSN NSC
 
Лужки
SYNAR 27614 Михайловское 271200Z 20005MPS 9999 SCT066 03/M03 Q1028 RMK QFE753/1004 CLD:5ACCI


NOWCAST.SU UUWL 271600Z 17004MPS 9999 DRSN BKN012 M04/M05 Q1027 NOSIG
RMK TURB: MOD SFC/FL20
AUTOTAF.ME UUWL 271300Z 2714/2723 17004MPS CAVOK TXM01/2714Z TNM06/2719Z
FM271600 17004MPS 9999 DRSN BKN015
BECMG 2717/2718 NSC
BECMG 2718/2719 OVC002
BECMG 2720/2721 NSC
FM272300 19004MPS 9999 DRSN BKN015
 
Народное Небо
SYNAR 27509 Можайск 271200Z 17004MPS CAVOK 05/M03 Q1026 RMK QFE752/1003 CLD:3CI
(300/12KM)


NOWCAST.SU UUWN 271600Z 17004MPS 9999 DRSN BKN015 M03/M05 Q1027 NOSIG
RMK TURB: MOD SFC/FL20
AUTOTAF.ME UUWN 271300Z 2714/2723 17004MPS CAVOK TXM01/2714Z TNM04/2717Z
BECMG 2714/2715 DRSN
BECMG 2715/2716 BKN015
BECMG 2717/2718 NSC
FM271900 18005G13MPS 9999 DRSN OVC002
FM272100 19004MPS 9999 DRSN BKN015
FM272300 19004MPS 9999 DRSN NSC
 
ГБУ Областной аэропорт Протасово
SYNAR 27730 Рязань 271200Z 15003MPS CAVOK M02/M09 Q1032 RMK QFE759/1013 CLD:1CI
(320/21KM)


NOWCAST.SU UUWP 271600Z 17004MPS 9999 FEW340 M07/M09 Q1032 NOSIG
AUTOTAF.ME UUWP 271300Z 2714/2723 16004MPS CAVOK TXM06/2714Z TNM08/2717Z
 
Шишкин Лес
SYNAR 27614 Михайловское 271200Z 20005MPS 9999 SCT066 03/M03 Q1028 RMK QFE753/1004 CLD:5ACCI


NOWCAST.SU UUWQ 271600Z 17004MPS 9999 DRSN BKN012 M04/M06 Q1027 NOSIG
RMK TURB: MOD SFC/FL20
AUTOTAF.ME UUWQ 271300Z 2714/2723 17004MPS CAVOK TXM01/2714Z TNM06/2719Z
FM271600 17004MPS 9999 DRSN BKN015
BECMG 2717/2718 NSC
BECMG 2718/2719 OVC002
BECMG 2720/2721 NSC
FM272300 19004MPS 9999 DRSN BKN015
 
Аэросоюз-Ясенево
SYNAR 27524 Внуково 271200Z 17004MPS CAVOK 04/M05 Q1027 RMK QFE750/1000 CLD:5AC
(270/13KM)


NOWCAST.SU UUWR 271600Z 17004MPS 9999 BKN360 M04/M05 Q1028 NOSIG
RMK TURB: MOD SFC/FL20
AUTOTAF.ME UUWR 271300Z 2714/2723 17004MPS CAVOK TXM02/2714Z TNM06/2718Z
BECMG 2716/2717 DRSN
FM271800 18005G11MPS 9999 BKN015
FM271900 18005G13MPS 9999 DRSN OVC002
BECMG 2720/2721 OVC008
BECMG 2721/2722 NSC
 
Москва (Внуково)
METAR UUWW 271600Z 17006MPS CAVOK 00/M07 Q1026 R24/510345 NOSIG


NOWCAST.SU UUWW 271600Z 17004MPS 9999 BKN360 M03/M05 Q1028 NOSIG
RMK TURB: MOD SFC/FL20
AUTOTAF.ME UUWW 271300Z 2714/2723 17004MPS CAVOK TXM02/2714Z TNM06/2718Z
BECMG 2716/2717 DRSN
FM271900 18005G13MPS 9999 DRSN OVC002
BECMG 2719/2720 BR
BECMG 2720/2721 OVC008
FM272200 19005G13MPS 9999 DRSN NSC
TAF UUWW 271350Z 2715/2815 17005G10MPS CAVOK TX02/2715Z TNM07/2804Z=
Аносино-2
SYNAR 27511 Ново-Йерусалим 271200Z 15003MPS 9999 FEW020 03/M04 Q1027 RMK QFE755/1007 CLD:6SCACCC
(310/13KM)


NOWCAST.SU UUWY 271600Z 17004MPS 9999 BKN360 M02/M04 Q1027 NOSIG
RMK TURB: MOD SFC/FL20
AUTOTAF.ME UUWY 271300Z 2714/2723 17004MPS CAVOK TX00/2714Z TNM05/2718Z
BECMG 2714/2715 BKN040
BECMG 2715/2716 NSC
BECMG 2716/2717 DRSN
FM271900 17004MPS 9999 DRSN OVC004
FM272100 19004MPS 9999 DRSN BKN015
 
Знаменское
SYNAR 27518 Подмосковная 271200Z 14002MPS 9999 BKN033 02/M04 Q1028 RMK QFE755/1007 CLD:5SC


NOWCAST.SU UUWZ 271600Z 17004MPS 9999 DRSN SCT350 M03/M04 Q1027 NOSIG
RMK TURB: MOD SFC/FL20
AUTOTAF.ME UUWZ 271300Z 2714/2723 17004MPS CAVOK TXM01/2714Z TNM06/2720Z
BECMG 2714/2715 DRSN
BECMG 2718/2719 OVC002
FM272000 19004MPS 9000 BR OVC004
FM272200 19004MPS 9999 DRSN NSC
 
ПЭК Ущелье
SYNAR 23527 Саранпауль 271200Z 23003MPS CAVOK M01/M06 Q1018 RMK QFE760/1014 CLD:6ACCS
(90/87KM)


NOWCAST.SU UUXE 271600Z VRB02MPS 1500 SN BR BKN011 M05/M06 Q1017 NOSIG
AUTOTAF.ME UUXE 271300Z 2714/2723 VRB02MPS 1200 SN FZFG VV008 TXM05/2714Z TNM06/2717Z
BECMG 2715/2716 SN BR
BECMG 2716/2717 BKN004
FM271900 VRB02MPS 0500 SN FZFG BKN004
 
Черпаю (ДНС)
SYNAR 23324 Петрунь 271200Z 23003MPS 9999 OVC015 M01/M03 Q1016 RMK QFE756/1008 CLD:8ST
(170/114KM)


NOWCAST.SU UUXZ 271600Z 25008G13MPS 1600 BLSN BKN005 M02/M03 Q1013 NOSIG
AUTOTAF.ME UUXZ 271300Z 2714/2723 23005G13MPS 0500 SN BLSN BKN004 TXM02/2714Z TNM03/2720Z
FM271600 25008G13MPS 1200 BLSN BKN004
FM271800 26008MPS 5000 BR BKN015
FM271900 26008MPS 2500 BLSN BKN004
BECMG 2720/2721 SN BLSN
FM272200 25008G14MPS 5000 -SN BLSN BKN004
FM272300 26008G13MPS 8000 -SN BR OVC008
 
Ухта
SYNAR 23606 Ухта 271200Z 24003MPS 9999 OVC010 M02/M03 Q1020 RMK QFE752/1003 CLD:8SC


NOWCAST.SU UUYH 271600Z VRB02MPS 2000 SN BR OVC004 M02/M03 Q1020 NOSIG
AUTOTAF.ME UUYH 271300Z 2714/2723 24003MPS 1200 SN BR OVC004 TXM02/2714Z TNM02/2714Z
FM271500 24003MPS 2500 SN BR OVC008
BECMG 2715/2716 OVC004
BECMG 2716/2717 1200
BECMG 2717/2718 2500
FM272000 VRB02MPS 1200 SN BR OVC004
FM272100 VRB02MPS 0500 +SN FZFG VV004
FM272200 23003MPS 0500 +SN FZFG VV008
FM272300 23003MPS 0500 +SN FZFG VV004
 
Инта
SYNAR 23324 Петрунь 271200Z 23003MPS 9999 OVC015 M01/M03 Q1016 RMK QFE756/1008 CLD:8ST
(40/51KM)


NOWCAST.SU UUYI 271600Z 23010G15MPS 0500 SN BLSN BKN002 M02/M03 Q1016 NOSIG
RMK TURB: MOD SFC/FL20
AUTOTAF.ME UUYI 271300Z 2714/2723 23010G15MPS 0500 SN BLSN BKN004 TXM02/2714Z TNM02/2714Z
BECMG 2714/2715 BKN008
BECMG 2715/2716 BKN004
BECMG 2716/2717 BKN008
FM271800 23009G15MPS 0500 SN BLSN BKN004
FM271900 23009G14MPS 2500 SN BLSN BKN004
FM272200 23008MPS 2500 SN BLSN BKN002
FM272300 23008G13MPS 2500 BLSN BKN002
 
Вуктыл
SYNAR 23711 Троицко-Печорское 271200Z 21003MPS 9999 -SHSN SCT010CB M03/M04 Q1022 RMK QFE753/1005 CLD:8CBAC
(200/136KM)


NOWCAST.SU UUYK 271600Z 23003MPS 0500 SN FZFG BKN003 M02/M04 Q1020 NOSIG
AUTOTAF.ME UUYK 271300Z 2714/2723 23003MPS 0500 SN FZFG VV004 TXM02/2714Z TNM03/2717Z
BECMG 2719/2720 +SN FZFG
 
Емва
SYNAR 23701 Весляна 271200Z 22002MPS 9999 BKN015CB M01/M03 Q1022 RMK QFE756/1009 CLD:8CBAC
(360/42KM)


NOWCAST.SU UUYM 271600Z 23003MPS 1700 BR BKN006 M02/M03 Q1022 NOSIG
RMK TURB: MOD SFC/FL20
AUTOTAF.ME UUYM 271300Z 2714/2723 23003MPS 0500 SN FZFG VV004 TXM01/2714Z TNM03/2719Z
FM271600 23003MPS 1200 BR BKN008
FM271700 23003MPS 2500 BR BKN004
FM272000 22003MPS 1200 SN BR OVC004
FM272100 22003MPS 0500 +SN FZFG VV004
 
Печора
SYNAR 23418 Печора 271200Z 20003MPS 2800 SN BKN020 M01/M03 Q1018 RMK QFE758/1010 CLD:8SCAS


NOWCAST.SU UUYP 271600Z 23003MPS 2000 BR BKN004 M02/M03 Q1018 NOSIG
AUTOTAF.ME UUYP 271300Z 2714/2723 22003MPS 1200 BR BKN008 TXM02/2714Z TNM03/2718Z
BECMG 2714/2715 2500
BECMG 2715/2716 BKN004
FM271700 23003MPS 1200 BR BKN008
FM271800 VRB02MPS 5000 BR BKN004
BECMG 2719/2720 2500
FM272200 VRB02MPS 1200 BR OVC008
FM272300 VRB02MPS 0500 FZFG VV008
 
Троицко-Печорск
SYNAR 23711 Троицко-Печорское 271200Z 21003MPS 9999 -SHSN SCT010CB M03/M04 Q1022 RMK QFE753/1005 CLD:8CBAC


NOWCAST.SU UUYR 271600Z 23004MPS 1600 SN BLSN BKN005 M02/M04 Q1022 NOSIG
RMK TURB: MOD SFC/FL20
AUTOTAF.ME UUYR 271300Z 2714/2723 23004MPS 0500 SN BLSN BKN004 TXM02/2714Z TNM03/2719Z
BECMG 2715/2716 1200
FM271700 23004MPS 2500 -SN BLSN BKN004
BECMG 2717/2718 -SN BR
BECMG 2718/2719 BR
FM272100 23003MPS 1200 BR BKN004
FM272200 23003MPS 0500 +SN FZFG VV004
 
Усинск
SYNAR 23410 Усинск 271200Z 18004MPS //// //// M01/M03 Q1016 RMK QFE755/1006 CLD:NO_OBSERVATIONS


NOWCAST.SU UUYS 271600Z 24004MPS 6000 -SN BR BKN004 M02/M03 Q1017 NOSIG
AUTOTAF.ME UUYS 271300Z 2714/2723 23005G10MPS 0500 SN FZFG BKN004 TXM01/2718Z TNM02/2714Z
FM271500 24005MPS 1200 SN BR BKN004
FM271600 24004MPS 5000 -SN BR BKN004
FM271700 24004MPS 2500 BR BKN004
BECMG 2718/2719 5000
FM272000 23005MPS 9999 BKN008
BECMG 2720/2721 NSC
FM272200 23005G10MPS 7000 BR NSC
BECMG 2722/2723 2500
 
Усть-Кулом
SYNAR 23803 Усть-Кулом 271200Z 23004MPS 9999 -SN OVC016 M03/M06 Q1024 RMK QFE755/1007 CLD:8NS


NOWCAST.SU UUYT 271600Z 24004MPS 1300 SN BLSN BKN005 M03/M05 Q1024 NOSIG
RMK TURB: MOD SFC/FL20
AUTOTAF.ME UUYT 271300Z 2714/2723 23004MPS 0500 SN BLSN BKN004 TXM03/2714Z TNM04/2722Z
BECMG 2714/2715 1200
BECMG 2717/2718 BLSN
BECMG 2718/2719 BR
FM272000 24003MPS 0500 FZFG BKN004
FM272200 24003MPS 2500 BR BKN004
FM272300 23003MPS 2500 BR BKN008
 
Ижма
SYNAR 23503 Ижма 271200Z 21002MPS 9999 BKN014 M00/M02 Q1018 RMK QFE760/1013 CLD:8SCAC


NOWCAST.SU UUYV 271600Z VRB02MPS 8000 BR BKN008 M01/M03 Q1018 NOSIG
AUTOTAF.ME UUYV 271300Z 2714/2723 24003MPS 1200 BR OVC004 TXM01/2714Z TNM02/2720Z
FM271500 VRB02MPS 9000 BR BKN008
FM271700 VRB02MPS 2500 BR BKN004
FM272100 VRB02MPS 0500 FZFG VV004
FM272300 VRB02MPS 1200 BR OVC008
 
Воркута
SYNAR 23226 Воркута 271200Z 23004MPS 9000 -SHSN OVC006CB M01/M03 Q1014 RMK QFE744/0993 CLD:8CB


NOWCAST.SU UUYW 271600Z 21004MPS 0500 +SN FZFG VV005 M03/M04 Q1013 NOSIG
AUTOTAF.ME UUYW 271300Z 2714/2723 21004MPS 0500 +SN FZFG BKN004 TXM03/2714Z TNM03/2714Z
BECMG 2717/2718 SN BLSN
BECMG 2719/2720 BKN008
BECMG 2720/2721 OVC004
 
Усть-Цильма
SYNAR 23405 Усть-Цильма 271200Z 24002MPS 9999 BKN016 00/M02 Q1017 RMK QFE755/1007 CLD:8SCAC


NOWCAST.SU UUYX 271600Z 23003MPS 9999 OVC044 M01/M02 Q1018 NOSIG
AUTOTAF.ME UUYX 271300Z 2714/2723 23003MPS 9999 BKN040 TX00/2714Z TNM02/2722Z
FM271700 23003MPS 2500 BR OVC008
FM271800 23003MPS 9999 BR NSC
BECMG 2719/2720 BKN040
BECMG 2720/2721 OVC004
FM272300 VRB02MPS 2500 BR OVC004
 
Сыктывкар
METAR UUYY 271600Z 22003MPS 9999 BKN036 M03/M05 Q1024 R18/550538 NOSIG RMK QFE759/1013


NOWCAST.SU UUYY 271600Z 23004MPS 1100 SN BLSN OVC005 M03/M05 Q1024 NOSIG
RMK TURB: MOD SFC/FL20
AUTOTAF.ME UUYY 271300Z 2714/2723 23004MPS 0500 SN BLSN BKN004 TXM03/2714Z TNM03/2714Z
BECMG 2715/2716 1200
FM271700 23004MPS 2500 -SN BLSN OVC004
BECMG 2717/2718 BLSN
FM272000 22003MPS 1200 BR BKN004
FM272100 22003MPS 0500 FZFG BKN004
FM272200 22003MPS 1200 BR BKN008
FM272300 22003MPS 2500 BR OVC004
TAF UUYY 271400Z 2715/2815 21005G10MPS 6000 -SHSN BKN016CB
TEMPO 2715/2718 1000 SHSN FZRA BKN005 BKN016CB
TEMPO 2718/2806 0500 SHSN FZDZ FZFG FEW003 BKN011CB
BECMG 2718/2720 20003G09MPS
TEMPO 2806/2815 1000 SHSN FZRA FEW005 BKN011CB=
Большое Болдино
SYNAR 27665 Лукоянов 271200Z 20005G08MPS CAVOK M01/M16 Q1035 RMK QFE756/1008 CLD:5CI
(270/52KM)


NOWCAST.SU UWGB 271600Z 19004MPS 9999 FEW150 M09/M12 Q1036 NOSIG
RMK TURB: MOD SFC/FL20
AUTOTAF.ME UWGB 271300Z 2714/2723 20005G11MPS CAVOK TXM08/2714Z TNM12/2722Z
 
Нижний Новгород (Стригино)
METAR UWGG 271600Z 19004MPS CAVOK M01/M08 Q1032 R18L/410150 NOSIG


NOWCAST.SU UWGG 271600Z 19004MPS 9999 FEW320 M07/M09 Q1033 NOSIG
RMK TURB: MOD SFC/FL20
AUTOTAF.ME UWGG 271300Z 2714/2723 20004MPS CAVOK TXM06/2714Z TNM08/2722Z
TAF UWGG 271353Z 2715/2815 20003G09MPS 9999 SCT040 TXM00/2812Z TNM07/2805Z=
Бабино
SYNAR 27459 Нижний Новгород 271200Z 19002MPS CAVOK M00/M10 Q1031 RMK QFE759/1012 CLD:4ACCI
(80/26KM)


NOWCAST.SU UWGI 271600Z 20005G12MPS 9999 BKN078 M07/M09 Q1033 NOSIG
RMK TURB: MOD SFC/FL20
AUTOTAF.ME UWGI 271300Z 2714/2723 20005G12MPS CAVOK TXM05/2714Z TNM09/2723Z
BECMG 2716/2717 DRSN
 
Охлопково
SYNAR 27459 Нижний Новгород 271200Z 19002MPS CAVOK M00/M10 Q1031 RMK QFE759/1012 CLD:4ACCI
(80/57KM)


NOWCAST.SU UWGO 271600Z 19004MPS 9999 DRSN BKN077 M06/M08 Q1033 NOSIG
RMK TURB: MOD SFC/FL20
AUTOTAF.ME UWGO 271300Z 2714/2723 20005G13MPS CAVOK TXM04/2714Z TNM08/2721Z
BECMG 2715/2716 DRSN
 
Вознесенское
SYNAR 27752 Темников 271200Z 16004MPS CAVOK M02/M13 Q1036 RMK QFE764/1018 CLD:5ACCI
(140/40KM)


NOWCAST.SU UWGV 271600Z 17003MPS 9999 FEW160 M08/M10 Q1034 NOSIG
RMK TURB: MOD SFC/FL20
AUTOTAF.ME UWGV 271300Z 2714/2723 18004MPS CAVOK TXM06/2714Z TNM11/2721Z
 
Бугульма
SYNAR 28711 Бугульма 271200Z 22004MPS CAVOK M05/M19 Q1039 RMK QFE751/1002 CLD:8ACCI


NOWCAST.SU UWKB 271600Z 22003MPS 9999 BKN150 M10/M15 Q1039 NOSIG
AUTOTAF.ME UWKB 271300Z 2714/2723 22003MPS CAVOK TXM09/2714Z TNM11/2720Z
 
Казань
METAR UWKD 271600Z 17007MPS CAVOK M10/M16 Q1036 R11/810050 NOSIG RMK QFE767/1022


NOWCAST.SU UWKD 271600Z 18003MPS 9999 BKN150 M10/M13 Q1038 NOSIG
AUTOTAF.ME UWKD 271300Z 2714/2723 19004MPS CAVOK TXM09/2714Z TNM15/2723Z
TAF UWKD 271352Z 2715/2815 16005MPS 9999 SCT016 TXM07/2812Z TNM15/2803Z=
Нижнекамск (Бегишево)
METAR UWKE 271600Z 23006MPS CAVOK M07/M17 Q1037 R21/810070 NOSIG RMK QFE761/1014


NOWCAST.SU UWKE 271600Z 21003MPS 9999 SCT140 M09/M13 Q1038 NOSIG
AUTOTAF.ME UWKE 271300Z 2714/2723 21003MPS CAVOK TXM08/2714Z TNM12/2721Z
TAF UWKE 271400Z 2715/2815 22006G12MPS 9999 SCT040
TEMPO 2715/2721 SCT020=
Балтаси
SYNAR 27593 Арск 271200Z 19003MPS 9999 FEW020 M06/M15 Q1037 RMK QFE763/1017 CLD:6SCACCI
(210/38KM)


NOWCAST.SU UWKF 271600Z 21005G13MPS 9999 FEW140 M10/M13 Q1035 NOSIG
RMK TURB: MOD SFC/FL20
AUTOTAF.ME UWKF 271300Z 2714/2723 21005G13MPS CAVOK TXM09/2714Z TNM12/2723Z
 
Казань (Борисоглебское)
SYNAR 27595 Казань 271200Z 15002MPS CAVOK M06/M15 Q1037 RMK QFE767/1022 CLD:6ACCI
(160/16KM)


NOWCAST.SU UWKG 271600Z 20004MPS 9999 SCT130 M10/M13 Q1036 NOSIG
AUTOTAF.ME UWKG 271300Z 2714/2723 20005G12MPS CAVOK TXM08/2714Z TNM14/2723Z
 
Йошкар-Ола
SYNAR 27485 Йошкар-Ола 271200Z 20004G08MPS CAVOK M01/M10 Q1033 RMK QFE763/1018 CLD:7ACCS
(220/11KM)


NOWCAST.SU UWKJ 271600Z 20004MPS 9999 FEW170 M08/M11 Q1035 NOSIG
RMK TURB: MOD SFC/FL20
AUTOTAF.ME UWKJ 271300Z 2714/2723 21004MPS CAVOK TXM06/2714Z TNM10/2722Z
 
Елабуга (Северный)
SYNAR 28506 Елабуга 271200Z 22002MPS CAVOK M04/M19 Q1039 RMK QFE770/1027 CLD:8AS


NOWCAST.SU UWKL 271600Z 22004MPS 9999 SCT130 M09/M12 Q1037 NOSIG
AUTOTAF.ME UWKL 271300Z 2714/2723 22004MPS CAVOK TXM08/2714Z TNM12/2722Z
 
Мензелинск
SYNAR 28517 Мензелинск 271200Z 22004MPS CAVOK M05/M14 Q1039 RMK QFE768/1025 CLD:8AC


NOWCAST.SU UWKP 271600Z 21003MPS 9999 BKN130 M08/M12 Q1039 NOSIG
AUTOTAF.ME UWKP 271300Z 2714/2723 22003MPS CAVOK TXM07/2714Z TNM12/2722Z
 
Куралово
SYNAR 27594 Вязовые 271200Z 18006MPS CAVOK M05/M14 Q1036 RMK QFE766/1021 CLD:6ACCI
(320/27KM)


NOWCAST.SU UWKQ 271600Z 21003MPS 9999 BKN140 M09/M12 Q1037 NOSIG
AUTOTAF.ME UWKQ 271300Z 2714/2723 20004MPS CAVOK TXM08/2714Z TNM12/2721Z
 
Сарманово
SYNAR 28606 Акташ 271200Z 16001MPS CAVOK M04/M17 Q1040 RMK QFE769/1026 CLD:8AC
(230/37KM)


NOWCAST.SU UWKR 271600Z 23005G13MPS 9999 BKN130 M08/M13 Q1038 NOSIG
AUTOTAF.ME UWKR 271300Z 2714/2723 23005G12MPS CAVOK TXM07/2714Z TNM11/2722Z
 
Чебоксары
METAR UWKS 271600Z 21004MPS CAVOK M07/M15 Q1034 R24/810556 NOSIG RMK QFE761


NOWCAST.SU UWKS 271600Z 21004MPS 9999 SCT150 M09/M12 Q1036 NOSIG
AUTOTAF.ME UWKS 271300Z 2714/2723 21005G13MPS CAVOK TXM08/2714Z TNM11/2719Z
TAF UWKS 271336Z 2715/2724 21006G12MPS 9999 SCT040 TXM03/2715Z TNM08/2723Z=
Казань (Юдино)
SYNAR 27595 Казань 271200Z 15002MPS CAVOK M06/M15 Q1037 RMK QFE767/1022 CLD:6ACCI
(140/18KM)


NOWCAST.SU UWKW 271600Z 20004MPS 9999 SCT130 M10/M13 Q1036 NOSIG
AUTOTAF.ME UWKW 271300Z 2714/2723 20005G12MPS CAVOK TXM08/2714Z TNM14/2722Z
 
Ульяновск (Баратаевка)
METAR UWLL 271600Z 16003MPS CAVOK M09/M16 Q1038 R20/810355 NOSIG RMK QFE768/1024


NOWCAST.SU UWLL 271600Z 20004MPS 9999 BKN180 M10/M13 Q1038 NOSIG
AUTOTAF.ME UWLL 271300Z 2714/2723 20004MPS CAVOK TXM08/2714Z TNM13/2721Z
TAF UWLL 271351Z 2715/2815 19003G10MPS 9999 SCT016 TXM02/2812Z TNM14/2802Z=
Новоселки
SYNAR 27799 Димитровград 271200Z 21001MPS CAVOK M05/M13 Q1041 RMK QFE774/1032 CLD:6ACCC
(350/36KM)


NOWCAST.SU UWLN 271600Z 19003MPS 9999 BKN180 M12/M16 Q1040 NOSIG
AUTOTAF.ME UWLN 271300Z 2714/2723 19003MPS CAVOK TXM10/2714Z TNM13/2717Z
 
Солдатская Ташла
SYNAR 27785 Ульяновск 271200Z 16002MPS CAVOK M03/M17 Q1039 RMK QFE767/1023 CLD:5CI
(350/29KM)


NOWCAST.SU UWLS 271600Z 20003MPS 9999 FEW180 M10/M14 Q1038 NOSIG
AUTOTAF.ME UWLS 271300Z 2714/2723 20004MPS CAVOK TXM08/2714Z TNM12/2720Z
 
Ульяновск (Восточный)
METAR UWLW 271600Z 20002MPS CAVOK M12/M17 Q1038 R20/820558 NOSIG RMK QFE774/1032


NOWCAST.SU UWLW 271600Z 18003MPS 9999 FEW180 M11/M14 Q1039 NOSIG
AUTOTAF.ME UWLW 271300Z 2714/2723 17003MPS CAVOK TXM09/2714Z TNM16/2721Z
TAF UWLW 271347Z 2715/2815 16003MPS 9999 SCT016 TXM03/2812Z TNM14/2803Z=
Зилаир
SYNAR 35026 Зилаир 271200Z 26003MPS CAVOK 03/M14 Q1037 RMK QFE730/0974 CLD:2CI


NOWCAST.SU UWOI 271600Z VRB02MPS 9999 FEW180 M10/M12 Q1039 NOSIG
AUTOTAF.ME UWOI 271300Z 2714/2723 VRB02MPS CAVOK TXM06/2714Z TNM13/2719Z
BECMG 2718/2719 OVC002
BECMG 2719/2720 NSC
 
Оренбург
METAR UWOO 271600Z 11002MPS CAVOK M13/M17 Q1042 R08/720250 NOSIG RMK QFE770/1027


NOWCAST.SU UWOO 271600Z VRB02MPS 8000 BR OVC004 M16/M17 Q1042 NOSIG
AUTOTAF.ME UWOO 271300Z 2714/2723 VRB02MPS CAVOK TXM12/2714Z TNM17/2717Z
FM271600 VRB02MPS 8000 BR OVC004
BECMG 2716/2717 7000
BECMG 2718/2719 OVC002
BECMG 2720/2721 NSC
TAF UWOO 271354Z 2715/2815 04003MPS 6000 SCT020 TXM05/2810Z TNM18/2803Z
TEMPO 2715/2807 07003MPS
TEMPO 2807/2815 30003MPS=
Первомайский
SYNAR 35008 Первомайский 271200Z 04002MPS CAVOK M06/M14 Q1042 RMK QFE775/1033 CLD:6CS


NOWCAST.SU UWOP 271600Z VRB02MPS 1000 BR OVC003 M16/M18 Q1041 NOSIG
AUTOTAF.ME UWOP 271300Z 2714/2723 VRB02MPS CAVOK TXM14/2714Z TNM20/2719Z
FM271500 VRB02MPS 1200 BR OVC004
FM271800 VRB02MPS CAVOK
FM272000 VRB02MPS 1200 BR OVC004
BECMG 2721/2722 OVC002
FM272300 VRB02MPS 0500 FG IC VV002
 
Орск
METAR UWOR 271600Z 27006MPS CAVOK M04/M11 Q1040 R25/910155 NOSIG RMK QFE756 QFE756/1008


NOWCAST.SU UWOR 271600Z VRB02MPS 9999 FEW200 M09/M10 Q1040 NOSIG
AUTOTAF.ME UWOR 271300Z 2714/2723 VRB02MPS 5000 BR NSC TXM08/2714Z TNM12/2721Z
FM271600 VRB02MPS CAVOK
TAF UWOR 271352Z 2715/2724 25003MPS 6000 SCT020 TXM06/2715Z TNM12/2723Z
TEMPO 2715/2724 27005MPS=
Бузулук
SYNAR 28909 Бузулук 271200Z 26001MPS CAVOK M03/M16 Q1042 RMK QFE774/1032 CLD:4CI


NOWCAST.SU UWOX 271600Z VRB02MPS 9999 FEW200 M16/M17 Q1041 NOSIG
AUTOTAF.ME UWOX 271300Z 2714/2723 VRB02MPS CAVOK TXM13/2714Z TNM19/2722Z
FM271700 VRB02MPS 0500 FG IC VV004
FM271800 VRB02MPS 1200 BR OVC004
BECMG 2719/2720 2500
FM272100 VRB02MPS 0200 FG IC VV002
FM272200 VRB02MPS 2500 BR OVC004
FM272300 VRB02MPS 0500 FG IC VV004
 
Кушкуль (Сакмара)
SYNAR 35121 Оренбург 271200Z 12002MPS CAVOK M08/M14 Q1043 RMK QFE771/1028 CLD:4CI
(190/26KM)


NOWCAST.SU UWOY 271600Z VRB02MPS 9999 FEW200 M16/M17 Q1041 NOSIG
AUTOTAF.ME UWOY 271300Z 2714/2723 VRB02MPS CAVOK TXM13/2714Z TNM18/2721Z
BECMG 2716/2717 OVC004
FM271800 VRB02MPS 7000 BR NSC
BECMG 2718/2719 OVC002
FM272100 VRB02MPS CAVOK
 
Пенза (Терновка)
SYNAR 27962 Пенза 271200Z 16002MPS CAVOK M02/M17 Q1039 RMK QFE763/1018 CLD:5CI


NOWCAST.SU UWPP 271600Z 16003MPS 9999 BKN260 M12/M14 Q1038 NOSIG
AUTOTAF.ME UWPP 271300Z 2714/2723 16003MPS CAVOK TXM09/2714Z TNM15/2721Z
 
Саранск
METAR UWPS 271600Z 20007MPS CAVOK M06/M17 Q1036 R20/820541 NOSIG RMK QFE759


NOWCAST.SU UWPS 271600Z 18003MPS 9999 FEW350 M11/M13 Q1037 NOSIG
AUTOTAF.ME UWPS 271300Z 2714/2723 18004MPS CAVOK TXM09/2714Z TNM14/2723Z
TAF UWPS 271350Z 2715/2724 18006MPS 9999 SCT040 TXM07/2715Z TNM16/2724Z=
Балаково (Малая Быковка)
SYNAR 34186 Ершов 271200Z 07002MPS CAVOK M06/M17 Q1042 RMK QFE770/1027 CLD:2CI
(140/66KM)


NOWCAST.SU UWSB 271600Z VRB02MPS 9999 BKN250 M19/M21 Q1041 NOSIG
AUTOTAF.ME UWSB 271300Z 2714/2723 VRB02MPS CAVOK TXM15/2714Z TNM22/2722Z
BECMG 2721/2722 OVC002
 
Саратов (Гагарин)
METAR UWSG 271600Z VRB01MPS CAVOK M18/M21 Q1041 R08/810265 NOSIG RMK QFE778/1038


NOWCAST.SU UWSG 271600Z VRB02MPS 9999 SCT320 M16/M17 Q1040 NOSIG
AUTOTAF.ME UWSG 271300Z 2714/2723 VRB02MPS CAVOK TXM14/2714Z TNM19/2720Z
BECMG 2718/2719 OVC002
BECMG 2720/2721 NSC
TAF UWSG 271354Z 2715/2724 08003MPS CAVOK TXM12/2715Z TNM20/2724Z
TEMPO 2718/2724 30003MPS 2100 BR BKN007=
Красный Кут
SYNAR 34273 Красный Кут 271200Z 09001MPS CAVOK M06/M13 Q1042 RMK QFE777/1036 CLD:2CI


NOWCAST.SU UWSK 271600Z VRB02MPS 9999 FEW330 M13/M15 Q1040 NOSIG
AUTOTAF.ME UWSK 271300Z 2714/2723 VRB02MPS CAVOK TXM11/2714Z TNM16/2723Z
 
Пугачев
SYNAR 34098 Пугачев 271200Z 00000MPS CAVOK M09/M14 Q1043 RMK QFE778/1038 CLD:3CI


NOWCAST.SU UWSP 271600Z VRB02MPS 9999 BKN260 M16/M18 Q1041 NOSIG
AUTOTAF.ME UWSP 271300Z 2714/2723 VRB02MPS CAVOK TXM14/2714Z TNM20/2721Z
BECMG 2718/2719 OVC002
FM272000 VRB02MPS 0500 FG IC VV002
BECMG 2720/2721 OVC004
 
Саратов (Центральный)
SYNAR 34178 Саратов (ЮВ) 271200Z 14002MPS 9999 VV/// M07/M15 Q1041 RMK QFE768/1025 CLD:OBSC


NOWCAST.SU UWSS 271600Z VRB02MPS 9999 SCT320 M19/M21 Q1040 NOSIG
AUTOTAF.ME UWSS 271300Z 2714/2723 VRB02MPS CAVOK TXM15/2714Z TNM20/2717Z
FM271800 VRB02MPS 5000 BR OVC004
BECMG 2718/2719 OVC002
BECMG 2719/2720 9000
FM272100 VRB02MPS CAVOK
 
Балашов (Репное)
SYNAR 34152 Балашов 271200Z 14003MPS CAVOK M01/M12 Q1038 RMK QFE764/1018 CLD:8CI


NOWCAST.SU UWSW 271600Z 13004MPS 9999 FEW270 M05/M09 Q1037 NOSIG
AUTOTAF.ME UWSW 271300Z 2714/2723 13003MPS CAVOK TXM03/2714Z TNM07/2720Z
 
Караишево
SYNAR 27693 Лаишево 271200Z 17006MPS //// //// M08/M15 Q1038 RMK QFE766/1022 CLD:NO_OBSERVATIONS
(140/19KM)


NOWCAST.SU UWTK 271600Z 18003MPS 9999 BKN150 M10/M13 Q1038 NOSIG
AUTOTAF.ME UWTK 271300Z 2714/2723 19004MPS CAVOK TXM09/2714Z TNM14/2722Z
 
Альметьевск (Пойма)
SYNAR 28606 Акташ 271200Z 16001MPS CAVOK M04/M17 Q1040 RMK QFE769/1026 CLD:8AC
(330/13KM)


NOWCAST.SU UWTP 271600Z 21003MPS 9999 BKN140 M10/M15 Q1039 NOSIG
AUTOTAF.ME UWTP 271300Z 2714/2723 21003MPS CAVOK TXM08/2714Z TNM14/2722Z
 
Казань (Автодром)
SYNAR 27595 Казань 271200Z 15002MPS CAVOK M06/M15 Q1037 RMK QFE767/1022 CLD:6ACCI
(190/16KM)


NOWCAST.SU UWTX 271600Z 19004MPS 9999 SCT130 M10/M13 Q1037 NOSIG
AUTOTAF.ME UWTX 271300Z 2714/2723 20004MPS CAVOK TXM08/2714Z TNM13/2722Z
 
Белорецк
SYNAR 28831 Белорецк 271200Z 27002MPS CAVOK 02/M23 Q1038 RMK QFE729/0973 CLD:4CC


NOWCAST.SU UWUB 271600Z VRB02MPS 9999 OVC016 M11/M13 Q1036 NOSIG
AUTOTAF.ME UWUB 271300Z 2714/2723 VRB02MPS CAVOK TXM09/2714Z TNM12/2717Z
BECMG 2714/2715 OVC015
BECMG 2716/2717 OVC025
 
Нефтекамск
SYNAR 28419 Янаул 271200Z 24003MPS 9999 BKN020 M04/M17 Q1039 RMK QFE769/1026 CLD:7SCAC
(60/38KM)


NOWCAST.SU UWUF 271600Z 21003MPS 9999 BKN120 M08/M11 Q1038 NOSIG
AUTOTAF.ME UWUF 271300Z 2714/2723 21004MPS CAVOK TXM07/2714Z TNM12/2723Z
 
Октябрьский
SYNAR 28712 Туймазы 271200Z 12001MPS CAVOK M05/M18 Q1041 RMK QFE768/1024 CLD:7CS
(50/27KM)


NOWCAST.SU UWUK 271600Z VRB02MPS 9999 BKN150 M10/M15 Q1040 NOSIG
AUTOTAF.ME UWUK 271300Z 2714/2723 VRB02MPS 9999 BKN025 TXM09/2714Z TNM13/2720Z
BECMG 2714/2715 NSC
BECMG 2722/2723 BKN008
 
Уфа (Максимовка)
SYNAR 28722 Уфа 271200Z 17001MPS CAVOK M02/M17 Q1041 RMK QFE771/1028 CLD:7CC
(240/25KM)


NOWCAST.SU UWUM 271600Z VRB02MPS 9999 BKN021 M09/M11 Q1040 NOSIG
AUTOTAF.ME UWUM 271300Z 2714/2723 VRB02MPS 9999 BKN040 TXM08/2714Z TNM12/2723Z
BECMG 2718/2719 OVC015
BECMG 2719/2720 NSC
 
Первушино
SYNAR 28624 Кушнаренково 271200Z 14002MPS 9999 BKN066 M04/M17 Q1041 RMK QFE771/1028 CLD:7ACCS
(300/29KM)


NOWCAST.SU UWUO 271600Z VRB02MPS 9999 BKN021 M09/M11 Q1040 NOSIG
AUTOTAF.ME UWUO 271300Z 2714/2723 VRB02MPS 9999 BKN040 TXM08/2714Z TNM12/2721Z
BECMG 2718/2719 OVC015
BECMG 2719/2720 NSC
 
Стерлитамак
SYNAR 28825 Стерлитамак 271200Z 22001MPS 4000 HZ SKC M06/M21 Q1042 RMK QFE769/1025 CLD:SKC
(70/16KM)


NOWCAST.SU UWUS 271600Z VRB02MPS 9999 BKN150 M14/M16 Q1041 NOSIG
AUTOTAF.ME UWUS 271300Z 2714/2723 VRB02MPS CAVOK TXM12/2714Z TNM14/2716Z
 
Уфа
METAR UWUU 271600Z 22002MPS 180V260 CAVOK M09/M18 Q1040 R14R/811050 NOSIG


NOWCAST.SU UWUU 271600Z VRB02MPS 9999 BKN030 M09/M12 Q1040 NOSIG
AUTOTAF.ME UWUU 271300Z 2714/2723 VRB02MPS CAVOK TXM08/2714Z TNM11/2721Z
BECMG 2714/2715 BKN040
TAF UWUU 271346Z 2715/2815 19003G08MPS CAVOK TXM04/2812Z TNM17/2803Z
TEMPO 2715/2815 VRB01MPS=
Старосубхангулово (Бурзян)
SYNAR 28823 Тукан 271200Z 30002MPS CAVOK 01/M22 Q1038 RMK QFE728/0971 CLD:2CI
(10/87KM)


NOWCAST.SU UWUW 271600Z VRB02MPS 0500 FZFG VV002 M11/M11 Q1038 NOSIG
AUTOTAF.ME UWUW 271300Z 2714/2723 VRB02MPS CAVOK TXM07/2714Z TNM14/2722Z
FM271500 VRB02MPS 0500 FZFG VV004
BECMG 2716/2717 OVC002
FM271900 VRB02MPS 1200 BR OVC004
FM272000 VRB02MPS 0500 FZFG VV004
 
Бугуруслан (Главный)
SYNAR 28806 Бугуруслан 271200Z 13003MPS CAVOK M12/M18 Q1043 RMK QFE773/1031 CLD:7CI


NOWCAST.SU UWWB 271600Z VRB02MPS 9999 FEW200 M16/M18 Q1041 NOSIG
AUTOTAF.ME UWWB 271300Z 2714/2723 VRB02MPS CAVOK TXM13/2714Z TNM19/2723Z
FM272300 VRB02MPS 1200 BR OVC004
 
Самара (Безымянка)
SYNAR 28904 Самара (Безымянка) 271200Z 00001MPS CAVOK M08/M16 Q1040 RMK QFE776/1034 CLD:2CI


NOWCAST.SU UWWG 271600Z VRB02MPS 9999 FEW210 M18/M19 Q1041 NOSIG
AUTOTAF.ME UWWG 271300Z 2714/2723 VRB02MPS CAVOK TXM16/2714Z TNM24/2722Z
 
Красный Яр
SYNAR 28900 Самара (ОГМС) 271200Z 00000MPS CAVOK M04/M16 Q1042 RMK QFE768/1024 CLD:2CI
(210/32KM)


NOWCAST.SU UWWQ 271600Z VRB02MPS 9999 FEW210 M15/M18 Q1041 NOSIG
AUTOTAF.ME UWWQ 271300Z 2714/2723 VRB02MPS CAVOK TXM12/2714Z TNM17/2722Z
 
Самара (Смышляевка)
SYNAR 28904 Самара (Безымянка) 271200Z 00001MPS CAVOK M08/M16 Q1040 RMK QFE776/1034 CLD:2CI


NOWCAST.SU UWWS 271600Z VRB02MPS 9999 FEW210 M18/M20 Q1041 NOSIG
AUTOTAF.ME UWWS 271300Z 2714/2723 VRB02MPS CAVOK TXM15/2714Z TNM24/2723Z
 
Самара (Кряж)
SYNAR 28904 Самара (Безымянка) 271200Z 00001MPS CAVOK M08/M16 Q1040 RMK QFE776/1034 CLD:2CI
(60/14KM)


NOWCAST.SU UWWV 271600Z VRB02MPS 9999 FEW210 M19/M20 Q1041 NOSIG
AUTOTAF.ME UWWV 271300Z 2714/2723 VRB02MPS CAVOK TXM15/2714Z TNM22/2722Z
 
Самара (Курумоч)
METAR UWWW 271600Z 19004MPS CAVOK M10/M21 Q1040 R15/410171 NOSIG RMK QFE768/1024


NOWCAST.SU UWWW 271600Z VRB02MPS 9999 FEW210 M17/M19 Q1040 NOSIG
AUTOTAF.ME UWWW 271300Z 2714/2723 VRB02MPS CAVOK TXM13/2714Z TNM21/2723Z
FM272300 VRB02MPS 1200 BR OVC004
TAF UWWW 271351Z 2715/2815 18003G09MPS 9999 SCT016 TXM07/2811Z TNM20/2803Z
TEMPO 2715/2815 24005G10MPS
PROB40 TEMPO 2716/2807 0300 FZFG VV003=
Бугуруслан (Северный)
SYNAR 28806 Бугуруслан 271200Z 13003MPS CAVOK M12/M18 Q1043 RMK QFE773/1031 CLD:7CI
(150/12KM)


NOWCAST.SU UWWZ 271600Z VRB02MPS 9000 BR FEW200 M17/M18 Q1041 NOSIG
AUTOTAF.ME UWWZ 271300Z 2714/2723 VRB02MPS CAVOK TXM13/2714Z TNM22/2722Z
BECMG 2715/2716 BR
FM272100 VRB02MPS 1200 BR OVC004
 

Таблица обновляется в 12 и 42 минуты каждого часа круглосуточно.

Цвет рамки ячеек таблицы означает класс метеоусловий (высота нижней границы облаков* х видимость):
зелёный - VFR (выше 900х8000);
голубой - MVFR (ниже 900х8000, но не ниже 300х5000);
красный - IFR (ниже 300х5000, но не ниже 150х2000);
пурпурный - LIFR (ниже 150х2000, но не ниже 90х800);
фиолетовый - VLIFR (ниже 90х800).

*ВНГО - высота нижней границы самого нижнего слоя облаков, закрывающего более половины небосвода (BKN или OVC).